ENHM 191250Z 33019KT 9999 -SHRA FEW020 SCT025 BKN030 12/10 Q1013 W14/S4 UUOK 191300Z 29004MPS CAVOK 20/06 Q1018 R30/CLRD65 NOSIG RMK QFE745/0993 KIWI 191317Z AUTO 07005KT 10SM BKN007 OVC018 19/17 A3020 RMK AO2 T01890167 KJMR 191315Z AUTO 13003KT 10SM OVC010 13/12 A2994 RMK AO2 KIXA 191305Z AUTO 10SM OVC011 22/19 A2996 RMK AO2 PPIT 191256Z AUTO 19012KT 10SM SCT022 OVC029 05/04 A3011 RMK AO2 RAE55 SLP195 P0000 T00500039 TSNO KJMS 191217Z AUTO 14016KT 3/4SM BR OVC002 17/17 A2968 RMK AO2 T01670167 UUOO 191300Z 30005MPS CAVOK 22/04 Q1017 R30/090070 NOSIG RMK QFE749 KIXD 191253Z 14007KT 8SM SCT055 19/18 A2990 RMK AO2 SLP118 T01890183 KM63 191258Z AUTO 16009KT 8SM CLR 21/10 A3003 RMK AO2 SLP096 WND DATA ESTMD T02070102 ENHV 191250Z 14009KT 120V200 9999 BKN032 08/01 Q1025 PPIZ 191256Z AUTO 00000KT 10SM OVC055 02/00 A2997 RMK AO2 SLP152 T00170000 FZRANO TSNO KIYA 191256Z AUTO 00000KT 5SM BR CLR 23/23 A2999 RMK AO2 ENKB 191250Z 05005KT 010V070 CAVOK 16/08 Q1011 RMK WIND 745FT 04006KT FDSK 191300Z 05013KT CAVOK 29/16 Q1017 NOSIG KJNX 191305Z AUTO 34003KT 10SM CLR 22/19 A2999 RMK AO2 LTG DSNT W KM75 191315Z AUTO 28007KT 10SM SCT120 09/05 A2953 RMK A01 VLPS 191300Z 27002KT 9999 TS FEW020 FEW023CB SCT200 30/25 Q1007 CB W NOSIG KIZA 191315Z AUTO 00000KT 1 1/2SM BR OVC003 13/13 A2994 RMK AO2 ENLA 191250Z AUTO 31023KT 9999NDV OVC041/// 13/11 Q1015 W///S3 KJOT 191315Z AUTO 00000KT 2 1/2SM BR SCT060 19/19 A2996 RMK AO2 LTG DSNT SE T01880186 FDST 191200Z AUTO 04012KT //// // ////// 25/16 Q1019 ENLE 191250Z 30020KT 9999 VCSH FEW010 SCT020TCU BKN035 13/10 Q1016 W15/S4 KJQF 191255Z 00000KT 10SM CLR 21/19 A3008 LBGO 191300Z AUTO 04007KT 020V090 9999 SCT080/// 34/15 Q1006 NOSIG KIZG 191254Z AUTO 04004KT 10SM OVC004 17/17 A3020 RMK AO2 SLP225 T01720172 ENKR 191250Z 11012KT 9999 BKN026 07/02 Q1024 RMK WIND 731FT 10022KT KJRB 191315Z 03015G21KT 10SM OVC018 23/19 A3001 RMK AO2 SLP300 PWINO FZRANO RVRNO ENLK 191252Z 09007KT 060V130 CAVOK 12/02 Q1018 KM91 191315Z AUTO 20007KT 10SM SCT042 BKN049 BKN060 23/21 A2995 RMK A01 KN03 191315Z AUTO 16004KT 10SM OVC010 17/16 A3012 RMK AO2 ENMH 191250Z 13009KT 9999 BKN026 08/02 Q1025 VLSK 191300Z 09002KT 5000 TS FEW016CB SCT100 31/27 Q1007 NOSIG KLAA 191253Z AUTO 00000KT 10SM CLR 06/03 A2973 RMK AO2 SLP035 T00610033 FDUS 191300Z AUTO 05010KT //// // ////// 28/14 Q1019 ENNA 191250Z 16011KT 9999 BKN035 09/01 Q1024 RMK WIND 1800FT 15019KT ENML 191250Z 24007KT 9999 FEW020 15/09 Q1011 ENNE 191250Z 14010KT 9999 FEW015 SCT060 12/09 Q1016 W///S3 KLAF 191254Z 00000KT 10SM BKN009 19/19 A2994 RMK AO2 SLP135 T01940194 ENOA 191250Z 33011KT 9999 FEW010 BKN098 12/10 Q1012 W///S4 ENMS 191250Z 14007KT 050V200 CAVOK 11/M00 Q1016 RMK WIND 412FT VRB07KT KLBB 191253Z 21015KT 10SM FEW090 FEW250 23/16 A2992 RMK AO2 SLP078 CB DSNT S MOV E TCU DSNT E T02330156 KJSL 191300Z AUTO 13010KT 10SM CLR 29/23 A2998 RMK A01 KLAL 191250Z 00000KT 7SM OVC090 24/23 A2999 KJTC 191315Z AUTO 22023G35KT 10SM CLR 16/03 A3010 RMK AO2 KLAM 191315Z AUTO 16003KT 10SM CLR 13/M08 A3015 RMK AO2 T01341078 ENNM 191250Z 08012KT CAVOK 12/03 Q1015 KLAN 191253Z 03004KT 10SM OVC009 16/12 A3003 RMK AO2 SLP169 T01560117 KLBE 191248Z 00000KT 10SM SKC 19/17 A3007 KLBF 191253Z AUTO 13007KT 7SM CLR 18/17 A2968 RMK AO2 SLP029 T01780167 KJSO 191315Z AUTO 21007KT 5SM BR OVC007 23/23 A3000 RMK AO2 T02390239 ENNO 191250Z 24003KT 160V280 9999 FEW013 SCT031 BKN062 15/09 Q1012 LATI 191320Z 20014KT 9999 FEW038 SCT070 26/14 Q1011 NOSIG KLAR 191253Z AUTO 13008KT 10SM CLR 11/M07 A2982 RMK AO2 SLP000 T01111067 VMMC 191300Z 12011KT 9999 FEW018 29/26 Q1010 NOSIG KLAS 191256Z 18016G23KT 10SM BKN250 24/03 A2972 RMK AO2 SLP037 T02390028 KJST 191254Z AUTO 17004KT 10SM BKN017 18/15 A3010 RMK AO2 SLP181 T01780150 KLBL 191256Z AUTO 19011KT 10SM CLR 17/16 A2979 RMK AO2 SLP059 T01720161 ENOL 191250Z 09009KT 9999 FEW010 15/06 Q1013 NOSIG KJSV 191315Z AUTO 06004KT 10SM CLR 21/18 A2992 RMK AO2 LTG DSNT W AND NW KLAW 191253Z 15004KT 8SM CLR 22/22 A2988 RMK AO2 SLP105 T02220217 KLBO 191315Z AUTO 15003KT 10SM SCT060 20/18 A2998 RMK AO2 LTG DSNT N PWINO KLAX 191253Z 31004KT 10SM FEW012 OVC024 19/16 A2991 RMK AO2 SLP127 T01940161 KLCG 191315Z AUTO 15010KT 4SM BR OVC005 20/18 A2978 RMK AO2 T01950180 KLCH 191253Z 00000KT 9SM CLR 25/24 A2998 RMK AO2 SLP158 T02500244 KLCI 191256Z AUTO 07006KT 10SM OVC005 17/17 A3018 RMK AO2 SLP233 T01720167 KN38 191315Z AUTO 00000KT 5SM BR BKN009 OVC013 17/16 A3012 RMK AO2 ENQA 191250Z AUTO 34011KT 9999NDV BKN009/// OVC031/// 12/10 Q1012 W13/S3 KLBT 191254Z AUTO 35006KT 10SM CLR 22/20 A2999 RMK AO2 SLP154 T02170200 KLCK 191315Z AUTO 00000KT 10SM SCT055 BKN080 BKN110 20/19 A3000 RMK AO2 LTG DSNT SW T02030186 ENQC 191250Z AUTO 31011KT 9999NDV OVC011/// 14/11 Q1011 W///S3 ENOV 191250Z VRB03KT 9999 FEW035 SCT068 16/09 Q1011 RMK WIND 2175FT 25008KT KLBX 191253Z AUTO 00000KT 5SM BR CLR 26/24 A2996 RMK AO2 RAE1158 SLP143 P0000 T02610244 KLCQ 191315Z AUTO 24003KT 10SM CLR 22/21 A3002 RMK AO2 VLVT 191300Z 24002KT 4000 BR FEW050 FEW200 28/26 Q1007 NOSIG KLDJ 191315Z AUTO 06013G17KT 10SM BKN016 24/18 A3000 RMK AO2 T02350180 KKLS 191319Z AUTO 15008KT 6SM +RA BR SCT012 BKN038 OVC055 11/09 A2977 RMK AO2 P0012 ENRA 191250Z 12008KT 9999 FEW045 11/01 Q1018 KLEB 191253Z 00000KT 10SM BKN013 OVC019 20/17 A3015 RMK AO2 SLP202 T02000172 KJVL 191245Z 00000KT 7SM FEW007 BKN014 17/17 A2996 KLDM 191315Z AUTO 11008KT 10SM CLR 16/12 A3001 RMK AO2 T01600118 KLEE 191253Z 04003KT 10SM CLR 24/23 A3000 RMK AO2 SLP158 T02440233 KJWG 191315Z AUTO 17011KT 10SM CLR 23/22 A2985 RMK AO2 T02250216 ENQR 191250Z AUTO 34010KT 9999NDV FEW009/// BKN035/// OVC056/// 11/10 Q1012 W///S3 KN60 191252Z AUTO 12018G26KT 16/14 A2947 RMK AO1 PK WND 11026/1245 SLP976 T01560144 UUWW 191300Z 24008MPS 9999 BKN032 12/07 Q1014 WS R24 R24/000070 TEMPO 23010G16MPS ENSB 191250Z 24016KT 9999 FEW010 BKN130 05/M01 Q1018 RMK WIND 1400FT 25008KT UWGG 191300Z 23004G09MPS 190V260 9999 BKN046 17/07 Q1011 R18R/090070 TEMPO 23007G15MPS RMK QFE751 ENRM 191020Z 12006KT CAVOK 12/04 Q1015 ENSD 191250Z VRB01KT 9999 FEW015 SCT030 BKN035 14/09 Q1011 RMK WIND 1138FT VRB02KT KJVW 191315Z AUTO 00000KT 5SM BR CLR 24/22 A3000 RMK AO2 KJWN 191315Z AUTO 00000KT 9SM BKN045 BKN055 BKN090 21/20 A2996 RMK A01 LCEN 191250Z 17011KT 140V210 9999 FEW025 34/17 Q1008 NOSIG ENSE 191250Z AUTO 35010KT 9999NDV FEW010/// SCT016/// BKN022/// 11/10 Q1012 W///S3 ENSF 191250Z AUTO 33010KT 9999NDV SCT010/// BKN041/// BKN050/// 12/09 Q1012 W///S3 ENRO 191250Z 12007KT 9999 BKN021 07/04 Q1012 ENSG 191250Z VRB01KT 9999 FEW008 BKN040 11/10 Q1011 RMK WIND 3806FT 28004KT 16005KT ENSH 191250Z 05010KT CAVOK 12/02 Q1018 RMK WIND 150FT 05015KT KJXI 191315Z AUTO 19005KT 10SM OVC003 23/22 A2996 RMK AO2 T02290222 KLFI 191258Z 35011G18KT 10SM SCT016 22/20 A2988 RMK AO2A RAB18E47 SLP125 P0000 T02240201 $ KLGA 191251Z 04014G21KT 10SM BKN017 BKN150 22/19 A3000 RMK AO2 SLP160 T02220189 $ ENRS 190550Z 09012KT CAVOK 11/07 Q1015 KLGB 191306Z AUTO 00000KT 10SM SCT022 OVC030 20/16 A2991 RMK AO2 T02000156 KLFK 191305Z AUTO 18003KT 6SM BR SCT005 OVC020 24/24 A2997 RMK AO2 T02440244 ENSK 191250Z 14008KT CAVOK 12/03 Q1018 KLGC 191315Z AUTO 00000KT 10SM CLR 22/22 A3003 RMK AO2 T02210218 EPBC 191300Z VRB02KT 9999 SCN035 18/06 Q1016 NOSIG= ENSL 191250Z 31017KT 9999 VCSH BKN015 12/10 Q1015 W13/S3 ENTC 191250Z 20013KT CAVOK 10/02 Q1020 NOSIG RMK WIND 2600FT 18014KT KLGD 191256Z AUTO 00000KT 10SM -RA BKN045 BKN055 06/04 A2980 RMK AO2 RAE13B38 SLP230 P0000 T00560044 LBPD 191300Z AUTO 32009KT 280V350 9999 NCD 33/15 Q1007 NOSIG KJXN 191312Z 03005KT 2 1/2SM BR OVC007 17/15 A3000 RMK AO2 TWR VIS 4 VIS 1 3/4V3 T01720150 $ KLEW 191256Z AUTO 04004KT 9SM OVC004 17/16 A3019 RMK AO2 SLP238 T01720161 KLGF 181905Z AUTO 19004KT 10 CLEAR 34/17 2987 KLEX 191254Z 33003KT 6SM -RA FEW075 OVC100 21/18 A3001 RMK AO2 RAB42 SLP153 P0000 T02110183 ENSO 191250Z 32003KT 280V020 9999 VCSH FEW011 SCT016TCU FEW020CB BKN028 14/11 Q1011 RESHRA KJYG 191314Z AUTO 14009KT 2SM BR OVC002 18/18 A2988 RMK AO2 KJWY 191315Z AUTO 17007KT 7SM OVC010 24/24 A2995 RMK AO2 T02380237 ENRY 191250Z 07007KT 020V110 9999 FEW028 OVC100 14/08 Q1012 NOSIG ENSR 191250Z 14014KT CAVOK 10/01 Q1022 WIND 1119FT 13018KT 090V150 ENSS 191050Z 11017KT 9999 BKN028 07/02 Q1025 RMK WIND 500FT 10018KT KLFT 191253Z 00000KT 5SM BR CLR 24/24 A2999 RMK AO2 SLP155 T02440244 KLHB 191315Z AUTO 13005KT 5SM BR BKN008 BKN024 OVC031 25/25 A2997 RMK AO2 T02500250 ENST 191250Z VRB05KT 9999 FEW043 12/01 Q1016 RMK WIND 300FT 11010KT KJYL 191315Z AUTO 00000KT 10SM OVC095 23/22 A3003 RMK AO2 T02330222 KJYM 191315Z AUTO 00000KT 1SM RA OVC003 17/16 A3000 RMK AO2 P0002 UUYY 191300Z 09004MPS 2600 -SHRA BR SCT004 BKN020CB 06/06 Q1006 R01/29//51 NOSIG RMK QBB120 QFE746/0994 EPCE 191300Z 28008KT 9999 FEW035 BKN063 14/09 Q1015 RMK 141 070 7/2 = KJYO 191315Z AUTO 35008KT 10SM OVC016 22/20 A3003 RMK AO2 ENTO 191250Z 06007KT 040V100 9999 SCT021 BKN033 13/09 Q1012 ENUG 191250Z AUTO 14015KT 110V190 9999NDV NCD 09/03 Q1022 W///S3 KJZI 191315Z AUTO 32003KT 10SM CLR 26/22 A3001 RMK AO2 KJYR 191315Z AUTO 15007KT 5SM BR CLR 18/18 A2978 RMK AO2 EPDA 191300Z 26007KT 220V310 9999 FEW062 SCT071 15/10 Q1015 RMK 153 070 4/1 L ENVA 191250Z 09007KT 9999 FEW039 14/05 Q1013 NOSIG RMK WIND 670FT 06009KT FGBT 191300Z 23010KT 200V260 9999 SCT008 BKN080 28/26 Q1012 KLGU 191301Z AUTO 35008KT 6SM RA BR BKN028 OVC033 07/05 A2989 RMK AO2 P0002 T00720050 $ KLIC 191255Z AUTO A2979 RMK AO2 SLPNO PWINO FZRANO KLHM 191315Z AUTO 06003KT 10SM CLR 10/08 A2997 RMK AO1 ENVD 191250Z 10015KT 9999 FEW017 BKN027 07/03 Q1025 EPDE 191300Z 13004KT CAVOK 17/08 Q1016 RMK 172 054 6/3= KJZP 191315Z AUTO 00000KT 10SM CLR 22/17 A3009 RMK AO2 T02200170 PNO KLHQ 191253Z AUTO 12005KT 7SM FEW095 21/19 A3001 RMK AO2 SLP155 T02060189 EPBY 191300Z 28007KT 9999 SCT046 17/08 Q1015 UWKD 191300Z 22004G09MPS CAVOK 22/12 Q1011 R29/2/0050 NOSIG RMK QFE747/0996 UWKE 191300Z 23011G16MPS 9999 FEW040CB 26/08 Q1012 R21/090070 NOSIG RMK QFE742/0989 KMAE 191253Z AUTO 30006KT 10SM CLR 13/10 A2997 RMK AO2 SLP147 T01330100 KLHW 191258Z AUTO 26003KT 10SM BKN055 OVC070 24/19 A2999 RMK AO2 SLP158 T02430193 $ VOBG 191300Z 24009KT 8000 SCT012 BKN080 25/18 Q1011 KLHX 191253Z AUTO 22013KT 10SM CLR 15/M01 A2977 RMK AO2 SLP025 T01501011 KMAF 191253Z 20010G24KT 10SM CLR 31/07 A2993 RMK AO2 PK WND 20027/1243 SLP078 T03060067 KLJF 191312Z AUTO 13005KT 1/4SM -DZ OVC002 17/17 A2988 RMK AO2 LBSF 191300Z 36005KT 330V030 CAVOK 29/10 Q1009 NOSIG DXNG 191300Z 28006KT 220V320 9999 BKN010 30/23 Q1014 NOSIG KLHZ 191300Z AUTO 35005KT 7SM OVC009 20/18 A3002 RMK AO2 KMAI 191253Z AUTO 30003KT 10SM CLR 25/23 A3000 RMK AO2 SLP156 T02500228 $ VOCB 191300Z 22010KT 6000 FEW015 27/20 Q1010 NOSIG ENVR 191250Z 07010KT CAVOK 11/05 Q1018 VOBL 191300Z 26011KT 8000 SCT012 SCT080 26/19 Q1012 NOSIG VOBM 191200Z 25010KT 4000 RA SCT007 SCT015 BKN080 21/20 Q1011 KLIT 191253Z 00000KT 5SM BR FEW005 SCT250 22/22 A2996 RMK AO2 SLP145 T02170217 $ KO22 191315Z AUTO 10SM CLR 09/08 A3002 RMK AO1 KMAN 191315Z AUTO 09005KT 10SM 08/06 A2985 RMK A01 KMAO 191315Z AUTO 34003KT 5SM BR CLR 21/18 A3000 RMK AO2 VOCI 191300Z 29004KT 7000 FEW015 29/24 Q1010 BECMG 5000 HZ KMBG 191252Z AUTO 14015G23KT 10SM CLR 18/16 A2955 RMK AO2 SLP999 T01780156 UWKS 191300Z 24007MPS CAVOK 21/07 Q1010 R24/010060 NOSIG RMK QFE743 VNKT 191320Z 28007KT 8000 FEW015 FEW025CB SCT030 BKN100 23/21 Q1012 NOSIG CB TO SE AND S VOCL 191300Z 26008KT 6000 SCT012 FEW025TCU BKN090 28/22 Q1009 NOSIG KMCB 191253Z AUTO 29005KT 5SM BR CLR 24/23 A3001 RMK AO2 SLP157 T02440228 TSNO KMBL 191256Z AUTO 09007KT 10SM CLR 14/12 A3002 RMK AO2 SLP186 T01440122 KMCC 191315Z AUTO 02003KT 10SM CLR 12/09 A2999 RMK AO2 KMCD 191315Z AUTO 10008G14KT 10SM OVC006 17/16 A3008 RMK AO2 T01700158 KMAW 191335Z AUTO 00000KT 10SM CLR 22/21 A2997 RMK AO2 LTG DSNT NE KMCE 191253Z AUTO 33003KT 10SM CLR 12/09 A2997 RMK AO2 SLP146 T01220089 ENWV 191250Z AUTO /////KT 9999NDV BKN024/// OVC055/// 12/10 Q1016 W///S4 EPGD 191300Z 24008KT 9999 BKN037 15/07 Q1014 KMBO 191315Z AUTO 00000KT 10SM CLR 22/21 A3000 RMK AO2 PWINO KMCF 191258Z AUTO 02003KT 10SM OVC085 24/24 A2998 RMK AO2 SLP155 T02360236 $ VOBZ 191300Z 27005KT 4000 HZ SCT020 SCT100 30/25 Q1003 NOSIG KLKR 191315Z AUTO 00000KT 8SM CLR 22/20 A3005 RMK AO2 KMCI 191253Z 15007KT 8SM SCT065 SCT250 20/19 A2989 RMK AO2 SLP113 T02000194 KMBS 191253Z 36003KT 10SM FEW028 15/14 A3006 RMK AO2 SLP178 T01500144 KLLJ 191255Z AUTO 28004KT 10SM FEW085 02/02 A2977 RMK AO2 SLP069 T00220017 LCLK 191300Z 21015KT 9999 FEW030 30/21 Q1009 NOSIG KMCK 191253Z AUTO 19015KT 6SM BR CLR 19/18 A2967 RMK AO2 SLP027 T01890178 $ UWLW 191300Z 28005MPS 8000 NSC 27/12 Q1012 R20/CLRD60 NOSIG RMK QFE753 KLKU 191315Z AUTO 35008G16KT 10SM OVC012 20/17 A3001 RMK AO2 KLKV 191256Z AUTO 20011KT 10SM BKN029 OVC033 05/01 A2996 RMK AO2 SLP145 T00500006 PNO $ KMDD 191255Z AUTO 15006KT 10SM BKN001 28/12 A2994 RMK AO2 T02750118 KMCN 191253Z 00000KT 8SM CLR 21/19 A3001 RMK AO2 SLP160 T02110194 KMCO 191253Z 36007KT 10SM SCT028 SCT070 BKN085 26/23 A2998 RMK AO2 SLP149 T02560233 KMDH 191252Z 00000KT 4SM BR CLR 19/19 A2996 RMK AO2 SLP143 T01940194 KLLQ 191253Z AUTO 24003KT 10SM CLR 24/22 A2998 RMK AO2 SLP148 T02440222 KLNA 191315Z AUTO 00000KT 10SM CLR 28/ A2995 RMK AO2 T0281 KMDJ 191315Z AUTO 18007KT 10SM CLR 29/24 A3002 RMK A01 KMEB 191252Z AUTO 01007KT 10SM CLR 22/19 A3000 RMK AO2 SLP158 T02170194 KLNC 191315Z AUTO 17008KT 10SM OVC013 25/22 A2995 RMK AO2 T02450222 KLND 191253Z AUTO A2965 RMK AO2 SLPNO PWINO $ KMCW 191307Z AUTO 13006KT 1/4SM FG VV002 16/16 A2994 RMK AO2 T01610161 KLMO 191315Z AUTO 07003KT 10SM CLR 09/04 A2974 RMK AO2 T00910040 KMCX 191315Z AUTO 00000KT 10SM OVC005 19/18 A2994 RMK AO2 T01880180 KMDQ 191315Z AUTO 00000KT 7SM CLR 21/20 A3002 RMK AO2 LTG DSNT N KMEH 191256Z AUTO 00000KT 4SM RA BR OVC025 04/03 A2977 RMK AO2 SLP084 P0006 T00440033 KMEI 191258Z 00000KT 10SM FEW120 23/22 A3001 RMK AO2 SLP157 T02280222 KMDS 191310Z AUTO 14011G19KT 3SM BR OVC003 18/18 A2978 RMK AO2 KKY8 191255Z AUTO 12006KT 3SM 20/20 A2998 RMK AO1 P0031 KLMT 191311Z AUTO 25007KT 10SM FU BKN027 OVC037 07/02 A2997 RMK AO2 T00670022 KLNK 191254Z 15009KT 7SM CLR 20/18 A2981 RMK AO2 SLP085 T02000183 KMDT 191256Z 33004KT 8SM OVC018 21/19 A3003 RMK AO2 SLP168 T02060189 LDDU 191300Z 13013KT 090V160 9999 -RA FEW016 SCT030 SCT046 21/15 Q1010 NOSIG KLNL 191315Z AUTO 13004KT 10SM OVC050 13/12 A3006 RMK AO2 T01320121 UWOO 191300Z 20003MPS CAVOK 29/07 Q1021 R26/CLRD65 NOSIG RMK QFE755/1007 KMFD 191252Z 16007KT 10SM OVC100 21/17 A3001 RMK AO2 SLP155 T02110172 KMEM 191254Z 00000KT 10SM FEW250 23/22 A2997 RMK AO2 SLP144 T02330217 $ ENZV 191250Z 31004KT 270V350 9999 4000S +DZ SCT008 BKN015 12/11 Q1012 TEMPO 4000 DZRA BKN006 KMDW 191253Z 04005KT 5SM BR FEW009 BKN022 BKN120 20/18 A2994 RMK AO2 SLP133 T02000183 KMFE 191253Z 14006KT 5SM BR CLR 27/25 A2991 RMK AO2 SLP127 T02720250 KLNN 191315Z AUTO 14005KT 10SM SCT090 22/18 A3000 RMK AO1 T02180180 LBWN 191300Z 14011KT 100V160 9999 FEW026 25/18 Q1010 NOSIG UWOR 191300Z 25003MPS CAVOK 28/08 Q1023 R25/CLRD65 NOSIG RMK QFE743/0991 KLNP 191315Z AUTO 19004KT 10SM OVC085 20/15 A3012 RMK AO2 KMDZ 191315Z AUTO 13003KT 10SM SCT037 SCT049 OVC055 13/11 A3001 RMK AO2 T01250112 KMFI 191254Z AUTO 10006KT 10SM BKN041 OVC060 13/11 A3000 RMK AO2 SLP160 T01330111 TSNO $ KLNR 191256Z AUTO 00000KT 10SM FEW033 16/14 A2997 RMK AO2 SLP144 T01560144 KMER 191255Z AUTO 01003KT 9SM CLR 11/09 A2997 RMK AO1 EPIR 191300Z 19006KT 9999 SCT045 BKN050 17/06 Q1016 RMK 173 048 5/3 = KLNS 191253Z 06010KT 10SM OVC010 21/19 A3003 RMK AO2 SLP165 T02060194 KO69 191315Z AUTO 29007KT 10SM CLR 10/09 A3001 RMK A01 DXSK 191200Z 28002KT 9999 SCT013 BKN260 32/25 Q//// KLOL 191253Z AUTO 34008KT 10SM CLR 11/02 A2993 RMK AO2 SLP110 T01110017 TSNO KLPC 191256Z AUTO 25003KT 10SM OVC012 14/13 A2994 RMK AO2 SLP143 T01440128 KMGC 191315Z AUTO 00000KT 10SM CLR 18/18 A2996 RMK AO2 VOGO 191230Z 25010KT 5000 BR FEW010 SCT012 FEW022TCU BKN080 28/25 Q1006 TEMPO 4000 RA/DZ KMEV 191315Z AUTO 31005KT 10SM CLR 05/M05 A2994 RMK AO2 KLOM 191255Z AUTO 03006KT 10SM OVC011 20/18 A3001 RMK AO1 KMGE 191256Z 00000KT 10SM FEW070 SCT250 21/18 A3004 RMK AO2A SLP165 T02090181 $ KMGG 191313Z AUTO 13003KT 1/4SM FG OVC002 16/16 A2990 RMK AO2 T01600157 LCPH 191300Z 28015KT 9999 SCT020 FEW030TCU 29/22 Q1010 KMEZ 191315Z AUTO 26003KT 10SM CLR 24/23 A2998 RMK AO2 TSNO KLOR 191258Z AUTO 00000KT 10SM CLR 23/22 A3001 RMK AO2 LTG DSNT N SLP143 T02260221 $ KMFR 191253Z 00000KT 10SM SCT041 SCT070 BKN100 09/09 A2998 RMK AO2 SLP151 T00940089 KMGJ 191254Z AUTO 02011KT 10SM OVC015 20/18 A3007 RMK AO2 SLP182 T02000178 KLOT 191315Z AUTO 00000KT 2SM BR OVC003 18/18 A2996 RMK AO2 LTG DSNT SE T01840184 KLOU 191317Z 34004KT 1SM VCTS +RA BR FEW010 BKN036 OVC045 21/21 A3002 RMK AO2 LTG DSNT ALQDS P0014 T02110211 EPKK 191300Z 02007KT 350V060 9999 -RA BKN046 13/10 Q1015 EPLB 191300Z 09006KT 050V130 CAVOK 17/10 Q1016 KMGM 191253Z 00000KT 4SM BR CLR 24/22 A3000 RMK AO2 SLP155 T02390217 KMFV 191315Z AUTO 36008KT 330V040 5SM DZ OVC013 22/20 A2987 RMK AO2 T02160204 KMHE 191253Z AUTO 15012G20KT 6SM BR OVC008 20/18 A2971 RMK AO2 SLP055 T02000183 KMGN 191315Z AUTO 08007KT 10SM CLR 14/13 A3007 RMK AO2 T01450135 FHAW 191150Z 14016KT 9999 SCT025 BKN033 25/18 Q1018 BLU KLOZ 191253Z AUTO 13003KT 10SM CLR 19/18 A3003 RMK AO2 SLP158 T01940178 KO86 191315Z AUTO 00000KT 10SM 10/05 A3001 RMK AO1 VOHS 191300Z 24005KT 6000 SCT015 BKN100 26/23 Q1007 NOSIG KLPR 191253Z AUTO 00000KT 7SM OVC060 19/16 A3000 RMK AO2 RAB04E22B39E49 SLP157 P0001 T01940156 KMGR 191255Z AUTO 00000KT 10SM CLR 23/21 A3002 RMK AO2 LTG DSNT N LCRA 191250Z 24010KT 9999 FEW025 29/22 Q1009 NOSIG KMIA 191253Z VRB04KT 10SM FEW020 29/26 A2992 RMK AO2 SLP133 TCU DSNT NW-N T02890256 EPKS 191300Z 29002KT 9999 SCT045 18/07 Q1016 RMK 178 049 4/4= KLQK 191315Z AUTO 00000KT 10SM SCT048 SCT060 23/19 A3005 RMK AO2 T02280190 KMHK 191252Z 18005KT 10SM CLR 22/19 A2982 RMK AO2 SLP090 T02170189 KMIB 191306Z AUTO 12017G27KT 10SM OVC004 13/12 A2946 RMK AO2 CIG 004V006 SLP982 EPMB 191300Z 22008KT 9999 SCT040 17/09 Q1015 RMK 174 057 3/3= EPLK 191300Z 31003KT 9999 FEW040 BKN200 16/06 Q1016 RMK 163 050 7/2= KMHL 191315Z AUTO 11003KT 3SM VCTS BR BKN001 OVC050 18/18 A2994 RMK AO2 LTG DSNT W KMIC 191308Z 13007KT 10SM FEW021 16/13 A2990 RMK AO2 T01610128 EPKT 191300Z 05005KT 9999 -RA FEW024 BKN049 13/10 Q1015 KLRD 191256Z 15010KT 9SM CLR 27/23 A2991 RMK AO2 SLP125 T02670233 $ EPLL 191300Z 32003KT 280V010 CAVOK 16/06 Q1016 KMIE 191253Z 24004KT 8SM FEW043 SCT090 22/19 A2996 RMK AO2 RAE36 SLP135 P0002 T02170194 KMGW 191253Z 09005KT 9SM CLR 19/16 A3006 RMK AO2 SLP173 T01940161 VOHY 191300Z 25004KT 6000 SCT015 SCT100 28/24 Q1008 NOSIG KLRF 191306Z 00000KT M1/4SM FG VV001 22/22 A2996 RMK SLP146 RVRNO KMGY 191253Z AUTO 19006KT 10SM -RA FEW065 FEW095 BKN110 21/18 A2999 RMK AO2 RAB29 SLP148 P0001 T02060178 KMHR 191245Z 09006KT 10SM SKC 12/09 A2996 EPMI 191300Z 23004KT 9999 FEW040 SCT070 16/08 Q1016 RMK 157 058 4/2= KLRJ 191315Z AUTO 14009KT 3SM BR OVC006 19/19 A2980 RMK AO2 KMHS 191256Z AUTO 00000KT 10SM CLR 04/02 A2998 RMK AO2 SLP165 T00390017 KP08 191315Z AUTO RMK AO2 PNO PWINO TSNO LEAB 191300Z 32006KT 260V010 CAVOK 24/04 Q1023 NOSIG KMHT 191253Z 02005KT 6SM BR OVC006 18/17 A3014 RMK AO2 SLP218 T01830172 $ KMHV 191300Z AUTO 27027G33KT 10SM CLR 17/12 A2988 RMK A01 EPMM 191300Z VRB02KT CAVOK 19/10 Q1017 RMK 185 056 3/2= KLSE 191253Z 12004KT 10SM CLR 16/14 A2997 RMK AO2 SLP146 T01560139 KLSF 191255Z 00000KT 4SM BR FEW020 SCT040 BKN250 21/21 A3001 RMK AO2A SLP166 KLRO 191315Z AUTO 02003KT 10SM CLR 23/21 A3001 RMK AO2 LEAG 191300Z AUTO 12006KT 090V150 CAVOK 27/13 Q1020 EPMO 191300Z VRB02KT CAVOK 17/08 Q1016 EPLY 191300Z VRB02KT 9999 SCT040 BKN200 17/06 Q1016 RMK 173 047 6/3= UWSS 191300Z 19005MPS CAVOK 29/07 Q1015 R12/010095 NOSIG RMK QFE749 LEBA 191300Z 03002KT CAVOK 29/08 Q1020 KMIS 191315Z AUTO 25006KT 10SM SCT021 BKN027 28/24 A3003 RMK A01 LEBB 191300Z 01003KT 320V080 9999 SCT030 20/12 Q1026 NOSIG KNAK 191254Z AUTO 01007KT 10SM OVC017 23/22 A2997 RMK AO2 SLP151 T02330217 LEAL 191300Z 11009KT 070V150 9999 FEW035 25/17 Q1020 NOSIG KMKC 191254Z 15004KT 10SM SCT047 BKN060 21/20 A2989 RMK AO2 SLP116 T02110200 KNBC 191256Z 30005KT 10SM CLR 24/22 A3001 RMK AO2 SLP161 T02440217 $ KLRU 191315Z AUTO 23005KT 10SM CLR 16/11 A3008 RMK AO2 T01630107 LEAM 191300Z 21009KT CAVOK 25/20 Q1020 KMIV 191310Z AUTO 01013G21KT 8SM -RA BKN016 BKN042 OVC110 23/21 A2994 RMK AO2 P0000 T02280211 TSNO KMIW 191259Z AUTO 11005KT 3SM BR FEW002 OVC015 17/17 A2992 RMK AO2 T01670167 KMKE 191252Z 35007KT 10SM SCT010 BKN120 OVC250 18/17 A2997 RMK AO2 SLP145 T01830167 LEAO 191300Z 08003G15KT CAVOK 25/05 Q1023 KNBG 191155Z 25003KT 3SM BR FEW030 SCT150 BKN250 23/23 A2999 RMK SLP155 6//// 7//// T02280228 10239 20228 53013 LEBG 191300Z 01003KT 290V090 CAVOK 18/04 Q1025 KLRY 191315Z AUTO 14005KT 7SM VCTS BKN070 OVC085 20/19 A2995 RMK AO2 LTG DSNT NE KMKG 191255Z 07009KT 10SM OVC010 17/12 A3000 RMK AO2 SLP159 T01720117 KMJQ 191314Z AUTO 16010KT 1SM BR OVC001 17/17 A2987 RMK AO2 LEAS 191300Z 04005KT 330V110 9999 FEW025 18/14 Q1025 NOSIG KNCA 191256Z 33011KT 7SM BKN016 OVC120 22/20 A2995 RMK AO2 SLP144 T02170200 KLUA 191315Z AUTO 02003KT 4SM BR OVC005 19/18 A3006 RMK AO2 KP28 191256Z AUTO 14009G16KT 21/18 A2980 RMK AO1 SLP077 T02110178 KMKJ 191315Z AUTO 00000KT 1 1/4SM BR OVC002 16/15 A3014 RMK AO2 LTG DSNT NW T01640147 KMLB 191253Z 03003KT 10SM -RA BKN055 OVC075 26/21 A2996 RMK AO2 SLP146 P0006 T02610211 VOMD 191300Z 27008KT 6000 FEW020 FEW025CB BKN100 30/21 Q1008 NOSIG EPOK 191300Z 25009KT 9999 FEW040 BKN081 16/08 Q1015 RMK 156 061 7/1 = LEBL 191300Z 14006KT 110V170 9999 FEW025 22/15 Q1019 NOSIG KMKL 191253Z 20003KT 10SM CLR 22/22 A2998 RMK AO2 SLP148 T02220222 KMLC 191253Z AUTO VRB04KT 10SM CLR 23/22 A2992 RMK AO2 SLP123 T02330217 KLUD 191315Z AUTO 16010G17KT 10SM CLR 24/22 A2991 RMK AO2 T02410223 KLSV 191258Z AUTO 16015KT 10SM CLR 25/03 A2972 RMK AO2 SLP040 T02460027 $ KMKN 191315Z AUTO 18006KT 10SM CLR 24/22 A2994 RMK AO2 T02380220 KMLE 191315Z AUTO 13008KT 2 1/2SM BR OVC005 21/20 A2983 RMK AO2 T02050196 KMLF 191252Z AUTO 17012KT 10SM CLR 16/03 A2985 RMK AO2 SLP051 T01560028 KMKO 191253Z AUTO 14006KT 9SM CLR 21/19 A2991 RMK AO2 SLP122 T02060194 KMJX 191256Z AUTO 03012G18KT 10SM OVC011 21/20 A2997 RMK AO2 RAB11E34 SLP154 P0001 T02110200 KLUF 191258Z 01003KT 10SM CLR 18/04 A2986 RMK AO2A SLPNO ALSTG ESTMD T01810036 $ LECH 191300Z AUTO 17009KT 120V240 9000 NCD 24/09 Q1020 LEBR 191300Z AUTO 32018KT 9999 NCD 20/04 Q1023 KMLI 191316Z 00000KT 3/4SM R09/5500VP6000FT BR OVC002 17/16 A2995 RMK AO2 T01720156 UWUU 191300Z 22006MPS CAVOK 27/12 Q1016 R14R/0///60 NOSIG RMK QFE751/1002 KMKS 191315Z AUTO 00000KT 7SM CLR 23/20 A3001 RMK AO2 KLTS 191258Z AUTO 13006KT 10SM CLR 20/20 A2985 RMK AO2 SLP095 T01970197 CHINO RWY35R $ KMLJ 191236Z AUTO 30004KT 3/4SM BR OVC001 21/21 A3002 RMK AO2 VOML 191300Z 28008KT 6000 SCT012 SCT020 FEW025TCU 28/24 Q1009 NOSIG VOND 191000Z 20008KT 6000 FEW020 SCT025 32/23 Q1004 LEBT 191300Z AUTO 10011KT 060V150 9999 // NCD 26/16 Q1019 KLUK 191253Z 00000KT 8SM SCT050 BKN060 BKN110 21/20 A2999 RMK AO2 SLP151 T02060200 KMKT 191309Z AUTO 14009KT 1SM BR OVC003 17/17 A2989 RMK AO2 KNBT 191256Z AUTO 31013KT 10SM A2988 RMK AO2 SLP124 PWINO $ VOMM 191300Z 27006KT 6000 FEW020 SCT100 33/23 Q1005 NOSIG KLUL 191315Z AUTO 00000KT 7SM SCT120 23/23 A3002 RMK AO2 T02270227 KLUM 191315Z AUTO 10006KT 10SM OVC019 15/14 A2997 RMK AO2 T01520141 LECO 191300Z 02005KT 330V060 9999 SCT026 19/13 Q1025 NOSIG DXXX 191300Z 21013KT 180V240 9999 SCT013 30/24 Q1012 NOSIG KMLP 191310Z AUTO 22004KT 10SM FEW002 BKN006 OVC045 M01/M02 A2970 RMK AO2 P0001 T10061017 TSNO EPPO 191300Z 24003KT 210V270 9999 SCT048 19/06 Q1016 LEBZ 191300Z 36003KT CAVOK 26/09 Q1021 KMMH 191315Z AUTO 34007G15KT 270V020 10SM CLR 11/M07 A3001 RMK AO2 T01121068 KMMI 191315Z AUTO 00000KT 10SM CLR 19/17 A3006 RMK KLVJ 191253Z AUTO 00000KT 6SM BR CLR 27/24 A2997 RMK AO2 SLP147 T02670244 KMLS 191253Z AUTO 28009KT 10SM SCT055 13/08 A2954 RMK AO2 SLP990 T01280083 KLWA 191316Z AUTO 10005KT 2 1/2SM BR SCT004 20/19 A2996 RMK AO2 T01960190 KLVK 191253Z AUTO 00000KT 10SM CLR 12/09 A3000 RMK AO2 SLP156 T01220089 KMLT 191253Z AUTO 15003KT 6SM BR OVC003 16/16 A3023 RMK AO2 SLP240 T01610156 TSNO KMMK 191253Z AUTO 01008G16KT 10SM OVC012 19/17 A3007 RMK AO2 SLP180 T01940167 TSNO KLWB 191255Z AUTO 00000KT M1/4SM FG OVC001 15/15 A3010 RMK AO2 LTG DSNT W T01500149 EPRA 191300Z 13003KT 9999 FEW040 17/09 Q1016 LEEC 191300Z 32004KT CAVOK 29/10 Q1021 KLWC 191252Z AUTO 09005KT 7SM CLR 19/19 A2987 RMK AO2 SLP111 T01940194 KMLU 191253Z 18003KT 6SM BR FEW080 23/23 A3000 RMK AO2 SLP156 T02280228 KMML 191306Z AUTO 14009KT 6SM BR OVC004 18/18 A2982 RMK AO2 KLVL 191315Z AUTO 34006KT 10SM OVC012 21/19 A2999 RMK AO1 T02100187 LECV 191300Z VRB02KT CAVOK 23/05 Q1024 KLVM 191253Z AUTO 26012KT 10SM -RA OVC038 06/03 A2967 RMK AO2 SLP032 P0002 T00560033 KLWD 191253Z AUTO 14006KT 1/4SM FG VV002 18/18 A2990 RMK AO2 SLP121 T01780178 KLVN 191312Z AUTO 00000KT 7SM CLR 13/13 A2992 RMK AO2 KMNE 191315Z AUTO 00000KT 1/4SM FG OVC003 23/23 A2999 RMK AO2 T02320225 KP53 191256Z AUTO 00000KT 14/10 A3006 RMK AO1 SLP180 T01440100 VOMY 191130Z 26019G29KT 9999 SCT015 SCT020 28/21 Q1013 EPPW 191300Z 19004KT 9999 SCT040 BKN200 16/07 Q1016 RMK 155 050 5/3 = KLUX 191315Z AUTO 05003KT 10SM SCT090 21/18 A3005 RMK AO2 KMNH 191309Z AUTO 25011G15KT 10SM CLR 13/M05 A2991 RMK AO2 VOPB 190300Z 23012KT 6000 SCT012 FEW018TCU BKN090 29/25 Q1011 NOSIG KMNI 191315Z AUTO 02004KT 10SM CLR 22/15 A3002 RMK AO2 KLVS 191253Z AUTO 23015KT 10SM CLR 12/M08 A3006 RMK AO2 SLP087 T01221078 KP58 191251Z AUTO 06011KT 19/16 A3003 RMK AO1 SLP166 T01890161 KP59 191251Z AUTO VRB03KT 14/11 A3005 RMK AO1 SLP175 T01440111 KMOB 191256Z 23005KT 7SM FEW030 FEW065 SCT200 26/24 A3002 RMK AO2 SLP164 CB DSNT S-SW T02560239 KP60 191256Z AUTO 00000KT 00/00 A2975 RMK AO1 SLP044 P0006 T00000000 $ KMMT 191258Z 00000KT 10SM CLR 23/19 A3002 RMK AO2A SLP166 T02260187 $ UWWW 191300Z 22007MPS CAVOK 29/08 Q1015 R23/CLRD60 NOSIG RMK QFE750/1000 KNEL 191307Z 04007KT 360V080 5SM BR BKN010 OVC015 21/20 A2997 RMK AO2 RAE1228 CIG 007V012 P0001 $ KMMU 191245Z 03010G20KT 6SM HZ BKN010 21/19 A3003 KMOD 191253Z AUTO 00000KT 10SM CLR 13/09 A2997 RMK AO2 SLP150 T01280094 KMMV 191253Z AUTO 20010KT 10SM -RA FEW025 SCT040 OVC110 11/10 A2982 RMK AO2 LTG DSNT SW SLP096 P0007 T01060100 KLWM 191254Z 04009KT 5SM BR OVC003 19/17 A3016 RMK AO2 SLP212 T01890172 KMNM 191256Z AUTO 11011KT 10SM FEW075 17/15 A3003 RMK AO2 SLP186 T01720150 $ EPSC 191300Z 26005KT 220V280 9999 FEW035 17/09 Q1015 KNFE 191256Z AUTO 35012G20KT 10SM SCT026 BKN037 OVC070 24/20 A2985 RMK AO2 RAB03E07 SLP111 P0000 T02440200 KMNN 191253Z AUTO 17006KT 7SM OVC085 21/17 A3000 RMK AO2 SLP154 T02110172 KNFG 191255Z 00000KT 7SM OVC015 15/14 A2991 RMK AO2 SLP126 T01440139 PNO $ KNDZ 191256Z 00000KT 8SM FEW020 FEW120 SCT250 26/24 A3001 RMK AO2 SLP145 T02610244 $ KP68 191253Z AUTO 16005KT 07/00 A2993 RMK AO1 SLP070 T00670000 LEGA 191200Z 28005KT CAVOK 26/07 Q1023 KLWS 191256Z AUTO 07005KT 10SM SCT050 BKN065 OVC100 10/09 A2975 RMK AO2 RAE46 SLP073 P0003 T01000089 KLWT 191254Z AUTO 26006KT 10SM OVC070 07/03 A2962 RMK AO2 SLP017 T00670028 KP69 191252Z AUTO 00000KT 08/07 A2979 RMK AO1 SLP091 T00830067 KLXL 191311Z AUTO 13008KT 1/2SM FG OVC002 13/12 A2989 RMK AO2 KNFL 191256Z AUTO 02006KT 10SM CLR 09/01 A2992 RMK AO2 SLP107 T00940006 FGSL 191300Z 25011KT 8000 -DZ BKN008 BKN060 28/24 Q1012 TEMPO 4000 RADZ KLWV 191317Z AUTO 14004KT 3SM -RA BR OVC022 21/21 A2998 RMK AO2 LTG DSNT SW RAB1258 P0010 T02060206 LEGE 191300Z 07007KT 020V100 9999 BKN040 20/10 Q1019 KNEW 191253Z 26004KT 5SM HZ CLR 27/24 A3001 RMK AO2 SLP156 T02720244 KLXN 191315Z AUTO 12005KT 3SM BR CLR 17/16 A2969 RMK AO2 T01690159 EPSN 191300Z 22006KT 9999 SCT040 15/07 Q1015 RMK 151 060 4/4 = KMOP 191314Z AUTO 03003KT 10SM BKN030 14/13 A3004 RMK AO2 T01440134 KLYH 191254Z VRB03KT 10SM CLR 21/18 A3004 RMK AO2 SLP164 T02110178 KMNZ 191315Z AUTO 17007KT 5SM BR CLR 23/23 A2995 RMK AO2 T02280228 KMOR 191315Z AUTO 00000KT 10SM CLR 20/17 A3005 RMK A01 EPRZ 191300Z 05010KT 9999 -RA FEW030 15/11 Q1015 LDOS 191300Z /////KT 9999 SCT040 19/15 Q1007 KLXT 191253Z AUTO 13005KT 10SM BKN049 BKN060 19/19 A2992 RMK AO2 LTG DSNT E AND SE SLP125 T01940194 KMOT 191254Z 09014KT 9SM OVC003 13/12 A2949 RMK AO2 RAE1155B15E24 SLP984 P0000 T01330122 KMQB 191315Z AUTO 00000KT M1/4SM FG OVC003 18/18 A2997 RMK AO2 LTG DSNT SE T01820182 LEHC 191300Z 28014KT 250V320 CAVOK 22/01 Q1020 LDPL 191300Z 07012KT 9999 FEW010 SCT047 15/13 Q1007 NOSIG KLXV 191253Z AUTO 15012G19KT 10SM CLR 09/M16 A3006 RMK AO2 SLP013 T00941161 EPTM 191300Z 00000KT 9999 FEW044 BKN083 17/08 Q1016 RMK 166 056 7/2= KNFW 191252Z 18009KT 10SM SCT009 24/22 A2992 RMK AO2 SLP114 T02440222 $ KMQE 191256Z AUTO 05012G21KT 17/16 A3011 RMK AO1 SLP207 T01670156 KMPO 191253Z AUTO 05007KT 7SM OVC004 17/17 A3010 RMK AO2 SLP187 T01670167 KMOX 191315Z AUTO 14014G17KT 1SM BR OVC001 18/17 A2979 RMK AO2 KLXY 191315Z AUTO 15005KT 4SM BR BKN005 24/23 A2995 RMK AO2 T02360231 KNGP 191256Z 17008KT 10SM FEW013 FEW030 SCT250 28/26 A2993 RMK AO2 SLP134 T02830261 $ EPSY 191300Z 25007KT 170V320 9999 FEW043 18/08 Q1016 KMQI 191305Z AUTO 02020G29KT 4SM RA OVC010 21/20 A2983 RMK AO2 T02070198 LEGR 191300Z VRB03KT CAVOK 29/04 Q1021 KMQJ 191310Z AUTO RMK AO1 LEGT 191300Z VRB03KT CAVOK 24/06 Q1022 LEIB 191300Z 09008KT 050V130 9999 FEW020TCU SCT036 24/18 Q1020 NOSIG KMRB 191253Z 36005KT 5SM BR FEW012 OVC018 19/17 A3005 RMK AO2 SLP172 T01940172 KNHK 191252Z 36018G24KT 10SM BKN015 23/20 A2994 RMK AO2 SLP138 T02280200 $ KMRC 191315Z AUTO 00000KT 6SM HZ CLR 21/ A2998 RMK A01 KNGU 191259Z 35013G18KT 9SM SCT010 BKN021 OVC055 23/20 A2989 RMK AO2 RAE41 SLP122 P0004 T02280200 KP92 191253Z AUTO 00000KT 28/24 A2998 RMK AO1 SLP151 T02780244 $ KMPV 191251Z AUTO 06003KT 10SM OVC031 16/16 A3020 RMK AO2 SLP228 T01560156 KNID 191256Z VRB05G15KT 10SM CLR 24/03 A2975 RMK AO2 PK WND 30033/1200 RAB1157E36 SLP052 P0000 T02390033 KLYV 191318Z AUTO 14007KT 3SM BR OVC002 17/16 A2982 RMK AO2 AAXX 191200Z 00000KT 5000 HZ FEW020 SCT100 32/20 Q1004 KMPZ 191255Z AUTO 09003KT M1/4SM FG OVC001 17/17 A2994 RMK AO2 T01700170 KMRH 191316Z AUTO 32014KT 10SM BKN013 22/21 A2991 RMK AO2 T02220206 TSNO LDRI 191300Z VRB03KT 8000 RA FEW012 BKN030 OVC075 12/10 Q1009 KMQS 191315Z AUTO 02007G13KT 9SM OVC005 20/19 A3003 RMK AO2 KMRJ 191315Z AUTO 00000KT 10SM CLR 17/16 A2997 RMK AO2 LDSB 191300Z 23011KT 210V270 9999 SCT030 BKN045 16/14 Q1010 EPWA 191300Z 04004KT 360V080 CAVOK 18/09 Q1016 NOSIG KLZU 191245Z VRB04KT 10SM CLR 21/17 A3005 RMK ATIS OTS. RWY 25. SU KMRN 191305Z AUTO 00000KT 10SM SCT036 18/17 A3011 RMK AO2 T01800168 VORY 191130Z 25005KT 6000 SCT020 BKN100 31/24 Q1002 NOSIG KNIP 191253Z 00000KT 10SM FEW250 25/22 A3001 RMK AO2 SLP157 T02500217 KMQY 191256Z 18004KT 10SM SCT080 21/18 A3001 RMK AO2 SLP041 T02070180 $ KLZZ 191315Z AUTO 15004KT 7SM CLR 23/22 A2995 RMK AO2 T02290222 VOTK 191000Z 26008G18KT 7000 FEW020 SCT100 34/21 Q1007 LFBA 191300Z AUTO 29012KT CAVOK 20/09 Q1023 NOSIG KOAJ 191256Z AUTO 34006KT 10SM OVC011 21/19 A2997 RMK AO2 SLP153 T02060189 KNJK 191256Z AUTO 21008KT 10SM CLR 23/04 A2978 RMK AO2 SLP100 T02330039 KOAK 191253Z 06003KT 10SM FEW010 13/10 A3001 RMK AO2 SLP163 T01280100 KMRT 191314Z AUTO 00000KT 7SM OVC065 20/19 A3000 RMK AO2 T02020185 LFBC 191300Z AUTO 33012KT CAVOK 18/10 Q1025 NOSIG KMSL 191253Z AUTO 00000KT 7SM FEW046 SCT085 23/20 A3000 RMK AO2 SLP154 T02280200 KMTC 191258Z 03004KT 10SM FEW010 SCT042 BKN048 OVC075 19/19 A2999 RMK AO2A SLP159 T01870187 LFBD 191300Z AUTO 31012KT 270V340 9999 FEW044 19/09 Q1024 NOSIG KNJM 191257Z AUTO 32010KT 10SM BKN014 22/19 A2993 RMK AO2 SLP139 T02170194 $ LFBE 191300Z AUTO 31011KT 280V340 9999 FEW042 20/10 Q1023 NOSIG KMSN 191253Z 00000KT 10SM FEW150 15/13 A2998 RMK AO2 SLP151 T01500133 KOBE 191315Z AUTO 05005KT 10SM SCT070 26/22 A2995 RMK AO2 VOTP 191300Z 27002KT 7000 FEW020 33/23 Q1005 KMSO 191253Z 19003KT 9SM -RA FEW004 BKN049 OVC060 04/04 A2976 RMK AO2 RAB1156 SLP086 P0001 T00390039 LFBG 191300Z AUTO 31010KT 280V350 9999 FEW041 SCT047 19/08 Q1023 NOSIG KMSP 191253Z 11008KT 8SM SCT025 BKN031 BKN050 16/15 A2992 RMK AO2 SLP132 T01610150 KMRY 191254Z AUTO 19004KT 10SM CLR 14/12 A3003 RMK AO2 SLP180 T01440122 LDSP 191300Z 12003KT 080V190 9999 SCT050 20/13 Q1009 BECMG 30012KT VOTR 191300Z 27008KT 6000 FEW016 32/21 Q1006 NOSIG LFAQ 191300Z AUTO /////KT //// R27///// // ////// ///// Q1020 LFBH 191300Z AUTO 28012KT 9999 FEW047 17/10 Q1024 NOSIG KMTH 191253Z AUTO 31003KT 10SM CLR 29/23 A2993 RMK AO2 SLP133 T02890233 $ LFBI 191300Z AUTO 34009KT 300V020 9999 BKN037 BKN045 BKN060 18/08 Q1023 NOSIG LEJR 191300Z VRB02KT CAVOK 30/10 Q1020 KMSS 191253Z AUTO 00000KT 10SM FEW065 21/19 A3009 RMK AO2 SLP189 T02110194 KMTJ 191253Z AUTO 13003KT 10SM CLR 12/M02 A2996 RMK AO2 SLP075 T01221017 EPWR 191300Z 10004KT 030V130 9999 FEW040 16/07 Q1016 LFAT 191300Z AUTO 29008KT 260V330 9999 FEW019 15/10 Q1021 NOSIG VOTV 191300Z 28008KT 5000 HZ SCT015 FEW025CB 29/27 Q1009 TEMPO 4000 HZ LELC 191300Z 08008KT 050V120 9999 FEW045 26/18 Q1020 NOSIG LFBL 191300Z AUTO 29008KT 250V320 9999 FEW032/// ///TCU 14/08 Q1023 BECMG BKN025 KNLC 191256Z AUTO 35011KT CLR 16/08 A2996 RMK AO2 SLP142 T01610078 RVRNO $ LFBM 191300Z AUTO 28011KT 250V330 9999 FEW049 21/09 Q1024 NOSIG KMSV 191316Z AUTO 09007KT 10SM BKN007 18/17 A3012 RMK AO2 CIG 005V010 KMTN 191250Z 34009KT 10SM BKN015 22/21 A2999 LFBO 191300Z AUTO 29015KT 270V330 9999 FEW048 BKN062 BKN072 20/06 Q1023 NOSIG KMTO 191253Z AUTO 00000KT 1/4SM FG VV001 19/19 A2995 RMK AO2 SLP136 T01940194 KOCF 191306Z 01003KT 6SM BR FEW001 23/22 A3002 RMK AO2 $ LFBP 191300Z AUTO VRB05KT 9999 FEW048 BKN058 BKN068 19/09 Q1025 NOSIG KMSY 191253Z 24003KT 7SM FEW010 SCT041 SCT250 26/24 A3001 RMK AO2 SLP164 T02560244 KMTP 191254Z AUTO 03013G20KT 19/19 A3002 RMK AO1 SLP164 P0001 T01940194 KOCH 191315Z AUTO 17004KT 4SM BR FEW003 OVC013 24/24 A2998 RMK AO2 KMUI 191258Z 03004KT 7SM FEW007 OVC018 20/20 A3004 RMK AO2A SLP173 T02010196 LFCK 191300Z AUTO 29019KT 9999 BKN045 BKN082 17/08 Q1023 TEMPO 30017G27KT LFBT 191300Z AUTO 27011KT 230V300 9999 FEW043 18/08 Q1025 NOSIG KNKT 191308Z 32012KT 10SM BKN016 23/20 A2993 RMK AO2 T02280200 LELL 191300Z 11009KT 070V140 9999 FEW025 SCT065 22/14 Q1019 LFBU 191300Z AUTO 29009KT 260V340 9999 BKN039 BKN064 18/08 Q1023 NOSIG LEMD 191300Z 20002KT CAVOK 25/06 Q1022 NOSIG KMTV 191315Z AUTO 00000KT 10SM SCT026 19/18 A3009 RMK AO2 T01910179 LELN 191300Z 17003KT CAVOK 19/06 Q1025 KMVE 191312Z AUTO 16008KT 3SM BR OVC004 18/18 A2982 RMK AO2 KMTW 191256Z AUTO 05003KT 10SM OVC010 17/16 A3001 RMK AO2 SLP180 T01670156 LELO 191300Z 30005KT 250V020 9999 FEW050 20/05 Q1024 KMUO 191258Z AUTO 31015G25KT 9SM RA SCT050 08/08 A2989 RMK AO2 RAB48 PRESRR SLP118 P0001 T00840084 $ KNKX 191255Z 00000KT 10SM OVC022 21/15 A2992 RMK AO2 SLP127 T02110150 LEMG 191300Z 13007KT 080V170 CAVOK 25/15 Q1020 NOSIG LFBY 191300Z 27006KT 210V330 CAVOK 20/10 Q1025 LEMH 191300Z 01009KT 9999 -RA FEW030TCU BKN042 18/12 Q1021 LFBZ 191300Z AUTO 31008KT 270V040 CAVOK 19/10 Q1026 NOSIG KOCQ 191315Z AUTO 00000KT 10SM SCT011 17/15 A3002 RMK AO1 T01720152 KMVH 191315Z AUTO 29008G16KT 9SM -RA BKN024 OVC032 06/01 A2965 RMK AO2 EPZG 191300Z 20005KT 160V260 9999 FEW047 18/06 Q1016 LFCR 191300Z AUTO 33012KT 9999 BKN006 OVC011 10/10 Q1023 TEMPO 4000 -SHRA BKN003 SCT013TCU KMWA 191245Z 02004KT 10SM SCT065 20/20 A2997 KMUT 191315Z AUTO 11005KT 1/4SM FG OVC003 19/18 A2995 RMK AO2 KOEB 191314Z AUTO 08007KT 2 1/2SM -DZ OVC004 18/18 A2998 RMK AO2 T01840184 KMVL 191254Z AUTO 00000KT 10SM CLR 17/15 A3017 RMK AO2 SLP216 T01720150 TSNO KMWC 191245Z 35004KT 10SM SKC 17/14 A2999 KNMM 191256Z 26003KT 10SM SCT065 24/23 A3000 RMK AO2 SLP165 T02440228 KOCW 191305Z AUTO 35009KT 10SM BKN014 OVC021 22/19 A2993 RMK AO2 T02150190 KMVN 191313Z AUTO 00000KT 1 1/2SM BR 21/21 A2997 RMK AO2 $ KODO 191253Z AUTO 24006KT 10SM FEW120 25/11 A2995 RMK AO2 SLP089 T02500106 LEMO 191300Z VRB05KT CAVOK 29/09 Q1020 NOSIG VOVZ 191300Z 25006KT 6000 FEW018 BKN090 31/27 Q1001 NOSIG KMWH 191252Z 19004KT 10SM SCT065 BKN090 BKN110 09/04 A2969 RMK AO2 SLP054 T00940044 KMWK 191305Z AUTO 00000KT 10SM CLR 20/18 A3009 RMK AO2 T02030175 KMWL 191253Z AUTO 14006KT 6SM BR CLR 23/22 A2989 RMK AO2 SLP109 T02280217 KMWM 191255Z AUTO 14008KT 1 1/4SM BR OVC001 18/17 A2986 RMK AO2 KMWN 191252Z 16005KT 110SM BKN/// BKN/// FEW120 SCT180 13/05 RMK TPS LWR BKN052 TPS LWR BKN035 PTCHY VLY FG NW KODX 191253Z AUTO 14006KT 3SM BR SCT002 16/14 A2971 RMK AO2 SLP055 T01560144 KMXF 191256Z AUTO 00000KT 8SM CLR 24/24 A2999 RMK AO2 SLP157 T02350235 KOFF 191256Z AUTO 13009KT 6SM BR OVC006 20/19 A2983 RMK AO2 CIG 005 RWY30 SLP099 T01980186 $ KMWO 191315Z AUTO 00000KT 5SM HZ SCT065 OVC110 21/19 A3000 RMK AO2 T02080185 KOEO 191255Z AUTO 12004KT 10SM BKN016 OVC024 16/16 A2997 RMK AO2 T01550155 KMVY 191310Z 03013G18KT 1 1/2SM RA BR OVC002 20/19 A3004 RMK AO2 RAB03 P0002 T02000189 KNOG 191309Z AUTO 16007KT 2SM BR BKN016 26/26 A2994 RMK AO2 T02560256 PNO $ PTKK 191250Z 00000KT 15SM FEW014 BKN120 OVC280 28/26 A2987 RMK SLP116 T02770255 LEPA 191300Z 27006KT 9999 SCT020 25/13 Q1020 NOSIG LFGA 191300Z AUTO 30009KT 270V330 9999 FEW040 SCT054 BKN090 16/08 Q1018 KNPA 191256Z 00000KT 10SM FEW020 BKN250 27/24 A3000 RMK AO2 SLP160 T02670244 $ KOGA 191315Z AUTO 17005KT 7SM SCT007 16/15 A2967 RMK AO2 T01620146 KOGB 191253Z AUTO 00000KT 10SM OVC095 22/19 A3002 RMK AO2 SLP165 T02220189 KMWT 191253Z AUTO 00000KT 10SM CLR 19/18 A2995 RMK AO2 SLP130 T01890178 KOFK 191256Z AUTO 14011KT 4SM BR OVC005 18/18 A2977 RMK AO2 SLP073 T01830178 KOGD 191253Z 34016G24KT 10SM -RA OVC060 08/06 A2983 RMK AO2 PK WND 32026/1233 SLP060 P0003 T00780056 KMYF 191253Z 03003KT 10SM OVC022 21/13 A2993 RMK AO2 SLP129 T02060133 KMXO 191315Z AUTO 14003KT M1/4SM FG OVC002 16/16 A2996 RMK AO2 KOFP 191254Z AUTO 35007KT 9SM OVC012 21/19 A2999 RMK AO2 SLP154 T02110189 PTKR 191251Z 00000KT 12SM SCT017TCU BKN110 OVC290 26/25 A2987 RMK TCU ALQDS SLP114 T02580247 LFGJ 191300Z AUTO 32004KT 270V360 9999 FEW039/// SCT056/// BKN066/// ///TCU 14/10 Q1020 TEMPO 3000 SHRA BKN015CB KMYJ 191115Z AUTO 00000KT 3/4SM BR BKN001 14/14 A2993 RMK AO2 LTG DSNT SW AND W KNQA 191250Z 00000KT 10SM FEW250 21/20 A2996 LDZA 191300Z 36006KT 330V050 9999 -RA FEW006 BKN012 OVC023 13/11 Q1008 NOSIG KMYL 191251Z AUTO 27006KT 4SM RA BR BKN011 BKN027 OVC033 01/01 A2978 RMK AO2 RAB35 SLP084 P0003 T00110006 LDZD 191300Z 26010KT 230V290 9999 FEW010 SCT023 18/14 Q1009 RETS NOSIG KNOW 191315Z AUTO 28003KT 10SM BKN006 OVC035 10/08 A2969 RMK AO2 T00950081 LEPP 191300Z 33014KT 280V010 9999 FEW032 BKN052 18/08 Q1025 ESCF 191250Z 01008KT 9999 FEW016TCU BKN050 12/09 Q1011 KMYP 191312Z AUTO 24032G35KT 10SM CLR 02/M10 A3031 RMK AO2 KMZH 191313Z AUTO 00000KT 10SM OVC007 14/13 A2992 RMK AO2 KNOZ 191259Z AUTO 11006KT 10SM CLR 24/20 A2980 RMK AO2 SLP041 T02390200 KMYR 191256Z 35005KT 10SM CLR 23/19 A3000 RMK AO2 SLP158 T02280194 KNQI 191310Z 12003KT 3SM BR BKN022 BKN250 25/25 A2993 RMK AO2 T02500250 $ KOGS 191315Z AUTO 20006KT 10SM CLR 22/18 A3008 RMK AO2 T02200181 GABS 191300Z 29004KT 9999 FEW020 33/22 Q1014 NOSIG KNRB 191252Z 30004KT 10SM SCT250 24/24 A3000 RMK AO2 SLP159 T02440239 KMYV 191253Z AUTO 00000KT 10SM CLR 11/09 A2998 RMK AO2 SLP154 T01110089 ESDF 191250Z 21008KT 180V250 9999 FEW026 15/12 Q1011 FJDG 191255Z 09010KT 9999 FEW020 FEW100 BKN220 28/25 A2991 RMK SLP125 T02840248 KMYZ 191255Z AUTO 14005KT 10SM CLR 18/18 A2983 RMK AO2 LTG DSNT E LERI 191300Z VRB04KT 9999 FEW030 29/06 Q1020 NOSIG WIBB 191300Z 00000KT 7000 SCT015 25/23 Q1010 LESA 191300Z 34003KT 250V030 CAVOK 21/06 Q1024 KOJA 191315Z AUTO 14005KT 10SM CLR 22/20 A2986 RMK AO2 KOJC 191253Z 17006KT 7SM CLR 19/19 A2990 RMK AO2 SLP117 T01890189 LGAD 191250Z 29009KT 9999 FEW025 FEW080 28/13 Q1011 KPAE 191253Z AUTO 12008KT 10SM FEW009 FEW013 OVC020 10/09 A2970 RMK AO2 SLP056 T01000089 KNSE 191256Z 29004KT 10SM SCT250 25/24 A3001 RMK AO2 SLP147 T02500244 $ KNQX 191253Z AUTO 31003KT 10SM CLR 31/25 A2993 RMK AO2 SLP134 T03110250 PWINO $ KPAH 191253Z 36005KT 4SM BR OVC005 22/20 A2996 RMK AO2 LTG DSNT NE CIG 003V007 SLP140 T02170200 FIMP 191300Z 13014KT 7000 VCSH FEW005 SCT012 BKN045 22/20 Q1022 KNSI 191306Z AUTO 31016KT 3/4SM BR VV012 16/ A2992 RMK AO2 T0156 PWINO $ FIMR 191300Z 11012KT 9999 BKN017 SCT050 21/19 Q1022 KNRS 191256Z AUTO 00000KT 10SM OVC026 19/15 A2993 RMK AO2 SLP133 T01940150 $ LERS 191300Z 25014KT 220V300 9999 FEW025 25/05 Q1019 LERT 191300Z 25011KT 230V290 CAVOK 24/15 Q1021 NOSIG LFKB 191300Z 16009KT 9999 -RA FEW033TCU SCT056 BKN100 21/09 Q1011 NOSIG KOKB 191252Z AUTO 33003KT 10SM OVC030 19/16 A2990 RMK AO2 SLP125 T01940161 LFJL 191300Z AUTO 30011KT 9999 FEW025/// BKN042/// BKN052/// 13/08 Q1019 TEMPO 4000 SHRA FEW020CB LFKC 191300Z AUTO 23008KT 180V280 9999 FEW039 20/11 Q1011 TEMPO TSRA SCT020CB BKN040 KOKC 191252Z 17009KT 10SM FEW130 SCT250 22/21 A2988 RMK AO2 SLP104 T02220211 LGAL 191250Z 23009KT CAVOK 30/22 Q1008 RCFN 191200Z 00000KT 9999 FEW025 BKN120 25/25 Q1012 NOSIG RMK A2989 KPAM 191256Z 00000KT 10SM CLR 26/25 A3001 RMK AO2A SLP165 T02570248 KNTD 191256Z 01003KT 10SM OVC019 19/15 A2992 RMK AO2 SLP132 T01940150 $ KPAN 191315Z AUTO 00000KT 10SM 12/M03 A3010 RMK AO2 KPAO 190347Z 26007KT 10SM SKC 17/12 A2999 RMK LAST LESO 191300Z 35005KT 260V030 9999 SCT035 19/11 Q1026 LFKF 191300Z AUTO 28015KT 240V320 9999 FEW045 SCT190 BKN210 22/09 Q1013 TEMPO 28015G25KT KPBF 191301Z AUTO 00000KT 4SM BR CLR 23/22 A2997 RMK AO2 T02280217 KPBG 191253Z AUTO 13005KT 10SM CLR 21/17 A3011 RMK AO2 SLP194 T02060167 KPBH 191315Z AUTO 13005KT 10SM BKN037 OVC060 13/12 A3001 RMK AO2 T01260117 LFJR 191300Z AUTO 33005KT 260V070 9999 FEW046 18/09 Q1023 TEMPO SCT030TCU KPBI 191253Z 34005KT 10SM FEW027 SCT250 27/24 A2995 RMK AO2 SLP140 CB DSNT N-NE T02720239 $ LFKJ 191300Z 25009KT 220V280 9999 BKN040 BKN250 19/10 Q1013 NOSIG WIDD 191300Z 00000KT 9999 SCT014 25/23 Q1013 LEST 191300Z VRB01KT 9999 SCT025 18/12 Q1025 NOSIG LFLB 191300Z AUTO 35005KT 290V030 9999 FEW027/// BKN074/// ///TCU 14/08 Q1020 TEMPO 34015G25KT 4000 SHRA SCT020CB KOKK 191311Z AUTO 22005KT 5SM BR BKN027 BKN065 21/20 A2996 RMK AO2 LESU 190930Z VRB03KT CAVOK 12/03 Q1022 LETL 191300Z AUTO 36012KT 330V050 9999 NCD 19/01 Q1024 LFLC 191300Z AUTO 31007KT 280V360 9999 BKN044 BKN050 OVC062 12/07 Q1022 TEMPO SCT030TCU LGBL 191250Z 11010KT CAVOK 34/04 Q1007 KNUC 190456Z 00000KT 10SM FEW026 17/14 A2993 RMK SLP133 T01720139 LGAV 191250Z 06008KT 9999 FEW030 32/17 Q1009 NOSIG PTPN 190450Z 09009KT 13SM SCT018TCU BKN130 BKN300 31/25 A2980 RMK TCU S-SW KPCD 191315Z AUTO 00000KT M1/4SM FG OVC002 19/19 A2996 RMK AO2 T01940192 KOKM 191315Z AUTO 17006KT 10SM VCTS CLR 22/22 A2990 RMK AO2 LTG DSNT N AND NW T02150215 KOLE 191315Z AUTO 17005KT 7SM OVC003 15/15 A3013 RMK AO2 LTG DSNT SW LETO 191300Z 29006KT 210V330 CAVOK 24/05 Q1022 NOSIG KOLF 191253Z AUTO 25011KT 10SM FEW060 OVC080 13/11 A2948 RMK AO2 RAE48 PRESRR SLP979 P0000 T01330106 KOLG 191315Z AUTO 13004KT 10SM OVC024 14/12 A2995 RMK AO1 ESGG 191250Z 02005KT 9999 SCT007 BKN016 OVC057 11/10 Q1010 RERA KNUI 191311Z AUTO 35009G17KT 300V030 10SM SCT018 BKN024 23/19 A2993 RMK AO2 T02330194 $ LFKS 191300Z AUTO 11008KT CAVOK 21/13 Q1011 KOMA 191252Z 15010KT 3SM BR OVC007 20/18 A2983 RMK AO2 SLP095 T02000183 ESGJ 191250Z 02006KT 9999 FEW005 BKN008 BKN017 11/10 Q1010 WIEE 191300Z 13003KT 9999 VCTS FEW018CB BKN020 25/24 Q1012 RMK CB TO SW LETU 191300Z AUTO 33013KT 9999 NCD 20/05 Q1024 LEVC 191300Z 12012KT 080V160 9999 FEW025 26/17 Q1019 NOSIG LFLL 191300Z 01007KT 9999 -RA SCT033 BKN053 14/09 Q1020 NOSIG LFMC 191200Z 29022KT 9999 FEW043 SCT130 BKN230 21/03 Q1011 KNTU 191256Z 35014G22KT 8SM -RA FEW007 BKN015 OVC027 22/19 A2984 RMK AO2 PK WND 36028/1236 RAE07B53 SLP108 P0001 T02220189 KPDC 191315Z AUTO 00000KT 10SM CLR 15/13 A2996 RMK AO2 T01500132 LEVD 191300Z 34002KT CAVOK 20/05 Q1025 LFMD 191300Z AUTO 16007KT 120V190 9999 FEW092 BKN170 21/12 Q1010 TEMPO SHRA FEW050TCU SCT060 KOLM 191254Z AUTO 19011KT 4SM -RA BR SCT039 BKN060 OVC075 10/09 A2971 RMK AO2 SLP061 P0010 T01000094 KPCM 191315Z AUTO 03004KT 10SM OVC085 26/24 A3001 RMK AO2 KOKV 191315Z AUTO 01004KT 10SM OVC014 18/16 A3005 RMK AO2 LFLN 191300Z AUTO 31010KT 260V330 9999 FEW028 BKN044 BKN050 14/07 Q1021 TEMPO BKN015TCU KPBX 191315Z AUTO 15003KT 4SM BR SCT001 OVC100 16/16 A3005 RMK AO2 LTG DSNT W T01640164 LFLP 191300Z AUTO 15003KT 130V200 9999 FEW025 SCT031 BKN039 12/08 Q1019 TEMPO VRB15G25KT 4000 SHRA SCT025CB LFMH 191300Z AUTO 34010KT 9999 FEW031 OVC060 13/06 Q1021 NOSIG KNUQ 191256Z 00000KT 10SM CLR 15/11 A3002 RMK AO2 SLP169 T01500106 KOMH 191315Z AUTO 01004KT 10SM OVC009 20/18 A3003 RMK AO2 PTSA 190150Z 03006KT 10SM -SHRA BKN014 BKN130 OVC300 26/24 A2985 RMK LAST LFMI 191300Z AUTO 32024G34KT 9999 FEW007 SCT180 20/03 Q1017 NOSIG LFLS 191300Z AUTO 30004KT 250V050 9999 SCT024/// SCT043/// BKN052/// ///TCU 12/08 Q1020 TEMPO VRB15G30KT 4000 SHRA SCT020CB KPEA 191315Z AUTO 00000KT M1/4SM FG OVC001 17/17 A2993 RMK AO2 T01730169 ESGR 191250Z AUTO /////KT 9999 SCT017/// BKN023/// OVC031/// 12/08 Q1011 KOLS 191254Z AUTO 17003KT 10SM FEW027 18/15 A3006 RMK AO2 SLP110 T01830150 KONA 191312Z AUTO 13006KT 10SM BKN070 16/14 A2997 RMK AO2 KNY0 191256Z AUTO 00000KT 10SM SCT006 18/17 A3013 RMK AO2 LFMK 191300Z AUTO 30017G28KT 9999 SCT049 BKN062 BKN082 20/07 Q1022 NOSIG KPDK 191253Z 00000KT 8SM CLR 21/18 A3004 RMK AO2 SLP158 T02110178 KOMK 191253Z AUTO 00000KT 10SM OVC065 06/02 A2968 RMK AO2 SLP053 T00610017 $ LFLU 191300Z AUTO 04018G29KT 360V070 9999 FEW028/// BKN035/// BKN042/// ///TCU 13/07 Q1019 LFML 191300Z AUTO 31024KT 9999 FEW012 SCT150 BKN170 19/06 Q1016 TEMPO 32028G40KT ESGT 191250Z 05009KT 9999 SCT020 BKN040 13/09 Q1011 ESIB 191250Z 07007KT 9999 SCT021 OVC038 12/10 Q1011 KOLU 191256Z AUTO 12006KT 9SM CLR 19/18 A2979 RMK AO2 SLP083 T01890178 KOLV 191250Z 20005KT 10SM FEW250 A2996 KOMN 191250Z 00000KT 7SM SKC 23/22 A2999 LFLW 191300Z AUTO 30014KT 9999 SCT020 BKN025 BKN037 12/07 Q1022 TEMPO 2000 SHRA BKN008 BKN025TCU LFMN 191300Z 10004KT 9999 FEW033TCU BKN160 BKN230 19/11 Q1011 NOSIG PTRO 191250Z 00000KT 14SM BKN016CB OVC290 24/24 A2986 RMK CB ALQDS KNUW 191256Z 13008KT 9SM SCT016 BKN024 BKN043 BKN250 12/08 A2972 RMK AO2 SLP063 T01220078 $ LFLX 191300Z AUTO 32009KT 9999 FEW026 BKN052 OVC072 15/09 Q1022 TEMPO BKN015 BKN025TCU LFMO 191300Z AUTO 33020KT 300V360 CAVOK 19/04 Q1018 BECMG 35020G35KT BKN060TCU LFLY 191300Z AUTO 04005KT 360V080 9999 FEW033/// BKN040/// BKN054/// ///TCU 15/09 Q1020 TEMPO 4000 SHRA LFMP 191300Z AUTO 32018KT 9999 FEW064 SCT078 BKN088 21/06 Q1021 TEMPO 32023G35KT KOLY 191315Z AUTO 13003KT 4SM TS BR SCT015 OVC080 20/19 A2998 RMK AO2 LTG DSNT SE AND S T01980186 KOLZ 191315Z AUTO 13006KT M1/4SM FG OVC002 16/16 A2995 RMK AO2 KPCZ 191315Z AUTO 00000KT 10SM BKN065 16/14 A3001 RMK AO2 T01630138 LEVS 191300Z VRB04KT CAVOK 25/04 Q1023 LFOA 191300Z AUTO 29009KT 9999 SCT025/// BKN068/// ///TCU 15/09 Q1022 TEMPO 2000 TSRA BKN006 BKN020CB KOOA 191315Z AUTO 00000KT M1/4SM FG OVC001 15/15 A2993 RMK AO2 T01520150 LEVT 191300Z 36003KT 9999 SCT040 18/06 Q1025 LFOB 191300Z AUTO 33009KT 9999 SCT038 BKN045 16/07 Q1021 NOSIG LFMT 191300Z AUTO 32014KT 290V360 CAVOK 21/04 Q1018 TEMPO 31018G28KT KPDT 191253Z 23006KT 10SM -RA BKN048 OVC060 09/06 A2975 RMK AO2 SLP068 P0001 T00940056 LFMU 191300Z AUTO 34013KT 320V020 CAVOK 20/07 Q1020 TEMPO 31018G30KT LFOC 191300Z AUTO 02008KT 9999 SCT032 BKN038 BKN045 15/09 Q1022 NOSIG LGEL 191250Z 19011KT 9999 SCT025 34/11 Q1008 KONL 191315Z AUTO 15009G14KT 1 3/4SM BR OVC003 17/17 A2972 RMK AO2 T01700170 LFMV 191300Z AUTO 34020KT CAVOK 19/04 Q1017 BECMG 33025G35KT KONM 191315Z AUTO 17003KT 10SM CLR 13/M01 A3006 RMK AO2 T01311010 LFOE 191300Z AUTO 30005KT 250V340 9999 FEW029 SCT043 BKN062 16/09 Q1022 ETAD 191258Z AUTO 31009KT 9999 SCT070 SCT150 SCT200 14/07 A3006 RMK AO2 RAB08E18 SLP172 P0000 T01380074 TSNO KNXF 191256Z AUTO 9SM A2991 RMK AO2 SLPNO $ LEVX 191300Z VRB01KT 9999 SCT024 20/14 Q1025 NOSIG KONO 191253Z AUTO 24004KT 10SM FEW075 SCT095 08/06 A2984 RMK AO2 RAE02 SLP105 P0000 T00830056 TSNO KPDX 191253Z 19007KT 10SM -RA FEW014 BKN055 OVC070 11/09 A2980 RMK AO2 SLP090 P0001 T01110094 $ KPEO 191253Z AUTO 21006KT 10SM CLR 19/16 A3009 RMK AO2 SLP184 T01890156 LFMY 191300Z AUTO 33024KT CAVOK 20/06 Q1016 TEMPO 33028G38KT RCKH 191300Z VRB02KT 9999 FEW014 SCT035 BKN080 28/20 Q1011 NOSIG RMK A2987 KONP 191315Z AUTO 22009G15KT 7SM SCT027 BKN043 BKN065 11/09 A2989 RMK AO2 P0003 LFOH 191300Z AUTO 31005KT 270V350 CAVOK 15/10 Q1023 NOSIG KPEQ 191315Z AUTO 10004KT 10SM SCT120 22/18 A2995 RMK AO2 T02230176 LEXJ 191300Z 06004KT 020V110 9999 FEW035 19/12 Q1025 LFOJ 191300Z AUTO 36009KT 9999 FEW020 OVC052 14/10 Q1021 TEMPO 4000 -SHRA SCT030TCU KPGA 191253Z AUTO 14004KT 10SM CLR 17/M04 A2989 RMK AO2 SLP060 T01721039 TSNO LFPB 191300Z AUTO 29006KT 250V330 9999 SCT036 SCT042 17/08 Q1021 NOSIG LFOK 191300Z AUTO 29008KT 9999 FEW014/// ///TCU 15/11 Q1020 TEMPO 3000 SHRA BKN014 BKN020CB KONT 191253Z VRB04KT 6SM HZ SCT018 OVC027 18/14 A2992 RMK AO2 SLP118 SCT V BKN T01830144 $ KNYC 191251Z AUTO 06009KT 10SM OVC017 22/18 A3004 RMK AO2 SLP163 T02220183 KPGD 191253Z 01006KT 10SM BKN050 27/23 A2997 RMK AO2 SLP148 T02670233 PNO WIHH 191200Z 01004KT 6000 FEW020 29/23 Q1010 NOSIG PTTP 191253Z 10005KT 15SM FEW018 BKN300 24/23 A2991 RMK SLP127 T02390229 403170236 KONX 191315Z AUTO 34008KT 7SM -DZ SCT014 BKN020 OVC026 22/20 A2986 RMK AO2 T02160200 KOPF 191253Z 32004KT 10SM CLR 28/27 A2993 RMK AO2 SLP135 T02830267 KPEX 191313Z AUTO 13007KT 1/2SM FG OVC002 16/16 A2988 RMK AO2 T01550156 LFOP 191300Z AUTO 33010KT 300V360 9999 SCT025 BKN038 BKN060 16/09 Q1022 NOSIG LFPG 191300Z 33007KT 300V010 9999 SCT033 17/08 Q1021 NOSIG VQPR 190900Z 16014KT 9999 SCT030 BKN080 27/11 Q1014 NOSIG KNXP 191256Z AUTO 31004KT 10SM CLR 19/03 A2992 RMK AO2 SLP096 T01940033 $ KNYG 191256Z 35008KT 10SM OVC017 22/19 A3000 RMK AO2 SLP161 T02170194 KONZ 191314Z AUTO 03007KT 2SM BR OVC002 19/18 A2998 RMK AO2 KPEZ 191315Z AUTO 12003KT 3SM BR BKN017 25/24 A2994 RMK AO2 T02500242 LFQA 191300Z AUTO 32008KT 9999 FEW020/// SCT052/// BKN064/// ///TCU 15/11 Q1020 ETAR 191301Z 27006KT 9999 BKN025 BKN036 BKN045 14/10 A3005 RMK AO2A SLP181 P0001 T01350101 $ LFQB 191300Z AUTO 28008KT 260V330 9999 FEW020 SCT026 BKN064 15/09 Q1021 LFOT 191300Z AUTO 33008KT 290V010 9999 FEW038 BKN052 16/08 Q1022 TEMPO BKN030TCU KNYL 191257Z AUTO 21003KT 10SM CLR 24/22 A2979 RMK AO2 SLP083 T02440217 KOPL 191315Z AUTO 00000KT 7SM CLR 25/25 A3000 RMK AO2 T02450245 LFOV 191300Z AUTO 31006KT 270V340 9999 BKN039 BKN045 17/09 Q1023 LFPM 191300Z AUTO 34005KT 270V020 CAVOK 15/10 Q1021 KPHD 191253Z AUTO 12005KT 6SM BR FEW095 18/17 A3002 RMK AO2 SLP163 T01830172 LFPN 191300Z AUTO 32007KT 9999 FEW022 BKN031 BKN039 15/10 Q1021 TEMPO SCT020TCU ESKM 191250Z AUTO 02005KT 360V060 9999 BKN020/// OVC026/// 08/04 Q1013 KOPN 191255Z AUTO 36004KT 10SM CLR 22/17 A3004 RMK AO2 LTG DSNT N LFPO 191300Z VRB02KT 9999 SCT030 BKN040 15/08 Q1021 NOSIG ESKN 191250Z 01004G14KT 320V070 9999 FEW021 SCT026 BKN032 12/09 Q1010 KPHF 191254Z 34010KT 10SM SCT017 SCT070 23/19 A2990 RMK AO2 SLP123 T02330194 LFQG 191300Z AUTO 30005KT 270V020 9999 RA FEW021/// BKN058/// BKN090/// ///TCU 14/10 Q1022 LEZG 191300Z 31019G29KT 270V340 9999 FEW040 22/06 Q1022 WIII 191300Z 36005KT 8000 BKN021 29/24 Q1011 NOSIG LGHI 191250Z 08003KT CAVOK 29/20 Q1008 KPIA 191254Z 00000KT 2SM R04/5500VP6000FT BR OVC005 19/19 A2995 RMK AO2 CIG 002V007 SLP138 T01940194 LFPT 191300Z AUTO 30006KT 260V340 9999 BKN032 17/09 Q1021 LFRB 191300Z AUTO 27007KT 9999 BKN029 BKN037 OVC048 16/10 Q1024 NOSIG KORB 191313Z AUTO 13003KT 10SM OVC006 12/11 A2991 RMK AO2 KPIB 191256Z AUTO 23003KT 7SM CLR 23/22 A3002 RMK AO2 SLP163 T02330222 GAMB 191200Z 28004KT CAVOK 33/25 Q1013 LEZL 191300Z 07002KT CAVOK 29/09 Q1020 NOSIG LFRC 191300Z AUTO 27007KT 240V300 CAVOK 15/08 Q1023 NOSIG KPHL 191254Z 04012G23KT 10SM BKN013 OVC022 23/19 A2998 RMK AO2 SLP152 T02280189 KORC 191315Z AUTO 15006KT 1 3/4SM BR OVC003 19/19 A2982 RMK AO2 LFRD 191300Z AUTO 33010KT 290V360 9999 FEW029 SCT045 18/10 Q1024 NOSIG LFPV 191300Z AUTO VRB03KT 9999 BKN023 BKN031 BKN042 15/09 Q1021 BECMG SCT030TCU KORD 191251Z 35004KT 9SM FEW022 BKN042 BKN190 19/18 A2995 RMK AO2 SLP138 T01940178 KPGV 191315Z AUTO 34006KT 7SM SCT012 BKN019 21/19 A2997 RMK AO2 KORE 191252Z AUTO 05006KT 10SM OVC011 18/17 A3013 RMK AO2 SLP203 T01830167 TSNO KPIE 191253Z 01004KT 10SM SCT090 27/23 A2999 RMK AO2 SLP154 T02670233 KPHN 191316Z AUTO 03005KT 10SM BKN004 OVC041 19/18 A3001 RMK AO2 KORF 191315Z 35017G26KT 10SM SCT017 BKN029 OVC055 23/20 A2987 RMK AO2 PK WND 35028/1305 T02330200 RCMQ 191300Z 00000KT 9999 FEW012 BKN060 26/20 Q1012 NOSIG RMK A2990 LFRG 191300Z AUTO 34005KT 270V020 9999 FEW027 16/09 Q1023 NOSIG KPHP 191255Z AUTO 17010G15KT 10SM CLR 20/13 A2953 RMK AO2 SLP980 T02000133 KORG 191315Z AUTO 00000KT 7SM SCT020 26/26 A2999 RMK AO2 T02580258 GAKY 191200Z 34004KT 9999 FEW030 32/27 Q1015 LFRH 191300Z AUTO 25011KT 9999 FEW019 17/11 Q1025 NOSIG LFQQ 191300Z AUTO 30007KT 260V330 9999 BKN029/// BKN044/// BKN056/// ///TCU 16/10 Q1020 TEMPO 4000 SHRA BKN014 BKN025TCU KPIH 191253Z 22008KT 10SM BKN030 OVC110 06/03 A2984 RMK AO2 SLP086 T00610028 $ KORH 191254Z 04008KT 1/4SM FG VV002 16/16 A3014 RMK AO2 SLP205 T01610156 RVRNO LFRI 191300Z AUTO 31009KT 260V340 9999 SCT041 18/08 Q1024 NOSIG LFRJ 191300Z AUTO 24005KT 200V270 9999 FEW024 BKN052 16/10 Q1024 NOSIG KOSA 191315Z AUTO 00000KT 7SM BKN009 23/23 A2997 RMK AO1 T02300225 LFSB 191300Z 26009KT 230V290 9999 VCSH FEW013 FEW026CB BKN040 BKN053 14/08 Q1019 TEMPO 30010G20KT 3000 SHRA SCT025CB LFRK 191300Z AUTO 35009KT 300V020 9999 FEW033 16/10 Q1023 NOSIG KOQT 191153Z AUTO 00000KT 1/4SM FG VV002 18/17 A3005 RMK AO2 SLP164 T01780172 10194 20172 53010 KPHT 191315Z AUTO 22005KT 10SM FEW044 FEW060 SCT070 24/22 A2997 RMK A01 KOQU 191250Z 04013KT 5SM -RA BR OVC004 19/18 A3006 LFRL 191300Z AUTO 26010KT 230V300 9999 FEW024 BKN200 17/10 Q1024 NOSIG ESMK 191250Z 23007KT 9999 VCSH SCT020CB 14/12 Q1011 KPIL 191253Z AUTO 16005KT 8SM CLR 28/26 A2991 RMK AO2 SLP128 T02780256 $ KOSC 191314Z AUTO 28006KT 10SM SCT014 12/12 A3006 RMK AO2 T01220121 ETEB 191308Z AUTO 35007KT 9999 BKN032 BKN040 12/07 A3003 RMK AO2 SLP183 $ RCNN 191300Z 36005KT 9999 FEW012 SCT030 BKN060 26/20 Q1010 RMK A2985 LFRM 191300Z AUTO 33005KT 300V030 9999 OVC038 17/08 Q1022 TEMPO SCT030TCU LFSD 191300Z AUTO 34012KT 9999 FEW032/// ///TCU 16/08 Q1020 KPIM 191315Z AUTO 00000KT 10SM CLR 24/22 A3004 RMK AO2 T02350215 PWINO LFRN 191300Z AUTO 30009KT 280V350 9999 SCT039 SCT048 BKN070 19/10 Q1023 NOSIG ESND 191250Z AUTO VRB02KT 9999 SCT019/// 07/03 Q1014 LGIO 191150Z /////KT 9999 FEW050 29/09 Q1014 LFRO 191300Z AUTO 26007KT 210V310 9999 FEW031 17/09 Q1024 NOSIG KPHX 191251Z 08008KT 10SM FEW140 FEW180 22/04 A2985 RMK AO2 SLP089 T02170044 KNZY 191252Z 15003KT 10SM BKN025 20/14 A2991 RMK AO2 SLP129 T02000144 $ LFSG 191300Z AUTO 29009KT //// R26///// // FEW021/// SCT044/// OVC052/// ///TCU 12/10 Q1019 LFRQ 191300Z AUTO 24009KT 220V280 9999 BKN027 OVC037 18/10 Q1024 NOSIG KOSH 191253Z 00000KT 10SM FEW050 17/15 A3000 RMK AO2 SLP152 T01670150 ESNG 191250Z 04013KT 9999 SCT024 OVC029 06/01 Q1019 LFSI 191300Z AUTO 26012KT 9999 SCT017/// BKN024/// BKN036/// ///TCU 12/09 Q1020 ESMQ 191250Z 24007KT 9999 FEW025 15/11 Q1010 KPIR 191253Z AUTO 13011KT 10SM CLR 16/15 A2958 RMK AO2 SLP007 T01610150 PTYA 191250Z VRB03KT 10SM -RA FEW016 BKN120 OVC300 26/25 A2984 RMK SHRAE08RAB08 SLP105 T02560247 LGIR 191250Z 34005KT CAVOK 31/19 Q1010 NOSIG LFRS 191300Z AUTO 34006KT 250V010 9999 SCT043 BKN050 BKN060 18/08 Q1023 NOSIG KORS 191315Z AUTO 21003KT 10SM BKN013 OVC029 11/09 A2969 RMK AO2 LFRT 191300Z AUTO 31004KT 260V020 CAVOK 17/09 Q1024 KPKB 191253Z 00000KT 1/8SM R03/1000FT FG VV002 17/17 A3004 RMK AO2 SLP169 T01720172 KPIT 191251Z 13003KT 7SM OVC250 19/18 A3005 RMK AO2 SLP175 T01940178 $ ESMS 191250Z 24013KT 9999 SCT029 BKN040 16/10 Q1012 LGKC 191150Z 27016KT CAVOK 30/13 Q1013 LFRU 191300Z AUTO 34006KT 320V020 9999 BKN043 OVC049 16/11 Q1024 LFSL 191300Z AUTO 31009KT 280V350 9999 FEW028 16/08 Q1023 TEMPO SCT025TCU ESNK 191250Z AUTO 01011KT 9999 -RA SCT034/// OVC051/// 08/04 Q1015 ESMT 191250Z 27012KT 9999 FEW009 SCT084 15/13 Q1010 LHBC 191245Z 02002KT CAVOK 23/12 Q1009 LFRV 191300Z AUTO 33006KT 280V350 9999 SCT044 BKN052 17/07 Q1024 KQBD 191255Z AUTO 33016G27KT 10SM -RA BKN055 08/06 A2985 RMK AO2 RAB1134 SLP032 WND DATA ESTMD P0002 T00810056 ESNL 191250Z AUTO 01006KT 330V060 9999 FEW017/// BKN020/// OVC029/// 06/02 Q1015 KPKD 191303Z AUTO 12007KT 3/4SM BR OVC002 14/13 A2986 RMK AO2 T01390128 LFSN 191300Z AUTO 30010KT 270V340 9999 FEW030/// SCT042/// BKN056/// ///TCU 14/08 Q1019 KQD3 191255Z 10006G13KT 9999 FEW035 SCT300 34/23 A2980 RMK LTG DSNT S-SW SLP057 WND DATA ESTMD T03420227 LFSO 191300Z AUTO 31009KT 260V340 9999 FEW027/// ///TCU 15/09 Q1019 TEMPO 28015G25KT 3000 -TSRA BKN010 BKN020CB LGKF 191250Z 33009KT 9999 FEW020 29/18 Q1011 ESNN 191250Z 02009KT 9999 SCT034 OVC057 09/02 Q1014 ESOE 191250Z 04011KT 9999 VCSH FEW020 BKN036 11/08 Q1012 KQBF 191256Z AUTO 29003G13KT 9999 FEW036 33/22 A2988 RMK AO2 SLPNO WND DATA ESTMD T03280219 ESNO 191250Z 34007KT 310V020 9999 BKN034 08/02 Q1014 ESMX 191250Z 22006KT 9999 -DZ SCT048 12/11 Q1010 KS25 191315Z AUTO 00000KT 10SM CLR 13/11 A2940 RMK AO2 KOTG 191308Z AUTO 14011KT 1 1/4SM BR OVC002 18/17 A2985 RMK AO2 LFTH 191300Z AUTO 30019G32KT 270V330 CAVOK 20/04 Q1012 NOSIG LFRZ 191300Z AUTO 27005KT 210V320 9999 SCT041 BKN047 BKN058 19/09 Q1024 NOSIG KOTH 191256Z AUTO 16006KT 10SM BKN075 OVC085 13/12 A2995 RMK AO2 SLP143 T01280117 $ ESNQ 191250Z 07009KT 9999 OVC022 05/01 Q1020 NOSIG GANR 191200Z 26004KT CAVOK 34/24 Q1015 LFST 191300Z AUTO 34006KT 300V010 9999 FEW026 SCT035 BKN060 14/10 Q1018 TEMPO 4000 -TSRA FEW030CB ESPA 191250Z 04009KT 010V080 6000 -RA VV028 07/06 Q1016 ESNS 191250Z 36008KT 320V030 9999 -RA FEW007 BKN010 OVC028 06/05 Q1015 KQBL 181556Z AUTO 00000KT 10SM CLR 31/23 A3008 RMK AO2 SLP188 WND DATA ESTMD T03100233 LGKL 191250Z 17008KT 9999 FEW080 32/10 Q1010 KOSU 191253Z 17004KT 9SM BKN055 BKN080 OVC100 22/19 A3000 RMK AO2 SLP153 T02170194 ESOK 191250Z 03009KT 9999 SCT035 BKN090 12/06 Q1012 ESNU 191250Z 01012KT 9999 BKN022 08/04 Q1014 KS32 191315Z AUTO 13013G19KT 1/4SM FG OVC001 16/16 A2971 RMK AO2 KOTM 191253Z AUTO 14003KT M1/4SM FG VV002 17/17 A2993 RMK AO2 SLP130 T01670167 ESNV 191250Z AUTO 03008KT 350V070 9999 FEW000/// 06/01 Q1015 KS33 191315Z AUTO 22005KT 10SM -RA BKN030 BKN041 OVC060 A2985 RMK AO2 P0001 LFSX 191300Z AUTO 00000KT 9999 FEW011/// BKN056/// OVC066/// ///TCU 13/10 Q1019 TEMPO 3000 TSRA BKN020CB OVC025 BECMG 25010KT LGKO 191250Z 29010KT CAVOK 31/16 Q1010 ESPE 191250Z 04009KT 010V070 9999 -RA BKN024 06/03 Q1017 LGKP 191250Z 31012KT CAVOK 30/22 Q1009 ESNX 191250Z AUTO 01007KT 9999 DZ FEW009/// BKN019/// BKN029/// 05/02 Q1016 LHBP 191300Z 33008KT 8000 -RA FEW045 OVC076 15/12 Q1011 NOSIG ETGG 191220Z 27015KT 9999 FEW020CB SCT025 BKN100 17/11 Q1014 BLU ESNZ 191250Z 02005KT 350V060 9999 FEW019 BKN044 05/00 Q1014 LGKR 191250Z 12005KT 9999 FEW020 SCT030 BKN080 28/19 Q1011 NOSIG ETHA 191220Z 28008KT 9999 VCSH FEW012 SCT040 OVC070 09/06 Q1017 BLU BLU TEMPO WHT VRMM 191200Z 26011KT 9999 SCT018TCU BKN280 30/25 Q1010 NOSIG WIMM 191300Z 00000KT 9999 SCT018 27/24 Q1010 KS39 191315Z AUTO 18005KT 10SM SCT034 BKN040 OVC048 05/03 A2986 RMK AO2 ETHB 191220Z 31006KT 9999 SCT020 BKN250 14/09 Q1017 BLU+BLU LHDC 191245Z 04010KT CAVOK 22/11 Q1009 NOSIG ETHC 191220Z 27005KT 9999 SCT025 SCT040 BKN230 14/08 Q1016 BLU+BLU+ LGKV 191250Z 20005KT CAVOK 28/20 Q1008 LGLM 191250Z 05005KT CAVOK 31/19 Q1008 KPMD 191253Z AUTO 25011KT 10SM CLR 18/11 A2992 RMK AO2 SLP108 T01780111 KPKV 191255Z AUTO 14003KT 7SM CLR 25/23 A2995 RMK AO2 T02470233 LFTW 191300Z AUTO 01016G27KT 330V030 CAVOK 21/03 Q1018 NOSIG KOVE 191253Z AUTO 07003KT 10SM CLR 13/10 A2998 RMK AO2 SLP154 T01280100 $ KPLN 191254Z AUTO 00000KT 10SM CLR 12/11 A3008 RMK AO2 SLP191 T01170106 KOUN 191315Z AUTO 18013KT 10SM CLR 22/22 A2989 RMK AO2 LTG DSNT NE AND E ETHE 191220Z AUTO 22006KT //// // ////// 14/10 Q1018 /// ESOW 191250Z 02012KT 9999 FEW018 BKN041 11/07 Q1012 ETHF 191220Z VRB01KT 9999 -SHRA SCT023TCU BKN075 14/08 Q1017 BLU BLU TEMPO WHT KQDG 191256Z AUTO 20007KT 9999 CLR 17/ A2974 RMK AO2 SLP073 PWINO $ LGKZ 191250Z 20006KT CAVOK 31/02 Q1012 KPLR 191315Z AUTO 00000KT 1/4SM FG OVC001 21/21 A3002 RMK A01 LGLR 191250Z 25006KT CAVOK 36/04 Q1007 RMK FEW180 BLU KOWA 191315Z AUTO 14006KT 4SM BR SCT004 17/16 A2992 RMK AO2 KPNA 191315Z AUTO 30022G26KT 10SM RA SCT014 BKN032 OVC038 03/02 A2983 RMK AO2 LGMK 191250Z VRB03KT CAVOK 31/13 Q1010 KOWB 191256Z 36003KT 7SM VCTS +RA SCT010 OVC021 21/20 A2999 RMK AO2 LTG DSNT NE-S RAE01B44 SLP165 P0004 T02060200 KPNC 191253Z AUTO 15009KT 10SM FEW085 23/20 A2984 RMK AO2 RAE22 TSE13 SLP093 P0007 T02330200 KOVL 191313Z AUTO 13008KT 1/2SM FG OVC002 17/16 A2985 RMK AO2 KPLU 191315Z AUTO VRB06KT 160V220 9SM -DZ FEW036 BKN050 OVC060 10/09 A2972 RMK AO2 ETHL 191220Z 04001KT 9999 VCSH SCT030TCU BKN100 11/06 Q1017 BLU BLU TEMPO WHT KOWD 191253Z 04010G15KT 010V070 5SM BR OVC004 19/18 A3011 RMK AO2 SLP196 T01890183 ETIC 191256Z AUTO 00000KT 9999 SCT080 12/12 A3001 RMK AO2 SLP172 T01210118 $ KS52 191315Z AUTO 33003KT 10SM OVC085 05/02 A2968 RMK AO2 T00460019 KPNE 191316Z 03013KT 10SM OVC015 23/19 A3000 RMK AO2 T02330194 ETHN 191220Z 31006KT 9999 VCSH BKN024TCU 12/06 Q1017 WHT BLU TEMPO WHT LFVP 191300Z 17009KT 9999 SCT016 BKN040 15/14 Q1029 NOSIG KPMP 191253Z 34004KT 9SM FEW023 SCT070 28/24 A2993 RMK AO2 SLP134 T02780239 ETIH 191258Z AUTO 00000KT 9999 SCT027 SCT050 11/09 A3004 RMK AO2 RAE58 SLP184 $ KQEI 191310Z AUTO 13004KT 6000 HZ BKN090 18/16 A2977 RMK A02 TSNO KOWI 191315Z AUTO 16008KT 7SM FEW060 SCT080 20/19 A2988 RMK AO2 KOVS 191312Z AUTO 00000KT 10SM BKN020 15/13 A2998 RMK AO2 T01500133 KQEJ 191250Z AUTO 05001KT 3200 BR FEW049 BKN095 16/16 A2975 RMK A02 TSNO PWAK 191258Z AUTO 00000KT 9999 CLR 27/24 A2990 RMK AO2 SLP131 ETHS 191220Z 26004KT 9999 SCT025 BKN250 15/08 Q1016 BLU+BLU+ TEMPO GRN KOXB 191305Z AUTO 02014G23KT 6SM RA BKN013 OVC018 A2986 RMK AO2 P0002 $ ESSA 191250Z 02013KT 9999 -RA SCT024 BKN045 11/06 Q1010 NOSIG KQFB 191310Z AUTO 12004KT 3200 HZ BKN032 23/20 A2990 RMK A02 TSNO LGMT 191250Z 00000KT CAVOK 29/21 Q1009 KPOB 191258Z AUTO 34004KT 10SM CLR 21/19 A2999 RMK AO2 SLP157 T02100185 $ KPOC 190047Z 26010KT 10SM CLR 25/14 A2992 ESSB 191250Z 01009KT 340V060 9999 SCT037 11/06 Q1010 KQEL 191310Z AUTO 07001KT 1600 BR CLR 18/17 A2983 RMK A02 TSNO KOXC 191251Z 03014G18KT 10SM OVC006 18/17 A3008 RMK AO2 SLP193 T01830172 KPMU 191315Z AUTO 00000KT 10SM CLR 21/20 A2998 RMK AO2 T02070200 ETIK 191258Z AUTO 33008KT 9999 FEW028 SCT085 14/08 A3004 RMK AO2 SLP174 T01370082 $ WIOO 191300Z 26003KT 6000 SCT012 26/24 Q1010 NOSIG KPNM 191314Z AUTO 13004KT 10SM OVC006 16/14 A2992 RMK AO2 KPMV 191315Z AUTO 15010G16KT 1 3/4SM BR OVC003 19/19 A2984 RMK AO2 T01930193 ESSD 191250Z 01005KT 340V060 9999 -DZ FEW013 OVC021 08/06 Q1013 KQEN 191310Z AUTO 26009G21KT 2000 RA OVC027 16/15 A2982 RMK A02 TSNO KPOE 191308Z AUTO 00000KT 3SM BR OVC003 24/24 A2998 RMK AO2 SLP151 KPOF 191253Z AUTO 00000KT 6SM BR CLR 21/20 A2995 RMK AO2 SLP137 T02060200 KQEP 191310Z AUTO 17008G15KT 9999 FEW010 BKN095 20/16 A2980 RMK A02 TSNO KOWP 191315Z AUTO 05003KT 3SM +TSRA SCT034 BKN043 OVC050 23/20 A2992 RMK AO2 LTG DSNT ALQS P0008 T02270204 KQEQ 191310Z AUTO 32002KT 0800 BR SCT090 20/19 A2981 RMK A02 TSNO RCSS 191300Z 08005KT 9999 FEW025 29/24 Q1011 NOSIG RMK A2986 KQER 191310Z AUTO 12001KT 3200 BR SCT024 18/16 A2973 RMK A02 TSNO KOXI 191315Z AUTO 11005KT 4SM OVC013 18/18 A2995 RMK AO1 KPPA 191255Z AUTO 20017KT 10SM CLR 21/16 A2986 RMK AO2 T02140164 LGPA 191250Z 34006KT CAVOK 31/14 Q1009 KQES 191310Z AUTO 28017G24KT 3200 BR BKN012 BKN140 24/22 A2982 RMK A02 TSNO KPNS 191253Z 28006KT 10SM CLR 28/24 A3000 RMK AO2 SLP160 T02780239 ESTA 191250Z 26012KT 9999 FEW016 SCT024 15/11 Q1011 KPNT 191315Z AUTO 00000KT M1/4SM FG OVC003 18/18 A2997 RMK AO2 LTG DSNT SW T01810178 ESSL 191250Z 02008KT 360V060 9999 BKN017 OVC051 12/09 Q1011 KQEV 191310Z AUTO 26007G12KT 4000 HZ OVC015 23/20 A2979 RMK A02 TSNO FKKD 191300Z VRB05KT 9999 BKN013 FEW016CB 30/25 Q1011 NOSIG WIPP 191300Z 10004KT 9999 FEW012 29/22 Q1010 NOSIG KQEW 191310Z AUTO 20002KT 6000 HZ BKN046 23/18 A2981 RMK A02 TSNO KQGE 191256Z AUTO 00000KT 10SM CLR 26/24 A3000 RMK AO2 DZB1156 SLP163 P0000 T02610241 RCTP 191300Z 32002KT 9999 FEW020 28/23 Q1011 NOSIG RMK A2986 LGNX 190850Z 33005KT CAVOK 29/17 Q1010 KQEX 191240Z AUTO 16006G11KT 4800 HZ SCT050 24/18 A2974 RMK A02 TSNO KOWX 191315Z AUTO 27005KT 3/4SM BKN018 BKN022 OVC033 18/18 A3001 RMK AO1 KQEY 191310Z AUTO 23008G16KT 6000 HZ BKN045 24/16 A2956 RMK A02 TSNO ESSP 191250Z 07007KT 9999 -SHRA SCT016CB BKN029 11/10 Q1011 KOXR 191251Z AUTO 00000KT 10SM OVC013 18/16 A2991 RMK AO2 SLP128 T01780156 KOZA 191315Z AUTO 17008G14KT 10SM OVC017 23/20 A3000 RMK AO2 KQFT 191310Z AUTO 21004KT 6000 HZ FEW050 BKN120 22/18 A2975 RMK A02 TSNO ESST 191250Z AUTO 05003KT 360V090 9999 SCT049/// BKN086/// 12/06 Q1013 KQFU 191310Z AUTO 23003KT 2000 BR SCT015 BKN085 21/20 A2981 RMK A02 TSNO KPOU 191253Z AUTO 35008KT 10SM OVC018 20/17 A3007 RMK AO2 SLP177 T02000167 FKKL 190900Z VRB03KT 9999 FEW040 29/25 Q1015 ESTL 191250Z AUTO 27011KT 9999NDV FEW027/// SCT087/// 15/11 Q1012 KQFV 191310Z AUTO 30004KT 4000 BR FEW095 18/16 A2980 RMK A02 TSNO KOXV 191315Z AUTO 13007KT M1/4SM FG OVC002 18/17 A2989 RMK AO2 KPOV 191300Z AUTO 10004KT 5SM BR CLR 18/17 A3003 RMK AO2 T01770165 ESSV 191250Z 33005KT 9999 FEW011 SCT028 BKN068 11/10 Q1010 KQFW 191310Z AUTO 16003KT 4800 -RA SCT025 BKN110 18/17 A2979 RMK A02 TSNO ESUD 191250Z AUTO 04008KT 360V090 9999 FEW023/// SCT033/// BKN210/// 06/02 Q1016 FKKN 191300Z 32006KT 9999 TS BKN020 FEW023CB 26/21 Q1017 KQFX 191310Z AUTO 22004G11KT 4000 HZ OVC029 23/19 A2976 RMK A02 TSNO KPPO 191315Z AUTO 07003KT 7SM BKN029 OVC035 19/18 A2996 RMK AO2 T01860180 KPOY 191315Z AUTO 34015G21KT 10SM CLR 04/02 A2963 RMK AO2 KPPQ 191315Z AUTO 05003KT M1/4SM FG OVC002 18/18 A2996 RMK AO2 LTG DSNT SE AND W T01790179 LFYR 191300Z AUTO 33005KT 280V020 9999 FEW045 OVC066 15/10 Q1022 TEMPO 3000 SHRA BKN010 BKN025TCU KPQI 191256Z AUTO 20005KT 8SM BKN007 OVC010 16/16 A3022 RMK AO2 CIG 005V010 SLP272 T01610156 FKKR 191300Z 24006KT 9999 BKN020 FEW023CB 34/24 Q1010 NOSIG KPRB 191253Z AUTO 33011KT 10SM CLR 12/10 A2998 RMK AO2 SLP145 T01220100 TSNO KPRC 191253Z 15007KT 10SM CLR 13/M01 A3004 RMK AO2 SLP103 T01281011 KPQL 191253Z AUTO 09003KT 10SM FEW018 SCT036 24/22 A3001 RMK AO2 SLP165 T02440222 KPQN 191314Z AUTO 16009G15KT 1SM BR OVC001 18/18 A2981 RMK AO2 KPRG 191315Z AUTO 25003KT 1 3/4SM BR OVC001 20/20 A2996 RMK AO2 LTG DSNT SE AND S T02030203 LGPZ 191250Z 25012KT 9999 FEW030 27/19 Q1012 ESUP 191250Z AUTO 04011KT 010V080 9999 OVC021/// ///// Q1019 KOZR 191256Z AUTO 00000KT 9SM CLR 23/23 A3001 RMK AO2 SLP162 T02340229 LGSA 191250Z 33014KT CAVOK 35/20 Q1010 KOZS 191315Z AUTO 13005KT 4SM BR SCT055 BKN075 BKN090 20/19 A2995 RMK AO2 LTG DSNT NW VTBD 191300Z 03003KT 360V060 9999 FEW020 32/25 Q1008 NOSIG KRAC 191309Z AUTO 10007KT 7SM BKN007 BKN012 20/19 A2997 RMK AO2 CIG 005V010 T02000189 ESUT 191250Z AUTO 12011KT 9999 SCT035/// 07/M00 Q1016 KPSC 191253Z 23010KT 10SM -RA BKN070 OVC085 12/06 A2973 RMK AO2 RAB48 SLP066 P0000 T01220061 ETML 191220Z AUTO 22007KT //// // ////// 16/10 Q1014 /// ETND 191220Z 31004KT 9999 BKN020 BKN250 14/10 Q1017 WHT KOZW 191315Z AUTO 00000KT 10SM OVC006 16/14 A3002 RMK AO2 T01550135 KPRN 191256Z AUTO 00000KT 5SM BR CLR 24/22 A3000 RMK AO2 SLP154 T02390217 KPSF 191254Z AUTO 06006KT 10SM OVC010 17/15 A3013 RMK AO2 SLP183 T01720150 KPRO 191315Z AUTO 12005KT 1/4SM FG OVC003 18/18 A2989 RMK AO2 T01800176 ETMN 191220Z 28011KT 9999 FEW017 SCT060 BKN100 16/10 Q1016 BLU BLU TEMPO WHT LGRP 191250Z 26008KT CAVOK 29/21 Q1009 NOSIG KQHY 191256Z AUTO 00000KT 10SM CLR 26/24 A3001 RMK AO2 SLP169 T02600244 $ ETNG 191250Z 27006KT 9999 SCT015 14/10 Q1019 NOSIG ETNH 191220Z 23007KT 9999 FEW010 FEW020TCU SCT060 14/11 Q1015 BLU+BLU+ TEMPO GRN LIBA 191255Z 23015KT 9999 SCT030 25/09 Q1009 RMK SCT VIS MIN 9999 WIND THR11 23020KT WIND THR29 /////KT BLU VTCC 191300Z 28004KT 9999 SCT035 28/22 Q1011 NOSIG KPRS 191315Z AUTO 00000KT 10SM -DZ SCT060 SCT080 BKN100 22/18 A3003 RMK AO2 LTG DSNT NE AND SE T02230178 LGSK 191250Z 00000KT CAVOK 30/17 Q1008 KPSK 191315Z AUTO 00000KT M1/4SM FG OVC002 17/17 A3011 RMK AO2 T01690169 KPTB 191315Z AUTO 36009KT 10SM OVC014 21/18 A2998 RMK AO2 T02140180 KT20 191315Z AUTO 14004KT 5SM BR BKN008 OVC013 26/26 A2995 RMK AO2 T02630263 KRAL 191253Z AUTO 00000KT 8SM OVC021 18/16 A2992 RMK AO2 SLP116 T01830156 ETNL 191220Z 27008KT 9999 FEW025 BKN220 16/09 Q1015 BLU+BLU+ VTBO 191100Z 24004KT 8000 FEW022 29/25 Q1008 LIBD 191250Z 26013KT 9999 FEW040 27/10 Q1010 LGSM 191250Z 13004KT CAVOK 29/22 Q1009 KPSM 191258Z 04007KT 4SM BR OVC003 17/17 A3015 RMK AO2A SLP212 T01680166 CHINO RWY16 $ KRBD 191315Z 18009G14KT 9SM OVC010 25/23 A2992 RMK AO2 T02500228 LHKE 191245Z 03004KT CAVOK 17/11 Q1009 NOSIG RMK BLU KPSN 191315Z AUTO 19006KT 5SM BR OVC003 23/23 A2998 RMK AO2 T02380238 VTCH 191200Z 00000KT 9999 FEW025 SCT028 27/24 Q1009 LIBF 191250Z 22024KT 9999 FEW015 25/07 Q1008 ETNN 191246Z 30009KT 9999 -SHRA SCT011 BKN250 13/10 Q1018 BLU+BLU TEMPO GRN LGSO 191250Z 04005KT CAVOK 30/15 Q1010 LGRX 191250Z 27006KT 9999 FEW025 30/11 Q1011 KPSO 191315Z AUTO 00000KT 10SM CLR 02/M04 A3017 RMK AO2 T00171037 KPRX 191314Z AUTO 20006KT 1SM BR OVC003 23/23 A2996 RMK AO2 KRAP 191252Z 17008KT 10SM CLR 16/08 A2955 LIBG 191250Z 27007KT CAVOK 26/10 Q1009 KPSP 191253Z 17003KT 10SM CLR 21/14 A2978 RMK AO2 SLP080 T02110144 KRBG 191253Z AUTO 16004KT 10SM BKN038 BKN065 OVC080 12/10 A2995 RMK AO2 SLP141 T01170100 KQKG 191255Z AUTO 08008G21KT 10SM -SHRA CLR 22/16 A2990 RMK AO2 LTG DSNT NE SHRAB1120E1207B1248 SLP067 WND DATA ESTMD P0001 T02170155 LGTG 191250Z 04005KT 9999 FEW035 36/01 Q1009 RMK FEW080 BLU LIBH 191255Z 26008KT 9999 FEW025 29/09 Q1010 RMK SCT SCT080 QUK 2 QUL 1 S VIS MAR 25 KM VIS MIN 9999 VTBS 191300Z 17005KT 120V230 9999 FEW020 31/24 Q1008 NOSIG LGSR 191250Z 14007KT CAVOK 31/17 Q1009 VTCL 191200Z VRB02KT 9999 FEW025 29/25 Q1009 VTBU 191300Z 23004KT 9999 FEW020 29/24 Q1008 NOSIG LICA 191250Z 26010KT 230V290 CAVOK 25/15 Q1013 KRCA 191256Z AUTO 19013KT 10SM OVC180 17/09 A2952 RMK AO2 SLP978 T01660085 VISNO RWY13 CHINO RWY13 $ ETNS 191220Z 25009KT 9999 FEW022TCU BKN100 BKN220 16/12 Q1015 BLU BLU+ TEMPO BLU LICB 191250Z 26009KT 220V290 9999 FEW050 28/13 Q1013 KPTK 191253Z 06006KT 10SM FEW008 SCT025 OVC040 18/16 A3000 RMK AO2 SLP155 T01830161 KPUB 191253Z 02003KT 10SM CLR 09/M01 A2978 RMK AO2 SLP033 T00941006 ETNT 191220Z 20007KT 7000 -SHRA FEW010 SCT020TCU BKN060 14/11 Q1017 WHT BLU VTCN 191200Z VRB02KT 9999 SCT025 28/28 Q1008 KPUC 191253Z AUTO 03007KT 10SM CLR 11/02 A2984 RMK AO2 SLP049 T01060017 KRBL 191254Z AUTO 01003KT 10SM CLR 15/05 A2998 RMK AO2 SLP150 T01500050 LICC 191250Z 09011KT 9999 FEW040 27/18 Q1011 LICD 191250Z 35019KT 9999 FEW020 26/18 Q1015 LIBN 191255Z 25012KT 9999 FEW025 26/12 Q1011 RMK SCT SCT100 VIS MIN 9999 WIND THR14 23010KT WIND THR32 24011KT BLU VTCP 191300Z AUTO 00000KT //// // ////// 28/25 Q1008 KPTN 191256Z AUTO 00000KT 10SM CLR 24/24 A3001 RMK AO2 SLP163 T02440239 KQN3 191256Z AUTO 22004KT 9999 CLR 36/ A2982 RMK AO2 SLP090 WND DATA ESTMD $ ETNW 191220Z 29008KT 9999 SCT020TCU BKN250 16/09 Q1016 BLU+BLU+ TEMPO WHT LICF 191255Z 03010KT 9999 SCT030 26/18 Q1012 RMK BKN SCT080 QUK 2 QUL 1 NE VIS MAR 20 KM MON E LIB NC MON W CIME INC NC VIS MIN 9999 KPSX 191253Z AUTO 16006KT 10SM CLR 27/24 A2994 RMK AO2 SLP138 T02670244 KRBO 191255Z AUTO 13004KT 5SM BR BKN015 BKN020 25/25 A2993 RMK AO2 T02540245 LICG 191255Z 32017KT 9999 FEW013TCU 22/15 Q1016 LIBP 191150Z 02011KT 9999 FEW020 SCT045 20/14 Q1009 LGSY 191250Z 10007KT CAVOK 29/18 Q1008 RMK FEW080 BLU KT35 191315Z AUTO 15005KT 4SM BR SCT006 SCT024 BKN029 25/24 A2995 RMK AO2 T02480242 LIBQ 190955Z 27016KT CAVOK 12/07 Q1018 KQKR 191256Z AUTO VRB03KT 9999 FEW029 32/24 A2983 RMK AO2 LTG DSNT SE-SW SLPNO WND DATA ESTMD T03160236 VTCT 191300Z 00000KT CAVOK 27/26 Q1010 LIBR 191245Z 02011KT CAVOK 28/22 Q1010 NOSIG LICJ 191250Z 34014KT 9999 SCT025 24/18 Q1014 LGTS 191250Z 19009KT 9999 FEW040 33/09 Q1008 NOSIG KPTS 191315Z AUTO 00000KT 10SM CLR 21/21 A2991 RMK AO2 LTG DSNT N T02090209 KPUJ 191315Z AUTO 04003KT 10SM CLR 25/20 A3006 RMK AO2 KPTT 191315Z AUTO 17015G21KT 10SM CLR 21/17 A2979 RMK AO2 T02060167 KQKT 191258Z AUTO 36009KT 10SM OVC011 M A2999 RMK AO2 SLPNO $ KPVB 191255Z AUTO 00000KT 10SM CLR 15/15 A2998 RMK AO1 T01500147 LICL 191255Z 27017G28KT CAVOK 27/19 Q1011 RMK FEW FEW090 QUK 3 QUL 1 SW VIS MAR 18 KM VIS MIN 9999 KPVC 191313Z AUTO 05009KT 3/4SM -RA BR OVC002 18/17 A3010 RMK AO2 P0000 LIBV 191255Z 20008KT 9999 SCT030 24/07 Q1011 RMK BKN VIS MIN 9999 WIND THR32 22010KT WIND THR14 20009KT BLU KRDD 191253Z AUTO 00000KT 10SM CLR 11/05 A2997 RMK AO2 SLP145 T01110050 KPVD 191251Z 03014KT 10SM -RA OVC005 19/19 A3008 RMK AO2 SLP187 P0000 T01890189 KRCM 191315Z AUTO 00000KT 10SM -TSRA SCT050 OVC065 18/17 A2991 RMK AO2 LTG DSNT ALQS KPTV 191256Z AUTO 25005KT 10SM 14/10 A2996 RMK AO2 SLP153 T01440100 $ ETOU 191257Z AUTO 00000KT 9999 FEW038 SCT048 BKN060 13/10 A3005 RMK AO2 RAE56 SLP179 GCFV 191300Z 06010KT 9999 FEW016 25/19 Q1022 GCGM 191300Z 23008KT 200V280 9999 FEW025 24/20 Q1022 RMK R09/25006KT 180V290 ARP/24008KT 200V280 KPTW 191254Z AUTO 01008KT 8SM OVC010 20/19 A3003 RMK AO2 SLP165 T02000194 KRBW 191315Z AUTO 00000KT 10SM CLR 23/20 A3003 RMK AO2 KPVE 191315Z AUTO 00000KT 7SM CLR 22/21 A2998 RMK A01 LIBY 191255Z 25005KT CAVOK 25/16 Q1011 RMK SCT SCT080 QUK 2 QUL 1 SW VIS MAR 20 KM VIS MAX 20 KM VIS MIN 9999 KRDG 191254Z 03007KT 10SM OVC011 21/19 A3003 RMK AO2 SLP171 T02060194 KPVG 191319Z AUTO VRB06KT 10SM SCT013 SCT021 BKN050 22/20 A2990 RMK AO2 LICR 191250Z 01014KT 9999 FEW040 27/15 Q1012 KRCR 191254Z AUTO 00000KT 7SM OVC015 A2995 RMK AO2 LTG DSNT NE AND S GCHI 191300Z 01012KT 9999 FEW026 26/20 Q1022 LIEA 191250Z 29012G22KT 9999 FEW035 21/10 Q1017 KPWA 191253Z 18011KT 10SM CLR 23/22 A2986 RMK AO2 SLP097 T02280217 KPVJ 191315Z AUTO 15003KT 10SM CLR 23/23 A2990 RMK AO2 LTG DSNT N AND NE T02270227 LIEB 191255Z 27008KT CAVOK 26/M01 Q1013 RMK SKC QUK 2 QUL 0 VIS MAR 30 KM MON LIB VIS MIN 9999 LICT 191255Z 31014KT 9999 SCT025 25/16 Q1014 KRDK 191315Z AUTO 16008KT 4SM BR OVC005 20/19 A2986 RMK AO2 LIEC 191255Z 26034KT CAVOK 23/10 Q1014 RMK SKC QUK 4 QUL 0 VIS MAR 25 KM VIS MIN 9999 KPWC 191313Z AUTO 14006KT 4SM BR OVC003 13/12 A2992 RMK AO2 LIED 191255Z 30014G24KT 9999 SCT030 23/13 Q1015 RMK SCT VIS MIN 9999 WIND THR35 /////KT WIND THR17 /////KT BLU KRCV 191315Z AUTO 25014KT 10SM CLR 11/M07 A3009 RMK AO2 T01061072 KRDM 191256Z 19008KT 10SM -RA BKN049 OVC060 05/03 A2985 RMK AO2 SLP107 P0003 T00500028 KQND 191256Z AUTO 00000KT 9999 CLR 36/20 A2989 RMK AO2 SLPNO WND DATA ESTMD T03580202 KPUW 191253Z AUTO 22008KT 10SM -RA FEW027 BKN036 OVC050 07/04 A2975 RMK AO2 SLP077 P0000 T00720044 LIEE 191250Z 32016KT 290V350 9999 FEW030 24/09 Q1016 KRCX 191315Z AUTO 11007KT 10SM OVC055 14/13 A3000 RMK AO2 T01400126 KPWG 191256Z AUTO 15007KT 7SM CLR 24/23 A2995 RMK AO2 SLP144 T02390228 KREG 191315Z AUTO 00000KT 10SM CLR 26/25 A3000 RMK AO2 T02570247 KRCZ 191300Z AUTO 35004KT 10SM CLR 20/19 A3002 RMK AO2 T02040193 LICZ 191255Z 08014KT 9999 FEW020 SCT070 26/11 Q1011 RMK SCT VIS MIN 9999 WIND THR28 09012KT WIND THR10 09013KT A2988 BLU KRDR 191306Z 14014KT 1SM R35/5000V5500FT BR VV002 15/15 A2974 RMK AO2A SLPNO $ ETSA 191236Z VRB01KT 5000 -SHRA FEW015 BKN020TCU BKN050 10/06 Q1017 WHT BLU TEMPO GRN KPWK 191304Z 36003KT 10SM SCT009 BKN017 OVC070 19/19 A2996 RMK AO2 T01940189 KRDU 191251Z 35007KT 10SM SCT007 21/19 A3001 RMK AO2 SLP157 T02060189 ETSB 191220Z 34006KT 9999 -SHRA FEW012 SCT022TCU BKN050 11/08 Q1018 BLU BLU TEMPO GRN KPVU 191258Z 30010KT 10SM SCT080 OVC095 19/07 A2978 KPWM 191251Z 04007KT 4SM BR OVC004 17/16 A3018 RMK AO2 SLP220 T01670156 KRFD 191254Z 00000KT 10SM SCT013 SCT080 17/16 A2997 RMK AO2 SLP148 T01720156 KPVW 191315Z AUTO 23009KT 10SM CLR 19/16 A2992 RMK AO2 T01920158 KPXE 191315Z AUTO 36003KT 10SM CLR 21/19 A3002 RMK AO2 T02120188 LIEO 191250Z 26018KT 9999 SCT020 22/08 Q1014 KREO 191252Z AUTO 21010KT 08/01 A2987 RMK AO1 SLP104 T00780006 KQNP 191255Z 21011G17KT 10SM CLR 21/06 A3026 RMK SLP210 WND DATA ESTMD ALSTG/SLP ESTMD KT65 191315Z AUTO 15005KT 7SM CLR 27/25 A2991 RMK AO2 T02660245 ETSH 191220Z 30005KT 9999 FEW043 17/07 Q1016 BLU+BLU+ KRFI 191315Z AUTO 19003KT 7SM OVC006 24/23 A2998 RMK AO2 T02420231 ETSI 191220Z 30003KT 9999 FEW020 SCT080 BKN160 13/07 Q1017 BLU BLU TEMPO WHT LHPA 191245Z 01008KT 340V040 8000 BKN009 OVC040 12/11 Q1012 NOSIG RMK GRN KRGA 191315Z AUTO 00000KT 7SM SCT110 22/18 A3001 RMK AO2 KPWT 191256Z AUTO 18006KT 10SM OVC004 09/09 A2970 RMK AO2 RAB08E23 CIG 003V008 SLP075 P0000 T00940089 KT70 191258Z AUTO 16005KT 8SM CLR 25/21 A2987 RMK AO2 SLP101 T02460209 ETSL 191220Z 11006KT 9999 VCSH FEW007 SCT020TCU BKN040 10/08 Q1017 RESHRA BLU BLU TEMPO WHT ETSN 191220Z 17004KT 9999 VCSH FEW020 BKN050 BKN080 12/08 Q1017 RESHRA BLU BLU TEMPO WHT LGZA 191250Z 05006KT 9999 FEW020 SCT080 30/20 Q1011 GCLA 191300Z 02008KT 350V050 9999 FEW020 26/19 Q1023 KRGK 191315Z AUTO 13007KT 10SM SCT036 BKN060 17/14 A2993 RMK AO2 FLKK 191200Z 08011KT 8000 NSC 30/05 Q1020 KPYM 191252Z AUTO 03013G19KT 1/2SM -RA FG OVC002 18/17 A3009 RMK AO2 RAB30 SLP189 P0000 T01830172 KT82 191255Z AUTO 19004KT 10SM SCT011 23/21 A2998 RMK AO2 T02270205 LHPP 191245Z 08007KT 9999 -RA OVC083 15/11 Q1009 FMCH 191300Z 29009KT 9999 BKN023 28/25 Q1017 NOSIG KRHI 191253Z AUTO 11005KT 10SM BKN060 12/12 A3004 RMK AO2 SLP175 T01220117 LHPR 191245Z 35007KT 320V030 9999 SCT016 BKN050 OVC083 13/12 Q1012 RMK BLU AGGH 191300Z 11002KT 9999 HZ FEW015 24/23 Q1012 KRIC 191254Z 01014KT 10SM OVC012 21/19 A2997 RMK AO2 SLP152 T02110189 KRID 191315Z AUTO 00000KT 5SM BR SCT090 BKN120 19/19 A3000 RMK AO2 KQRD 191258Z AUTO 00000KT 10SM CLR 26/25 A3000 RMK AO2 SLP163 KPYX 191315Z AUTO 19009KT 10SM CLR 20/17 A2982 RMK AO2 T01980173 KRHP 191300Z AUTO 00000KT 7SM CLR 15/15 A3009 RMK AO2 T01510151 GCLP 191300Z 03019KT 9999 FEW020 25/18 Q1022 NOSIG KPZQ 191315Z AUTO 10003KT 10SM SCT012 16/15 A3010 RMK AO2 T01560149 KQRH 191256Z AUTO 12007G13KT 070V170 9999 CLR 34/27 A2977 RMK AO2 LTG DSNT SE-S SLP068 WND DATA ESTMD T03370265 KSAA 191315Z AUTO 20016G28KT 10SM CLR 15/M06 A2980 RMK AO2 KSAC 191253Z 32003KT 10SM CLR 12/10 A2997 RMK AO2 SLP147 T01220100 KRIL 191253Z AUTO 25003KT 10SM CLR 16/M06 A2986 RMK AO2 SLP042 T01611056 KSAD 191251Z AUTO 08004KT 10SM CLR 17/00 A2998 RMK AO2 SLP103 T01670000 KRHV 190453Z 30005KT 10SM SCT080 16/10 A3002 FMEE 191300Z 12014KT 9999 FEW026 SCT040 23/17 Q1022 NOSIG KSAF 191253Z 35003KT 10SM CLR 09/M04 A3010 RMK AO2 SLP109 T00891044 KU16 182258Z AUTO 21017G23KT 10SM FEW110 28/M01 A2970 RMK AO2 PK WND 19030/2224 SLP691 T02831011 $ FMCZ 191300Z 10006KT 9999 FEW023 29/22 Q1016 NOSIG KSBA 191316Z 00000KT 10SM BKN013 OVC020 15/14 A2990 RMK AO2 T01500139 KRKD 191312Z AUTO 04004KT 3SM BR OVC001 16/16 A3019 RMK AO2 RAE00 P0000 KRIV 191316Z AUTO 16005KT 10SM SCT010 OVC016 16/16 A2993 RMK AO2 SLP125 KSBD 191239Z AUTO 00000KT 5SM HZ OVC014 19/15 A2992 RMK AO2 T01890148 LHSM 191245Z 01009KT 8000 -RA FEW013 OVC060 13/11 Q1010 NOSIG ETWM 191220Z 26004KT 9999 FEW015 BKN260 15/10 Q1018 BLU+ KSAN 191251Z 00000KT 10SM BKN025 21/14 A2993 RMK AO2 SLP135 T02060144 LHSN 191245Z 04012KT CAVOK 18/10 Q1009 NOSIG RMK BLU KRIW 191253Z AUTO 17010KT 10SM FEW080 BKN100 BKN120 09/08 A2966 RMK AO2 RAE03 SLP991 P0000 T00890078 FMEP 191300Z AUTO 12021KT 9999 FEW009 OVC052 21/18 Q1022 NOSIG KSAR 191315Z AUTO 00000KT M1/4SM FG OVC002 20/20 A2998 RMK AO2 LTG DSNT E T01950195 KSAT 191251Z 15009KT 8SM BKN013 BKN026 BKN250 26/23 A2996 RMK AO2 SLP125 BKN013 V SCT T02610228 KSAV 191253Z 27004KT 10SM FEW050 FEW080 SCT250 25/21 A3001 RMK AO2 SLP161 T02500206 KSBM 191300Z AUTO 05004KT 10SM SCT010 BKN014 OVC075 17/17 A3000 RMK AO2 T01720167 KSCD 191315Z AUTO 00000KT 10SM SCT110 22/22 A3002 RMK AO2 T02230223 KRLD 191315Z AUTO 23007KT 200V270 10SM BKN110 13/06 A2973 RMK AO2 T01250064 LHUD 191245Z 05006KT CAVOK 22/11 Q1009 LJCE 191300Z VRB02KT 9999 -RA FEW010 BKN017 OVC030 11/09 Q1009 RERA RMK WHT GBYD 191300Z 04005KT 9999 BKN012 FEW019CB 32/27 Q1014 CB W-NW KSBN 191317Z 02005KT 10SM OVC005 19/19 A2996 RMK AO2 T01940194 KSAW 191245Z 11003KT 10SM OVC065 13/06 A3006 KSCF 191240Z AUTO 00000KT 10SM CLR 28/24 A3002 RMK A01 KSBO 191255Z AUTO 00000KT 10SM CLR 22/21 A3002 RMK AO2 LTG DSNT NW KRKP 191253Z AUTO 16008KT 8SM FEW016 28/24 A2993 RMK AO2 SLP138 T02780244 KSBP 191256Z 32013KT 10SM CLR 17/07 A2995 RMK AO2 SLP140 T01670072 KSCH 191146Z 00000KT 10SM SKC 16/16 A3013 RMK HAZY FIRST KSAZ 191312Z AUTO 14006KT 2SM BR OVC002 13/13 A2987 RMK AO2 KRKR 191315Z AUTO 00000KT 10SM CLR 20/18 A2992 RMK AO2 LTG DSNT NW LIMA 191250Z 14003KT 9999 FEW035 21/02 Q1011 KRKS 191254Z AUTO 21005KT 10SM BKN039 BKN085 07/03 A2981 RMK AO2 SLP032 T00720033 KSDA 191315Z AUTO 15007G12KT 4SM BR OVC005 20/19 A2986 RMK AO2 KSBS 191314Z AUTO 00000KT 10SM CLR 05/M01 A2986 RMK AO1 T00511014 KSDB 191314Z AUTO 33021G27KT 1 1/4SM BR BKN002 OVC007 12/11 A3002 RMK AO2 PK WND 33027/1314 VIS 1/4V5 T01220111 $ KSCK 191255Z AUTO 27007KT 10SM CLR 13/09 A2997 RMK AO2 SLP148 T01330094 LIMC 191250Z 03008G19KT 350V060 CAVOK 22/00 Q1011 NOSIG KU42 191315Z AUTO 33017G25KT 7SM BKN005 OVC011 09/09 A2986 RMK AO1 P0001 T00880088 KRME 191253Z 13004KT 10SM OVC009 18/17 A3012 RMK AO2 SLP197 T01830172 LIME 191250Z 16004KT 090V210 9999 SCT045 18/10 Q1011 NOSIG LIMF 191250Z VRB02KT CAVOK 22/04 Q1011 KSDF 191315Z 33008KT 4SM -TSRA BR SCT008 OVC025CB 22/20 A3001 RMK AO2 LTG DSNT ALQDS RAB1257 OCNL LTGIC E AND SW TS NE-SE AND SW MOV NE P0005 T02170200 KQVF 191255Z AUTO 18008KT 150V310 9999 FEW017 SCT027 OVC085 27/22 A2997 RMK AO2 SLP148 WND DATA ESTMD T02650218 LIMG 191250Z 21007KT 170V240 9999 FEW050 22/05 Q1010 KRMG 191253Z AUTO 00000KT 7SM CLR 19/18 A3003 RMK AO2 SLP162 T01940183 KSBY 191254Z 36014G20KT 10SM BKN021 BKN031 OVC042 22/20 A2988 RMK AO2 RAB12E39 SLP121 P0000 T02220200 LIMH 191255Z /////KT 1000 BR BKN000 M05/M05 Q1014 RMK BKN MON INC VAL NEBBIA INTER VIS MIN 1000 KSCR 191300Z AUTO 02005KT 5SM BR OVC005 19/19 A3003 RMK AO2 T01910186 KSEA 191253Z 19007KT 10SM -RA BKN015 OVC050 10/09 A2970 RMK AO2 RAB36 SLP063 P0001 T01000089 $ LIMJ 191250Z 34005KT 290V050 9999 FEW035TCU 24/01 Q1010 FKYS 191200Z 21008KT 180V250 9999 BKN016 27/21 Q1016 NOSIG LIMK 190855Z 27011KT 240V310 CAVOK 14/M01 Q1012 LIML 191220Z VRB03KT CAVOK 20/08 Q1011 NOSIG KSDL 191253Z AUTO 00000KT 10SM CLR 22/04 A2989 RMK AO2 SLP097 T02170039 KRNC 191315Z AUTO 00000KT 10SM CLR 21/21 A3002 RMK KSDM 191253Z AUTO 00000KT 10SM OVC020 19/14 A2993 RMK AO2 SLP130 T01890144 KRND 191256Z 15004KT 2 1/2SM BR FEW008 BKN012 BKN200 24/24 A2996 RMK AO2A SLP138 T02430243 LIMN 191255Z 04005KT 320V080 CAVOK 23/00 Q1010 RMK SKC VIS MIN 9999 BLU KRMN 191315Z AUTO 33010G15KT 10SM OVC013 20/20 A3005 RMK AO2 T02040201 KSEE 191315Z AUTO 13004KT 10SM OVC022 19/14 A2993 RMK AO2 KSEF 191255Z AUTO 03007KT 10SM SCT001 SCT011 27/22 A2997 RMK AO2 T02670220 LIMP 191250Z 13006KT 9999 FEW008 BKN040 17/10 Q1012 KSEG 191311Z AUTO 00000KT 6SM BR FEW009 OVC020 19/18 A3007 RMK AO2 T01940183 KRNH 191255Z AUTO 12005KT 10SM OVC020 15/14 A2995 RMK AO2 T01500140 LIMS 191255Z 23004KT 9999 FEW025 20/10 Q1010 KROA 191254Z 36003KT 10SM OVC022 19/18 A3008 RMK AO2 SLP176 T01940178 LIMT 190855Z 36010KT 9999 SCT014 10/08 Q1012 KSFB 191253Z 36005KT 10SM OVC090 26/23 A2998 RMK AO2 SLP151 T02560228 LIMU 191255Z 21014KT 9999 FEW015 FEW025CB 19/11 Q1011 RMK BKN BKN200 QUK 3 QUL 1 S VIS MAR 30 KM VIS MIN 9999 KROC 191254Z 24004KT 10SM FEW090 FEW250 20/18 A3006 RMK AO2 SLP180 T02000183 LIMV 190855Z /////KT CAVOK 13/08 Q1012 KRNM 191253Z AUTO 07003KT 10SM OVC013 17/14 A2994 RMK AO2 SLP126 T01670139 KSEM 191315Z AUTO 23003KT 10SM CLR 24/23 A3000 RMK AO2 VTPH 191200Z 17004KT 140V210 9999 FEW035 30/24 Q1007 NOSIG KSFF 191253Z 21005KT 10SM OVC022 09/06 A2971 RMK AO2 SLP059 T00890056 KRNO 191255Z 30012G21KT 10SM FEW230 12/00 A2995 RMK AO2 SLP105 T01220000 LIMY 190855Z VRB01KT CAVOK 13/06 Q1013 KRMY 191314Z AUTO 00000KT 2 1/2SM -RA OVC005 17/16 A2999 RMK AO2 P0001 T01660163 KRNP 191315Z AUTO 02005KT 10SM SCT015 OVC025 15/12 A3003 RMK AO2 T01510121 KSDY 191256Z AUTO 26005KT 10SM BKN110 15/09 A2944 RMK AO2 SLP967 T01500089 KSEP 191315Z AUTO 17005KT 5SM CLR 23/21 A2996 RMK AO2 T02260212 KROG 191258Z 15003KT 10SM CLR 19/18 A2997 RMK AO2 SLP135 T01940183 $ LIMZ 191250Z VRB06KT 9999 FEW040 20/02 Q1011 LIPA 191255Z 25005KT 9999 -RA SCT050 BKN070 13/12 Q1010 RMK OVC VIS MIN 9999 WIND THR05 25007KT WIND THR23 24007KT A2983 BLU GCRR 191300Z 08014KT 9999 FEW025 24/19 Q1021 KU68 191315Z AUTO 30017G25KT 10SM SCT043 07/05 A2961 RMK AO2 VTPM 191000Z 29004KT 230V340 9999 BKN022 29/23 Q1009 LIPB 191250Z 16005KT 080V200 9999 FEW090 OVC130 16/08 Q1011 KRNT 191253Z AUTO 12004KT 10SM -RA OVC022 11/10 A2970 RMK AO2 RAB53 SLP063 P0000 T01110100 KSET 191254Z AUTO 11003KT 1/4SM FG VV002 19/19 A2995 RMK AO2 SLP137 T01890189 LIPC 191255Z 31011KT 6000 -DZ BKN010 SCT025 12/11 Q1011 VTPO 191200Z 09003KT 9999 FEW018CB SCT022 32/26 Q1007 KSFM 191256Z AUTO 05007KT 2 1/2SM BR OVC003 16/16 A3018 RMK AO2 SLP228 T01610161 KRNV 191315Z AUTO 24004KT 10SM CLR 24/24 A2997 RMK AO2 T02390239 KRPD 191255Z AUTO 11006KT 10SM SCT025 14/13 A2998 RMK AO2 T01400130 VTPP 191200Z 00000KT 9999 FEW018CB SCT024 30/24 Q1007 LIPE 191250Z 35008KT 270V030 9999 FEW020 BKN045 16/08 Q1012 LIPF 191255Z 35003KT 9999 -RA SCT015 BKN040 13/11 Q1010 KSGF 191252Z 15006KT 6SM BR CLR 21/20 A2995 RMK AO2 SLP133 T02060200 KSFO 191256Z 28012KT 10SM CLR 15/12 A3001 RMK AO2 SLP161 T01500117 KRPH 191250Z AUTO 15005KT 10SM CLR 24/22 A2989 RMK AO2 T02420222 LIPH 191250Z 30004KT 270V350 7000 -RA FEW050 BKN060 14/11 Q1010 KSGH 191256Z AUTO 16006KT 10SM BKN045 OVC070 20/18 A2999 RMK AO2 SLP153 T02000178 FNBG 191300Z 28011KT 9999 FEW020 27/18 Q1013 KSEZ 191315Z AUTO 18004KT 10SM CLR 16/M02 A3006 RMK AO2 KSFQ 191315Z AUTO 32010G15KT 10SM BKN015 OVC021 22/20 A2991 RMK AO2 T02210197 LIPI 191255Z /////KT 8000 -RA SCT035 BKN040 12/09 Q1009 RMK OVC VIS MIN 8000 WIND THR06 01011KT WIND THR24 01010KT BLU KROS 191314Z AUTO 15004KT 4SM OVC012 15/14 A2993 RMK AO2 T01530135 KSGJ 191256Z 32004KT 10SM CLR 24/23 A3001 RMK AO2 SLP160 T02440228 KRPJ 191315Z AUTO 00000KT 7SM OVC010 17/16 A2998 RMK AO2 LTG DSNT SE T01650161 LIPK 191250Z 27005KT 8000 SCT005 BKN010 13/11 Q1011 EVLA 191250Z AUTO 25014KT 9999 SCT059/// BKN160/// 15/09 Q1012 KRQB 191314Z AUTO 09005KT 10SM SCT110 14/12 A3004 RMK AO2 T01380118 FNCA 191300Z 21008KT 9999 FEW016 BKN023 27/22 Q1013 LIQC 191255Z 26010KT 9999 SCT030 21/15 Q1014 RMK SCT QUK 3 QUL 2 W VIS MAR 20 KM VIS MIN 9999 LIPL 191255Z /////KT 6000 FEW015 SCT026 17/12 Q1011 RMK OVC VIS MIN 6000 WIND THR31 25005KT WHT KSHD 191315Z AUTO 35005KT 5SM BR OVC013 18/17 A3009 RMK AO2 T01840170 KROW 191251Z 00000KT 10SM CLR 17/08 A2997 RMK AO2 SLP082 T01670083 KRQE 191253Z AUTO 03003KT 10SM CLR 05/M06 A3013 RMK AO2 SLP110 T00501061 TSNO LIPO 191250Z 26006KT 6000 FEW020 BKN050 17/11 Q1011 KROX 191314Z AUTO 12009KT 2 1/2SM HZ OVC002 13/11 A2983 RMK AO2 KSFY 191315Z AUTO 00000KT 10SM SCT007 16/15 A2996 RMK AO2 LTG DSNT SE T01560148 LIPQ 191250Z 01006KT 340V040 9000 -RA SCT050 BKN070 12/10 Q1009 KSFZ 191256Z AUTO 03011KT 3SM RA BR OVC002 18/17 A3011 RMK AO2 RAB02 SLP141 P0003 T01780172 VTSB 191300Z 26005KT 9999 FEW020 29/23 Q1009 LIPR 191245Z 28017KT //// SCT015 SCT025TCU BKN060 15/12 Q1010 KSGR 191253Z 20003KT 10SM CLR 26/25 A2995 RMK AO2 SLP144 T02560250 LIPS 191255Z 30004KT 9000 -RA BKN040 15/13 Q1011 RERA RMK OVC VIS MIN 9000 WIND THR26 28004KT WIND THR08 29005KT BLU VTSC 190900Z 03007KT 9000 VCSH SCT020 BKN100 30/25 Q1009 KSGS 191313Z AUTO 12005KT 10SM SCT026 SCT032 SCT050 16/15 A2992 RMK AO2 T01590148 LIRA 191250Z 26009KT 9999 SCT025 21/11 Q1012 GCTS 191300Z 10020KT 070V130 9999 FEW025 25/19 Q1022 WS R07 NOSIG KSGT 191256Z AUTO 15003KT 7SM CLR 23/22 A2997 RMK AO2 SLP145 T02280217 LIPU 191050Z VRB03KT 9999 RA SCT025 BKN050 13/12 Q1010 VTSE 191200Z 27004KT 9999 SCT024 29/23 Q1008 KSHL 191315Z AUTO 15010KT 1 3/4SM BR OVC003 19/19 A2981 RMK AO2 KSGU 191256Z AUTO 16011KT 10SM CLR 20/03 A2981 RMK AO2 SLP060 T02000028 VTSF 191300Z 00000KT 9999 FEW018 27/27 Q1009 KSHM 191258Z AUTO 15004KT 10SM CLR 12/M06 A2986 RMK AO2 SLP051 T01171057 $ LIQN 191250Z 24008KT 9999 SCT045 19/08 Q1011 LIRE 191255Z 28010KT 9999 SCT025 22/10 Q1012 RMK SCT VIS MIN 9999 WIND THR13 29008KT WIND THR31 28007KT BLU VTSG 191300Z 25004KT 9999 FEW020 28/24 Q1010 KSHN 191253Z AUTO 00000KT 10SM FEW025 SCT050 BKN065 10/09 A2968 RMK AO2 RAB17E34 SLP051 P0000 T01000089 LIQO 190855Z 31006KT 9999 FEW010 13/09 Q1011 VTSH 190900Z 23006KT 9999 FEW020CB SCT040 BKN100 31/25 Q1008 NOSIG KRPX 191255Z AUTO 29010G14KT 10SM 08/03 A2958 LIPX 191250Z 26010KT 230V290 9999 -RA BKN030 BKN070 15/09 Q1011 KSIF 191305Z AUTO 00000KT 10SM BKN026 20/20 A3005 RMK AO2 T01960196 LIRF 191250Z 29011KT 240V310 9999 SCT025 22/11 Q1012 NOSIG KRQO 191315Z AUTO 18014KT 7SM CLR 22/21 A2988 RMK AO2 LTG DSNT NE T02210211 LIRG 191255Z 24011KT 9999 SCT035TCU 22/08 Q1011 LIPY 191250Z 28007KT 240V310 9999 FEW015 SCT030 BKN070 17/12 Q1009 WMBA 191300Z 00000KT 9999 FEW032 SCT140 BKN280 27/26 Q1010 LIRH 191255Z 30007KT 9999 SCT035TCU 21/07 Q1010 LIPZ 191250Z 31009KT 9999 -RA SCT020 BKN050 13/11 Q1010 NOSIG VTSK 190300Z 25006 9999 FEW030 SCT100 BKN300 31/23 Q1010 LIRI 191250Z 16008KT 9999 SCT030 22/17 Q1012 KSHR 191253Z AUTO 32010KT 10SM CLR 11/06 A2959 RMK AO2 SLP995 T01060061 FMMI 191300Z 11007KT 080V150 9999 FEW020 25/11 Q1024 NOSIG LIRK 191255Z AUTO 28015KT //// ///// Q//// VTSM 191300Z 27005KT 9999 FEW020 30/25 Q1010 KSIK 191315Z AUTO 00000KT 4SM BR SCT065 21/21 A2996 RMK AO2 LTG DSNT E LIRL 191255Z 25010KT 9999 SCT020 FEW025TCU 23/12 Q1011 KSJC 191253Z 29008KT 10SM FEW024 16/12 A3001 RMK AO2 SLP163 T01560117 KRRL 191240Z AUTO 00000KT 10SM SCT055 OVC085 10/10 A3004 RMK AO2 LIRM 191255Z 26015KT 9999 SCT025 SCT040 25/15 Q1012 KTAD 191254Z AUTO 23014KT 10SM CLR 18/M06 A2987 RMK AO2 SLP028 T01831056 KSHV 191256Z VRB03KT 3SM BR OVC003 24/24 A2997 RMK AO2 SLP145 T02390239 LIQW 191255Z 03011KT 330V080 9999 SCT025 21/09 Q1011 VTSP 191300Z 27008KT 230V320 8000 SCT018 29/24 Q1012 NOSIG LIRN 191250Z 24011KT 200V260 9999 BKN040 22/13 Q1012 NOSIG VTSR 191100Z 23007KT 9999 SCT021 29/27 Q1009 LIRP 191245Z 29011KT 9999 SCT025 21/09 Q1011 NOSIG VTSS 191300Z 17002KT 9999 FEW020 BKN100 25/25 Q1010 NOSIG LIRQ 191250Z 35007KT 280V050 9999 SCT040 19/08 Q1011 VTST 191200Z 23005KT 9999 FEW018CB 28/25 Q1008 RETS WMAU 191300Z AUTO /////KT //// // ///// Q//// QFF//// RMK LIRS 191255Z 33010KT 9999 FEW025 21/12 Q1011 KSKA 191308Z AUTO 22006KT 10SM -RA BKN007 OVC027 07/07 A2969 RMK AO2 BKN V OVC SLP058 LIRT 190855Z /////KT 9999 SCT003 13/11 Q1013 VTUD 191300Z 22003KT CAVOK 29/25 Q1007 KRRT 191318Z AUTO 13007KT 5SM BR OVC003 12/11 A2986 RMK AO2 LIRU 191250Z 25010KT 9999 SCT025 22/10 Q1011 FMMT 191300Z 16010KT 9999 FEW017 26/19 Q1021 NOSIG KRSL 191253Z AUTO 17016KT 10SM CLR 20/17 A2974 RMK AO2 SLP055 T02000172 FNDU 191300Z 00000KT CAVOK 24/// Q1015 LIRV 191255Z 23011KT 9999 FEW023 FEW025TCU 19/11 Q1011 FMNM 191300Z 30004KT CAVOK 31/19 Q1015 NOSIG KTAN 191316Z AUTO VRB05KT 4SM -RA BR OVC002 18/17 A3009 RMK AO2 P0002 T01830172 KSJN 191254Z AUTO VRB03KT 10SM CLR 09/M01 A3007 RMK AO2 SLP109 T00891006 TSNO KRSN 191315Z AUTO 00000KT 7SM CLR 24/22 A3003 RMK AO2 T02350223 LIRX 191255Z 36010KT 9999 FEW005TCU SCT007 17/13 Q1011 RMK BKN VIS MIN 9999 VIS MAR 25 KM FMNN 191300Z 23006KT 9999 FEW020 30/20 Q1015 KSKF 191308Z AUTO 14007KT 10SM BKN012 OVC019 26/24 A2994 RMK AO2 SLP131 $ VVCI 191300Z 14008KT 9999 FEW017 29/27 Q1007 NOSIG VTUI 191300Z 00000KT 9999 FEW025 30/28 Q1007 KSIY 191253Z AUTO 16003KT 10SM SCT048 07/04 A2999 RMK AO2 SLP163 T00670044 KRSP 191308Z AUTO VRB03KT 9SM BKN005 OVC009 18/17 A3007 RMK AO2 CIG 002V007 $ LIRZ 191250Z 26007KT 9999 BKN040 18/10 Q1010 VTUK 191300Z 33003KT 290V010 9999 SCT030 30/25 Q1008 NOSIG VTUL 190900Z 35004KT 290V030 9999 FEW035 33/25 Q1007 KSJS 191315Z AUTO 13003KT 10SM OVC100 18/18 A3004 RMK AO2 T01810180 KSJT 191251Z 19010KT 10SM CLR 24/20 A2994 RMK AO2 SLP111 T02440200 KRST 191254Z 12007KT 10SM SCT050 14/13 A2996 RMK AO2 SLP145 T01390133 $ KSLB 191315Z AUTO 14008KT 2SM BR OVC003 18/18 A2986 RMK AO2 KTCC 191253Z AUTO 26010KT 10SM CLR 16/02 A2991 RMK AO2 SLP073 T01610017 KSLC 191307Z 33023G29KT 6SM +TSRA BR SCT009 BKN034CB OVC048 10/09 A2983 RMK AO2 PK WND 33029/1255 TSB55 OCNL LTGICCA OHD TS OHD MOV NE P0007 T01000089 VTUO 191200Z 33002KT 7000 FEW020 28/27 Q1008 A2976 INFO M RWY 04 KRSV 191315Z AUTO 00000KT 5SM BR OVC090 19/19 A2997 RMK AO2 LTG DSNT N THRU E T01910191 KRTN 191253Z AUTO 36009KT 10SM CLR 06/01 A2999 RMK AO2 SLP094 T00560011 KRSW 191253Z 05005KT 10SM CLR 26/22 A2995 RMK AO2 SLP139 T02610222 KRUE 191253Z AUTO 00000KT 9SM CLR 21/21 A2995 RMK AO2 SLP134 T02110206 KTBN 191256Z AUTO 00000KT 5SM BR CLR 19/19 A2995 RMK AO2 SLP137 T01880186 KSLE 191256Z AUTO 18008KT 10SM -RA FEW065 SCT080 BKN095 11/09 A2982 RMK AO2 LTG DSNT W AND NW RAB11E27B51 SLP098 P0000 T01110094 VTUQ 191300Z AUTO 00000KT ////NDV ////// 27/26 Q1009 A2980 KSJX 191316Z AUTO 09008KT 10SM BKN100 17/14 A3006 RMK AO2 T01690144 VVCR 191300Z 16003KT 9999 FEW015 30/26 Q1010 NOSIG GCXO 191300Z 12010KT 100V170 CAVOK 23/18 Q1024 NOSIG KRUG 191315Z AUTO 10020G26KT 1/2SM FG OVC003 14/14 A2957 RMK AO2 KSLG 191256Z AUTO 10004KT 10SM CLR 19/18 A2995 RMK AO2 SLP134 T01890178 $ KSLH 191315Z AUTO 00000KT 10SM CLR 13/13 A3007 RMK AO2 T01400135 KTAZ 191255Z AUTO 00000KT M1/4SM FG OVC003 18/18 A2996 RMK AO2 LTG DSNT SE T01840184 VVCT 191300Z 21002KT CAVOK 28/24 Q1008 NOSIG KTBR 191315Z AUTO 00000KT 7SM CLR 23/20 A3002 RMK AO2 T02330199 KSLI 191303Z 00000KT 10SM BKN021 OVC032 19/15 A2990 RMK AO2A CIG 021V032 BKN V SCT SLP128 FNGI 191300Z VRB03KT CAVOK 36/08 Q1015 VTUU 191300Z 29004KT 9999 FEW018CB FEW026 30/27 Q1008 NOSIG LJLJ 191300Z 28009KT 9999 -RA FEW003 SCT025 BKN055 08/07 Q1010 NOSIG KRTS 191315Z AUTO 03003KT 10SM CLR 07/00 A3000 RMK AO2 VTUV 191300Z 29004KT 8000 FEW020 30/25 Q1008 INFO N RWY 36 LJMB 191300Z 34017G27KT 5000 RA BR FEW015 OVC026 10/08 Q1011 KSLK 191251Z AUTO 00000KT 10SM CLR 18/17 A3013 RMK AO2 SLP199 T01830172 LIVC 191255Z 33016KT 0000 FG VV000 00/M00 Q1012 RMK MON INVIS VAL INVIS VIS MIN 0000 VVDN 191300Z 15004KT 9999 FEW017CB 30/26 Q1009 NOSIG VTUW 190900Z 28006KT 220V350 9999 FEW022 35/27 Q1006 KTCL 191253Z 00000KT 5SM BR SCT100 23/23 A2999 RMK AO2 SLP154 T02330228 LIVD 191255Z 00000KT 9999 BKN020 07/05 Q1014 RMK OVC SCT080 VIS MIN 9999 KTCM 191306Z AUTO 19006KT 10SM -RA BKN065 BKN120 09/09 A2971 RMK AO2 RAB06 SLP065 LIVE 191255Z 02008G18KT 9999 SCT030 07/M02 Q1014 RMK OVC BKN080 VIS MIN 9999 KSLN 191253Z 17014G20KT 10SM CLR 23/18 A2979 RMK AO2 SLP074 T02330183 KSME 191255Z AUTO 18003KT 10SM CLR 18/18 A3003 RMK AO2 LTG DSNT N AND NW KTDF 191300Z AUTO 34004KT 10SM OVC007 18/17 A3004 RMK AO2 LIVF 190909Z 36010KT 0500 -TSRA FG VV/// 11/09 Q1008 RETS RMK MON INVIS VAL INVIS VIS MIN 0500 KSMF 191253Z 35004KT 10SM FEW250 10/10 A2996 RMK AO2 SLP146 T01000100 KSKX 191256Z AUTO 00000KT 10SM CLR 09/M07 A3016 RMK AO2 SLP154 T00941072 $ KSLO 191315Z AUTO 00000KT 4SM BR SCT001 22/21 A2997 RMK AO2 LTG DSNT E AND SE T02170208 KTBX 191315Z AUTO 15021G28KT M1/4SM OVC002 06/05 A2976 RMK AO2 PWINO KRUQ 181450Z AUTO 03004KT 10SM CLR 25/19 A3008 RMK AO2 T02460194 KSLR 191315Z AUTO 22007KT 5SM BR BKN011 25/23 A2997 RMK AO2 T02480232 KSNA 191303Z 11005KT 10SM SCT023 BKN032 20/16 A2991 RMK AO2 T02000156 KTCS 191253Z AUTO 01004KT 10SM CLR 16/00 A3005 RMK AO2 SLP095 T01560000 KTEB 191251Z 02007KT 10SM FEW018 23/19 A3001 RMK AO2 SLP161 T02330189 EVRA 191320Z 24010KT 210V280 9999 SCT023 15/09 Q1011 NOSIG KRUT 191256Z AUTO VRB03KT 10SM OVC021 19/16 A3015 RMK AO2 SLP221 T01890161 $ KSNC 191315Z AUTO 03008G14KT 360V060 9SM -RA OVC007 19/18 A3006 RMK AO2 LKCV 191300Z 33007KT CAVOK 14/08 Q1015 NOSIG RMK BLU BLU KSMN 191256Z AUTO 00000KT 10SM -RA OVC026 05/04 A2978 RMK AO2 RAB07 SLP089 P0005 T00500039 LIVO 191255Z 00000KT 5000 RA BR BKN005 SCT020 06/05 Q1012 RMK OVC VIS MIN 5000 KSMO 191251Z AUTO 00000KT 10SM OVC024 19/16 A2991 RMK AO2 SLP128 T01940161 $ KRWF 191253Z AUTO 12008KT 1/4SM FG OVC002 18/17 A2985 RMK AO2 SLP107 T01780167 TSNO LIVP 191255Z 36018KT 0600 FZFG VV/// M02/M02 Q1011 RMK MON INVIS VAL INVIS VIS MIN 0600 KSMP 191256Z AUTO 00000KT 1SM BR BKN004 OVC008 03/02 A2969 RMK AO2 UPE31B44E53 SLP062 P0002 T00280022 KSNH 191315Z AUTO 00000KT 10SM SCT038 23/22 A2998 RMK A01 LIVR 191255Z 29014KT 0600 -SN FG VV/// 01/M01 Q1012 RMK MON INVIS VIS MIN 0600 KRWI 191253Z AUTO 33008KT 10SM OVC012 21/19 A2997 RMK AO2 SLP149 T02060194 KTDR 191256Z AUTO 00000KT 8SM BKN075 25/25 A3001 RMK AO2 SLP166 T02520247 $ KRVS 191302Z VRB03KT 10SM TS SCT028 BKN034 OVC085 22/21 A2993 RMK AO2 LTG DSNT W-N RAE1258 P0000 T02220206 KSMS 191315Z AUTO 00000KT 7SM CLR 22/20 A3004 RMK AO2 KSOA 191315Z AUTO 18006KT 10SM CLR 24/21 A3002 RMK AO2 LIVT 191255Z 04011G27KT 9999 OVC035 13/07 Q1008 RMK OVC QUK 3 QUL 1 NE VIS MAR 10 KM VIS MIN 9999 KSNK 191315Z AUTO 18010KT 10SM CLR 23/18 A2994 RMK AO2 T02280182 KRWL 191253Z AUTO 26017G22KT 10SM CLR 11/03 A2979 RMK AO2 PK WND 25028/1156 SLP004 T01060033 KSNL 191315Z AUTO 19013KT 10SM CLR 23/21 A2988 RMK AO2 LTG DSNT N AND NE T02290213 FNHU 191300Z 09007KT CAVOK 31/01 Q1021 FMSD 191300Z 06025G35KT 9999 FEW020 SCT033 25/19 Q1018 KRXE 191253Z AUTO 22016G25KT 10SM SCT017 BKN022 OVC027 05/03 A2977 RMK AO2 PK WND 21027/1224 SLP066 T00500033 KSMX 191258Z 00000KT 6SM BR FEW005 13/13 A2995 RMK AO2 T01330133 $ KTDZ 191314Z AUTO 02004KT 2 1/2SM -TSRA BR BKN003 OVC020 21/19 A2999 RMK AO2 LTG DSNT W RAB00 TSE07B13 P0014 T02060194 KSNS 191253Z VRB03KT 10SM CLR 14/12 A3002 RMK AO2 SLP173 T01440122 KSPA 191315Z AUTO 03004KT 10SM SCT080 21/17 A3006 RMK AO2 KSNT 191251Z AUTO 36006KT 01/00 A2982 RMK AO1 SLP063 P0001 T00060000 KSPB 191253Z AUTO 00000KT 10SM -RA SCT049 OVC060 10/09 A2978 RMK AO2 SLP083 P0004 T01000094 KSPD 190956Z AUTO 22009KT 11/09 A2984 RMK AO1 SLP046 T01110089 KRWV 191315Z AUTO 17006KT 3SM BR BKN006 BKN032 25/25 A2997 RMK AO2 T02510245 KTEW 191312Z AUTO 05003KT 10SM OVC005 16/14 A3001 RMK AO2 T01620135 KSPF 191315Z AUTO VRB03KT 10SM CLR 14/04 A2959 RMK AO2 KTEX 191315Z AUTO 00000KT 10SM CLR 10/M11 A3014 RMK AO2 T01031115 KSNY 191253Z AUTO 31003KT 10SM CLR 10/08 A2969 RMK AO2 SLP019 T01000083 KSPG 191253Z 01004KT 10SM FEW090 27/23 A2997 RMK AO2 SLP147 T02670233 KSOP 191256Z AUTO VRB04KT 10SM FEW004 20/18 A3002 RMK AO2 SLP180 T02000183 KTFP 191258Z AUTO 10SM SCT017 SCT029 28/26 A2993 RMK AO2 KTGI 191251Z AUTO 35023G31KT 10SM BKN016 BKN035 OVC085 23/21 A2988 RMK AO1 KSPI 191252Z 00000KT M1/4SM R04/1200V1400FT FG VV002 18/18 A2996 RMK AO2 SLP140 T01830183 KTHA 191315Z AUTO 00000KT 10SM CLR 22/18 A3003 RMK KRYM 191256Z AUTO 14007KT 1/2SM FG VV003 14/14 A2990 RMK AO2 SLP131 T01380137 $ KRYN 191245Z 12006KT 10SM CLR 23/13 A2996 KSOW 191315Z AUTO 19014G23KT 10SM CLR 15/01 A3013 RMK AO2 KSPR 191315Z AUTO 17006KT 10SM FEW017 FEW022 SCT027 28/24 A3001 RMK A01 KSQI 191256Z 04005KT 6SM BR 17/16 A2997 RMK AO2 SLP162 P0001 T01670161 $ KSPS 191252Z 16007KT 10SM BKN100 23/21 A2987 RMK AO2 SLP100 T02330211 FNMA 191300Z 28006KT 8000 BKN010 SCT045 26/22 Q1015 KRYT 191153Z AUTO 00000KT 10SM OVC019 20/18 A3003 RMK AO2 SLP162 T02000183 10200 20172 58002 TSNO $ EVVA 191250Z AUTO 25013KT 9999 SCT016 SCT022 BKN029 14/11 Q1010 KSRB 191315Z AUTO 18003KT 10SM CLR 22/19 A3001 RMK A01 KSQL 191310Z AUTO 30009KT 10SM CLR 15/11 A3002 RMK AO2 KSRC 191314Z AUTO 00000KT 1/4SM FG OVC003 21/21 A2998 RMK AO2 KRZL 191315Z AUTO 29003KT 1 1/4SM BR OVC002 18/16 A2995 RMK AO2 FNKU 191300Z 09012KT CAVOK 30/12 Q1019 KRYV 191315Z AUTO 00000KT 10SM BKN120 16/16 A2998 RMK AO2 T01590157 KSPW 191253Z AUTO 14012KT 1SM BR OVC002 19/18 A2986 RMK AO2 SLP106 T01890183 KRYW 191315Z AUTO 18007KT 5SM BR OVC005 25/24 A2998 RMK AO2 T02450235 KRZN 191315Z AUTO 15005KT 10SM SCT017 15/14 A2994 RMK AO2 T01520135 KTIF 191315Z AUTO 16008KT 7SM CLR 17/16 A2968 RMK AO2 T01720158 KRYY 191251Z 00000KT 10SM CLR 20/18 A3005 RMK AO2 SLP178 T02000183 WMKA 191300Z 24003KT 200V290 9999 FEW017CB BKN280 28/25 Q1010 LJPZ 191300Z 03007KT 350V070 9999 -RA FEW030 OVC050 12/09 Q1008 WMKB 191300Z 29005KT 240V330 8000 FEW025 SCT140 BKN270 30/25 Q1010 NOSIG KRZR 191315Z AUTO 00000KT 4SM BR CLR 19/19 A3002 RMK A01 WMKC 191300Z 22006KT 180V280 9999 FEW020 SCT140 BKN220 25/24 Q1010 WMKD 191300Z VRB03KT 7000 -RA FEW004 FEW016CB SCT024 BKN260 24/24 Q1010 NOSIG KRZT 191314Z AUTO 18004KT 10SM SCT065 SCT075 BKN090 20/19 A3000 RMK AO2 KTIK 191256Z AUTO 18012KT 10SM CLR 22/21 A2988 RMK AO2 LTG DSNT NE SLP114 T02240210 $ WMKE 191300Z AUTO 31003KT 280V010 //// // 24/22 Q1009 KSSC 191258Z 03004KT 10SM CLR 22/19 A3000 RMK AO2A SLP159 T02240186 $ GEML 191300Z 31010KT 280V350 CAVOK 27/15 Q1020 FNLU 191300Z 25010KT 9999 SCT018 BKN020 27/19 Q1013 NOSIG KTHV 191253Z AUTO 34005KT 10SM OVC018 20/19 A3003 RMK AO2 SLP170 T02000189 KW13 191315Z AUTO 34003KT 7SM BKN006 BKN010 OVC017 18/18 A3008 RMK AO1 T01800180 KSSF 191303Z 12005KT 5SM BR BKN012 OVC018 26/24 A2993 RMK AO2 T02610244 FNMO 191300Z 33009KT 9999 FEW015 23/16 Q1012 WMKI 191300Z 05008KT 020V090 3000 +RA SCT028 SCT140 BKN260 23/23 Q1011 KTIP 191315Z AUTO 00000KT 10SM OVC011 20/20 A2996 RMK AO2 T02030200 WMKJ 191300Z 00000KT 9999 FEW010 SCT140 BKN260 24/24 Q1010 KSRQ 191253Z 01006KT 10SM CLR 25/24 A2996 RMK AO2 SLP144 T02500239 WMKK 191300Z 13003KT 080V170 7000 -RA FEW008 FEW017CB SCT028 BKN260 24/23 Q1011 NOSIG KSSI 191253Z AUTO 28004KT 10SM CLR 26/22 A3000 RMK AO2 SLP159 T02560222 KSRR 191315Z AUTO 21004KT 10SM CLR 14/07 A3018 RMK AO2 WMKL 191300Z VRB02KT 9999 FEW026 SCT140 BKN280 28/25 Q1010 WMKM 191300Z 33003KT 260V040 9999 FEW017CB SCT140 BKN260 25/23 Q1012 LKKB 191300Z VRB05KT 9999 FEW030 SCT150 14/07 Q1016 NOSIG WMKN 191300Z 23004KT 180V260 9999 FEW022 BKN150 25/24 Q1009 KSTC 191313Z 12005KT 2 1/2SM BR OVC003 14/14 A2990 RMK AO2 T01440144 KTKC 191313Z AUTO 14009KT 5SM BR OVC004 19/19 A2983 RMK AO2 T01900188 KW22 191315Z AUTO 00000KT 10SM CLR 18/18 A3007 RMK AO2 WMKP 191300Z VRB02KT 9000 FEW025 SCT140 BKN270 28/25 Q1010 NOSIG KTIW 191315Z AUTO 19008KT 10SM BKN012 BKN050 OVC060 10/09 A2971 RMK AO2 T01000089 KUBE 191315Z AUTO 14009KT 10SM SCT007 OVC020 13/12 A2997 RMK AO2 KSTE 191255Z AUTO 07004KT 10SM SCT060 OVC080 13/13 A3002 RMK AO2 P0001 T01320125 KTIX 191247Z 31005KT 7SM SCT030 26/24 A2997 KSTF 191315Z AUTO 00000KT 7SM CLR 22/22 A3000 RMK AO2 KUAO 191253Z AUTO 19008KT 9SM -RA SCT042 OVC055 11/09 A2982 RMK AO2 SLP096 P0006 T01110094 LLBG 191250Z 30010KT 9999 FEW035 30/21 Q1009 NOSIG KTKI 191253Z 17010KT 6SM BR OVC007 24/23 A2992 RMK AO2 CIG 005V010 SLP129 T02390233 KSUA 191250Z 36004KT 7SM SCT020 SCT030 25/24 A2997 KSTJ 191253Z 13004KT 5SM BR CLR 20/20 A2987 RMK AO2 SLP109 T02000200 KW29 191300Z AUTO 03009KT 7SM OVC015 22/19 A2997 RMK AO2 KSTK 191310Z AUTO 23006KT 10SM CLR 10/08 A2967 RMK AO2 KSTL 191309Z 00000KT 1/2SM R30R/1600V4000FT FG BKN001 19/19 A2996 RMK AO2 T01940194 KW31 191315Z AUTO 33010KT 10SM OVC008 19/19 A3001 RMK AO1 T01920192 KSUE 191256Z AUTO 09005KT 10SM BKN012 17/15 A3003 RMK AO2 SLP189 T01670150 KSTP 191253Z 15005KT 10SM BKN050 16/15 A2994 RMK AO2 SLP136 T01560150 KTLH 191253Z 00000KT 10SM FEW050 FEW080 23/22 A3000 RMK AO2 SLP158 T02330217 VVNB 191300Z 13010KT CAVOK 30/27 Q1006 NOSIG KSTS 191253Z AUTO 00000KT 10SM CLR 09/07 A3000 RMK AO2 SLP153 T00940072 KTMA 191255Z AUTO 00000KT 10SM SCT050 23/21 A3001 RMK AO2 T02310207 KTMB 191253Z 30004KT 10SM FEW008 28/26 A2992 RMK AO2 SLP132 T02830256 $ LKKU 191300Z 36008KT 7000 -RA FEW044 12/11 Q1013 KSVC 191315Z AUTO 33007KT 10SM CLR 13/01 A3013 RMK AO2 T01320011 LKKV 191300Z 31007KT 280V340 9999 SCT033 13/06 Q1016 KTKV 191315Z AUTO 12003KT 10SM 13/11 A3004 RMK AO2 T01310110 FOGM 191300Z /////KT 9999 FEW015TCU BKN033 30/23 Q//// LKLN 191300Z AUTO 12003KT 080V170 9999 OVC150 13/07 Q1017 KW43 191255Z AUTO 00000KT 10SM SCT120 13/04 A2962 RMK AO2 KTME 191315Z AUTO 16003KT 3SM BR CLR 25/25 A2997 RMK AO2 KSVE 191315Z AUTO 31007KT 10SM CLR 08/01 A2999 RMK AO2 KSUN 191250Z 00000KT 10SM SCT085 01/01 A2984 KTKX 191315Z AUTO 21006KT 4SM BR CLR 23/23 A2995 RMK AO2 FOGO 191200Z 26004KT 9999 SCT013 BKN030 28/21 Q//// KUCP 191256Z AUTO 00000KT 3SM BR FEW100 17/17 A3006 RMK AO2 SLP188 T01720172 KUDG 191256Z AUTO 34007KT 10SM CLR 21/19 A3002 RMK AO2 SLP171 T02110194 KSVH 191300Z AUTO 00000KT 10SM CLR 20/19 A3006 RMK AO2 T02040188 FOGR 191300Z /////KT 9999 SCT013TCU BKN030 31/23 Q//// LKNA 191300Z 03008KT 9999 -RA BKN026 BKN040 12/07 Q1014 NOSIG KSUS 191254Z 10003KT 1/8SM R08R/1400V2200FT FG VV002 19/19 A2995 RMK AO2 SLP135 T01890189 KSUT 191310Z AUTO 34010KT 10SM CLR 22/20 A2997 RMK AO2 T02150195 KTMK 191315Z AUTO 15008KT 10SM SCT070 SCT080 11/08 A2981 RMK AO2 KTNB 191315Z AUTO 00000KT 10SM CLR 16/15 A3015 RMK AO2 T01600154 KSUU 191258Z AUTO 26008KT 10SM CLR 14/07 A2996 RMK AO2 SLP152 T01350071 $ KSUW 191315Z AUTO 00000KT 10SM SCT012 BKN018 OVC024 15/14 A2995 RMK AO2 T01530140 KSVN 191258Z AUTO 27004KT 10SM CLR 24/21 A2999 RMK AO2 SLP158 T02380211 KSUX 191252Z 14009KT 2SM BR OVC005 19/19 A2980 RMK AO2 SLP087 T01940194 KSWF 191245Z 04010KT 10SM OVC015 20/18 A3008 KUCY 191305Z AUTO 00000KT 4SM BR BKN043 BKN050 22/21 A2996 RMK A01 VVPB 191300Z 09004KT 9999 FEW017CB 29/26 Q1009 NOSIG KTOA 190247Z 26005KT 10SM SCT012 18/16 A2991 RMK ST W LAST LKMT 191300Z 02007KT 4000 -RA BR BKN010 OVC047 12/11 Q1015 NOSIG KTOB 191314Z AUTO 12005KT 7SM BKN046 15/14 A2994 RMK AO2 KTMT 191315Z AUTO 24004KT 10SM CLR 05/M01 A2997 RMK AO2 T00451010 KTOC 191315Z AUTO 01003KT 10SM CLR 23/18 A3006 RMK AO2 T02260183 KW63 191315Z AUTO 35006KT 10SM OVC007 20/19 A3002 RMK AO1 KSWO 191316Z 16007KT 8SM CLR 23/21 A2985 RMK AO2 LTG DSNT E AND SE T02280206 KTOI 191309Z AUTO 00000KT 1SM BR OVC002 22/22 A3002 RMK AO2 T02220222 KTPA 191253Z 04003KT 10SM OVC090 26/22 A2999 RMK AO2 SLP155 T02560222 $ KUES 191245Z 00000KT 10SM SKC 14/14 A2999 LLET 191250Z 20008KT CAVOK 34/16 Q1007 KTOL 191314Z 09006KT 2SM -RA FEW022 BKN043 OVC070 19/ A2997 RMK AO2 LTG DSNT ALQDS TSE06 P0006 T0189 KTNU 191315Z AUTO 12005KT M1/4SM FG OVC002 17/17 A2992 RMK AO2 PWINO LKPD 191300Z 31006KT 260V350 9999 FEW019 BKN150 14/09 Q1015 NOSIG RMK BLUBLU KSWW 191315Z AUTO 18014KT 10SM CLR 25/20 A2995 RMK AO2 T02450197 VVPQ 191300Z 28005KT 9999 SCT015 28/26 Q1009 NOSIG KSYF 191315Z AUTO 18003KT 5SM BR CLR 14/13 A2971 RMK AO2 T01350125 KTPF 191315Z AUTO 03004KT 10SM OVC090 26/26 A2999 RMK AO2 FNSO 191300Z 20009KT 9999 SCT019 BKN090 ///// Q1013 KTOP 191253Z 10004KT 9SM SCT055 19/19 A2986 RMK AO2 SLP106 T01940194 KW75 191315Z AUTO 35012G19KT 10SM SCT018 23/21 A2991 RMK AO1 T02330205 KTPH 191256Z AUTO VRB03KT 10SM CLR 12/ A2992 RMK AO2 SLP068 T0117 $ KTOR 191253Z AUTO 11008KT 10SM CLR 11/09 A2964 RMK AO2 SLP003 T01060089 KSYI 191315Z AUTO 12003KT 10SM CLR 21/20 A3001 RMK A01 KW78 191250Z AUTO 02005KT 10SM OVC008 19/19 A3002 RMK AO1 T01940186 LLHA 191250Z 32008KT 9999 FEW025 29/21 Q1010 KSXS 191308Z AUTO 30004KT 2 3/4SM BR CLR 24/23 A3001 RMK AO2 LTG DSNT N SLP161 KSXT 191311Z AUTO 22008KT 1/4SM FG SCT009 BKN018 OVC033 05/04 A2997 RMK AO2 RAE1259 P0001 T00500044 FNUB 191300Z 13008KT CAVOK 30/// Q1022 KTPL 191251Z AUTO 17011KT 7SM OVC007 24/24 A2995 RMK AO2 SLP143 T02440239 KSXU 191315Z AUTO 24005KT 10SM CLR 16/M02 A2999 RMK AO2 T01551020 KW81 191315Z AUTO 36003KT 10SM OVC010 20/20 A3000 RMK AO1 T02000200 FNSU 191300Z 29011KT 9999 FEW015 25/// Q1015 KSYM 191310Z AUTO 15004KT 10SM CLR 21/17 A3003 RMK AO2 KSYN 191312Z AUTO 00000KT 10SM SCT028 SCT050 16/14 A2991 RMK AO2 T01640142 KTQE 191312Z AUTO 14007KT 3SM BR OVC007 19/18 A2981 RMK AO2 CIG 005V009 T01940183 KUGN 191255Z 00000KT 3SM -RA BR OVC021 18/18 A2995 RMK AO2 RAB23 SLP136 P0009 T01830183 FNUE 191200Z 27007KT CAVOK 31/20 Q1019 FNUG 191300Z 18008KT 9000 BKN025 28/17 Q1015 WMSA 191300Z 00000KT 7000 FEW010 SCT140 OVC260 24/23 Q1012 KTQH 191315Z AUTO 00000KT 7SM CLR 20/20 A2994 RMK AO2 LKPR 191300Z 34004KT 280V040 9999 SCT033 14/06 Q1016 NOSIG KSYR 191254Z 09007KT 10SM SCT250 19/17 A3007 RMK AO2 SLP180 T01890172 LLIB 191250Z 01009KT 9999 FEW050 31/19 Q1009 KSZL 191258Z 13003KT 10SM VCTS SCT022 BKN045 20/20 A2990 RMK DZB21E28RAB28E40DZB40E45 TSB04E35 SLP123 P0001 $ MBPV 191100Z 00000KT 9999 SCT015 28/24 Q1012 KW96 191315Z AUTO 35010G15KT 330V030 10SM OVC011 21/20 A2995 RMK AO1 T02130200 KTRI 191253Z 00000KT 9SM CLR 17/16 A3007 RMK AO2 SLP163 T01720156 MDAB 191300Z 00000KT 9999 FEW018 SCT300 27/25 Q1014 KW99 191250Z AUTO 00000KT 5SM BR OVC009 20/19 A3008 RMK AO2 LTG DSNT W T01980186 KSZT 191315Z AUTO 21004KT 10SM DZ BKN034 BKN039 OVC048 06/05 A2971 RMK AO2 KTRK 191255Z AUTO 00000KT 10SM CLR 03/M02 A3003 RMK AO2 KUIL 191312Z AUTO 34004KT 9SM -RA OVC016 10/09 A2967 RMK AO2 RAB00 P0000 T01000089 KTRL 191253Z AUTO 19010KT 8SM OVC010 24/22 A2994 RMK AO2 CIG 008V012 SLP133 T02440222 KTRM 191252Z AUTO 31006KT 10SM CLR 24/13 A2973 RMK AO2 SLP071 T02390128 KVAD 191258Z AUTO 22004KT 10SM CLR 24/19 A2999 RMK AO2 RAB1158E08 SLP156 P0000 T02350187 $ KUIN 191254Z AUTO 08004KT M1/4SM FG VV002 19/18 A2994 RMK AO2 SLP133 T01890183 KVAF 191315Z AUTO 15008KT 8SM CLR 29/25 A2998 RMK A01 KSZY 191315Z AUTO 23003KT 10SM CLR 24/22 A2999 RMK A01 KTTA 191305Z AUTO 34005KT 10SM BKN009 20/18 A3001 RMK AO2 T01990182 LKTB 191300Z 08009KT 9999 -RA FEW025 13/10 Q1014 NOSIG FOOB 191300Z /////KT 9999 BKN020TCU 29/21 Q1011 KTTD 191253Z AUTO 00000KT 8SM -RA FEW018 SCT041 OVC048 12/09 A2980 RMK AO2 RAB1159 SLP091 P0004 T01170094 KUKF 191300Z AUTO 00000KT 10SM CLR 18/18 A3012 RMK AO2 LTG DSNT NW KTTF 191315Z AUTO 06003KT 7SM OVC005 19/18 A2999 RMK AO2 T01930178 KVBG 191258Z AUTO 00000KT 10SM FEW010 12/12 A2995 RMK AO2 SLP144 T01230116 KTSP 191315Z AUTO 30014KT 1/4SM FG OVC002 12/12 A3001 RMK AO2 MDBH 191300Z 27006KT 9999 FEW018CB FEW020 28/24 Q1015 CB/SE VVTS 191300Z 35013KT 320V050 6000 -TSRA SCT013 SCT015CB BKN040 23/23 Q1010 WS ALL RWY NOSIG RMK CB OVER RWY FOOG 191300Z 22014KT 9999 SCT011 SCT033 29/24 Q1013 KUKI 191256Z AUTO 33008KT 10SM CLR 13/07 A3002 RMK AO2 SLP161 T01330067 KVCB 191253Z AUTO 32005KT 10SM CLR 16/07 A2998 RMK AO2 SLP151 T01610072 FOOK 191300Z /////KT 9999 BKN016TCU 30/26 Q1010 FOOL 191300Z 25009KT 220V280 9999 SCT010 OVC033 27/24 Q1012 NOSIG KTTN 191253Z 04010G16KT 10SM OVC010 22/19 A2999 RMK AO2 CIG 008V013 SLP150 T02170194 FOON 191300Z 31005KT 9999 BKN016 32/21 Q1013 KVAY 191254Z AUTO 01009KT 10SM OVC012 21/21 A2997 RMK AO2 SLP147 T02110206 $ FOOR 191200Z /////KT 9999 SCT005 BKN008 28/22 Q//// KTTS 191258Z AUTO 07004KT 10SM FEW026 SCT085 28/26 A2996 RMK AO2 SLP150 T02770258 VISNO RWY15 CHINO RWY15 $ KVBS 191315Z AUTO VRB04KT 10SM FEW016 28/25 A2997 RMK A01 KUKT 191315Z AUTO 04008KT 10SM OVC009 20/19 A3004 RMK AO1 KVBT 191256Z AUTO 00000KT 10SM CLR 19/18 A2997 RMK AO2 SLP142 T01890178 FOOT 191300Z 00000KT 9999 SCT012 BKN030 31/21 Q1013 KTUL 191304Z 25007KT 5SM -TSRA BR BKN050CB BKN085 OVC120 22/20 A2993 RMK AO2 LTG DSNT SW-NW TSB1258 FRQ LTGICCCCG S-NW TS S-NW MOV E P0001 T02170200 KTVC 191253Z 00000KT 10SM SCT170 OVC250 14/10 A3005 RMK AO2 SLP174 T01390100 KULM 191314Z AUTO 14007KT 1/4SM FG OVC001 18/17 A2987 RMK AO2 KVBW 191315Z AUTO 01004KT 7SM BKN011 OVC019 19/18 A3007 RMK AO2 T01930176 KVDF 191315Z AUTO 00000KT 7SM OVC085 25/23 A3000 RMK AO2 KTVF 191301Z AUTO 11009KT 9SM OVC005 13/13 A2982 RMK AO2 SLP100 T01330128 KTUP 191253Z 15003KT 10SM CLR 24/22 A2998 RMK AO2 SLP146 T02390217 RJAA 191300Z 13003KT 9999 FEW030 BKN/// 22/19 Q1009 NOSIG KTVI 191315Z AUTO 00000KT 10SM SCT050 BKN070 23/23 A3002 RMK AO2 KVDI 191315Z AUTO 00000KT 10SM BKN060 23/21 A3002 RMK AO2 KTUS 191253Z 11006KT 10SM CLR 24/14 A2997 RMK AO2 SLP101 T02390139 KTVK 191255Z AUTO 00000KT 1/2SM FG OVC001 17/17 A2994 RMK AO2 KVCT 191251Z 13006KT 6SM BR FEW050 25/24 A2994 RMK AO2 SLP138 T02500239 KTVL 191253Z AUTO 19012KT 10SM CLR 08/01 A3001 RMK AO2 SLP124 T00830006 KVCV 191315Z AUTO 00000KT 10SM CLR 16/09 A2992 RMK AO2 RJAF 190700Z 20012KT 9999 FEW060 BKN/// 24/11 Q1010 LKVO 191300Z VRB02KT 9999 FEW030 15/07 Q1016 KTWF 191253Z 19012KT 10SM FEW120 06/04 A2987 RMK AO2 SLP088 T00560039 MDCY 191300Z 00000KT 9999 FEW017 BKN300 27/25 Q1012 RJAH 191300Z 02003KT 9999 FEW030 BKN/// 19/17 Q1009 KTVR 191311Z AUTO 00000KT 7SM FEW007 24/23 A3000 RMK AO2 T02390228 KUNI 191315Z AUTO 00000KT 10SM OVC110 20/20 A3001 RMK AO2 T02030197 RJBB 191300Z 18003KT 130V220 9999 FEW030 SCT150 BKN/// 24/19 Q1012 NOSIG KX60 191315Z AUTO 00000KT 6SM BR CLR 24/23 A3002 RMK A01 RJBD 191000Z VRB01KT 9999 FEW020 SCT025 BKN/// 24/20 Q1012 KVEL 191253Z AUTO 23007KT 10SM BKN120 15/02 A2976 RMK AO2 SLP017 T01500017 RJBE 191200Z 26004KT 220V290 9999 FEW030 BKN150 BKN/// 24/21 Q1012 SABE 191300Z 05007KT 9999 SCT013 17/14 Q1020 KTWM 191255Z AUTO 09004KT 10SM SCT003 BKN011 OVC026 16/13 A2996 RMK AO2 KUNO 191253Z AUTO 19003KT M1/4SM FG VV002 19/19 A2999 RMK AO2 SLP145 T01890189 KTVY 191335Z AUTO 36017G20KT 7SM RA BKN015 OVC020 11/10 A2985 RMK AO2 P0003 SAAR 191300Z 02011KT CAVOK 19/12 Q1017 RJCA 190730Z 13004KT 9999 -TSRA FEW010 SCT020CB BKN040 17/13 Q1001 RMK 1ST010 3CB020 6CU040 A2958 FBL TS 10KM SW MOV STN KVER 191315Z AUTO 15003KT 3/4SM BR OVC002 18/ A2993 RMK AO2 LTG DSNT S AND W T0183 RJCB 191131Z VRB03KT 9999 -SHRA FEW015 FEW030CB BKN080 15/13 Q1003 RMK 1ST015 1CB030 6AC080 A2963 CB 20KM S MOV E KVES 191255Z AUTO 00000KT 4SM BR BKN013 BKN017 OVC046 19/19 A2999 RMK AO2 LTG DSNT N AND SW RJCC 191300Z 17006KT 9999 FEW010 BKN030CB BKN120 17/16 Q1004 EYKA 191250Z 24012KT 9999 FEW034CB SCT039 17/09 Q1014 KTXK 191253Z 20005KT 9SM CLR 22/22 A2996 RMK AO2 SLP140 T02220217 KUNU 191315Z AUTO 00000KT 10SM CLR 14/14 A3000 RMK AO2 T01440135 RJAW 191200Z 11006KT 9999 FEW010 27/26 Q1015 RMK 2CU010 A2999 KUNV 191253Z 00000KT 4SM BR OVC020 17/17 A3009 RJCH 191100Z 24012KT 9999 FEW030 21/19 Q1004 RJBT 190900Z 01002KT 9999 FEW040 BKN/// 23/17 Q1011 RJCK 191100Z 29004KT 9999 FEW040 SCT100 16/14 Q1003 RJDC 191200Z 25003KT 9000 FEW035 BKN180 24/22 Q1012 RJCM 191100Z 21006KT 190V250 9999 FEW040 SCT100 BKN120 17/12 Q1002 RJCN 190900Z 27005KT 220V300 9999 -SHRA FEW015 BKN070 15/15 Q1002 RJCO 190915Z 14003KT 9000 TSRA FEW008 SCT015 BKN020CB 18/18 Q1003 RMK 2ST008 4ST015 7CB020 A2962 FBL TS 10KM S MOV E SACO 191300Z 03022G32KT CAVOK 22/10 Q1013 SADF 191300Z 03006KT 010V060 CAVOK 18/13 Q1019 KUOX 191315Z AUTO 00000KT 9SM CLR 22/22 A3000 RMK AO2 KTYQ 191315Z AUTO 19006KT 5SM BR BKN036 20/19 A2997 RMK AO2 LTG DSNT SE AND S T01950194 FQCH 191300Z 10006KT 9999 SCT015 26/17 Q1021 KTYR 191253Z 21008KT 10SM OVC005 24/24 A2996 RMK AO2 SLP136 T02390239 RJCT 190724Z 23010KT 9999 -SHRA FEW015 FEW020CB BKN030 BKN100 18/12 Q1003 RMK 2ST015 2CB020 5CU030 6AC100 A2962 CB 30KM SW STNR FCST AMD 0715 TEMPO 0709 4000 TSRA RJEB 190700Z 25008KT 200V300 9999 FEW030 SCT040 BKN/// 21/12 Q0998 KTYS 191253Z 05004KT 6SM BR CLR 19/17 A3003 RMK AO2 SLP160 T01890172 FQBR 191300Z 19009KT 9999 SCT010 BKN070 26/20 Q1018 RJEC 191100Z 17006KT 9999 -SHRA FEW008 SCT020 BKN030 FEW030CB 15/14 Q1003 KVGT 191253Z AUTO 20012KT 10SM CLR 24/01 A2973 RMK AO2 SLP057 T02390011 RJCW 190900Z 24011KT 9999 FEW020 16/13 Q0998 KVIH 191253Z AUTO 16003KT 4SM BR CLR 19/19 A2997 RMK AO2 SLP140 T01890189 KTZR 191247Z 00000KT 7SM BR BKN050 BKN060 OVC080 20/19 A3001 RJDT 191100Z 22004KT 170V260 6000 NSC 24/19 Q1012 MDJB 191300Z 00000KT 9999 FEW018 SCT300 29/25 Q1014 NOSIG LLSD 191250Z 28009KT 9999 FEW025 30/22 Q1010 RJFF 191300Z 16006KT CAVOK 24/18 Q1012 KUSE 191315Z AUTO 05006KT M1/4SM +RA OVC003 18/18 A2999 RMK AO2 RJFG 190900Z VRB02KT 9999 FEW023 BKN/// 25/22 Q1013 KVJI 191315Z AUTO 09003KT 10SM CLR 20/17 A3009 RMK AO2 T01960171 RJFK 191200Z 35005KT 9999 FEW040 20/18 Q1015 RMK 1CU040 A2997 KUTA 191315Z AUTO 19003KT 10SM 22/21 A2998 RMK AO2 TSNO KVIS 191256Z AUTO 31010KT 10SM CLR 16/09 A2995 RMK AO2 SLP147 T01560094 KY19 191315Z AUTO 13015G21KT 9SM BKN013 BKN075 BKN120 16/16 A2953 RMK AO2 RJFM 191200Z 29006KT 9999 FEW030 24/21 Q1013 KWAL 191313Z AUTO 36014G18KT 10SM SCT012 BKN019 OVC060 22/21 A2986 RMK AO2 RAE11 P0001 T02170211 RJFO 191300Z 14004KT CAVOK 23/20 Q1012 KY23 191315Z AUTO 13005KT 10SM BKN028 OVC040 14/13 A2997 RMK AO2 T01430131 RJGG 191300Z 27010KT 9999 FEW025 BKN/// 24/16 Q1011 NOSIG SAEZ 191300Z 05009KT CAVOK 19/14 Q1019 RJFR 191300Z 21005KT 9999 FEW020 BKN180 25/18 Q1012 RJFS 191200Z 04002KT 9999 FEW035 SCT170 BKN/// 23/21 Q1013 RJFT 191200Z VRB01KT 9999 FEW035 SCT160 BKN/// 21/20 Q1014 RJFU 191200Z 16005KT 8000 FEW025 BKN170 BKN/// 23/21 Q1013 EYPA 191250Z 27006KT 220V320 9999 BKN022 BKN086 15/11 Q1013 KY31 191314Z AUTO 00000KT 10SM BKN010 13/12 A3005 RMK AO2 T01300120 KVLD 191253Z 00000KT 10SM CLR 24/18 A3001 RMK AO2 SLP167 T02390183 KUTS 191315Z AUTO 20006KT 8SM OVC005 26/24 A2997 RMK AO2 CIG 004V008 T02560239 KUVA 191315Z AUTO 09006KT 5SM BR CLR 24/23 A2995 RMK AO2 T02400226 KVKS 191315Z AUTO 22005KT 9SM FEW006 24/24 A3001 RMK A01 KVLL 191314Z AUTO 07005KT 10SM OVC008 18/16 A3003 RMK AO2 T01830162 GGOV 191300Z 24007KT 9999 BKN014TCU 30/24 Q1014 NOSIG KVKY 191315Z AUTO 25006KT 10SM FEW020 FEW031 SCT100 28/23 A3004 RMK A01 KWDG 191250Z 14009KT 10SM SCT120 BKN150 21/21 A2983 SBAA 191200Z 12004KT 5000 FU NSC 34/13 Q1015 MDLR 191300Z 00000KT 9999 SCT018 BKN300 28/25 Q1014 KY50 191256Z AUTO 05005KT 10SM FEW055 14/13 A3001 RMK AO2 SLP183 T01390128 KY49 191315Z AUTO 13006KT 4SM BR OVC002 13/13 A2987 RMK AO2 T01310128 LMML 191245Z 35015KT CAVOK 29/10 Q1013 NOSIG KVNC 191315Z AUTO 04007KT 10SM CLR 26/23 A2997 RMK AO2 KUUU 191318Z AUTO 02012KT 10SM -RA OVC005 19/19 A3005 RMK AO2 P0001 T01890189 $ KY51 191315Z AUTO 12005KT 10SM SCT070 15/14 A2998 RMK AO1 T01450141 SBAF 191300Z 20003KT 5000 HZ NSC 26/18 Q1022 RJKA 191000Z VRB02KT 9999 FEW035 25/22 Q1012 KWDR 191315Z AUTO 00000KT 10SM CLR 21/18 A3007 RMK AO1 LTG DSNT NW KVOA 191315Z AUTO 27007KT 10SM FEW029 27/23 A3002 RMK A01 EYSA 191250Z 25010KT 210V270 9999 FEW035 15/10 Q1013 BLU NOSIG SBAN 191300Z 10013KT CAVOK 25/06 Q1024 SBBE 191300Z 08007KT 9999 BKN021 29/24 Q1014 KY63 191318Z AUTO 11011G17KT 2SM BR OVC003 16/16 A2981 RMK AO2 T01580158 SBBG 191200Z 07009KT 9999 BKN015 17/14 Q1021 FQIN 191300Z 09009KT 9999 BKN020 26/19 Q1020 SBAQ 190200Z 18010KT CAVOK 27/14 Q1021 SBBH 191300Z 07008KT 9999 SCT030 24/11 Q1026 SBBI 191300Z 10002KT 9999 FEW012 20/15 Q1026 SBAR 191300Z 11016KT 9999 SCT018 SCT080 27/21 Q1020 SBCA 191200Z 07015KT CAVOK 26/09 Q1023 SBAT 191300Z 06001KT 1200 FU NSC 31/18 Q1015 SBCB 191300Z 05020KT CAVOK 28/20 Q1023 SBAU 182300Z 16005KT CAVOK ///// Q1017 SBCC 191300Z 16006KT 0400 R12/0800N FU VV015 29/11 Q1017 KVOK 191258Z 08003KT 10SM BKN047 14/13 A2999 RMK AO2A SLP159 KY70 191313Z AUTO 07006KT 10SM OVC015 16/12 A3001 RMK AO2 T01550115 KVPC 191253Z AUTO 00000KT 9SM CLR 18/18 A3005 RMK AO2 SLP165 T01830183 MDPC 191300Z 03012KT 9999 FEW019 SCT300 29/25 Q1014 KUXL 191315Z AUTO 00000KT 10SM CLR 27/26 A2999 RMK AO2 T02660261 SBAX 191300Z 14008KT CAVOK ///// Q1026 SBCF 191300Z 06012KT 9999 BKN040 22/11 Q1026 SBCG 191300Z 06017KT CAVOK 30/09 Q1019 KUYF 191315Z AUTO 17003KT 10SM BKN044 OVC055 21/18 A3000 RMK AO2 LTG DSNT SW SBBQ 191300Z 06007KT 9999 FEW030 21/11 Q1028 SBCH 191200Z 04005KT CAVOK 25/17 Q1022 KVNY 191251Z 14003KT 5SM HZ SCT010 OVC017 18/15 A2991 RMK AO2 SLP122 T01830150 SBCI 191300Z 09010KT CAVOK 35/13 Q1015 SBBR 191300Z 10009KT 060V140 CAVOK 24/08 Q1024 SBCJ 191300Z 05003KT 5000 FU NSC 29/18 Q1018 SBBT 191200Z AUTO VRB02KT 7000 BKN005 25/23 Q1016 KUZA 191254Z AUTO A3006 RMK AO2 SLPNO PWINO SBBU 191300Z 05009KT CAVOK 26/17 Q1022 FPST 191200Z 11004KT 9999 FEW020 BKN040 28/24 Q1015 NOSIG SBBV 191300Z 25005KT 9999 FEW013 BKN017 BKN050 29/25 Q1015 SBBW 191300Z /////KT CAVOK 34/12 Q1017 SAME 191300Z 14005KT CAVOK 19/05 Q1008 SBCO 191300Z 15004KT 9999 SCT014 20/16 Q1022 SBCP 191200Z 04020KT 9999 SCT020 27/17 Q1024 MDPP 191300Z 00000KT 9999 FEW018 SCT300 29/25 Q1014 SBCR 191300Z 04001KT CAVOK 29/21 Q1005 KVPS 191255Z 30005KT 10SM FEW025 FEW250 25/24 A3000 RMK AO2A SLP165 T02500239 $ SBCT 191235Z 08005KT 8000 FEW005 SCT009 17/14 Q1026 FQMA 191300Z 06011KT 9999 FEW020 27/19 Q1018 NOSIG KVRB 191253Z 03008KT 10SM BKN070 BKN085 OVC100 26/23 A2996 RMK AO2 SLP143 T02610233 SBDN 191300Z 11010KT CAVOK 28/14 Q1020 SBCX 191200Z 03006KT CAVOK 18/12 Q1023 SBEG 191300Z 34004KT 9999 SCT015 BKN100 26/24 Q1016 SBCY 191200Z 35003KT 7000 NSC 28/16 Q1015 KWHP 190255Z 12007KT 10SM SKC 25/15 A2992 SBCZ 191300Z 34001KT 5000 BR NSC 24/21 Q1017 KVQQ 191250Z 00000KT 10SM CLR 22/22 A3001 KVPZ 191256Z AUTO 05004KT 7SM SCT005 OVC017 20/19 A2995 RMK AO2 SLP139 T02000189 TSNO RJOA 191200Z VRB02KT 7000 FEW020 BKN/// 20/18 Q1013 SBEK 191300Z 07003KT 5000 FU NSC 28/25 Q1015 RJOB 191200Z VRB01KT 8000 FEW025 BKN/// 21/18 Q1012 RJNK 191300Z 17005KT 9999 FEW030 BKN/// 19/14 Q1011 EYVI 191250Z 23015KT 9999 SCT061TCU 16/07 Q1015 NOSIG KVQT 181815Z AUTO 12009KT 10SM FEW016 A3003 RMK A01 RJOC 191100Z 22008KT 7000 FEW020 BKN/// 23/19 Q1011 SAOC 191300Z 36026G36KT CAVOK 19/11 Q1011 MDSD 191300Z 36006KT 9999 FEW018 BKN300 29/26 Q1013 RJOF 190534Z 18006KT 150V220 9999 FEW030 BKN150 BKN230 26/20 Q1011 RMK 1CU030 5AC150 A2986 KVSF 191254Z AUTO 03003KT 10SM OVC018 19/16 A3016 RMK AO2 SLP211 T01890156 KWJF 191256Z AUTO 26019G28KT 10SM CLR 17/12 A2991 RMK AO2 PK WND 25032/1215 SLP114 T01720122 RJOH 191300Z 17005KT 9999 FEW025 BKN035 BKN/// 21/17 Q1011 SANR 191300Z 36013KT CAVOK 21/10 Q1013 RJOI 191255Z 20006KT 9000 HZ FEW025 BKN150 OVC210 23/19 A2991 RMK SLP127 T02330194 SBFI 191300Z 11007KT CAVOK 25/16 Q1019 SBES 191200Z /////KT 9999 FEW015 ///// Q1023 RJNS 191200Z 25009KT 9999 FEW025 BKN/// 23/18 Q1011 RJOK 191100Z 36005KT CAVOK 22/17 Q1012 RJNT 191200Z 20004KT 140V240 9999 FEW050 SCT070 BKN/// 21/18 Q1011 SANT 191300Z 18005KT 4000 FU NSC 20/11 Q1013 KVTA 191254Z AUTO 00000KT 10SM CLR 21/18 A3000 RMK AO2 SLP154 T02060183 SBFL 191300Z 36008KT 9999 BKN030 22/16 Q1022 RJOM 191200Z 13007KT 7000 FEW030 SCT180 BKN/// 23/18 Q1012 SBFN 191300Z 14018KT 9999 FEW023 28/22 Q1016 RJNW 191000Z 24008KT 9999 FEW030 SCT/// 20/17 Q1011 LOAN 191300Z 33008KT 9000 -RA FEW006ST SCT020SC BKN030SC RJOO 191100Z VRB02KT 9999 FEW030 SCT170 BKN/// 25/14 Q1012 RMK 1CU030 3AC170 A2989 RJNY 190143Z 26015G25KT 230V290 9999 FEW020 28/16 Q1009 RMK 1CU020 A2982 FCST AMD 0107 BECMG 0102 26015KT TEMPO 0207 24015G25KT RJOR 191200Z 15006KT 9999 FEW030 SCT/// 22/17 Q1011 FQNP 191300Z 05009KT 9999 FEW020 32/16 Q1018 RMK 32 3 TM17 8 SBFS 191300Z /////KT 9999 SCT025 ///// Q//// KVTI 191315Z AUTO 11004KT M1/4SM FG OVC001 16/16 A2994 RMK AO2 T01620161 RJOT 191200Z 19005KT 9999 FEW025 SCT150 BKN170 22/18 Q1013 VYMD 191130Z 00000KT 5000 BKN018 FEW020CB BKN100 26/26 Q1005 MDST 191300Z 00000KT 9999 FEW018 SCT300 27/25 Q1014 SBGL 191300Z 04005KT 4000 HZ FEW013 26/17 Q1022 SBGM 191300Z 17003KT CAVOK 26/20 Q1016 FQPB 191300Z 12010KT 9999 SCT020 28/22 Q1017 LOAV 191300Z 30007KT 10KM -RA FEW008ST BKN020ST 11/09 RJOW 191000Z 19003KT 6000 NSC 22/22 Q1012 KWLD 191254Z AUTO 15007KT 10SM BKN100 22/19 A2985 RMK AO2 SLP097 T02170189 KVTN 191252Z AUTO 09005KT 10SM CLR 18/15 A2964 RMK AO2 SLP019 T01780150 SBGO 191300Z 10011KT CAVOK 30/06 Q1022 RJOY 191000Z 24003KT 9999 FEW060 BKN/// 24/15 Q1011 SBFZ 191300Z 10018KT 9999 FEW025 30/18 Q1016 KVTP 191327Z AUTO 20027G54KT 10SM CLR 07/M11 A3021 RMK AO2 KXBP 191315Z AUTO 16004KT 10SM CLR 24/23 A2992 RMK AO2 T02440227 SBGR 191300Z 15003KT 090V220 5000 BR BKN015 19/16 Q1025 KVUJ 191300Z AUTO 01005KT 10SM BKN007 21/19 A3008 RMK AO2 LTG DSNT NW T02050189 SBIC 191200Z 00000KT CAVOK 25/24 Q1016 SARC 191300Z 09005KT CAVOK 22/17 Q1017 KWMC 191256Z AUTO 19006KT 10SM FEW055 OVC070 09/00 A2993 RMK AO2 SLP105 T00890000 TSNO SBGW 191200Z 03003KT 310V070 3000 HZ BKN012 BKN015 20/16 Q1025 SARE 191300Z 06006KT 7000 NSC 23/16 Q1016 SARF 191300Z 07007KT CAVOK 25/17 Q1017 KVUO 191253Z AUTO VRB03KT 10SM SCT017 OVC065 11/11 A2979 RMK AO2 RAE51 SLP089 P0002 T01110106 SBIH 191300Z 00000KT 8000 NSC 29/25 Q1014 KVVG 191250Z AUTO 00000KT 10SM 23/23 A2990 RMK A01 SARI 191300Z 05007KT CAVOK 23/18 Q1019 RJSA 191218Z 22012KT 9999 FEW020 SCT030 FEW030CB BKN/// 19/15 Q1006 RMK 1CU020 3CU030 1CB030 A2973 CB 25KM E MOV E SASA 191300Z 14003KT CAVOK 17/08 Q1018 SBHT 191300Z 02006KT 9999 BKN020 30/24 Q1015 RKJB 191300Z 20008KT 1600 BR SCT020 OVC150 23/22 Q1012 NOSIG SBIL 191300Z 13011KT 9999 SCT028 FEW035TCU 26/19 Q1022 RJSC 191000Z 00000KT 9999 FEW050 20/16 Q1010 SARL 191300Z 07011KT 5000 BR OVC006 16/15 Q1019 FQQL 191300Z 15008KT 110V150 9999 SCT020 28/20 Q1018 RJSF 191100Z 03003KT 9999 FEW030 BKN045 20/16 Q1012 SBIP 191200Z 05007KT 9999 SCT020 BKN040 24/15 Q1024 SARP 191300Z 09005KT 9999 22/16 Q1019 RJSH 190614Z 24018G28KT 9999 SCT030 BKN200 24/15 Q1006 RMK 3CU030 A2971 RJSI 191000Z 14004KT 110V170 9999 FEW030 SCT080 19/16 Q1009 SASJ 191300Z 14002KT CAVOK 22/08 Q1017 SCBA 191300Z 31013KT 9999 SCT030 BKN040 06/03 Q1011 RJSK 191221Z 15003KT 090V220 9999 TS FEW015 SCT020 FEW020CB BKN035 19/17 Q1008 RMK 1CU015 3CU020 1CB020 5CU035 A2979 FBL TS 20KM N MOV NE RKJK 191308Z AUTO 22015G20KT 5SM R36/4500FT BR CLR 23/22 A2985 RMK AO2 SLP112 HAAB 191200Z 28006KT 9999 BKN025 19/12 Q1026 RJSN 191200Z 15004KT 110V180 9999 FEW040 SCT070 BKN/// 22/17 Q1010 KVVV 191313Z AUTO 03009G15KT 3SM BR OVC004 18/17 A2978 RMK AO2 RJSO 190113Z 22015G25KT 170V270 9999 FEW030 23/17 Q1005 RMK 1CU030 A2971 RJTF 190700Z 17007KT 140V200 9999 FEW030 BKN/// 28/16 Q1008 SBKG 191200Z 13018KT 9999 SCT036 FEW040TCU 24/16 Q1020 SBJP 191200Z 15015KT 9999 BKN020 27/18 Q1018 SBIZ 191300Z 11007KT 9999 FEW030 31/22 Q1015 SBJR 191200Z 00000KT 5000 HZ FEW018 26/20 Q1022 RJTI 190700Z 18009KT 150V220 9999 FEW030 BKN/// 26/20 Q1008 RJSR 191000Z 18005KT 9999 FEW005 SCT020 BKN030 19/19 Q1008 SCAR 191300Z 03002KT 9999 FEW015 OVC100 16/11 Q1019 RJSS 191200Z 20005KT 9999 FEW005 BKN/// 21/18 Q1009 SBLB 191300Z 08019KT 9999 SCT020 23/19 Q1025 W///S5 SCAT 191300Z 24004KT 190V260 9999 OVC023 13/07 Q1022 SBJU 191200Z 15012KT 9999 SCT020 28/16 Q1021 SBJV 191300Z 16001KT 6000 FEW003 BKN012 22/19 Q1023 KVWU 191314Z AUTO 12005KT 1SM BR OVC002 12/12 A2988 RMK AO2 P0001 SBLE 191300Z 07006KT 9999 OVC020 21/16 Q1024 RJTO 190800Z 22014KT 9999 FEW020 BKN/// 25/19 Q1009 SCCF 191300Z 11018KT CAVOK 15/M08 Q1030 RJSY 191200Z 15003KT 9999 FEW020 SCT120 20/17 Q1009 SBKP 191300Z 11007KT CAVOK 25/14 Q1023 SCCH 191300Z 02008KT 9999 OVC033 12/08 Q1018 SCCI 191300Z 03009KT 9999 SCT025 OVC030 03/M02 Q1010 NOSIG SBMA 191200Z 02008KT 8000 NSC 31/23 Q1014 SCDA 191300Z 14004KT 9999 BKN022 17/10 Q1019 RJTT 191300Z 24007KT CAVOK 26/19 Q1009 BECMG 28006KT SAVC 191300Z 32009KT 260V340 CAVOK 14/02 Q1010 SBMD 191200Z 02002KT 9999 FEW013 27/24 Q1015 SBME 191300Z 04015KT 010V070 9999 FEW030 31/17 Q1022 SBLO 191200Z 11006KT CAVOK 25/15 Q1022 SBLP 191300Z 09008KT 9999 FEW030 30/15 Q1021 SBMG 191300Z 07004KT 7000 NSC 30/14 Q1020 RJTY 191256Z AUTO 36003KT 10SM R18/4500FT OVC220 23/18 A2987 RMK AO2 SLP112 T02290180 FZRANO $ SBLS 191300Z 15006KT 090V190 9999 BKN040 21/12 Q1026 SBMK 191200Z 07012KT 9999 FEW030 24/12 Q1024 KVYS 191315Z AUTO 00000KT 4SM BR BKN005 OVC010 17/16 A2997 RMK AO2 LTG DSNT SE T01690157 SBML 182300Z 10006KT CAVOK 25/11 Q1019 KWRB 191258Z AUTO 31004KT 10SM CLR 21/20 A3001 RMK AO2 SLP163 T02110195 FQTT 191300Z 15013KT 120V180 8000 NSC 33/17 Q1015 RMK HZ SAWE 191300Z 20005KT 9999 BKN027 M01/M03 Q1012 SBMN 191300Z 05005KT 5000 -RA BKN010 FEW025TCU 25/23 Q1016 SBNF 191200Z 26004KT 9999 FEW025 BKN030 20/19 Q1023 SBMO 191300Z 14020KT 8000 VCSH SCT008 BKN015 24/21 Q1020 SAWG 191300Z 09009KT 9999 FEW030 BKN080 05/M01 Q1010 SCCY 191300Z 04006KT 9999 BKN036 08/03 Q1011 SBMQ 191300Z 02009KT 9999 SCT020 34/24 Q1014 SAWH 191300Z 11002KT CAVOK 01/M05 Q1010 KXIH 191315Z AUTO 10SM BKN014 A2996 RMK A01 SBMS 191200Z 14010KT 9999 FEW025 31/15 Q1016 KWRI 191258Z 01013KT 10SM CLR 21/20 A2994 RMK AO2A RAB21E55 SLP138 P0000 T02110199 SCFA 191300Z 21008KT 9999 SCT011 OVC018 14/11 Q1020 NOSIG SBMT 191300Z 00000KT 5000 HZ BKN017 20/14 Q1025 SCEL 191300Z 16007KT 7000 SCT005 BKN010 OVC015 10/08 Q1020 NOSIG SBNM 190000Z 17006KT 9999 FEW020 20/15 Q1019 KWRL 191253Z AUTO 13005KT 10SM CLR 10/08 A2959 RMK AO2 SLP996 T01000083 FQVL 191200Z 11008KT 070V140 9999 FEW020 26/21 Q1019 SBMY 191300Z 30002KT 9999 SCT005 BKN100 27/24 Q1015 SBOI 191300Z 13006KT 9999 BKN025 30/23 Q1015 SBPA 191300Z 08004KT 030V150 9999 SCT017 20/16 Q1022 SBPB 182145Z 08012KT 9999 FEW020 28/22 Q1011 SBNT 191300Z 15016KT 9999 BKN030 29/20 Q1017 SBPC 191300Z 09006KT CAVOK 26/12 Q1027 RKPC 191300Z 25008KT 6000 NSC 23/17 Q1013 NOSIG SCFM 181600Z 25005KT 9999 FEW015 SCT030 OVC100 06/01 Q1001 SCGE 191300Z 36004KT 9000 -SHRA SCT027 BKN030 11/10 Q1017 SBPF 191300Z 05012KT CAVOK 19/15 Q1022 RKNY 191310Z AUTO 20006KT 140V260 6000 NCD 19/17 Q1005 LPAR 191300Z /////KT CAVOK 26/14 Q1022 SBPJ 191200Z 09012KT CAVOK 31/11 Q1015 SBPK 191200Z 09005KT 9999 BKN025 20/18 Q1022 LPBJ 191300Z VRB06KT CAVOK 25/11 Q1022 RKPK 191300Z 22002KT 4800 BR FEW040 FEW100 SCT200 24/20 Q1011 NOSIG SCFT 191300Z AUTO VRB01KT //// SKC 05/02 Q1015 MGCB 191300Z 00000KT 9999 SCT016 BKN060 17/17 QFE869.8 MTN W CUB/CL KWST 191253Z AUTO 03009G19KT 10SM -RA OVC006 19/18 A3005 RMK AO2 RAE20B44 SLP175 P0000 T01940183 SBPL 191200Z 14013KT 9999 BKN025 25/16 Q1021 SBPP 191300Z 02012KT CAVOK 29/13 Q1020 SBPR 191300Z 07011KT 9999 BKN030 23/12 Q1026 LPAZ 191300Z 21010KT 9999 FEW028 24/17 Q1025 SBPS 191300Z 08016KT 9999 SCT020 BKN050 24/20 Q1024 SBRB 191300Z 17006KT CAVOK 27/16 Q1016 SCIC 191300Z 05002KT 9999 OVC030 12/07 Q1019 SAZM 191300Z 36008KT 320V030 CAVOK 17/13 Q1020 SBPV 191300Z 29003KT 6000 NSC 27/21 Q1015 KXLL 191315Z AUTO 03009KT 10SM OVC010 21/19 A3004 RMK AO2 SAZN 191300Z 27008KT CAVOK 18/03 Q1009 SCIE 191300Z 02009KT 5000 -DZ BR BKN006 OVC020 11/10 Q1018 SBRF 191300Z 13012KT 9999 SCT023 SCT060 28/20 Q1018 SCGZ 191300Z 00000KT CAVOK 02/M05 Q1010 SAZR 182010Z 02021G31KT 9000 NSC 24/12 Q1012 KWVI 191253Z AUTO 31004KT 10SM CLR 10/09 A3002 RMK AO2 SLP166 T01000094 SBRJ 191200Z 35004KT 4000 HZ NSC 26/20 Q1022 SAZS 191300Z 30010KT 9999 BKN040 09/03 Q1013 LPCS 191300Z 34015KT 9999 FEW020 22/14 Q1023 KXNA 191253Z 00000KT 10SM CLR 19/18 A2996 RMK AO2 SLP132 T01890183 SBSC 191300Z 05008KT CAVOK 28/18 Q1022 FSIA 191300Z 13011KT 9999 FEW009 BKN016 28/25 Q1013 NOSIG SBQV 191300Z 16012KT 9999 BKN015 18/14 Q1025 KWVL 191256Z AUTO 00000KT 6SM BR OVC004 17/16 A3018 RMK AO2 SLP247 T01670161 KWWD 191255Z AUTO 36011G19KT 10SM -RA SCT010 OVC014 21/20 A2991 RMK AO2 SLP129 P0001 T02110200 SBSG 191200Z 19014G25KT 150V220 9999 BKN040 27/22 Q1017 RKSG 191255Z 24010G19KT 2SM BR FEW023 24/22 A2979 RMK AO2A LTG DSNT N SLP088 T02370223 $ SCIP 191300Z 12004KT 9999 SCT025 BKN050 17/12 Q1025 NOSIG SBRP 191200Z 09007KT 8000 NSC 25/10 Q1022 SCIR 191300Z 22010KT 9999 SCT010 BKN020 12/09 Q1018 RKSI 191300Z 27013KT 250V310 6000 SCT030 22/18 Q1008 NOSIG SBTA 191300Z 02004KT 3500 HZ OVC016 23/16 Q1024 SBSJ 191200Z 27001KT 4000 BR BKN014 19/16 Q1025 KXMR 191318Z AUTO 20009KT 10SM FEW017 BKN025 BKN045 26/23 A2996 RMK AO2 CIG 023V090 BKN025 V FEW CIG 017 RWY31 SLP148 $ SBTC 182000Z 10004KT 9999 FEW020 BKN070 23/21 Q1020 SBSL 191300Z 06010KT 9999 SCT017 29/23 Q1015 SBSM 191200Z 09006KT 050V120 9999 FEW006 BKN013 18/16 Q1020 RKSM 191300Z 21008KT 4800 -TSRA BR FEW018CB SCT020 OVC030 24/21 A2977 SBSN 191300Z 04004KT CAVOK 31/24 Q1014 SBTE 191200Z 15010KT CAVOK 31/16 Q1015 SBTF 191220Z 28003KT 9999 OVC004 25/24 Q1015 SCJO 191300Z VRB03KT 9999 BKN025 08/04 Q1016 RKSO 191255Z 21011KT 3SM TS BR SCT019 BKN021 BKN035 23/21 A2977 RMK AO2A SLPNO WND DATA ESTMD ALSTG ESTMD $ KXNO 191258Z AUTO 02004KT 10SM CLR 21/19 A3003 RMK AO2 SLP169 T02050185 $ SBSP 191300Z 16006KT 140V200 7000 SCT015 20/14 Q1026 SBSR 191300Z 09013KT CAVOK 28/08 Q1022 SBUA 182000Z 27003KT 9999 SCT015 FEW020TCU SCT100 28/25 Q1010 RKSS 191300Z 28011KT 6000 BKN025 21/17 Q1008 NOSIG KWWR 191315Z AUTO 18013G18KT 10SM CLR 21/15 A2984 RMK AO2 SBTK 191200Z 00000KT 3000 BR NSC 21/21 Q1016 MGES 191300Z 00000KT 9999 SCT014 BKN080 20/19 QFE908.6 SBST 191300Z 09003KT 9000 SCT013 OVC035 23/18 Q1022 HBBA 191200Z 18018KT 8000 FEW025TCU BKN100 28/19 Q1012 NOSIG LPFL 191300Z 25006KT 180V340 9999 VCSH SCT019 FEW020CB SCT040 24/19 Q1021 SBSV 191300Z 09014KT 9000 VCSH SCT020 FEW025TCU SCT060 26/21 Q1 021 RKTN 191300Z 26005KT 8000 FEW040 BKN200 25/18 Q1009 NOSIG SBUF 191200Z 10012KT 9999 FEW010 BKN015 BKN070 25/19 Q1021 SBUG 191210Z 09007KT 9999 BKN004 16/15 Q1019 SBSY 191200Z AUTO 15004KT 100V210 9999 FEW008 24/11 Q1023 LPFR 191300Z 18006KT CAVOK 22/15 Q1021 SBTT 191300Z 32002KT CAVOK 26/23 Q1016 SBTU 191300Z 05007KT 9999 BKN020 28/23 Q1017 SBUL 191200Z 06011KT CAVOK 23/09 Q1024 RKTU 191300Z 23012KT 6000 SCT020 BKN030 23/20 Q1009 NOSIG VYYY 191300Z 16005KT 7000 BKN015 FEW018CB BKN110 28/27 Q1009 SBVH 191300Z 13003KT 080V180 9000 NSC 30/14 Q1018 SBUR 191200Z 05013KT CAVOK 25/08 Q1023 SCMK 191300Z 33004KT 2000 DZ OVC004 08/07 Q1013 KWYS 191315Z AUTO 22004G10KT 8SM -UP FEW015 SCT029 SCT033 01/01 A2973 RMK AO2 MGGT 191300Z 00000KT 8000 FEW008 SCT016 BKN080 18/17 Q1024 A3024 BR KXPY 191315Z AUTO 19004KT 8SM CLR 28/23 A3002 RMK A01 YABA 191300Z AUTO 30007KT 9999 // SCT037 SCT044 BKN055 14/10 Q1012 LPHR 191300Z 21010KT 9999 FEW015 SCT040 BKN070 24/19 Q1023 KXSA 191315Z AUTO 35008KT 310V040 10SM OVC011 23/20 A2996 RMK AO2 T02270203 SBVT 191231Z 29004KT 8000 BKN013 BKN021 22/21 Q1025 RERA MGHT 191300Z 00000KT 9999 SCT008 15/15 QFE820.0 FEW060 FEW200 WSAP 191300Z 33001KT 8000 FEW018 BKN150 27/25 Q1011 KYIP 191253Z AUTO 05007KT 10SM OVC009 20/17 A3000 RMK AO2 SLP155 T02000172 SCNT 182200Z 19008KT 9999 FEW023 OVC073 05/01 Q1005 MHAM 191300Z 36002KT CAVOK 26/25 LPLA 191300Z 22012KT 9999 FEW020 27/19 Q1023 MHCA 191300Z 07003KT 9999 FEW008 BKN022 OVC070 23/22 Q1015 HZ LQBK 191300Z 01002KT 4500 BR SCT008 BKN013 OVC027 15/14 Q1008 NOSIG KYKM 191253Z 28005KT 10SM CLR 06/03 A2970 RMK AO2 SLP059 T00610033 PNO $ KYKN 191256Z AUTO 12008KT 6SM BR OVC007 19/18 A2976 RMK AO2 SLP081 T01940183 SCPQ 191300Z 36008KT 9999 BKN025 07/05 Q1014 MHCH 191300Z 00000KT 7000 FEW006 SCT070 25/23 7 KM NE BR CL D/C UNL FEW030 SCT250 SBYS 191200Z 15004KT 100V210 CAVOK 25/12 Q1024 LPMA 191300Z 04006KT 350V100 9999 SCT018 SCT030 23/16 Q1025 SCRD 191300Z 02006KT 9999 BKN050 11/07 Q1020 SCQP 191300Z 01004KT 340V040 9999 FEW005 BKN019 09/08 Q1017 KXVG 191316Z AUTO 00000KT 1 3/4SM BR OVC003 13/13 A2989 RMK AO2 FSPP 191300Z 18008KT //// //// 28/25 Q1013 SCRM 190900Z 30014KT 1500 -SN OVC002 M06/// Q0984 MGMM 191300Z 00000KT 8000 SCT006 BKN010 26/24 Q1013 A2991 BR SCSE 191300Z 07005KT 9999 OVC028 12/08 Q1021 LOWG 191250Z 32007KT 290V350 9999 -RA FEW012 SCT040 OVC050 10/07 Q1012 TEMPO RA KYNG 191251Z 12007KT 5SM BR OVC250 19/18 A3004 RMK AO2 SLP166 T01890178 LPMR 191300Z 32012KT 9999 FEW009 17/14 Q1024 LOWI 191250Z VRB02KT 9999 -RA FEW007 SCT028 BKN040 09/07 Q1017 TEMPO RA SCTB 191300Z 22003KT 1200 HZ -DZ OVC003 09/08 Q1020 MGMT 191300Z 00000KT 9999 SCT016 BKN070 25/25 QFE1009.9 LPMT 191300Z 03005KT 350V060 9999 FEW020 25/14 Q1022 LOWK 191250Z 25003KT 210V330 8000 RA FEW004 BKN010 OVC035 08/07 Q1013 TEMPO -RA FEW005 SCT010 OVC050 SEAM 191300Z 03003KT 5000 BR FEW005 10/08 Q1033 LOWL 191250Z 25009KT 9999 FEW020 SCT045 BKN060 12/09 Q1015 NOSIG SCTE 191300Z 36011KT 9999 FEW060 09/05 Q1016 NOSIG SCSN 191300Z 04007KT 9999 BKN045 14/08 Q1020 SECA 191300Z 16004KT 9999 NSC 22/11 Q1020 LOWS 191250Z 23006KT 160V250 9999 -RA FEW006 SCT035 BKN050 09/07 Q1017 NOSIG MGPB 191300Z 00000KT 9999 FEW018 BKN200 26/26 Q1011 A2985 SCTN 191300Z 01005KT 9999 FEW015 BKN030 09/06 Q1015 LPPD 191300Z 20008KT 9999 FEW027 24/17 Q1025 LOWW 191250Z 32010KT 9999 -RA FEW004 BKN015 BKN050 12/11 Q1013 TEMPO FEW005 BKN010 LOXT 191250Z VRB01KT 15KM -RA FEW006ST SCT012ST BKN020SC 13/11 Q1014 NOSIG RMK OVC SCVD 191300Z 00000KT 9999 OVC013 08/07 Q1016 LPOV 191300Z 32009KT 9000 0900N BCFG FEW001 16/14 Q1024 SECO 191300Z 31002KT 9999 FEW006 SCT016 BKN090 23/23 Q1017 RMK A3004 LOXZ 191250Z 25002KT 10KM -RA FEW003ST SCT023SC OVC030NS 07/05 Q1014 NOSIG LPPR 191300Z 29005KT 9999 VCFG FEW008 17/14 Q1024 LPPS 191300Z 11010KT 070V140 9999 BKN015 23/16 Q1025 LPPT 191300Z 33010KT 290V360 9999 FEW035 24/14 Q1023 SECU 191300Z 14001KT 0100 FG VV/// 080/08 Q1030 SCVM 191300Z 35009KT 9999 SCT025 BKN035 13/08 Q1021 YBAF 191300Z AUTO 10001KT 9999 // NCD 20/15 Q1016 RMK MGQZ 191300Z 00000KT 9999 FEW008 13/12 QFE772.7 FEW080 YBAS 191300Z AUTO 08005KT 9999 // NCD 17/01 Q1022 MGSJ 191300Z 00000KT 8000 FEW014 SCT020TCU BKN200 26/25 Q1012 A2988 BR TCU SMC S MGRT 191300Z 09004KT 9999 OVC014 24/23 Q1014 A2994 VOL. STA. MARIA Y SANTIAGUITO EN ACTIVIDAD LRBC 191300Z 35008KT 330V030 9999 FEW060 22/10 Q1014 YBBN 191300Z 34008KT CAVOK 20/16 Q1016 YBCG 191300Z AUTO 34009KT 9999 // NCD 20/17 Q1015 YBCK 191300Z AUTO 21006KT //// // ////// 19/01 Q1018 RMK LRAR 191300Z 18009KT 150V220 9999 SCT028 25/10 Q1008 YAMB 191300Z AUTO 25002KT 9999 // NCD 18/14 Q1016 LPST 191300Z 32012KT 9999 FEW020 21/13 Q1023 MHLC 191200Z 14002KT 9999 FEW024TCU BKN250 23/23 Q1011 A2986 NOSIG LRBM 191300Z 10010KT 9999 SCT043 20/14 Q1010 YBDG 191300Z AUTO 00000KT 9999 // NCD 03/02 Q1021 RMK MHLE 191300Z 00000KT 4000 FEW008 BKN200 15/15 4 KM NE E ESE CL D/C ALL LRBO 191300Z 07014G24KT 9999 BKN100 25/10 Q1012 BLU BLU YBCS 191300Z 19008KT 9999 FEW008 SCT045 BKN065 22/20 Q1018 SEGS 191300Z 15017KT 9999 BKN020 20/17 Q1015 A2998 LRBS 191300Z 05014KT 020V090 9999 SCT041 26/13 Q1011 NOSIG LRCK 191300Z 07016KT 9999 FEW018 SCT021 24/20 Q1012 NOSIG YBCV 191300Z AUTO /////KT 9999 // NCD 19/M02 Q1019 SEGU 191300Z 22007KT 9999 BKN023 BKN100 24/19 Q1014 NOSIG RMK A2996 MGTU 191300Z 00000KT CAVOK 24/23 FEW080 LRCL 191300Z 11008KT 070V130 9999 FEW060 21/11 Q1011 MHLM 191300Z 00000KT 99999 FEW026 BKN250 26/26 Q1012 A2989 NOSIG YANG 191300Z AUTO 11003KT 9999 // NCD 23/M04 Q1018 LRCT 191300Z 07002KT 9999 SCT070 BKN200 20/13 Q1011 BLU BLU YBDV 191300Z AUTO 17008KT //// // ////// 16/M06 Q1021 SEJD 191300Z 25002KT 8000 BCFG FEW006 SCT020 BKN100 21/21 Q1019 LRCV 191300Z 07015KT CAVOK 27/12 Q1009 LQMO 191300Z 13012KT 100V160 9999 SCT039 BKN067 22/16 Q1007 ROAH 191300Z 14003KT 9999 FEW027 27/21 Q1013 BGBW 191250Z 20001KT 9999 SKC 06/M01 Q1010 YBGD 191300Z AUTO 04002KT 9999 // NCD 24/02 Q1018 RMK SFAL 191250Z 14005KT 9999 FEW020 06/M00 Q1016 GMAD 191300Z 26012KT 230V290 CAVOK 25/14 Q1018 NOSIG MHNO 191300Z 00000KT 9999 FEW030 BKN090 21/20 HZ GMAG 191300Z 30010KT CAVOK 27/15 Q1017 NOSIG FTTA 191300Z 26004KT 9999 BKN040 FEW050CB 32/22 Q1013 FTTC 191300Z 00000KT 9999 FEW040 SCT150 BKN250 34/20 Q1014 HDAM 190800Z 08011KT 9999 FEW023 FEW133 35/29 Q1011 FTTD 191300Z 20008KT 8000 -TSRA FEW040 SCT040CB 29/24 Q1011 YBHI 191300Z AUTO 08007KT 9999 // NCD 11/M01 Q1023 KZPH 191315Z AUTO 01005KT 5SM BR OVC085 23/23 A3000 RMK AO2 T02330228 MGZA 191300Z 00000KT 9999 FEW007 SCT090 OVC200 25/23 QFE987.2 MTN SMC N CUB/CL SEMC 191300Z 19006KT 3000 BCFG BKN012 BKN100 18/18 Q1022 FTTJ 191300Z 13004KT 070V190 9999 SCT040 35/21 Q1010 NOSIG YBHM 191300Z AUTO 12009KT 9999 // NCD 22/19 Q1019 MHPL 191300Z 00000KT 9999 FEW026TCU BKN090 27/24 Q1012 TCU N HZ GMAT 191300Z 36012KT CAVOK 24/15 Q1020 NOSIG YARG 191300Z AUTO 16004KT 9999 // BKN090 27/M02 Q1014 LRIA 191300Z 06009KT 9999 TS FEW033 FEW045CB 22/05 Q1015 BGGH 191250Z 04010KT 9999 FEW200 04/M01 Q1015 SELT 191300Z 02002KT 8000 4000N BR FEW007 SCT030 09/08 Q1034 YARM 191300Z AUTO 28004KT 9999 // NCD 06/M07 Q1021 RMK FVBU 191200Z VRB05KT 9000 NSC 30/08 Q1022 NOSIG RODN 191256Z AUTO 00000KT 10SM CLR 25/21 A2993 RMK AO2 SLP141 T02530212 $ HCMF 191300Z 30004KT 9999 FEW025 33/25 Q1008 YCBA 191300Z AUTO 17003KT 9999 // NCD 08/M04 Q1022 HCMH 191300Z 27017G28KT 9999 VCRA BKN020 CB 20/17 RERA Q1018 YCBB 191300Z AUTO 19009KT //// // ////// 08/M02 Q1021 LQSA 191300Z 12016KT 9999 -RA FEW020 BKN045 17/11 Q1008 WS R12 TEMPO TS FEW035CB SEMT 191300Z 15004KT 9999 SCT023 23/20 Q1015 RMK A2999 WSSL 191300Z VRB02KT 9999 FEW018 BKN140 26/24 Q1011 RMK 1230Z Q1011 SENL 191300Z 28003KT CAVOK 24/21 Q1017 YBKE 191300Z AUTO 24004KT //// // ////// 10/M06 Q1021 RMK MHSC 191313Z 00000KT 9999 OVC005 22/22 A3000 RMK AO2A SLP126 $ HCMM 191300Z 19008KT 9999 SCT020 29/24 Q1011 MHRO 191300Z 05005KT 9999 FEW022CB 29/25 Q1012 A2989 NOSIG YCAR 191300Z AUTO 20013KT 9999 // ////// 21/17 Q1018 YCAS 191300Z AUTO 29005KT //// // ////// 20/11 Q1015 WSSS 191300Z 31003KT 270V360 9999 FEW018 BKN140 26/25 Q1011 NOSIG FVCZ 191200Z 07008KT CAVOK 31/17 Q1022 FVFA 190900Z 04010KT 010V080 CAVOK 29/07 Q1020 NOSIG MHTE 191300Z 00000KT 9999 SCT026TCU 25/24 Q1010 TCU N NW HZ YCBP 191300Z AUTO 06007KT 9999 // NCD 13/M07 Q1021 MHTG 191300Z 00000KT 60000 3000SW BR FEW002 BKN022 BKN080 19/19 Q1019 A3009 GMFF 191300Z 32006KT 260V070 CAVOK 29/06 Q1023 NOSIG YBMA 191300Z AUTO 15011KT 9999 // NCD 27/M05 Q1017 YBKT 191300Z AUTO 29005KT //// // ////// 22/16 Q1013 MHSR 191300Z 00000KT 8000 FEW006 BKN250 20/19 8 KM ALL HZ YBLN 191300Z AUTO 27004KT //// // ////// 15/13 Q1014 RMK GMFK 191300Z 15006KT CAVOK 31/M07 Q1023 NOSIG GMFM 191300Z 31004KT CAVOK 27/07 Q1022 NOSIG BGJN 191250Z 05005KT 310V110 9999 SCT083 BKN150 01/M09 Q1018 GMFO 191300Z AUTO 33009KT 290V040 9999 // ////// 27/12 Q1021 YBNA 191300Z AUTO 03002KT 9999 // NCD 18/12 Q1015 YBLT 191300Z AUTO 00000KT 9999 // NCD 03/03 Q1022 RMK MHTR 191300Z 18002KT 9999 FEW024CB 28/24 CB NW TCU W NW FEW250 HZ YBMK 191300Z AUTO 22003KT 9999 // NCD 20/17 Q1019 SERB 191300Z 00000KT 9999 SCT010 BKN030 10/09 Q1034 FVHA 191200Z 06012KT 020V110 5000 // NSC 28/08 Q1024 NOSIG YCEE 191300Z AUTO 35010KT //// // ////// 10/05 Q1020 SEQM 191300Z 26004KT 9999 BKN070 13/07 Q1028 NOSIG RMK A3037 YCDO 191300Z AUTO 22003KT //// // ////// 05/01 Q1022 RMK BGKK 191250Z 08013KT 040V120 9999 BKN060 07/02 Q1008 YCCY 191300Z AUTO 19008KT //// // ////// 24/M01 Q1016 ROIG 191100Z 07006KT 9999 FEW020 27/24 Q1011 LQTZ 191300Z 24005KT 9999 -RA BKN050 17/14 Q1007 SESA 191300Z 24006KT 9999 BKN012 22/19 Q1015 YCDU 191300Z AUTO 06009KT 9999 // NCD 11/03 Q1019 YCEM 191300Z AUTO 00000KT //// // ////// 05/04 Q1022 RMK SERO 191300Z 20002KT 9999 SCT010 OVC013 22/21 Q1015 SESG 191300Z 19008KT CAVOK 32/M02 Q1018 YBNS 191300Z AUTO 30007KT 9999 // SCT052 05/03 Q1021 RMK YBOK 191300Z AUTO 28005KT 9999 // NCD 17/01 Q1017 YCFL 191300Z AUTO 15019KT //// // ////// 24/22 Q1016 RMK SESM 191300Z 33008KT CAVOK 20/15 Q1021 A3015 YAYE 191300Z AUTO 11008KT 9999 // NCD 22/03 Q1020 LROD 191300Z 04005KT CAVOK 23/10 Q1008 YCFS 191300Z AUTO 23013KT 9999 // SCT037 SCT044 19/13 Q1018 SGAS 191300Z 07005KT 040V100 CAVOK 27/16 Q1016 SEST 191300Z 17015KT 9999 -DZ FEW008 OVC016 19/XX Q1013 RMK A2994 HEBA 191100Z 29008KT CAVOK 30/22 Q1011 NOSIG FVKB 191200Z 06004KT CAVOK 35/11 Q1015 NOSIG YBPN 191300Z AUTO 17006KT 9999 // NCD 20/17 Q1018 LSGC 191250Z VRB04KT 9999 SHRA BKN010 SCT015 07/05 Q1019 SETN 191300Z 19007KT 9999 SCT040 BKN070 24/22 Q1014 A2995 LROP 191300Z 05015KT 9999 BKN041 25/12 Q1011 NOSIG LSGG 191250Z 02006KT 340V050 9999 -TSRA FEW025 SCT035CB BKN042 12/07 Q1020 NOSIG YCHK 190830Z AUTO 35006KT 310V060 9999 // NCD 35/M03 Q1015 RMK YAYT 191300Z 33012KT CAVOK 32/M09 Q1015 HEAR 190300Z 00000KT CAVOK 21/19 Q1009 NOSIG SETU 191300Z 01002KT 9999 FEW020 BKN100 10/07 Q1035 HECA 191300Z 31008KT 6000 NSC 33/16 Q1010 NOSIG HEAT 191200Z 30011KT CAVOK 34/13 Q1013 NOSIG HEBL 191200Z 36007KT CAVOK 38/07 Q1010 NOSIG HEAX 191200Z 31008KT 8000 FEW020 30/20 Q1010 NOSIG MHYR 191300Z 05002KT 9999 BKN020 22/20 HZ YBRK 191300Z AUTO 35005KT 310V010 9999 // NCD 19/15 Q1018 YBRL 191300Z AUTO 05003KT //// // ////// 24/17 Q1014 RMK LSGS 191250Z 26011KT 9999 FEW040 BKN070 14/05 Q1017 YBRM 191300Z AUTO 17005KT 9999 // NCD 27/15 Q1013 GMMB 191300Z 33011KT CAVOK 26/16 Q1022 NOSIG YCIN 191300Z AUTO 13007KT 9999 // NCD 28/M05 Q1012 FWCL 191300Z 24012KT 3000 HZ BKN045 30/20 Q1018 NOSIG GMMC 191300Z 36014KT CAVOK 24/18 Q1021 NOSIG YBSG 191300Z AUTO 13006KT //// // ////// 25/20 Q1014 RMK GMMD 191300Z VRB02KT CAVOK 31/05 Q1020 NOSIG GMME 191300Z 35010KT CAVOK 24/15 Q1021 NOSIG GMMH 191300Z 01022KT 5000 NSC 30/16 Q1015 NOSIG GMMI 191300Z 02017KT 350V050 CAVOK 31/16 Q1018 NOSIG LRSB 191300Z 16013KT 9999 BKN048 22/11 Q1011 LTAC 191250Z 19010KT 9999 SCT040 35/00 Q1012 NOSIG SGEN 191300Z 05005KT CAVOK 24/14 Q1018 GMML 191300Z 03014KT CAVOK 29/15 Q1020 NOSIG KZZV 191253Z AUTO 00000KT 8SM BKN095 18/17 A3001 RMK AO2 SLP157 T01830167 YBRY 191300Z AUTO 29001KT 9999 // NCD 26/M03 Q1018 RMK YBTH 191300Z AUTO 17005KT 9999 // NCD 05/M00 Q1021 RMK ROMY 191100Z 07007KT 9999 FEW017 SCT/// 26/24 Q1012 LTAF 191250Z 21008KT 160V240 9999 FEW040 34/24 Q1007 NOSIG GMMN 191300Z 01013KT 320V050 CAVOK 26/17 Q1021 NOSIG LTAG 191250Z 22004KT 9999 SCT035 34/22 Q1008 NOSIG SGES 191300Z 10005KT 060V150 CAVOK 27/17 Q1018 LTAI 191250Z 17010KT 140V210 9999 SCT030 29/24 Q1009 NOSIG YBSU 191300Z AUTO 35006KT 9999 // NCD 18/13 Q1016 YBTL 191300Z AUTO 17005KT 9999 // SCT015 22/19 Q1018 LTAJ 191250Z 20006KT 170V230 CAVOK 35/05 Q1011 NOSIG LTBA 191250Z 02009KT 340V060 CAVOK 31/20 Q1009 NOSIG YBUD 191300Z AUTO 31006KT 9999 // NCD 18/15 Q1018 YCKN 191300Z AUTO 14012KT 9999 // SCT038 BKN054 BKN062 23/20 Q1017 LRTC 191300Z 08012KT 050V110 CAVOK 26/14 Q1012 LTAL 191250Z 02007KT 9999 SCT030 SCT100 31/07 Q1013 LRSM 191300Z 13007KT CAVOK 21/13 Q1010 LTBD 191250Z 28013KT CAVOK 36/14 Q1008 FVMV 190900Z 18002KT CAVOK 24/14 Q1024 NOSIG LTAN 191250Z 32013KT 9999 FEW040 SCT100 33/04 Q1013 BECMG TL1350 VRB02KT LTBF 191250Z VRB05KT CAVOK 38/08 Q1008 NOSIG GMMW 191300Z 04011KT 010V070 CAVOK 29/10 Q1020 NOSIG LTBG 190604Z 10004KT 070V130 6000 SCT009 21/18 Q1011 NOSIG RMK RWY18 10006KT LTAP 191250Z 02007KT 9999 SCT040 37/06 Q1009 NOSIG GMMX 191300Z 34005KT 310V040 CAVOK 29/02 Q1020 NOSIG BGSF 191250Z AUTO 08008KT 9999NDV NCD M01/M07 Q1019 LTBH 191250Z 20013KT CAVOK 28/19 Q1009 LTAR 191250Z VRB02KT 9999 SCT030 BKN100 28/M00 Q1019 GMMZ 191300Z VRB01KT CAVOK 32/M04 Q1021 NOSIG LTAS 191250Z 35010KT 9999 SCT032 26/21 Q1010 LTBJ 191250Z 36012KT CAVOK 36/11 Q1009 NOSIG LTCA 191250Z 10007KT 040V140 9999 FEW035 SCT200 36/00 Q1012 NOSIG LTAT 191250Z 05005KT 010V090 9999 FEW040 SCT100 36/03 Q1012 NOSIG LTCB 191250Z 08010KT 9999 SCT035 26/21 Q1011 LTAU 191250Z 04007KT 9999 FEW040 BKN120 33/M01 Q1012 NOSIG LTCC 191250Z 15010KT 110V180 CAVOK 36/07 Q1011 NOSIG LRTM 191300Z 30004KT 260V340 9999 SCT048 21/14 Q1010 R07/CLRD// LRSV 191300Z 05005KT 020V080 9999 SCT045CB 12/10 Q1016 RESHRA LTCD 191250Z 12006KT 9999 FEW040 SCT100 32/02 Q1016 NOSIG YDBY 191300Z AUTO 13007KT 9999 // NCD 24/M00 Q1012 LTCE 191250Z 17005KT 090V240 9999 SCT035 27/M01 Q1021 NOSIG LTAW 191250Z 02006KT 340V060 9999 SCT040 29/13 Q1010 BIBD 191300Z 17006KT 9999 SCT020 SCT035 12/07 Q1007 LTCF 191250Z 10009KT 050V150 9999 BKN035 24/M00 Q1022 LTBO 191250Z 26010KT 230V290 CAVOK 33/M05 Q1014 LTCG 191250Z 09008KT 9999 SCT035 26/21 Q1012 NOSIG LTAY 191250Z 29012KT CAVOK 33/04 Q1013 LTAZ 191250Z 07007KT 030V120 9999 SCT040 36/M00 Q1011 LTBQ 191250Z 11006KT 080V210 9999 FEW035 31/20 Q1009 NOSIG LRTR 191300Z 17007KT CAVOK 25/11 Q1008 NOSIG LTBR 191250Z 33003KT 210V020 CAVOK 36/09 Q1009 NOSIG LTCI 191250Z 24005KT 9999 SCT040 24/12 Q1021 NOSIG LSMA 191250Z 00000KT 9999 BKN045 OVC060 12/07 Q1019 RMK BLU LTBS 191250Z 20008KT 170V230 9999 FEW030 29/20 Q1009 NOSIG LTCJ 191250Z 23008KT 190V290 CAVOK 38/07 Q1010 LTDA 191250Z 22017KT CAVOK 33/23 Q1007 YCMM 191300Z AUTO 04002KT //// // ////// 07/06 Q1020 RMK BIAR 191300Z 16008KT 9999 FEW059 15/08 Q1008 LTCK 191250Z 27005KT 240V300 9999 SCT040 31/03 Q1017 LTBU 191250Z 10010KT CAVOK 32/19 Q1009 LTCL 191250Z 18007KT 150V210 9999 FEW040 38/03 Q1011 LSMD 191250Z AUTO 29006KT 260V320 9999NDV -RA FEW024 BKN053 BKN081 12/06 Q1018 RMK LTCM 191250Z 09014KT 9999 FEW030 26/19 Q1009 LSME 191250Z AUTO 22006KT 9999NDV FEW030 BKN037 BKN044 13/05 Q1019 RMK BGTL 191258Z AUTO 10003KT 9999 OVC043 M02/M04 A3007 RMK AO2 SLP168 T10181042 LTCN 191250Z 23014KT 9999 SCT040 37/06 Q1009 NOSIG HEGN 191200Z 12008KT CAVOK 36/15 Q1008 NOSIG LTCO 191250Z 30005KT 260V330 9999 FEW040 29/M05 Q1020 LTBY 191250Z 33010KT 9999 FEW040 34/03 Q1012 LTCP 191250Z 21007KT 150V250 CAVOK 36/08 Q1011 LRTZ 191300Z 03010KT 9999 BKN025 25/19 Q1011 BLU BLU LTBZ 190450Z 00000KT CAVOK 12/06 Q1016 YCMT 191300Z AUTO 02005KT //// // ////// 19/10 Q1019 RMK YCNK 191300Z AUTO 22006KT //// // ////// 13/01 Q1019 RMK LTCR 191250Z 26006KT 210V300 9999 FEW040 36/07 Q1011 LTCS 191250Z 18008KT 150V240 CAVOK 35/09 Q1014 YCNM 191300Z AUTO 18009KT //// // ////// 12/M04 Q1020 LTCT 191250Z VRB04KT CAVOK 31/05 Q1016 YCOE 191300Z AUTO 13007KT //// // ////// 24/20 Q1015 LTCU 191250Z 21006KT 160V260 9999 FEW035 34/00 Q1015 LTCV 191250Z 24012KT CAVOK 38/03 Q1012 LSMM 191250Z 22006KT 170V250 9999 -SHRA FEW011 SCT035 BKN060 10/05 Q1019 RMK BLU YBWP 191300Z AUTO 11012KT 9999 // NCD 26/20 Q1013 LTCW 191250Z 20012KT 150V300 9999 FEW040 28/M02 Q1022 LSMP 191250Z VRB02KT 9999 -RA SCT023 BKN032 BKN048 12/07 Q1019 RMK BLU RORS 191000Z 08008KT 9999 FEW020 27/23 Q1011 LTFA 190515Z 04002KT CAVOK 19/14 Q1009 RMK RWY17 VRB02KT LSMS 191250Z 26011KT 9999 FEW040 BKN070 14/05 Q1017 RMK BLU YCOM 191300Z AUTO 25007KT 9999 // NCD 01/M00 Q1019 YBWW 191300Z AUTO 17003KT 9999 // NCD 18/00 Q1017 RMK LTFC 191250Z 32013KT 270V350 9999 SCT040 34/02 Q1012 YBWX 191300Z AUTO 27011KT //// // ////// 23/19 Q1015 LTFD 191250Z 25008KT 230V290 CAVOK 31/15 Q1009 YCNY 191300Z AUTO 10002KT //// // ////// 22/00 Q1014 RMK LTFE 191250Z 26013KT 9999 FEW035 35/08 Q1008 NOSIG RORY 191300Z AUTO 06003KT 9999 NCD 25/22 Q1013 LTFG 191250Z 25009KT 220V290 9999 FEW015 SCT030 30/25 Q1009 BIEG 191300Z 18014KT 9999 VCSH SCT035 BKN080 14/09 Q1010 RPLB 191300Z 00000KT 9999 -SHRA FEW018CB FEW020 BKN080 27/25 Q1009 RMK A2980 LTFJ 191250Z 03011KT CAVOK 30/20 Q1009 NOSIG LTFK 191250Z VRB04KT CAVOK 30/21 Q1008 HEIS 191200Z 31006KT CAVOK 33/17 Q1009 RPLC 191300Z 35003KT 8000 SCT018 OVC090 26/24 Q1011 RETS RMK A2985 GMTA 191300Z 36008KT CAVOK 26/18 Q1020 NOSIG ROTM 191259Z VRB03KT 9999 FEW030 26/21 A2995 RMK SLP040 STNPR29650 T02640211 RPLI 191200Z 09004KT 9999 SCT019 OVC100 25/25 Q1008 NOSIG RMK A2977 YBYU 191300Z AUTO 12004KT 9999 // ////// 27/21 Q1013 YDGU 191300Z AUTO 31003KT 9999 // NCD 27/M01 Q1016 RMK FWKI 191300Z 10013KT 9999 26/11 Q1020 NOSIG RPLL 191300Z VRB02KT 9999 FEW022CB FEW023 BKN090 26/26 Q1010 RERA NOSIG RMK A2983 CB W RPMD 191300Z 01005KT 9999 SCT016 BKN090 BKN290 27/24 Q1012 RMK A2988 GMTN 191300Z 32006KT 260V360 CAVOK 30/10 Q1020 HEMA 191200Z 04011KT CAVOK 34/16 Q1009 NOSIG GMTT 191300Z 28009KT 240V310 8000 FEW010 SCT200 24/17 Q1021 NOSIG RPMR 190900Z 33002KT 9999 VCSH FEW018CB SCT080 BKN250 31/24 Q1010 NOSIG CB NW N HEMM 191200Z 35012KT CAVOK 30/22 Q1011 NOSIG BIHN 190300Z 14004KT 9999 RA BR SCT002 BKN010 OVC035 11/// Q1010 HELX 191200Z 28006KT CAVOK 38/15 Q1008 NOSIG RPMZ 191200Z 00000KT 8000 -RA SCT016 OVC080 26/25 Q1012 RMK A2988 NCAI 191300Z AUTO 07006KT 040V110 //// ////// 23/21 Q1012 FVWN 190900Z 09005KT CAVOK 27/10 Q1022 MKJP 191300Z 34006KT 9999 FEW024CB 29/23 Q1013 MKJS 191300Z 16004KT 9999 FEW024 29/24 Q1013 YCUN 191300Z AUTO 28008KT 9999 // NCD 14/12 Q1015 RMK BIIS 191300Z 00000KT 9999 BKN025 BKN040 13/06 Q1007 LUBM 191000Z 12012KT CAVOK 20/06 Q1017 R25/CLRD65 ROYN 191300Z AUTO 13003KT 9999 NSC 27/24 Q1012 YDLQ 191300Z AUTO 29003KT //// // ////// 04/01 Q1022 RMK YCWA 191300Z AUTO 04004KT 9999 // NCD 21/M05 Q1019 RMK GOGG 191300Z 09004KT 9999 BKN020TCU 32/26 Q1014 BIKF 191300Z 20007KT 9999 FEW023TCU SCT055 10/05 Q1009 GOGK 190700Z 00000KT CAVOK 25/25 Q1013 HEPS 191200Z 34006KT 9999 FEW025 30/22 Q1010 NOSIG GOGS 191200Z 18004KT 100V270 9999 -RA SCT015 30/26 Q1015 YCWR 191300Z AUTO 00000KT //// // ////// 05/01 Q1022 HESC 191200Z 28011KT CAVOK 29/07 Q1020 NOSIG HESG 191200Z 34008KT CAVOK 39/09 Q1010 NOSIG HESH 191200Z 13014KT CAVOK 34/19 Q1007 NOSIG YDPO 191300Z AUTO 26006KT 9999 // NCD 06/02 Q1019 RMK HESN 191200Z 32008KT CAVOK 39/06 Q1010 NOSIG LSZA 191250Z 04009KT 360V080 9999 FEW095 20/02 Q1011 NOSIG LSZB 191250Z 14005KT 100V210 9999 VCSH SCT020 BKN032 12/08 Q1019 NOSIG RPVD 191200Z 20006KT 9000 VCSH FEW014CB SCT080 BKN220 27/25 Q1010 RMK A2983 CB S W/ OCNL LTG VCSH S LSZC 191250Z AUTO VRB01KT 9999 OVC050 12/07 Q1019 LSZG 191250Z 22008KT 9999 VCSH FEW026 SCT039 BKN050 12/07 Q1019 NOSIG LSZH 191250Z 31005KT 260V350 9999 -SHRA FEW015 FEW025TCU SCT038 BKN050 11/07 Q1019 TEMPO SHRA HETR 191300Z 31006KT CAVOK 37/12 Q1008 RPVM 191300Z VRB02KT 9999 FEW020 OVC090 27/25 Q1011 RMK A2985 LSZL 191250Z 24005KT 200V260 9999 SCT100 21/M00 Q1011 RMK BLU+ RPVP 191200Z 25004KT 9999 -RA SCT018 OVC080 25/24 Q1010 RMK A2983 LSZR 191250Z 11007KT 9999 FEW020 SCT060 BKN090 13/08 Q1018 NOSIG RMK I LSZS 191250Z VRB02KT 9999 BKN049 BKN060 05/M03 Q1015 RMK O MMAA 191243Z 34005KT 8SM SCT080 OVC300 27/24 A2983 RMK 8/037 HZY FXMM 181500Z 29004KT 9999 BKN035 FEW040TCU 21/05 Q1023 NOSIG YELD 191300Z AUTO 00000KT //// // ////// 27/23 Q1014 RMK CAHR 191200Z AUTO 16007KT 18/15 RMK AO1 SLP249 T01760153 50002 BIRK 191300Z VRB01KT 9999 FEW013 BKN032 08/06 Q1009 RESHRA MMAN 191240Z 11004KT 6SM BKN010 BKN015 24/22 A2997 RMK 8/500 HZY GOOD 191000Z VRB02KT 9999 SCT015 BKN230 29/26 Q1014 YFBS 191300Z AUTO 18005KT //// // ////// 05/00 Q1022 RMK GOOG 190600Z 00000KT 7000 NSC 26/25 Q//// MMAS 191240Z 36007KT 9SM SCT035 14/13 A3027 RMK 8/400 HZY MMCB 191250Z 00000KT 10SM BKN015 BKN100 20/18 A3014 RMK 8/570 LUKK 191300Z 07010KT 9999 FEW049 25/06 Q1014 R08/CLRD// NOSIG GOOK 191000Z 00000KT 9999 SCT013 BKN230 26/25 Q1016 FYGB 191300Z AUTO 11007KT //// // ////// 36/M06 Q1022 YFDF 191300Z AUTO 29005G18KT 9999 // NCD 27/M01 Q1017 RMK MMCE 191252Z 08006KT 7SM SCT010 BKN300 27/// A2989 RMK 8/508 AC CBBC 191300Z AUTO 22002KT 1/8SM FG VV001 06/06 A2974 RMK SLP074 FYGF 191300Z 09006KT CAVOK 34/19 Q//// YEML 191300Z AUTO 02005KT 9999 // NCD 20/09 Q1018 MMBT 191245Z 00000KT 4SM HZ BKN015 OVC130 23/// A2993 RMK 8/72/ MMCL 191245Z RTD 00000KT 10SM SCT020 25/24 A2988 RMK 8/500 ISOL CI MMCM 191242Z 00000KT 7SM FEW020 26/25 A2989 RMK 8/100 MMCN 191255Z 04005KT 10SM SCT100 BKN200 25/21 A2983 RMK 8/038 HZY RTS MMCP 191240Z 09007KT 2 1/2SM BR OVC005 26/26 A2989 RMK 8/6// HZY GOOY 191300Z 28010KT 260V020 9999 FEW010 33/25 Q1015 NOSIG MMCS 191146Z 00000KT 10SM FEW100 SCT250 22/12 A3005 RMK SLP051 5//// 958 8/035 RTS MMCT 191302Z RTD 00000KT 5SM SKC 25/24 A2994 RMK HZY MSGTX MMMD MMCU 191040Z 16004KT 10SM FEW030 FEW200 16/16 A3011 RMK 6//// 8/303 RTS MMCV 191241Z 15012KT 10SM SKC 25/21 A2993 RMK E15012KT MMDO 191252Z 00000KT 7SM SCT020 BKN030 15/15 A3025 RMK 8/800 HZY ISOL AC MMCZ 191243Z 00000KT 7SM FEW100 28/26 A2991 RMK 8/050 SC FZAA 191300Z 00000KT 6000 SCT016 FEW028CB BKN110 30/19 Q1014 CB E NOSIG BIVM 191300Z 23006KT 9999 SCT060 10/06 Q1009 MMEP 191252Z 00000KT 10SM SCT060 SCT250 18/18 A3002 RMK 8/031 MIFG ARND CBS DSNT 3 QUAD GOSM 190800Z 00000KT CAVOK 26/26 Q1015 GOSP 191000Z 36002KT CAVOK 31/25 Q1015 GOSS 191300Z 08002KT 9999 FEW010 34/26 Q1013 MMGL 191254Z 00000KT 10SM SCT100 SCT250 15/14 A3019 RMK 8/031 GOTK 190800Z 00000KT 0600 FG SCT005 25/24 Q1015 MMGM 190140Z 00000KT 5SM SCT150 32/28 A2975 RMK 8/020 FYKM 190800Z 07005KT CAVOK 30/11 Q1020 MMIA 191251Z 00000KT 8SM SCT150 22/21 A3001 RMK 6//// 8/020 YERN 191300Z AUTO 08007KT //// // ////// 15/M02 Q1022 GOTT 191000Z 28004KT 9999 BKN013 28/25 Q1015 FYKT 191300Z AUTO 00000KT //// // ////// 33/M03 Q1019 MMHO 191241Z 12003KT 10SM SCT040 29/26 A2990 RMK 8/500 DSNT LTGIC E HZY NCRG 191300Z 03011KT 9999 VCSH FEW018 SCT040 BK090 21/19 Q1012 NCPY 191300Z AUTO 08008KT //// //// 27/24 Q1010 FYML 191300Z AUTO 08004KT //// // ////// 35/M09 Q1020 YESP 191300Z AUTO 19009KT 9999 // OVC019 16/13 Q1013 MMIO 191240Z 00000KT 10SM BKN200 17/11 A3017 RMK 8/008 YGBI 191300Z AUTO 08008KT //// // ////// 27/24 Q1014 RMK YEST 191300Z AUTO 18009KT 9999 // OVC020 17/14 Q1013 RMK FYLZ 191300Z AUTO 18024KT //// // ////// 26/09 Q1013 FYOA 191300Z 33006KT CAVOK 38/M00 Q1015 YGAY 191300Z AUTO 00000KT //// // ////// 19/13 Q1017 RMK YFLI 191300Z AUTO 24020KT 9999 // NCD 10/03 Q1018 RMK MNBL 191300Z 35004KT 9999 TS SCT017CB SCT060 24/24 Q1012 CB/NE/E/SE YGDH 191300Z AUTO 03005KT //// // ////// 08/M04 Q1020 RMK FYOO 191300Z AUTO 00000KT //// // ////// 38/M00 Q1015 MNCH 191300Z 00000KT 99999 FEW024CB SCT090 25/24 Q1013 CB/S/SW MMMA 191105Z RTD 00000KT 6SM FEW015TCU 26/25 A2990 RMK 8/200 RTS MMLM 191307Z RTD 08005KT 10SM SCT100 BKN250 25/21 A2988 RMK 8/038 ISOL SC S TO SW RTS MMMD 191244Z 10008KT 6SM SKC 27/24 A2992 RMK HZY SC MMLO 191244Z 04005KT 10SM SCT220 14/12 A3029 RMK 8/002 FYOW 191300Z AUTO 05003KT //// // ////// 35/M03 Q1017 MMLP 191100Z RTD 19005KT 10SM SKC 24/22 A2986 RMK ISOL CI RTS YGEL 191300Z AUTO 27004KT 9999 // BKN025 16/13 Q1017 RF00.0/000.0 MMLT 191247Z 31005KT 8SM SCT240 28/23 A2983 RMK 8/001 RTS MMML 191300Z RTD 00000KT 10SM SKC 21/17 A2978 RMK RTS FZIC 191300Z 33006KT 9999 FEW026 31/22 Q1012 NOSIG MMMM 191245Z 00000KT 4SM SCT025 SCT090 14/14 A3024 RMK 8/530 HZ CI MMMT 191240Z 00000KT 10SM BKN020 OVC120 25/24 A2987 RMK 8/15/ MMNL 190950Z 14012KT 10SM SKC 27/23 A2989 RMK RTS YGFN 191300Z AUTO 19009KT 9999 // NCD 19/11 Q1017 MMMV 191140Z 35007KT 6SM SCT200 25/13 A2992 RMK8/002 MMMX 191243Z 07008KT 6SM SCT020 BKN080 16/12 A3034 NOSIG RMK 8/530 HZY FYRN 191300Z 09007KT CAVOK 37/01 Q1016 SKBG 191300Z 18006KT 9999 FEW020 22/18 A3009 MMMY 191247Z 07005KT 5SM SCT012 BKN015 25/22 A2993 RMK 8/500 MMMZ 191240Z 03003KT 8SM -RA SCT020 BKN090 OVC120 26/25 A2984 RMK 60005 8/46/ HZY TSE20 SKAR 191300Z 00000KT 8000 VCFG SCT023 SCT120 21/20 A3015 MMPA 191241Z 27004KT 3SM BR HZ SCT280 24/24 A2999 RMK 8/008 VRB COND MMPB 190959Z RTD 01003KT 10SM SKC 11/10 A3030 RMK LWR ST E RTS SKCC 191300Z 14004KT 9999 FEW023 29/20 A2994 FYRU 191300Z AUTO 06004KT //// // ////// 37/M01 Q1018 MMPE 181459Z RTD 10007KT 10SM FEW070 27/11 A2986 RMK 8/010 SKBO 191300Z VRB02KT 8000 FEW020 14/10 A3042 RMK HZ SKCG 191300Z 16003KT 9999 FEW020 SCT200 29/26 A2988 MMPG 181740Z 12006KT 8SM BKN025 32/23 A3001 RMK 8/500 HZY SKBQ 191300Z 13008KT 100V160 5000 BR SCT008 BKN200 28/27 A2989 SKCL 191300Z 09003KT 9999 FEW010 BKN100 21/20 A3011 MMPN 191241Z 00000KT 8SM SCT080 17/16 A3015 RMK 8/030 HZY CI MMOX 191241Z 02004KT 10SM OVC220 15/14 A3022 RMK 8/007 ISOL SC/AC MMPQ 191241Z 00000KT 1 1/2SM BR OVC010 24/23 A2979 RMK 8/6// MSGTX MMMD MMPR 191243Z 02006KT 10SM SCT020 SCT250 26/26 A2986 RMK 8/502 CB 3-QUAD MMPS 191300Z RTD 06006KT 7SM BKN070 26/23 A2996 RMK 8/040 YHBA 191300Z AUTO 35006KT 9999 // NCD 21/17 Q1017 RMK SKEJ 191300Z 18005KT 9999 FEW012 26/24 A2992 YFRT 191300Z AUTO 01009KT //// // ////// 16/M05 Q1015 FZNA 191300Z 27003KT 7000 SCT016 FEW020CB 27/16 Q1018 NOSIG BKPR 191300Z 25013KT 9999 FEW050 26/00 Q1010 NOSIG MMQT 191240Z 18003KT 6SM BKN020 13/13 A3031 RMK 8/500 FYWB 191300Z 26009KT CAVOK 19/10 Q1016 MMSD 191249Z 00000KT 12SM FEW080 22/20 A2989 RMK 8/020 FYWE 191200Z 20004KT 140V290 CAVOK 33/M07 Q1023 MNJG 191300Z 00000KT 9999 SCT017 19/19 Q1013 YGLA 191300Z AUTO 00000KT 9999 // NCD 20/15 Q1019 RF00.0/000.0 YGLB 191300Z AUTO 30004KT 9999 // NCD 02/M01 Q1020 RMK FYWH 191300Z 26003KT CAVOK 33/M06 Q1022 NOSIG TAPA 191300Z 11035KT 8000 RA SCT014 26/23 Q1008 MMTC 191243Z 10005KT 10SM BKN100 26/15 A3004 RMK 8/070 MMSL 191208Z RTD 00000KT 8SM FEW025 23/21 A2993 RMK 8/500 CI RTS YHAY 191300Z AUTO 24002KT //// // ////// 04/M00 Q1022 RMK MMRX 191248Z 17003KT 7SM SKC 25/23 A2991 RMK HZY YGLI 191300Z AUTO 13005KT 9999 // NCD 04/M03 Q1021 RMK MMTG 191246Z 17002KT 7SM SCT010 SCT015 BKN080 22/22 A2997 RMK 8/720 BCFG ST LWR ARND MMSP 191242Z 00000KT 5SM OVC020 13/13 A3027 RMK 8/5// LWR VSBY N NNW BINOVC BR HZ FU GQNO 191300Z 02007KT 330V090 8000 NSC 34/22 Q1014 NOSIG MMTJ 191241Z 00000KT 7SM OVC016 19/15 A2995 RMK 8/5// HZY GQPA 190900Z 34006KT 4000 BLDU NSC 36/15 Q1018 MNJU 191300Z 00000KT 9999 FEW020 SCT080 25/23 Q1012 MMTM 191250Z E21004KT 6SM SCT020 26/25 A2993 RMK 8/200 HZY ISOL CI YFTZ 191300Z AUTO 13006KT //// // ////// 25/M05 Q1013 RMK FYWW 191300Z 33005KT CAVOK 34/M05 Q1022 MMTO 191246Z 02003KT 2SM BR HZ BKN015 BKN070 12/11 A3038 RMK 8/530 MMTP 191242Z 32002KT 7SM SCT050 24/24 A2986 RMK 60015 8/500 HZY ISOL CI YGLS 191300Z AUTO 11005KT //// // ////// 22/M00 Q1020 RMK SKIB 191300Z 24003KT 9999 FEW030 BKN100 27/17 A3018 MMVA 191247Z 10004KT 7SM SCT003 BKN015 OVC070 25/25 A2991 RMK 8/63/ VRB CONDS BINOVC FZQA 190800Z 09008KT 8000 SKC 26/09 Q1022 NOSIG MMUN 191244Z 04002KT 7SM FEW080 28/25 A2993 RMK 8/070 CU K06D 191315Z AUTO 12013KT 10SM OVC004 12/12 A2967 RMK AO2 K04V 191310Z AUTO 33005KT 10SM CLR 00/M02 A3009 RMK AO2 K04W 191314Z AUTO 11003KT 10SM OVC012 15/14 A2993 RMK AO2 MNMG 191300Z 14004KT 9999 SCT021 25/24 Q1011 A2988 NOSIG GQPP 191300Z 21006KT 180V240 2400 BLDU NSC 34/20 Q1015 NOSIG K05U 191315Z AUTO 17005KT 10SM CLR 06/M00 A2995 RMK A01 SKIP 191300Z 00000KT 8000 FEW016 BKN080 10/04 A3052 RMK HZ GQPZ 181500Z 12008KT 7000 FEW050 42/09 Q1011 RMK VENT ESTIME MMVR 191243Z 32003KT 6SM OVC250 25/24 A2992 RMK 8/007 HZY DSNT TCU 1 AND 2 QUAD SLAL 191300Z 00000KT 9999 NSC 13/06 Q1033 K08D 191315Z AUTO 12011G17KT 10SM CLR 14/12 A2947 RMK AO2 LWOH 191300Z 22009KT 9999 FEW035 SCT050 26/02 Q1013 SLCA 191300Z 00000KT 9999 NSC 19/11 Q1019 SLCB 191300Z 00000KT 8000 NSC 19/07 Q1029 SKLC 191300Z 15007KT 9999 SCT017 25/24 A2991 LXGB 191250Z 20012KT CAVOK 25/17 Q1020 NOSIG MNPC 191300Z 36004KT 6000 -TS FEW014CB BKN016TCU 25/23 Q1012 CBRA/E/SE/S TCU/N/NE/SW NFFN 191300Z 14005KT 9999 SCT030 23/20 Q1014 NOSIG YHID 191300Z AUTO 13012KT 9000 // BKN018 OVC043 26/23 Q1012 SKMD 191300Z VRB02KT 9999 SCT017 SCT080 BKN200 21/16 A3026 MMZC 191250Z 00000KT 8SM BKN040 13/10 A3028 RMK 8/400 SLCO 191300Z 00000KT 9999 NSC 25/19 Q1016 SLCP 191300Z 00000KT 9999 NSC 26/19 Q1018 MMZH 191243Z 00000KT 7SM BKN080 BKN250 25/22 A2985 RMK 8/032 HZY DSNT TCU 2ND AND 3RD QUAD SKLT 191300Z 02004KT 9999 BKN013 SCT200 26/25 A3000 RMK AD OPER IMC MMZO 191244Z 00000KT 8SM BKN080 25/25 A2984 RMK 5//// 9// 8/030 HZY RTS SKMR 191300Z 00000KT 9999 VCSH SCT017 25/23 A2990 RMK VCSH E K11R 191315Z AUTO 16004KT 4SM BR OVC005 26/26 A2997 RMK AO2 T02570255 YGTE 191300Z AUTO 08003KT 9999 // NCD 24/22 Q1013 YGTH 191300Z AUTO 00000KT 9999 // NCD 06/M01 Q1022 K12N 191254Z AUTO VRB03KT 19/18 A3006 RMK AO1 SLP175 T01940183 SKMZ 191300Z VRB02KT 9999 FEW005 17/13 A3041 YHLC 191300Z AUTO 14005KT 9999 // NCD 20/M10 Q1016 RMK MNRS 191300Z 00000KT 9999 FEW015CB SCT070 25/25 Q1011 CB 4/C SLET 191300Z 30005KT 5000 FU NSC 27/16 Q1015 TBPB 191300Z 18019KT 9999 BKN010CB 27/25 Q1013 NOSIG SKPC 191300Z 18006KT 9999 FEW015 SCT070 26/23 A2986 LWSK 191300Z VRB02KT CAVOK 31/07 Q1008 NOSIG YGTN 191300Z AUTO 06008KT 9999 // NCD 23/15 Q1017 SKNV 191300Z VRB02KT 8000 FEW045 29/17 A3000 RMK/HZ SKPE 191300Z VRB02KT 9999 SCT016 SCT070 20/17 A3017 LYBE 191300Z 08003KT 020V110 CAVOK 24/08 Q1007 NOSIG MPBO 191300Z 00000KT 9999 SCT018 SCT080 ///// Q1014 SKPS 191300Z 00000KT 9000 FEW025 BKN080 19/13 A3025 RMK HZ YHML 191300Z AUTO 36004KT 9999 // NCD 06/04 Q1021 RMK MPDA 191200Z 00000KT(E) 9999 SCT018CB ///// Q1011 RETS LYBT 191300Z VRB02KT CAVOK 24/07 Q1007 NOSIG SKPV 191300Z 06005KT 9999 FEW017 SCT080 29/26 A//// SKRG 191300Z 10003KT 9000 SCT012 SCT080 16/14 A3039 RMK HZ SKRH 191300Z 08006KT 9999 FEW017 BKN200 29/23 A2991 K14Y 191313Z AUTO 08007KT 1/4SM -RA OVC002 13/13 A2987 RMK AO2 NFNA 191300Z 19006KT 9999 BKN020 BKN045 23/21 Q1015 K0A9 191315Z AUTO 07004KT 10SM CLR 18/15 A3009 RMK AO2 PWINO SLJE 191300Z 02005KT 8000 NSC 29/14 Q1019 K18A 191315Z AUTO 06003KT 10SM CLR 23/20 A3005 RMK AO2 T02270198 K17J 191315Z AUTO 00000KT 7SM SCT047 24/23 A3001 RMK AO2 T02430228 SKSM 191300Z 00000KT 9999 FEW020 BKN070 28/26 A2986 YHOO 191300Z AUTO 14007KT //// // ////// 24/M11 Q1016 RMK SLJO 191300Z 16006KT 8000 NSC 25/19 Q1014 SKSP 191300Z 08008KT 050V120 9999 FEW017 BKN200 29/25 A2988 YHOT 191300Z AUTO 24001KT 9000 // ////// M02/M04 Q1019 K18H 191315Z AUTO 00000KT 9SM FEW021 31/24 A2997 RMK A01 SKUC 191300Z 23006KT 9999 FEW020 SCT200 27/25 A2996 TDCF 182300Z 35023G40KT 1000 +SHRA BKN008 BKN028 FEW000CB 26/24 Q994 SKUI 191300Z 13005KT 6000 SCT009 BKN090 24/23 A2991 RMK HZ K0E0 191250Z AUTO 21007KT 10SM CLR 11/M02 A3011 RMK AO2 T01051021 NGFU 191300Z VRB01KT 9999 -SHRA SCT018TCU OVC110 28/26 Q1010 K21D 191311Z AUTO 10004KT 10SM CLR 15/14 A2994 RMK AO2 SLMG 191300Z 14005KT 5000 FU NSC 26/19 Q1014 SLLP 191300Z 12005KT 8000 FEW010 08/02 Q1042 YJAB 191300Z AUTO 04003KT //// // ////// 27/23 Q1013 RMK K19S 191315Z AUTO 19009KT 7SM CLR 18/17 A2978 RMK AO2 T01800165 K20U 191315Z AUTO 29009KT 10SM FEW049 SCT065 BKN095 14/08 A2948 RMK AO2 K20V 191314Z AUTO 25021G32KT 10SM CLR 17/M10 A2991 RMK AO2 K0F2 191315Z AUTO 16006KT 10SM CLR 24/23 A2991 RMK AO2 T02350225 SKVP 191300Z 06005KT 9999 FEW015 28/23 A2996 K0CO 191322Z AUTO 28028G51KT 10SM CLR 02/M01 A3015 RMK AO2 YHSM 191300Z AUTO 33005KT 9999 // NCD 05/03 Q1022 RMK SKVV 191300Z 00000KT 9999 NSC 26/19 A3002 K22N 191315Z AUTO 00000KT 10SM OVC017 20/20 A3006 RMK AO2 K24A 191305Z AUTO 00000KT 3SM VCTSBR BKN001 13/13 A3015 RMK AO2 LTG DSNT NW T01350133 HKEL 191300Z 10008KT 9999 TS FEW021CB SCT022 24/11 Q1023 YHUG 191300Z AUTO 06008KT 9999 // NCD 24/14 Q1018 NFTF 191300Z 17004KT 9999 FEW014 20/17 Q1014 SLOR 191300Z 19004KT 9999 NSC 08/M00 Q1040 K24J 191315Z AUTO 00000KT 10SM CLR 24/24 A3003 RMK A01 NFTL 191200Z 10004KT 9999 FEW018 21/20 Q1014 SLPO 191300Z 24008KT 9999 NSC 09/M03 Q1041 SLPS 191300Z 00000KT 7000 NSC 29/22 Q1015 SLRB 191300Z 00000KT 8000 NSC 26/18 Q1019 LYKV 191300Z VRB01KT CAVOK 26/08 Q1007 NOSIG NFTV 191300Z 00000KT 9999 FEW020 17/16 Q1013 RMK GRASS DEW MPMG 191300Z VRB01KT 9000 FEW016CB SCT020 27/25 Q1012 NOSIG SLRI 191300Z 24006KT 2000 FU NSC 25/21 Q1016 K1A5 191305Z AUTO 00000KT 1/4SM FG OVC002 14/13 A3012 RMK AO2 T01400134 SLSA 191300Z 16004KT 8000 NSC 25/18 Q1015 K1A6 191315Z AUTO 00000KT 2SM BR OVC002 17/17 A3007 RMK AO2 LTG DSNT NW T01650165 K1A9 191315Z AUTO 00000KT 7SM SCT003 23/23 A3000 RMK AO2 T02270226 SLRQ 191300Z 00000KT 9999 NSC 26/22 Q1015 SLSI 191300Z 00000KT 5000 FU NSC 28/19 Q1017 LYNI 191300Z 14006KT 080V220 CAVOK 30/06 Q1007 NOSIG SLRY 191300Z 18003KT 8000 NSC 25/21 Q1014 SMJP 191300Z 13006KT 9999 FEW015 30/23 Q1014 NOSIG SLTJ 191300Z 00000KT 9999 NSC 18/08 Q1021 MPPA 191300Z 00000KT 9000 FEW016TCU BKN300 28/// Q1012 K28J 191315Z AUTO 00000KT 9SM CLR 23/23 A3002 RMK AO2 HKJK 191300Z 07006KT 040V100 9999 SCT029 27/12 Q1020 K1AM 191258Z AUTO 25011KT 10SM BKN150 08/M01 A2964 RMK AO2 SLP992 T00751009 $ K1AN 191256Z AUTO 12015G24KT 2 1/4SM BR OVC002 14/13 A2949 RMK AO2 PK WND 12028/40 VIS 2 1/4V3 SLP005 T01370134 $ LYPG 191300Z 16010KT 130V210 9999 FEW034 SCT070 26/08 Q1010 TEMPO SHRA FEW030TCU SCT040 SLTR 191300Z 00000KT 8000 NSC 25/18 Q1015 HKKI 191300Z 21007KT 9999 FEW027CB SCT310 29/15 Q1015 K1BM 191258Z AUTO 27011KT 10SM OVC110 06/01 A2962 RMK AO2 SLP038 T00620009 $ K1BN 191256Z AUTO 12017G24KT 1 1/2SM BR OVC002 13/13 A2952 RMK AO2 SLP000 T01280127 $ K1AW 191258Z AUTO 25008KT 10SM BKN230 12/02 A2972 RMK AO2 SLP016 T01170018 $ ZBAA 191300Z VRB01MPS CAVOK 14/11 Q1013 NOSIG LZIB 191300Z 01009KT 9999 -RA FEW011 SCT055 BKN062 14/11 Q1012 NOSIG SLVM 191300Z 00000KT 9999 NSC 25/12 Q1014 K1F0 191315Z AUTO 21004KT 10SM CLR 23/21 A2991 RMK AO2 TSNO K1CN 191256Z AUTO 12017G24KT 10SM BKN130 14/13 A2951 RMK AO2 PK WND 11029/07 SLP995 T01350131 $ K1BW 191258Z AUTO 21012KT 10SM SCT220 15/02 A2973 RMK AO2 SLP013 T01470024 $ SLVR 191300Z VRB02KT 5000 FU NSC 28/14 Q1015 HKML 191200Z 15014KT 9999 -RA SCT022 OVC080 24/23 Q1015 K1DM 191258Z AUTO 26009KT 10SM M 08/02 A2958 RMK AO2 SLP032 T00750020 $ K1DN 191256Z AUTO 12021G29KT 10SM SCT130 BKN190 15/13 A2948 RMK AO2 PK WND 13031/36 SLP984 T01450125 PWINO $ K1CW 191258Z AUTO 22006KT 10SM BKN200 14/05 A2971 RMK AO2 SLP013 T01410051 $ HKMO 191200Z 14005KT 8000 -SHRA SCT016 OVC080 23/22 Q1016 NOSIG SLYA 191300Z 00000KT 9999 NSC 27/16 Q1015 YJLC 191300Z AUTO 13008KT 9999 // NCD 21/M04 Q1016 RMK NGTA 191300Z 13006KT 9999 FEW020 27/23 Q1011 TDPD 182200Z 06027G42KT 0800 +SHRA OVC007 SCT///CB 27/25 Q1001 MPSM 191300Z VRB02KT 9000 FEW005 FEW020CB SCT100 26/24 Q1012 K1EM 191258Z AUTO 25006KT 10SM OVC095 07/03 A2960 RMK AO2 SLP031 T00720026 $ K1H2 191315Z AUTO 00000KT 5SM BR CLR 20/20 A2998 RMK AO2 LTG DSNT SE T02030203 CERM 191300Z AUTO 13004KT 17/15 RMK AO1 SLP222 T01710148 51003 K1EN 191256Z AUTO 13020KT 10SM BKN130 15/13 A2945 RMK AO2 PK WND 14027/30 SLP981 T01540126 $ K1DW 191258Z AUTO 26008KT 10SM BKN210 11/06 A2974 RMK AO2 SLP024 T01090055 $ K0R0 191315Z AUTO 00000KT 8SM CLR 24/ A3006 RMK AO2 PWINO K33V 191315Z AUTO 15009KT 10SM CLR 07/M07 A2991 RMK AO1 HKNW 191100Z 03010KT 9999 BKN027 25/12 Q1022 MPTO 191300Z 04003KT 9000 SCT018TCU SCT090 28/25 Q1013 NOSIG K1FN 191256Z AUTO 15027G32KT 10SM BKN120 16/13 A2938 RMK AO2 PK WND 15034/42 SLP985 T01580130 $ K0R4 191315Z AUTO BKN004 A3000 RMK AO2 PWINO TSNO K2A0 191315Z AUTO 00000KT 6SM BR CLR 20/20 A3002 RMK A01 YIVO 191300Z AUTO 19005KT //// // ////// 09/M01 Q1022 RMK LYTV 191300Z 16008KT 130V200 9999 SCT033 23/15 Q1011 NOSIG K1GM 191258Z AUTO 23011KT 10SM CLR 04/00 A2965 RMK AO2 SLP050 T00370004 $ K1GN 191256Z AUTO 11020G27KT 10SM BKN140 13/09 A2943 RMK AO2 PK WND 11027/48 SLP977 T01340093 $ K1FW 191258Z AUTO 24007KT 10SM OVC200 10/08 A2970 RMK AO2 SLP020 T01040079 $ ZBDS 191300Z 09003MPS CAVOK 17/M03 Q1020 NOSIG LZKZ 191300Z 01012KT 9999 -RA NSC 15/09 Q1012 NOSIG K0S9 191315Z AUTO 00000KT 1SM BR OVC036 06/06 A2969 RMK AO2 K1K1 191315Z AUTO 17006KT 10SM CLR 20/18 A2984 RMK AO2 T02000182 K1HM 191258Z AUTO 23007KT 10SM BKN180 05/00 A2964 RMK AO2 SLP042 T00481004 $ K1HN 191256Z AUTO 13016G24KT 10SM BKN140 BKN190 17/12 A2942 RMK AO2 SLP966 T01730123 PWINO $ LYUZ 191300Z VRB11KT 9999 FEW020 20/04 Q1010 LYVR 191300Z 16011KT 130V210 9999 SCT033 25/12 Q1007 NOSIG GVAC 191300Z 09009KT 9999 BKN014 BKN100 31/23 Q1015 NOSIG K36U 191315Z AUTO 21016G26KT 10SM -DZ SCT065 BKN085 OVC110 16/02 A2976 RMK AO2 K1IM 191258Z AUTO 25012KT 10SM FEW060 BKN140 07/01 A2966 RMK AO2 SLP057 T00680007 $ K1IN 191256Z AUTO 12016KT 10SM BKN130 BKN180 13/09 A2945 RMK AO2 SLP977 T01340089 $ K1HW 191258Z AUTO 16006KT 10SM CLR 11/10 A2968 RMK AO2 SLP023 T01050096 $ SOCA 191300Z AUTO 13006KT 080V190 9999 BKN027 BKN043 31/24 Q1014 NOSIG GVBA 191300Z 05007KT 9999 FEW015 SCT100 33/23 Q1014 NOSIG K2C8 191315Z AUTO 13008KT 090V150 3/4SM BR OVC002 14/14 A2974 RMK AO2 K40B 191316Z AUTO 18006KT 18/M25 A3019 RMK AO1 SLP219 T01781249 52005 K1JM 191258Z AUTO 22008KT 10SM BKN070 04/01 A2963 RMK AO2 SLP052 T00350008 $ ZBHH 191300Z 08003MPS CAVOK 14/M05 Q1018 NOSIG K1JN 191256Z AUTO 11015KT 10SM BKN120 11/09 A2947 RMK AO2 PK WND 10026/31 SLP985 T01080094 $ K1IW 191258Z AUTO 25006KT 10SM CLR 11/08 A2967 RMK AO2 SLP016 T01090084 $ K1M4 191256Z AUTO 00000KT 10SM FEW045 23/22 A3003 RMK AO2 SLP177 T02280217 K0V4 191315Z AUTO 01006KT 10SM SCT009 SCT017 21/21 A3004 RMK AO1 T02110208 K1M5 191315Z AUTO 17007KT 10SM BKN090 SCT120 22/19 A2997 RMK A01 K40J 191315Z AUTO 00000KT 10SM CLR 26/20 A3002 RMK AO2 T02550201 K1KM 191258Z AUTO M 10SM BKN080 07/00 A2964 RMK AO2 SLP036 T00700000 $ K1JW 181758Z AUTO M 10SM CLR 19/06 A3011 RMK AO2 SLPNO T01860063 10188 20180 $ K1KN 191256Z AUTO 12020G23KT 10SM BKN100 11/09 A2946 RMK AO2 PK WND 11027/44 SLP980 T01080088 $ YKII 191300Z AUTO 25009KT 9999 // BKN033 10/05 Q1020 RMK LZPP 191300Z 01013KT 9999 -RA NSC 13/10 Q1012 HLLM 191755Z 03010KT 6000 BKN030 28/24 Q1012 K1LM 191258Z AUTO 33007KT 10SM SCT070 OVC090 06/00 A2963 RMK AO2 RAB01E03DZB03E12SHRAB12E35 SLP037 T00620001 $ K1LN 191256Z AUTO 13015G22KT 10SM BKN120 12/10 A2948 RMK AO2 SLP985 T01160095 $ K1KW 191258Z AUTO 25006KT 10SM SCT220 BKN240 11/08 A2967 RMK AO2 SLP015 T01050081 $ K2F5 191315Z AUTO 21010KT 10SM CLR 23/16 A2995 RMK AO2 K0VG 191255Z AUTO 00000KT 10SM SCT090 15/15 A3009 RMK AO2 YLBD 191300Z AUTO 22003KT 9999 // NCD 25/13 Q1013 RMK K42J 191315Z AUTO 00000KT 5SM SCT001 22/22 A3003 RMK AO1 TSNO MSAC 191250Z 07004KT 9999 FEW030 SCT043 26/25 Q1011 A2986 K1P1 191315Z AUTO 00000KT 10SM SCT010 OVC015 19/16 A3017 RMK AO2 T01870163 TFFF 191300Z AUTO 20012KT 150V230 7000 -RA FEW012/// BKN017/// BKN025/// 26/25 Q1011 TEMPO 18020G35KT 2000 TSRA SCT015CB K1MN 191256Z AUTO 11020G25KT 10SM FEW100 BKN120 11/09 A2947 RMK AO2 PK WND 12026/29 SLP986 T01120094 $ K1LW 191258Z AUTO 27007KT 10SM FEW240 14/07 A2973 RMK AO2 SLP015 T01360069 $ K2G4 191310Z AUTO 14003KT 1 3/4SM OVC002 15/15 A3010 RMK AO1 K2DP 191256Z AUTO 35011KT 10SM OVC015 21/19 A2984 RMK AO2 SLPNO P0002 T02100192 $ HKWJ 191200Z 15009KT 9999 FEW037 35/16 Q1010 LZSL 191300Z 08004KT 020V140 9999 FEW007 OVC086 13/10 Q1011 K2G9 191315Z AUTO 00000KT 10SM OVC017 17/15 A3011 RMK AO2 K1NM 191258Z AUTO 26010KT 10SM -SHRA BKN043 08/02 A2958 RMK AO2 RAB42E44DZB44E49SHRAB49 SLP019 T00800017 $ K1NN 191256Z AUTO 11013G22KT 10SM FEW075 BKN130 BKN140 11/10 A2948 RMK AO2 PRESFR SLP986 T01140102 $ K1MW 191258Z AUTO 30007KT 10SM CLR 08/06 A2969 RMK AO2 SLP031 T00780062 $ TFFR 191300Z AUTO 14029G43KT 3800 1700 -RA BR BKN010/// OVC018/// ///TCU 26/25 Q1006 TEMPO 1000 TSRA SCT010CB MRLB 191300Z 19003KT 9999 VCFG FEW001 SCT020 BKN200 24/24 A2988 NOSIG K2I0 191235Z AUTO 00000KT 10SM BKN020 BKN045 OVC120 21/21 A2997 RMK AO2 T02100210 K1OM 191258Z AUTO 28013KT 10SM OVC065 09/02 A2958 RMK AO2 SLP015 T00850019 $ K1ON 191256Z AUTO 11019G26KT 10SM FEW004 FEW130 BKN160 12/12 A2950 RMK AO2 PK WND 10027/23 PRESFR SLP997 T01240115 PWINO $ K1NW 191258Z AUTO 26003KT 10SM CLR 09/06 A2970 RMK AO2 SLP023 T00920057 $ YLEC 191300Z AUTO 22005KT //// // ////// 12/M04 Q1022 LZTT 191300Z 04007KT 9999 -RA SCT060 OVC093 11/08 Q1013 NOSIG MRLM 191300Z 25003KT CAVOK 25/23 A2986 YKMP 191300Z AUTO 00000KT //// // ////// 13/10 Q1019 RMK SMZO 191300Z 35008KT 9999 FEW020 30/24 Q1014 NOSIG K46D 191315Z AUTO 14018KT 1/4SM FG OVC001 17/16 A2965 RMK AO2 K1OW 191258Z AUTO 00000KT 10SM BKN220 12/04 A2973 RMK AO2 SLP019 T01190040 PWINO $ K2J3 191255Z AUTO 11003KT 10SM SCT055 OVC080 22/20 A3002 RMK AO2 T02190200 K1S5 191315Z AUTO 09003KT 10SM SCT048 07/06 A2972 RMK AO2 T00730059 K2J9 191315Z AUTO 00000KT 8SM CLR 23/22 A3002 RMK AO2 YLEO 191300Z AUTO 35004KT 9999 // NCD 25/M05 Q1013 RMK YKNT 191300Z AUTO 15006KT //// // ////// 21/M04 Q1018 MROC 191300Z 06003KT 010V090 9999 FEW010 BKN300 22/19 A3003 NOSIG K46U 191300Z AUTO 00000KT 10SM FEW015 BKN021 OVC026 04/02 A2985 RMK A01 AYMO 190800Z 18005KT 9999 SCT018 BKN300 29/24 Q1008 K49A 191315Z AUTO 00000KT 10SM CLR 20/18 A3010 RMK AO2 LTG DSNT N T02020175 YKOW 191300Z AUTO 07005KT //// // BKN115 25/21 Q1014 RMK K3D2 191315Z AUTO 12004KT 10SM SCT075 16/14 A3003 RMK AO2 T01610137 YLHI 191300Z AUTO 27011KT 9999 // SCT018 SCT024 OVC052 19/// Q1016 K1V4 191254Z AUTO 18/16 A3015 RMK AO1 SLP202 T01830161 SPCL 191300Z 00000KT 9000 NSC 26/23 Q1017 RMK BCFG BIRD HAZARD RWY 02/20 PP000 K3AU 191315Z AUTO 15007KT 10SM CLR 20/18 A2984 RMK AO2 LZZI 191300Z 04003KT 350V110 9999 -RA FEW008 SCT029 OVC070 13/10 Q1013 YKSC 191300Z AUTO 00000KT 9999 // NCD 09/07 Q1021 RMK AYNZ 190600Z 09010KT 9999 FEW020 BKN280 29/22 Q1009 HZ MRPV 191300Z 07003KT CAVOK 21/18 A3005 NOSIG YMBA 191300Z AUTO 17007KT //// // ////// 19/18 Q1020 YLIS 191300Z AUTO 01001KT 9999 // NCD 18/12 Q1015 ZBSJ 191300Z 12001MPS CAVOK 21/12 Q1012 NOSIG OAHR 191255Z 02022KT CAVOK 27/M04 Q1015 RMK BLU YMBD 191300Z AUTO 31006KT //// // ////// 06/04 Q1022 RMK K2LS 191315Z AUTO 00000KT 10SM SCT021 27/24 A3003 RMK AO2 YKRY 191300Z AUTO 34009KT 9999 // NCD 18/13 Q1019 K2P2 191315Z AUTO 13005KT 10SM BKN110 17/13 A3003 RMK AO2 T01670130 ZBTJ 191300Z 00000MPS CAVOK 21/06 Q1012 NOSIG AYPY 191300Z VRB03KT 9999 FEW040 BKN300 26/25 Q1009 OAKB 191250Z 05004KT CAVOK 28/M11 Q1014 NOSIG RMK BLU BLU YMAV 191300Z AUTO 32006KT 9999 // OVC046 07/06 Q1022 YLLE 191300Z AUTO 15009KT 9999 // NCD 15/M06 Q1021 OAJL 191255Z VRB01KT 9999 FEW100 30/18 A2965 RMK AO2A SLP005 T03030183 YMAY 191300Z AUTO 00000KT 9999 // NCD 05/03 Q1021 GVNP 191300Z 10012KT 9999 SCT014 30/24 Q1015 NOSIG OBBI 191300Z 01007KT 9000 SKC 36/25 Q1005 NOSIG K54J 191315Z AUTO 32005KT 10SM CLR 25/23 A3002 RMK AO2 T02500233 SPGM 191300Z 03002KT 8000 SCT015 BKN100 23/21 Q1020 RMK TN21.2 BR BIRD HAZARD RWY19 PP000 YMCO 191300Z AUTO 23010KT //// // ////// 11/04 Q1019 NIUE 191300Z 00000KT 9999 SCT018 18/18 Q1012 RMKS OAKN 191255Z 29010KT 9999 CLR 30/M09 A2988 RMK AO2A SLP028 Q1012 DA5862 YMDG 191300Z AUTO 00000KT 9999 // NCD 06/M01 Q1021 K3I2 191315Z AUTO 00000KT 7SM CLR 19/18 A3003 RMK AO2 T01930180 MTCH 182000Z 03012KT 9999 SCT032CB BKN060 30/22 Q1011 A2988 SPHI 191300Z 18009KT 9999 OVC006 16/15 Q1017 RMK BR/S-SW VRB BIRD HAZARD RWY 19/01 PP000 SPHO 191300Z VRB02KT CAVOK 16/12 Q1032 RMK PP000 MSLP 191250Z 04004KT 010V080 9999 FEW017 SCT060 25/23 Q1011 A2988 NOSIG K4A6 191255Z AUTO 02003KT 4SM BR CLR 19/19 A3004 RMK AO2 YMEK 191300Z AUTO 26007KT 9999 // NCD 27/M02 Q1016 K3J7 191255Z AUTO 00000KT 10SM CLR 22/20 A3000 RMK AO2 LTG DSNT NW SPJC 191300Z 17010KT 7000 FEW007 OVC011 16/14 Q1018 NOSIG RMK PP000 MSLU 191250Z 00000KT 9999 BKN043 25/24 Q1011 A2986 YMEN 191300Z AUTO 31005KT 9999 // NCD 08/04 Q1022 K4A9 191315Z AUTO 00000KT 10SM CLR 18/16 A3003 RMK AO2 K1YT 191258Z AUTO 28003KT 10SM FEW100 08/04 A2968 RMK AO2 SLPNO T00790039 $ K57C 191315Z AUTO 00000KT 10SM CLR 16/16 A2997 RMK AO2 LTG DSNT SE T01640155 SPHY 191300Z /////KT 8000 SCT013 BKN050 07/02 Q1037 RMK BIRD HAZARD RWY03/21 PP000 K3K3 191315Z AUTO 22003KT 10SM CLR 15/10 A2975 RMK AO2 YMER 191300Z AUTO 29002KT 9999 // NCD 10/02 Q1020 YMES 191300Z AUTO 30005KT 9999 // NCD 07/04 Q1021 SPJI 191300Z 00000KT 5000 BR OVC015 22/21 Q1026 RMK TN14.6 PP000 YMGB 191300Z AUTO 10007KT //// // ////// 28/21 Q1014 OAMS 191250Z 33003KT 9999 SKC 32/M02 Q1012 BLU+BLU+ YMGD 191300Z AUTO 13005KT 9999 // NCD 26/23 Q1013 RMK SPJL 191300Z /////KT CAVOK 09/M02 Q1040 RMK PP000 K3L4 191315Z AUTO 00000KT 9SM CLR 27/26 A3000 RMK A01 SPJR 191300Z VRB02KT CAVOK 13/06 Q1030 RMK PP000 YMHB 191300Z 29005KT 9999 FEW033 BKN058 07/M01 Q1017 ZBYN 191300Z 11002MPS 080V140 CAVOK 19/09 Q1016 NOSIG AYWK 190600Z 09011KT 9999 FEW020 31/24 Q1007 YMIA 191300Z AUTO 14003KT 9999 // NCD 07/03 Q1023 K2V5 191315Z AUTO 00000KT 10SM CLR 11/08 A2970 RMK AO2 K2V6 191314Z AUTO 23003KT 10SM CLR 10/M01 A2969 RMK AO2 YLRE 191300Z AUTO 11006KT 9999 // NCD 21/M01 Q1017 SPME 191300Z 30004KT 9999 BKN010 22/19 Q1015 RMK BIRD HAZARD RWY 32/14 PP000 SPLO 191300Z 15009KT 9999 OVC025 17/13 Q1019 RMK BIRD HAZARD RWY 12 TN 15.2 PP000 GVSV 191300Z 05006KT 030V090 8000 SCT022 32/22 Q1014 NOSIG K4BM 191315Z AUTO 21016G24KT 10SM CLR 03/M10 A3014 RMK AO2 K3LF 191315Z AUTO 10003KT 1/4SM FG OVC001 19/19 A2997 RMK AO2 T01870187 K2W6 191317Z AUTO 35008KT 320V030 10SM BKN015 BKN022 22/18 A2997 RMK AO1 YMHU 191300Z AUTO 03003KT 9999 // NCD 26/16 Q1014 K3N8 191315Z AUTO 14009G15KT 10SM OVC004 14/13 A2981 RMK AO2 T01400133 YMIN 191300Z AUTO 05010KT //// // ////// 08/06 Q1021 RMK SPMS 191300Z 00000KT 9999 SCT012 25/23 Q1019 RMK HZTE BRUMOSO BIRD HAZARD RWY09/27 PP000 MSSA 191250Z 00000KT CAVOK 22/22 Q1018 A3008 YNAR 191300Z AUTO 00000KT //// // ////// 04/01 Q1022 YLST 191300Z AUTO 33007KT 9999 // NCD 27/M04 Q1014 RMK YLTN 191300Z AUTO 02008KT //// // ////// 25/M03 Q1014 MSSM 191250Z 36002KT CAVOK 23/23 Q1011 A2989 DAAD 191300Z 35010KT 9999 FEW033 28/11 Q1020 YNBR 191300Z AUTO 17005KT 9999 // NCD 11/M05 Q1020 DAAE 191300Z 07007KT 9999 FEW026 26/16 Q1019 YMMB 191300Z AUTO 32004KT 9999 // NCD 08/05 Q1022 RMK DAAG 191300Z 33006KT 9999 SCT020TCU SCT090 28/16 Q1020 MSSS 191250Z 36003KT 2000 BR FEW007 22/21 Q1015 A3000 YLTV 191300Z AUTO 27007KT 9999 // BKN052 08/05 Q1021 RMK DAAJ 191300Z 19006KT CAVOK 36/// Q1018 DABB 191300Z 01015KT 9999 FEW023 SCT033 25/15 Q1018 DABC 191300Z 33013KT 290V360 9999 SCT026 SCT030 24/08 Q1021 K4I3 191304Z AUTO 13004KT 10SM SCT050 21/19 A3003 RMK AO2 MUCF 191259Z AUTO /////KT 27/24 Q1014 K2WX 191256Z AUTO 25011KT 15/07 A2945 RMK AO1 SLP955 T01500067 DAAP 191300Z 09008KT CAVOK 42/03 Q1013 YMLT 191300Z AUTO 36005KT 9999 // NCD 01/M01 Q1017 YMML 191300Z 30006KT 9999 BKN045 08/04 Q1022 NOSIG K3R7 191315Z AUTO 00000KT 10SM CLR 26/25 A2999 RMK AO2 T02560246 YMNE 191300Z AUTO 31005KT 9999 // NCD 24/M05 Q1015 RMK MUCL 191250Z 10004KT 9000 FEW020 32/25 Q1014 DAAS 191300Z 32008KT 9999 SCT030 21/04 Q1022 DAAT 191300Z 09013KT 030V130 CAVOK 36/// Q1021 MUCM 191251Z VRB01KT 9000 FEW020 25/25 Q1015 YMNG 191300Z AUTO 20003KT 9999 // NCD 06/03 Q1022 RMK DAAV 191300Z 36007KT 9999 FEW020 25/15 Q1019 TGPY 191300Z 19015KT 9999 SCT016 29/27 Q1013 NOSIG DAAY 191300Z 33010KT CAVOK 26/10 Q1026 K5A6 191320Z AUTO 00000KT 1/2SM FG OVC002 21/21 A3000 RMK AO2 T02110211 AZUH 191250Z VRB02KT 9999 FEW035 33/M03 Q1016 SPQT 191300Z VRB01KT 5000 BR FEW005 SCT100 26/24 Q1016 NOSIG RMK BIRD HAZARD RWY 06/24 PP000 K3S8 191315Z AUTO 00000KT 9SM FEW015 SCT045 OVC050 10/09 A3003 RMK AO2 K65S 191315Z AUTO 17004KT 10SM BKN014 OVC020 05/04 A2971 RMK AO2 SPQU 191300Z VRB03KT CAVOK 16/M01 Q1029 NOSIG RMK PP000 DABS 191300Z 34014KT 9999 SCT040TCU 24/11 Q1020 MUCU 191251Z 01005KT 330V050 9000 FEW020 28/20 Q1014 DABT 191300Z 35007KT 9999 BKN026TCU 24/06 Q1021 YMOG 191300Z AUTO 25006KT //// // ////// 24/05 Q1016 RMK K3T5 191255Z AUTO 17003KT 5SM BR SCT009 SCT022 SCT038 26/26 A2994 RMK AO2 T02610256 K66R 191315Z AUTO 00000KT 5SM BR SCT005 SCT014 BKN034 25/24 A2998 RMK AO2 T02510241 SPRU 191300Z 16009KT 4500 BR OVC003 16/15 Q1017 RMK PP000 K5C1 191315Z AUTO 17004KT 7SM BKN010 OVC015 23/22 A3000 RMK AO1 SPSO 191300Z VRB02KT 3000 FU BR OVC010 17/14 Q1017 RMK BIRD HAZARD RWY 22/04 PP000 YMOR 191300Z AUTO 18011KT 9999 // NCD 12/M04 Q1020 SPST 191300Z 00000KT 3000 BR BKN010 22/21 Q1018 RMK BIRD HAZARD RWY 17/35 PP000 SPTN 191300Z VRB02KT 5000 BR SCT009 OVC013 13/11 Q1020 RMK PP000 YMRB 191300Z AUTO 14005KT 9999 // NCD 19/14 Q1019 RMK YNHL 191300Z AUTO 28003KT //// // ////// 08/05 Q1022 RMK DAFH 191200Z 05016KT CAVOK 28/03 Q1021 MUHA 191255Z 00000KT 9000 FEW025 24/24 Q1014 SPTU 191300Z 18005KT CAVOK 24/20 Q1015 RMK BIRD HAZARD RWY 01/19 PP000 K4M9 191315Z AUTO 00000KT M1/4SM FG OVC002 21/21 A2996 RMK AO2 PWINO MUGM 191256Z 34005KT 9999 FEW025 SCT130 BKN280 26/24 A2995 RMK SLP142 T02610239 MTPP 191300Z 11007KT 9000 FEW022 30/24 Q1012 A2990 MUHG 191252Z 14003KT 110V190 9000 FEW020 BKN300 25/23 Q1014 K4O4 191315Z AUTO 21004KT 1 3/4SM OVC004 21/20 A2996 RMK AO2 YMTG 191300Z AUTO 35006KT 9999 // OVC031 08/06 Q1021 YMTI 191300Z AUTO 31004KT //// // ////// 24/22 Q1014 RMK K4MR 191258Z AUTO 27007KT 10SM CLR 17/06 A3000 RMK AO2 SLP102 T01740058 $ K5H4 191315Z AUTO 12017G22KT 1/4SM FG OVC002 15/15 A2960 RMK AO2 SPYL 191300Z 14018KT 9999 FEW010 19/16 Q1015 RMK TN17.0 BIRD HAZARD RWY 17/35 PP000 DBBB 191300Z 22013KT 9999 SCT012 29/25 Q1012 NOSIG K4R5 191315Z AUTO 00000KT 10SM OVC049 15/12 A2997 RMK AO2 T01500121 K6A1 191315Z AUTO 36003KT 10SM 24/18 A3003 RMK AO2 T02420177 K74V 191315Z AUTO 25005KT 10SM CLR 11/03 A2978 RMK AO2 K4S2 191315Z AUTO 00000KT 10SM -RA SCT032 BKN039 OVC048 09/08 A2978 RMK AO2 K6A2 191315Z AUTO 00000KT 10SM CLR 23/20 A3004 RMK AO2 SPZO 191300Z 05002KT 9999 FEW010 12/03 Q1036 NOSIG RMK BIRD HAZARD RWY28 UAAA 191300Z 06002MPS 9999 FEW200 23/02 Q1019 R05L/CLRD65 NOSIG K6B0 191315Z AUTO 13004KT 10SM CLR 21/16 A3012 RMK AO2 T02130157 UAAH 191130Z 36007MPS CAVOK 24/M04 Q1019 R05/0///60 NOSIG RMK QFE727/0969 YMYB 191300Z AUTO 35003KT 9999 // NCD 18/14 Q1017 K6B9 191315Z AUTO VRB04KT 10SM CLR 21/18 A3010 RMK AO2 UACC 191300Z 31003MPS CAVOK 16/M00 Q1023 R22/0///70 NOSIG RMK QFE736/0981 K4V0 191315Z AUTO 21014G20KT 10SM CLR 18/M04 A2977 RMK AO2 T01821037 DAOB 191300Z 01005KT 9999 FEW026 25/07 Q1023 TJBQ 191250Z 07015KT 10SM BKN019 BKN028 BKN033 28/24 A2994 DAOF 191300Z 33017KT CAVOK 36/// Q1015 YNRC 191300Z AUTO 00000KT //// // ////// 06/05 Q1022 RMK UACK 191130Z 29006MPS CAVOK 15/M00 Q1022 R02/010070 NOSIG RMK QFE742/0990 DAOI 191300Z 32005KT CAVOK 29/17 Q1019 K79J 191256Z AUTO 28004KT 10SM CLR 26/23 A3001 RMK AO2 SLP156 T02560228 PNO $ UADD 191300Z 35002MPS 9999 NSC 25/03 Q1018 R13/0///65 NOSIG RMK QFE707/0942 K5M9 191315Z AUTO 29009KT 10SM SCT008 SCT020 BKN085 22/22 A3002 RMK AO2 T02210221 DAOL 191300Z 28018KT 9999 FEW030 29/15 Q1020 UACP 191300Z 27002MPS CAVOK 12/04 Q1022 R23/0/0060 NOSIG RMK QFE754/1005 DAON 191300Z 32010KT 9999 FEW026 28/11 Q1020 DAOO 191300Z 36012KT 9999 SCT020 28/17 Q1019 YPAD 191300Z 05007KT CAVOK 10/06 Q1022 NOSIG DAOR 191300Z 17003KT CAVOK 33/03 Q1021 K82C 191315Z AUTO 00000KT 10SM CLR 15/13 A2998 RMK AO2 T01490131 YPAG 191300Z AUTO 17003KT 9999 // NCD 09/04 Q1022 RMK DAOV 191300Z 29006KT 9999 SCT030 29/09 Q1020 DAOY 191300Z 35008KT CAVOK 23/M02 Q1024 YNSM 191300Z AUTO 18007KT //// // ////// 21/08 Q1012 RMK OEAB 191300Z 20018KT 9999 SCT020 FEW025CB 26/14 Q1023 NOSIG MUSC 191251Z VRB02KT 9000 FEW020 25/23 Q1014 OEAH 191300Z 36009KT 9999 SCT040 43/07 Q1005 NOSIG YPCC 191300Z AUTO 13014KT 9999 // SCT020 BKN027 26/22 Q1015 OEBA 191300Z 19003KT 9999 TS FEW025CB BKN030 29/12 Q1018 NOSIG YOLD 191300Z AUTO 07005KT 9999 // NCD 09/M06 Q1021 YNTN 191300Z AUTO 28005KT 9999 // NCD 25/18 Q1014 YPBO 191300Z AUTO 00000KT 9999 // NCD 26/00 Q1016 K82V 191315Z AUTO 25007KT 10SM CLR 08/04 A2973 RMK AO2 OEAO 191300Z 12016KT 6000 SCT040 42/01 Q1011 OEBH 191300Z 16002KT 9999 SCT030 38/02 Q1012 NOSIG OEAR 192000Z 00000KT CAVOK 30/17 Q1009 MWCB 191300Z 16004KT 9999 FEW018 29/24 Q1014 K6I2 191315Z AUTO 18006KT 10SM SCT090 23/18 A3000 RMK AO2 YPEA 191300Z AUTO 33006KT 9999 // SCT016 BKN023 OVC036 17/16 Q1015 YPED 191300Z AUTO 04005KT 9999 // NCD 07/05 Q1022 RMK K5R8 191315Z AUTO 00000KT 7SM SCT001 24/23 A2999 RMK AO2 T02360232 YOLW 191300Z AUTO 24012KT 9999 // NCD 27/12 Q1015 RMK YPDN 191300Z 30003KT 9999 SCT035 26/21 Q1013 DAUA 191300Z 06006KT 4500 HZ NSC 40/02 Q1011 DAUB 191300Z 00000KT 9999 FEW040 34/10 Q1015 TJIG 191255Z 05015KT 8SM SCT018 SCT030 BKN060 30/25 A2993 DATM 191200Z 09014KT 8000 NSC 43/// Q1011 OEDF 191300Z 05010KT 8000 SKC 39/17 Q1004 NOSIG DAUE 191300Z 03010KT CAVOK 34/04 Q1017 UAII 191300Z 06004MPS CAVOK 30/00 Q1016 R28/0///70 NOSIG RMK QFE725/0966 MWCR 191300Z 08005KT 9999 FEW018 30/24 Q1014 DAUG 191300Z 03015KT CAVOK 31/02 Q1018 DAUH 191300Z 34010KT CAVOK 35/15 Q1014 YOOD 191300Z AUTO 05009KT //// // ////// 14/M06 Q1021 RMK YNWN 191300Z AUTO 02005KT 9999 // NCD 25/M02 Q1017 OEDM 191300Z 18006KT 9999 SCT040 39/M07 Q1012 DAUK 191300Z 06006KT CAVOK 32/17 Q1015 DAUL 191300Z 36012KT CAVOK 29/01 Q1020 DAUO 191300Z 06005KT CAVOK 32/12 Q1015 OEDR 191300Z 05013KT 8000 SKC 37/20 Q1003 NOSIG MUVR 191257Z 28003KT 9000 NSC 27/21 Q1014 UBBB 191300Z 17013KT CAVOK 29/20 Q1015 R88/CLRD// NOSIG YOOM 191300Z AUTO 17007KT 9999 // NCD 15/M04 Q1021 RMK K5T9 191315Z AUTO 12004KT 10SM CLR 26/21 A2991 RMK A01 DAUT 191300Z 04019KT CAVOK 36/06 Q1015 DAUU 191300Z 35012KT 6000 NSC 34/08 Q1015 ZGGG 191300Z 14002MPS 9999 FEW053 30/23 Q1009 NOSIG UBBG 191300Z 07010KT 9999 FEW100 30/08 Q1014 R12/CLRD// NOSIG K6L4 191315Z AUTO 00000KT M1/4SM FG VV000 18/18 A3005 RMK AO2 ZGHA 191300Z 36002MPS 3500 BR SCT004 OVC040 24/23 Q1010 NOSIG DAUZ 191300Z 16007KT CAVOK 41/02 Q1014 UAKK 191300Z 34003MPS CAVOK 13/00 Q1023 R05/0///70 NOSIG RMK QFE720/0960 TIST 191253Z AUTO 05017G31KT -RA 27/25 A2987 RMK AO2 PK WND 07036/1202 RAB03E15B47 SLP116 P0006 T02720250 $ UBBL 191300Z 15012KT 9999 NSC 29/17 Q1014 R15/CLRD// NOSIG RMK MT OP UBBN 191300Z 13004KT 9999 FEW050 SCT100 34/M03 Q1013 R14R/CLRD// NOSIG RMK MT OP QFE685 NLWW 191300Z AUTO 15005KT 100V180 9999 SCT025/// BKN032/// BKN039/// 27/22 Q1011 TEMPO 3000 SHRA BKN013 SCT015CB TISX 191253Z 03011G18KT 10SM FEW024 FEW090 FEW110 26/24 A2986 RMK AO2 PK WND 03033/1223 RAB18E39 SLP108 P0001 T02610239 K5SM 191310Z AUTO 21017G39KT 120V230 10SM CLR 03/M10 A3011 RMK AO2 UBBQ 191300Z 17009KT 9999 NSC 30/13 Q1015 R16/CLRD// NOSIG RMK MT OP YPGV 191300Z AUTO 16006KT 9999 // NCD 25/23 Q1014 YORG 191300Z AUTO 20007KT 9999 // NCD 03/M01 Q1021 RMK OEGN 191300Z 22018KT CAVOK 37/26 Q1007 NOSIG K7BM 191311Z AUTO 14004KT 10SM CLR 09/M10 A3009 RMK AO2 UBBY 191300Z VRB03KT 9999 NSC 31/07 Q1018 R33/////// NOSIG RMK MT OP OEGS 191300Z 12008KT 9999 BKN030 43/09 Q1009 OEGT 191300Z 04004KT CAVOK 38/00 Q1008 NOSIG OEHL 191300Z 14008KT 9999 FEW045 39/00 Q1014 NOSIG UBEE 191300Z 17006KT CAVOK 32/12 Q1013 R30/CLRD// NOSIG YPKA 191300Z AUTO 25011KT 9999 // NCD 27/15 Q1014 RMK YPKG 191300Z AUTO 22009KT 9999 // NCD 26/03 Q1012 TJNR 191253Z AUTO 03015G23KT 10SM FEW019 SCT029 29/26 A2992 RMK AO2 SLP131 T02940256 YPJT 191315Z AUTO 29011KT 5000 -SHRA SCT013 OVC019 18/16 Q1015 YPLC 191300Z AUTO 34005KT 9999 // NCD 09/07 Q1021 RMK ZHCC 191300Z 00000MPS 6000 NSC 24/20 Q1012 NOSIG ZGKL 191300Z 00000MPS 9999 FEW066 28/25 Q1008 NOSIG K6P9 191315Z AUTO 20008KT 10SM CLR 23/22 A2993 RMK AO2 T02300215 UAOO 191300Z 05004MPS 020V080 CAVOK 29/02 Q1019 R05/CLRD70 NOSIG RMK QFE753/1004 OEJN 191300Z 24010KT 9999 FEW030 32/25 Q1007 NOSIG YPKS 191300Z AUTO 00000KT 9999 // NCD 03/M01 Q1022 RMK YPKT 191300Z AUTO 00000KT //// // ////// 22/19 Q1012 RMK YPKU 191300Z AUTO 19004KT 9999 // NCD 21/09 Q1013 OEKJ 191300Z 31004KT CAVOK 41/05 Q1011 YPLM 191300Z AUTO 21010KT 9999 // NCD 22/17 Q1017 OEKM 191300Z 22012KT 9999 SCT022 FEW025CB 27/14 Q1022 NOSIG K6R3 191315Z AUTO 00000KT 1/4SM -RA OVC002 25/24 A2998 RMK AO2 T02480243 TJPS 190750Z 00000KT 10SM FEW040 FEW100 24/23 A2989 K6R6 191253Z AUTO 35005KT 24/19 A2994 RMK AO1 SLP099 T02390194 OEMA 191300Z 29010KT 9999 FEW045 42/M10 Q1010 NOSIG K6S0 191315Z AUTO 26015G20KT 10SM BKN030 BKN034 OVC045 05/03 A2968 RMK A01 K8A0 191255Z AUTO 00000KT 7SM CLR 20/20 A3002 RMK AO2 K96D 191315Z AUTO 12009KT 2 1/2SM BR CLR A2973 RMK AO2 K6S2 191315Z AUTO 21005KT 4SM BR SCT080 12/12 A2990 RMK AO2 YPMQ 191300Z AUTO 25003KT 9999 // NCD 14/10 Q1019 K8A3 191315Z AUTO VRB04KT 10SM CLR 23/18 A3002 RMK A01 SUAA 191300Z 06010KT 9999 BKN015 15/12 Q1022 YPOD 191300Z AUTO 34006KT 9999 // NCD 08/05 Q1021 RMK OEMK 191300Z 18006KT 9999 FEW040 SCT100 36/25 Q1007 ZGNN 191300Z VRB01MPS CAVOK 29/25 Q1008 NOSIG K8B0 191315Z AUTO 22005KT 10SM SCT021 17/13 A3023 RMK AO2 OENG 191300Z 08006KT 9999 SCT030 37/01 Q1014 NOSIG UARR 191300Z 22006MPS CAVOK 32/06 Q1018 R22/CLRD70 NOSIG RMK QFE760/1013 TJSJ 191256Z 03014KT 10SM FEW018 SCT032 BKN100 30/26 A2991 RMK AO2 SLP128 SHRA DSNT SE T03000256 UASK 191300Z 32004MPS 9999 SCT048CB BKN080 14/09 Q1018 R12/090060 NOSIG RMK QFE738/0984 YPPD 191300Z AUTO 00000KT 9999 // NCD 22/15 Q1014 YPPF 191300Z AUTO 03003KT 9999 // NCD 09/06 Q1022 RMK UATE 191300Z 18006MPS CAVOK 30/10 Q1017 R12/0///70 NOSIG RMK QFE760/1014 K7L2 191315Z AUTO 14014G21KT 7SM BKN007 BKN010 17/16 A2959 RMK AO2 YPPH 191300Z 32006KT 9999 -SHRA FEW012 BKN020 18/16 Q1015 INTER 1300/1500 5000 -DZ FEW010 BKN015 TEMPO 1500/1600 3000 SHRA BKN008 UATG 191300Z 16006MPS CAVOK 32/06 Q1018 R14/CLRD70 NOSIG RMK QFE766/1021 UASP 191300Z 30005MPS 9999 BKN046 14/04 Q1020 R21/0///70 NOSIG RMK QFE753/1005 SUCA 191300Z 03006KT 9999 FEW020 17/13 Q1019 UASS 191200Z 31009MPS 9999 FEW046 15/03 Q1019 NOSIG RMK QFE746/0995 OEPA 191300Z 35004KT CAVOK 44/20 Q1008 NOSIG ZGOW 191300Z 11002MPS CAVOK 28/22 Q1012 NOSIG ZHHH 191300Z 05003MPS 2500 -RA BR FEW005 SCT010 OVC033 22/22 Q1011 BECMG TL1420 3000 BR K8D3 191256Z AUTO 14013G18KT 18/18 A2974 RMK AO1 SLP061 P0001 T01830178 UATT 191300Z 17003MPS CAVOK 28/04 Q1023 R13/CLRD70 NOSIG RMK QFE747/0997 K7N0 191256Z AUTO VRB03KT 10SM CLR 27/24 A3002 RMK AO2 SLP164 T02670239 CMGB 191315Z AUTO 16005KT 22/15 RMK AO1 SLP193 T02160154 51005 CMFM 191300Z AUTO 00000KT 13/13 RMK AO1 SLP217 T01330133 50003 UAUU 191300Z 20006MPS CAVOK 22/07 Q1021 R15/CLRD70 NOSIG RMK QFE749/0999 OERF 191300Z 29003KT CAVOK 43/M02 Q1008 SUDU 191300Z 02006KT 9000 OVC005 15/14 Q1021 OERK 191300Z 02005KT 9999 SCT040 42/M03 Q1010 NOSIG OESH 191300Z 09005KT 9999 SCT035 38/09 Q1010 NOSIG OERR 191300Z 20015KT CAVOK 43/13 Q1009 NOSIG OETB 191300Z 21016KT CAVOK 39/M05 Q1011 NOSIG OESK 191200Z 25009KT 9999 FEW040 42/M01 Q1011 NOSIG UCFL 191300Z VRB01MPS 9999 NSC 18/06 Q1023 RMK G/O YPTN 191300Z AUTO 07010KT 9999 // NCD 29/12 Q1013 UCFM 191300Z 27004MPS CAVOK 23/02 Q1019 R26/CLRD70 NOSIG UCFO 191300Z 22001MPS 9999 NSC 23/10 Q1017 R12/CLRD70 NOSIG OETF 191200Z 28015KT 9999 FEW025CB SCT040 32/12 Q1018 NOSIG ZGSZ 191300Z 11004MPS CAVOK 30/24 Q1010 NOSIG TKPK 182200Z 04014KT 9999 FEW015 28/24 Q1010 TKPN 181600Z 07016KT 9999 BKN016 30/26 Q1011 OETR 191300Z 21013KT CAVOK 38/06 Q1012 K9A5 191315Z AUTO 00000KT 10SM CLR 18/16 A3005 RMK AO2 T01750162 YREN 191300Z AUTO 00000KT 9999 // NCD 05/M00 Q1023 RMK OEWD 191300Z 11006KT 9999 SCT030 41/17 Q1008 NOSIG YPWR 191300Z AUTO 07006KT 040V100 9999 // NCD 12/M03 Q1022 OEWJ 191300Z 29015KT CAVOK 33/27 Q1008 NOSIG YPXM 191300Z AUTO 13010KT 9999 // BKN016 23/20 Q1015 SVBM 191300Z 02001KT 9999 FEW016 BKN013 25/20 Q1016 MYGF 191300Z VRB02KT 9999 FEW016 29/24 A2994 HTAR 191300Z 09015KT 9999 FEW044 27/13 Q1017 K9D7 191315Z AUTO 10016KT 1/4SM FG OVC002 14/14 A2965 RMK AO2 OEYN 191300Z 22010KT CAVOK 36/22 Q1006 NOSIG K7W4 191230Z AUTO 32006KT 10SM OVC008 20/19 A3000 RMK AO1 T01970194 K7W6 191305Z AUTO 33009G14KT 4SM BR BKN008 BKN015 OVC019 20/20 A2985 RMK AO2 T02040200 SULS 191300Z 02010KT 340V070 9999 BKN015 17/13 Q1022 HTDA 191300Z 12016KT 9999 FEW021 BKN023 30/23 Q1015 NOSIG HTBU 191300Z 03005KT 9999 SCT020 FEW022CB BKN090 24/20 Q///// SUMU 191300Z 05010KT 9999 BKN017 16/13 Q1021 NOSIG HTDO 191300Z 10018KT 9999 FEW030 29/15 Q1017 NOSIG YSBK 191300Z AUTO 00000KT 9999 // NCD 11/02 Q1020 YSCB 191300Z AUTO 06002KT 9999 // NCD 02/M02 Q1020 TLPC 191300Z 17008KT 9999 -RA FEW004 SCT014CB 27/24 Q1011 NOSIG HSOB 191300Z 20004KT 9999 FEW050 34/19 Q1012 HSNN 191300Z 21004KT CAVOK 32/20 Q1012 YRMD 191300Z AUTO 09008KT 9999 // NCD 24/04 Q1016 TLPL 191300Z 20022KT 8000 VCSH FEW013CB SCT038 27/24 Q1012 TEMPO SHRA YSCN 191300Z AUTO 20005KT 9999 // NCD 11/00 Q1020 RMK YSCO 191300Z AUTO 01001KT //// // ////// 11/M04 Q1019 RMK YSCR 191300Z AUTO 24009KT //// // ////// 20/06 Q1014 RMK HSPN 191300Z 03011KT CAVOK 41/05 Q1007 MZBZ 191300Z 00000KT 9999 SCT018 27/26 A2989 Q1012 NOSIG HRYR 191030Z 06010KT 9999 FEW023CB SCT025 28/14 Q1020 NOSIG YSDU 191300Z AUTO 19008KT 9999 // NCD 08/M01 Q1021 YROM 191300Z AUTO 00000KT 9999 // NCD 13/00 Q1018 RMK YSGE 191300Z AUTO 16009KT 9999 // NCD 18/M06 Q1019 SUSO 191300Z 07009KT CAVOK 19/14 Q1019 MYNN 191300Z 00000KT 9999 FEW018TCU FEW025 29/24 A2994 RMK TCU SE K9L2 191258Z AUTO 25019G25KT 10SM CLR 18/14 A2987 RMK AO2 SLP094 T01820144 TNCA 191200Z 14005KT 110V170 9999 SCT018 29/26 Q1011 A2988 NOSIG HTIR 191300Z 12011KT 9999 FEW020 28/12 Q1020 TNCB 191255Z AUTO 27004KT 200V310 9999 BKN017/// 30/25 Q1012 HSSJ 191300Z 09004KT 9999 SCT040 32/19 Q1011 HTKA 191200Z 28011KT 9999 FEW025 FEW026CB SCT300 30/19 Q10106 TNCC 191300Z VRB03KT 9999 FEW021 31/24 Q1013 NOSIG TNCE 191255Z AUTO 06030G41KT 020V090 //// // ///////// 27/25 Q1007 RE// DFFD 191300Z 30007KT 240V030 9999 FEW020 33/25 Q1012 NOSIG YSHK 191300Z AUTO 21010KT //// // ////// 20/15 Q1018 RMK ZJHK 191300Z 14002MPS 120V180 CAVOK 27/26 Q1009 NOSIG SVMC 191200Z 09001KT 9999 BKN013 28/25 Q1012 HTKJ 191300Z 09017KT 9999 SCT042 SCT140 29/16 Q1016 NOSIG HSSS 191300Z 18018KT CAVOK 37/15 Q1010 NOSIG TNCM 182000Z 05020KT 9999 BKN019 29/// A2980 K8W2 191315Z AUTO 00000KT 3SM BKN005 OVC017 18/18 A3006 RMK AO1 T01830177 SVMG 191300Z /////KT 9999 FEW010 BKN080 31/26 Q1012 NOSIG SVMI 191300Z 36004KT 9999 FEW016 29/22 Q1010 YSHT 191300Z AUTO 00000KT 9999 // NCD 05/02 Q1022 RMK YSHW 191300Z AUTO 22005KT 9999 // NCD 11/01 Q1020 RMK UEEE 191300Z 32001MPS 9999 BKN040CB 03/02 Q1010 R23L/190155 NOSIG RMK QFE749 HTMG 192300Z 00000KT 9999 SKC 20/18 Q11019 OIAA 191300Z 01008KT CAVOK 44/14 Q1004 K9MN 191312Z AUTO 11005KT 10SM SCT050 15/15 A2995 RMK AO1 T01490145 YTAR 191300Z AUTO 07005KT //// // ////// 11/M06 Q1021 RMK YRTI 191300Z AUTO 30014KT //// // ////// 18/16 Q1014 RMK OIAG 191300Z 31014KT CAVOK 44/14 Q1003 OIAH 191300Z 31012KT CAVOK 38/M02 Q1009 OIAI 191300Z 23010KT CAVOK 41/06 Q1006 OIBA 191300Z 33006KT CAVOK 34/23 Q1003 OIBB 191300Z 29012KT 7000 NSC 36/24 Q1003 A2964 DGAA 191300Z 22013KT 190V250 9999 FEW018 BKN022 OVC025 28/23 Q1012 NOSIG HTMT 191300Z 08013KT 9999 SCT023 FEW024CB 28/21 Q1016 HTMU 191300Z 32015KT 9999 FEW025 FEW026CB 26/21 Q1017 OIAM 191300Z 31014KT CAVOK 43/18 Q1003 HUEN 191300Z 20008KT 8000 -TSRA BKN023TCU FEW025CB 27/20 Q1016.5 TEMPO AT 1400 5000 TSRA HTMW 191300Z 30020KT 9999 SCT025 FEW026CB 26/21 Q1015 NOSIG OIBJ 191300Z 21012KT CAVOK 34/19 Q1010 OIBK 191300Z 27008KT 6000 NSC 35/27 Q1004 OIBL 191300Z 20006KT 6000 NSC 35/25 Q1004 OICC 191300Z 29012KT 9999 FEW045 33/M11 Q1018 A3008 NOSIG OIAW 191300Z 28008KT CAVOK 43/14 Q1003 YSMH 191300Z AUTO 02001KT 9999 // NCD 17/15 Q1019 RMK YSMI 191300Z AUTO 22006KT //// // ////// 05/05 Q1019 OIBP 191300Z 30008KT 5000 HZ NSC 37/27 Q1002 A2960 OIBQ 191300Z 28008KT CAVOK 37/27 Q1004 OICI 191300Z 32010KT 9999 FEW040 BKN090 33/01 Q1019 A3009 OICJ 191251Z 35014KT CAVOK 30/01 Q1021 OIBS 191300Z 05006KT 7000 NSC 35/28 Q1004 OICK 191300Z 01006KT 9999 SCT040TCU 36/M03 Q1016 YTEE 191300Z AUTO 19009KT 9999 // NCD 24/M06 Q1018 RMK KMG 191300Z AUTO 22006KT 9999 // NCD 05/03 Q1021 OICM 191300Z 33004KT CAVOK 45/M01 Q1004 OIBV 191300Z 34008KT 5000 HZ NSC 36/28 Q1004 YSNF 191300Z AUTO 27007KT 9999 // OVC035 15/08 Q1018 YTEF 191300Z AUTO 13008KT 9999 // NCD 26/01 Q1016 OICS 191300Z 24004KT 9999 FEW035CB SCT040 34/M03 Q1018 YTEM 191300Z AUTO 21002KT //// // ////// 02/M01 Q1022 RMK CPBT 191200Z AUTO 29004KT 01/M00 RMK AO1 T00081001 UDSG 191300Z 29009KT 9999 SCT049CB 27/M00 Q1020 R02/CLRD70 NOSIG YSOL 191300Z AUTO 33007KT 9999 // NCD 27/M01 Q1018 RMK YSNW 191300Z AUTO 29005KT 9999 // BKN065 10/01 Q1020 CPEH 191200Z AUTO 30008KT 04/03 RMK AO1 T00430026 YTGM 191300Z AUTO 19005KT //// // ////// 15/M06 Q1021 OIFK 191300Z 00000KT CAVOK 32/M02 Q1017 HTTB 191300Z 18008KT 9999 FEW027 32/13 Q1016 OIFM 191300Z 05008KT CAVOK 29/M04 Q1020 A3014 NOSIG HTSO 191300Z 09010KT 9999 SCT026 28/12 Q1021 OIGG 191300Z 09006KT CAVOK 29/19 Q1014 YTIB 191300Z AUTO 23005KT //// // ////// 13/M05 Q1022 RMK SVVA 191100Z /////KT 9999 SCT016 24/23 Q1014 OIFS 191300Z 34012KT 9999 FEW040 26/M10 Q1023 CPFI 191200Z AUTO 30008KT 05/02 RMK AO1 T00490023 OIGK 191251Z 09004KT CAVOK 25/M02 Q1024 K9V9 191315Z AUTO 11015G21KT 3/4SM BR OVC001 18/18 A2964 RMK AO2 T01750175 HTSU 191300Z 10009KT CAVOK 25/13 Q1019 YSRI 191300Z AUTO 02004KT 9999 // NCD 09/03 Q1020 DFOO 191300Z 28004KT 9999 FEW016 33/22 Q1014 OIHH 191300Z 02006KT 9999 FEW040 29/M03 Q1022 YSRN 191300Z AUTO 02005KT 9999 // SCT040 BKN048 OVC055 06/05 OIHM 191250Z 02006KT 9999 FEW045 29/M05 Q1023 OIIE 191300Z 07006KT CAVOK 31/M06 Q1017 OIHR 190700Z 04002KT 9000 NSC 23/05 Q1025 OIII 191300Z 18010KT CAVOK 29/M03 Q1018 A3009 NOSIG OIIK 191300Z 24008KT CAVOK 30/03 Q1019 PAAD 191315Z AUTO 25008KT 10SM OVC006 02/02 A2978 RMK AO2 T00220017 YSTH 191300Z AUTO 20007KT 9999 // NCD 06/M02 Q1017 OIIP 191300Z 04008KT CAVOK 29/M04 Q1018 OJAI 191300Z 26010KT 7000 NSC 31/11 Q1013 NOSIG OIIS 191300Z 20004KT CAVOK 30/M01 Q1018 PABA 191252Z AUTO 27011KT 5SM BR OVC003 02/01 A2978 RMK AO2 UPE09RAB1156E06 SLP070 P0000 T00170011 FZRANO TSNO OIKB 191300Z 21008KT CAVOK 38/15 Q1004 A2965 PAAK 191236Z AUTO 07012G17KT 10SM BKN028 08/03 A3017 RMK AO2 OJAM 191300Z 26010KT 5000 HZ NSC 31/06 Q1013 NOSIG ZJSY 191300Z 08004MPS 9999 FEW023 BKN040 29/25 Q1009 NOSIG YSSY 191300Z 21010KT CAVOK 14/03 Q1020 NOSIG PABE 191302Z 17009KT 10SM -RA OVC027 04/03 A3014 RMK AO2 P0000 T00440028 OJAQ 191300Z 25007KT CAVOK 38/16 Q1008 NOSIG PAAQ 191253Z AUTO 00000KT 10SM BKN026 08/08 A2986 RMK AO2 SLP113 T00830083 TSNO $ PABI 191253Z AUTO 25006KT 10SM -RA BKN018 OVC026 08/08 A2985 RMK AO2 RAE00B25 SLP115 P0001 T00780078 TSNO CPIR 191200Z AUTO 30003KT 05/02 RMK AO1 T00480020 OIKK 191300Z 33014KT 9999 FEW040 27/M14 Q1020 A3013 PABL 191256Z AUTO 24007KT 10SM OVC037 01/M01 A2995 RMK AO2 RAB28E45 SLP146 P0000 T00111006 FZRANO YSTW 191300Z AUTO 00000KT 9999 // NCD 09/M05 Q1020 PACD 191253Z AUTO 00000KT 10SM FEW024 03/02 A3028 RMK AO2 SLP255 T00330022 TSNO OIKO 191250Z 20006KT CAVOK 40/09 Q1004 OIKQ 191300Z 10008KT CAVOK 36/21 Q1003 PABR 191301Z AUTO 35014KT 10SM SCT014 BKN019 BKN026 02/M01 A2986 RMK AO2 T00171006 TSNO HTZA 191300Z 14012KT 9999 FEW022 31/23 Q1014 NOSIG OIMB 191300Z 05010KT CAVOK 25/M10 Q1018 PABT 191253Z 22006KT 10SM -RA FEW004 OVC035 07/06 A2974 RMK AO2 SLP080 P0002 T00720061 OIMC 191300Z 34012KT CAVOK 33/04 Q1016 YTMO 191300Z AUTO 17008KT 9999 // NCD 23/M04 Q1018 RMK OIMD 191300Z 00000KT CAVOK 30/M04 Q1014 PACM 191313Z AUTO 20021G29KT 9SM -RA SCT012 BKN021 OVC065 09/07 A2993 RMK AO2 PK WND 21032/1301 CIG 016V028 P0001 PABV 191256Z AUTO 00000KT 10SM FEW050 07/07 A2988 RMK AO2 SLP128 T00720067 $ YTNG 191300Z AUTO 35005KT 9999 // NCD 18/13 Q1019 PADE 191253Z AUTO 20009KT 10SM CLR 01/M01 A2994 RMK AO2 SLP139 T00061006 TSNO $ YSWG 191300Z AUTO 29004KT 9999 // NCD 04/01 Q1021 YSWH 191300Z AUTO 00000KT 9999 // NCD 04/00 Q1022 RMK PADG 182343Z 32019G25KT 10SM BKN030 OVC050 05/M00 A2972 UDYZ 191300Z VRB01KT 9999 NSC 33/M02 Q1014 R09/000070 NOSIG YTNK 191300Z AUTO 12010KT 9999 // NCD 24/M03 Q1018 OINB 191300Z 06004KT CAVOK 31/21 Q1014 PADK 191256Z AUTO 10SM CLR 04/02 A3016 RMK AO2 SLP213 T00390022 PAEC 190249Z 00000KT 5SM BR BKN006 OVC010 09/08 A2961 RMK NOSPECI LAST PADL 191256Z AUTO 00000KT 10SM CLR M02/M03 A3018 RMK AO2 SLP225 T10171033 FZRANO OIMM 191300Z 05012KT CAVOK 27/M03 Q1019 A3011 PACV 191253Z 00000KT 3SM BCFG SCT150 SCT200 03/03 A2977 RMK AO2 SLP080 T00280028 PADM 191256Z AUTO 18015KT 10SM -RA SCT017 BKN021 OVC033 04/03 A3003 RMK AO2 UPE1158RAB17 SLP178 P0000 T00440028 PAED 191256Z 00000KT 10SM BKN011 BKN040 08/08 A2987 RMK AO2A SLP111 T00810081 OINE 191300Z 22008KT CAVOK 34/08 Q1014 OIMN 191300Z 03006KT CAVOK 28/M01 Q1020 OING 191300Z 33004KT CAVOK 34/17 Q1015 PAEG 191253Z AUTO 00000KT 10SM CLR M01/M02 A2974 RMK AO2 SLP076 T10061017 TSNO OIMQ 191300Z 06008KT CAVOK 30/M03 Q1017 PADQ 191253Z AUTO 29017KT 10SM CLR 10/05 A2993 RMK AO2 SLP134 T01000050 TSNO PACZ 191305Z AUTO 21026G34KT 2 1/2SM -RA BR BKN003 07/07 A2990 RMK AO2 PK WND 21034/1302 SLP128 PAEH 191255Z AUTO 30019G22KT 10SM BKN019 08/05 A3023 RMK AO2 SLP240 T00810046 PAEI 191311Z AUTO 00000KT 10SM BKN011 BKN017 OVC026 08/08 A2983 RMK AO2 RAE07 CIG 011V026 BKN011 V SCT SLP107 $ OIMS 191100Z 10010KT CAVOK 31/M04 Q1019 NSFA 191300Z 00000KT 9999 FEW020 BKN120 25/24 Q1011 NOSIG PAFA 191253Z 21004KT 10SM BKN014 BKN040 OVC060 08/08 A2982 RMK AO2 RAE08 SLP102 VIS LWR N-NE P0000 T00830083 $ OINK 191300Z 00000KT CAVOK 35/08 Q1013 PAFB 191258Z 23004KT 9SM R25R/5500FT SCT005 OVC014 09/08 A2982 RMK AO2A OVC V BKN SLP102 T00860080 PADU 191256Z AUTO 00000KT 10SM CLR 05/03 A3028 RMK AO2 SLP254 T00500028 OINN 191300Z 08006KT 9999 FEW020 29/20 Q1014 PAEN 191316Z AUTO 12003KT 3SM BR CLR 03/03 A2990 RMK AO2 T00280028 TSNO PAFE 191256Z AUTO 05003KT 10SM 07/06 A2975 RMK AO2 SLP085 T00670061 $ OINR 191300Z 09006KT CAVOK 28/21 Q1013 PAGA 191256Z AUTO 26009KT 10SM OVC055 05/01 A2998 RMK AO2 SLP156 T00500011 PAFM 191307Z AUTO 18004KT 10SM SCT008 OVC024 04/03 A2987 RMK AO2 YTRA 191300Z AUTO 34004KT 9999 // NCD 19/01 Q1014 RMK OINZ 191300Z 03006KT CAVOK 31/18 Q1014 PAGH 191256Z AUTO 25010KT 10SM OVC019 04/02 A2987 RMK AO2 SLP120 T00440022 PAFR 191254Z AUTO 00000KT 10SM BKN011 OVC050 07/07 A2987 RMK AO1 SYCJ 191200Z 30004KT 9999 FEW020 28/25 Q1013 NOSIG PAFS 191301Z AUTO 25007KT 10SM -RA OVC022 06/04 A3001 RMK AO2 RAB1248 SLP183 P0000 T00610044 PAGK 191253Z AUTO 00000KT 10SM CLR M01/M02 A2982 RMK AO2 SLP115 T10111017 TSNO $ PAGL 191256Z AUTO 09004KT 10SM FEW032 BKN045 BKN065 03/M01 A2940 RMK AO2 SLP952 T00281011 PAHC 191256Z AUTO 00000KT 10SM FEW038 M02/M02 A3010 RMK AO2 SLP199 T10171017 FZRANO YTRE 191300Z AUTO 30005KT 9999 // NCD 14/07 Q1019 PAGM 191256Z AUTO 04023G32KT 5SM -RA BR OVC005 04/04 A2975 RMK AO2 PK WND 04032/1250 RAB01E14B46 SLP079 P0000 T00440039 PAGN 191256Z AUTO 00000KT 10SM FEW004 OVC040 09/08 A2974 RMK AO2 SLP059 T00890083 PAGS 191256Z AUTO 00000KT 9SM -RA OVC002 09/09 A2974 RMK AO2 CIG 002V005 SLP070 P0002 T00890089 SYEC 191200Z 18006KT 9999 FEW018 28/25 Q1014 PAHL 191305Z AUTO 25007KT 10SM BKN019 OVC080 04/02 A2992 RMK AO2 PAHN 191307Z AUTO 00000KT 1 1/4SM BR BKN005 OVC024 09/08 A2973 RMK AO2 T00890083 TSNO PAHO 191253Z AUTO 06004KT 10SM OVC014 09/07 A2990 RMK AO2 SLP126 T00890072 TSNO $ PAGY 191302Z AUTO 00000KT 10SM SCT009 OVC014 09/09 A2972 RMK AO2 T00940089 TSNO PAHP 191309Z AUTO 22024G31KT 7SM -RA FEW010 SCT015 09/08 A2994 RMK AO2 PK WND 22031/1304 P0000 PAIG 191256Z AUTO 28007KT 10SM CLR 03/01 A3012 RMK AO2 SLP210 T00330011 $ PAII 191256Z AUTO 34004KT 10SM CLR 03/02 A3017 RMK AO2 SLP220 T00330017 OISA 191300Z 35014KT 9999 FEW040 26/M09 Q1023 NTAA 191300Z 08004KT 9999 FEW023 24/20 Q1012 NOSIG PAIK 191256Z AUTO 20006KT 10SM OVC027 01/00 A2988 RMK AO2 SLP123 T00110000 FZRANO PAIL 191253Z AUTO VRB03KT 10SM CLR 06/02 A3005 RMK AO2 SLP177 T00610022 TSNO $ PAJC 191256Z AUTO 25019G24KT 10SM CLR 08/03 A3022 RMK AO2 PK WND 23027/1236 SLP232 T00830028 PAIM 191304Z AUTO 25012KT 10SM OVC028 04/03 A2983 RMK AO2 SLP110 PAIN 191256Z AUTO 00000KT 10SM -RA FEW019 OVC028 07/06 A2985 RMK AO2 RAB04 SLP128 P0000 T00720061 OISF 191300Z 25006KT 9999 SCT040 33/00 Q1012 PAHX 191256Z AUTO 21006KT 10SM CLR 01/M01 A3009 RMK AO2 SLP190 T00111006 FZRANO YTTI 191300Z AUTO 02005KT //// // ////// 26/21 Q1013 RMK PAHY 191318Z AUTO 00000KT 1 3/4SM -RA BR SCT024 SCT033 06/05 A2973 RMK AO2 RAE1258B16 P0000 $ YTST 191300Z AUTO 00000KT 9999 // NCD 22/16 Q1013 OISL 191300Z 12010KT 9999 TS SCT035CB SCT040 BKN100 31/13 Q1010 PAJN 191253Z 09004KT 10SM BKN004 BKN033 OVC042 08/08 A2973 RMK AO2 RAE02 SLP066 P0000 T00830083 PAIW 191256Z AUTO 08011KT 10SM OVC060 03/M02 A2995 RMK AO2 SLP144 T00281022 DIAD 191100Z 22002KT 9999 SCT013 27/23 Q1015 NOSIG PAKF 191301Z AUTO 34003KT 10SM CLR 07/02 A3029 RMK AO2 SLP351 T00670022 $ CPRO 191200Z AUTO 26005KT 04/03 RMK AO1 T00410030 OISR 191300Z 27006KT 9999 TS SCT035CB 34/15 Q1007 ZLLL 191300Z 34001MPS 7000 NSC 09/09 Q1024 NOSIG OISS 191300Z 13006KT 9999 SCT040TCU 31/M03 Q1016 A3002 OKBK 191259Z 07004KT 6000 SKC 42/17 Q1005 NOSIG PAKK 191256Z AUTO 01003KT 10SM OVC038 02/M01 A2996 RMK AO2 SLP160 T00221006 FZRANO OITL 191300Z 07019KT CAVOK 24/10 Q1020 OITM 191300Z 00000KT 9999 FEW040 32/07 Q1018 PAKN 191254Z AUTO 31003KT 10SM CLR 01/M01 A3012 RMK AO2 SNB43E46 SLP198 P0000 T00061006 TSNO OITP 191300Z 08006KT CAVOK 31/15 Q1012 OISY 191300Z 31008KT 9999 FEW040 29/M17 Q1021 PAKP 191317Z AUTO 05007KT 3SM -SN BR SCT004 BKN008 OVC015 00/M01 A2977 RMK AO2 P0001 FZRANO PALG 191256Z AUTO 00000KT OVC034 01/01 A3013 RMK AO2 SLP207 T00110006 PWINO FZRANO $ PAJZ 181556Z AUTO 23004KT 7SM -RA SCT027 BKN039 OVC055 06/05 A2971 RMK AO2 RAB40 SLP069 P0001 T00560050 $ PALH 191317Z 00000KT 10SM OVC014 09/08 A2990 RMK AO2 T00890083 YTWB 191300Z AUTO 21008KT 9999 // NCD 19/00 Q1019 RMK CPRY 191200Z AUTO 26005KT 01/M00 RMK AO1 T00061003 OITR 191300Z 13004KT 9999 FEW040 29/M00 Q1018 NOSIG DIAP 191300Z 23009KT 8000 SCT012 BKN040 27/23 Q1014 TEMPO BKN011 PALJ 190256Z 00000KT 10SM -RA SCT030 OVC040 09/09 A2972 RMK LAST EST PASS CLSD NOSPECI OITT 191300Z 26004KT 9999 FEW040 32/M01 Q1019 A3010 NOSIG PAKT 191253Z AUTO 00000KT 10SM FEW100 OVC110 08/07 A2973 RMK AO2 SLP068 T00830067 TSNO PAKU 191250Z 28008KT 4SM R24/P6000FT -RA BR FEW004 OVC019 02/02 A2978 OITU 191251Z 15004KT 9999 FEW035 29/05 Q1019 PAMC 191253Z AUTO 27013KT 10SM OVC050 06/01 A3002 RMK AO2 SLP171 T00610011 TSNO DIBK 191300Z 20004KT 9999 BKN011 28/24 Q1015 NOSIG CPST 191200Z AUTO 27005KT 02/01 RMK AO1 T00220009 PAMD 191319Z AUTO 36005KT 10SM SCT014 11/09 A2979 RMK AO2 PAKV 191253Z AUTO 24004KT 10SM OVC048 01/M01 A3003 RMK AO2 SLP170 T00111011 TSNO PAKW 191316Z AUTO 00000KT 2SM BR SCT003 06/04 A2971 RMK AO2 T00610044 TSNO CPSV 191300Z AUTO 24011KT 03/03 RMK AO1 T00270027 PALP 191245Z 27010KT 10SM -RA BKN003 BKN007 OVC030 03/02 A2979 OITZ 191300Z 00000KT CAVOK 29/M03 Q1020 PAMH 191256Z AUTO VRB04KT 10SM BKN017 OVC060 06/04 A2993 RMK AO2 RAE22 SLP159 P0000 T00610044 PANA 191310Z AUTO 18011KT 10SM -RA SCT023 OVC030 05/03 A3013 RMK AO2 P0000 PAMK 191256Z AUTO 18006KT 10SM BKN065 OVC095 01/00 A3001 RMK AO2 SLP166 T00110000 FZRANO $ PANC 191253Z 22003KT 10SM SCT013 BKN050 BKN090 08/07 A2987 RMK AO2 SLP117 T00780072 PALU 191255Z AUTO 04014KT 10SM BKN033 04/00 A2999 RMK AO2 SLP156 T00350003 PAMM 191256Z AUTO 09003KT 10SM FEW110 09/08 A2973 RMK AO2 SLP060 T00890083 DIBU 191100Z 30004KT 9999 BKN013 28/22 Q1016 NOSIG PANI 191256Z AUTO 00000KT 10SM FEW037 M01/M02 A3013 RMK AO2 SLP172 T10111017 FZRANO PAMR 191253Z 00000KT 10SM BKN016 OVC049 08/08 A2987 RMK AO2 SLP116 T00780078 UHBB 191300Z 35002MPS CAVOK 14/12 Q1005 R36/090060 NOSIG RMK QFE737/0982 DIDK 191100Z ///// 9999 BKN013 27/24 Q1016 NOSIG DIDL 191100Z ///// 9999 BKN013 30/24 Q1017 NOSIG PANN 191253Z AUTO VRB05KT 10SM -RA OVC016 09/09 A2983 RMK AO2 RAB53 SLP107 P0000 T00940089 TSNO PAMY 191256Z AUTO 22019G22KT 9SM OVC060 08/07 A3004 RMK AO2 RAE44 SLP175 P0000 T00780067 PAOH 191256Z AUTO 00000KT 7SM OVC006 09/09 A2972 RMK AO2 CIG 002V008 SLP066 T00890089 PANT 191253Z AUTO 00000KT 10SM CLR 07/06 A2972 RMK AO2 SLP064 T00720061 TSNO PAPB 191253Z AUTO 22008KT 10SM -RA CLR 07/05 A3027 RMK AO2 SLP238 P0000 T00670050 TSNO PAOM 191253Z AUTO 07012KT 10SM -RA OVC037 02/M01 A2991 RMK AO2 RAB11UPB12E22 SLP128 P0000 T00171006 TSNO PANV 191056Z AUTO 24006KT 10SM CLR 00/M01 A3005 RMK AO2 SLP197 T00001011 FZRANO UGKO 191300Z 27011KT CAVOK 30/21 Q1010 R25/09//70 NOSIG PANW 191256Z AUTO 36008KT 10SM CLR A3014 RMK AO2 SLPNO FZRANO $ PAOO 191256Z AUTO 20022KT 10SM -RA OVC015 08/06 A3007 RMK AO2 PK WND 19028/1226 RAE22B47 SLP194 P0000 T00830061 PAPG 191256Z AUTO 00000KT 10SM BKN038 OVC045 A2973 RMK AO2 SLPNO FZRANO $ PAPH 191256Z AUTO 32014KT 10SM SCT032 08/02 A3023 RMK AO2 SLP240 T00780022 PAOR 191253Z 32004KT 10SM FEW070 BKN095 05/03 A2976 RMK AO2 SLP087 T00500033 OIZB 191300Z 33012KT CAVOK 33/M03 Q1007 PAOT 191253Z AUTO 31013KT 10SM CLR 03/00 A2990 RMK AO2 SLP124 T00330000 TSNO DIGA 191100Z 24006KT 9999 BKN013 27/23 Q1017 NOSIG PAOU 191256Z AUTO 32011KT 10SM CLR 08/05 A3028 RMK AO2 SLP254 T00780050 PAPM 191256Z AUTO 25003KT 10SM SCT009 BKN022 OVC040 07/06 A3021 RMK AO2 SLP232 T00720056 CPXL 191300Z AUTO 26008KT 03/01 RMK AO1 T00340014 PAPN 191256Z AUTO 32008KT 10SM OVC032 07/03 A3018 RMK AO2 SLP221 T00670028 PAPO 191256Z AUTO 36014KT 10SM CLR 03/M03 A2999 RMK AO2 SLP156 T00331028 OIZH 191300Z 04012KT CAVOK 28/M08 Q1016 A3001 NOSIG PAQH 191256Z AUTO 14007KT 10SM BKN024 OVC037 04/02 A3019 RMK AO2 SLP223 T00390017 PWINO PAPR 191250Z 20010KT 4SM -RA BKN010 OVC020 07/ A2972 OIZI 191300Z 34016KT 9999 PO NSC 37/M03 Q1009 OIZJ 191300Z 24008KT 8000 NSC 34/29 Q1003 PARC 191256Z AUTO 00000KT 10SM BKN060 BKN080 OVC110 02/01 A2970 RMK AO2 SLP089 T00220006 FZRANO OIYY 191300Z 35014KT 9999 FEW040 30/M08 Q1019 PASA 191310Z AUTO 24015KT 10SM -RA BKN007 BKN011 OVC034 07/06 A2973 RMK AO2 P0001 $ PAQT 191305Z AUTO 27007KT 10SM -RA FEW006 FEW019 OVC034 03/03 A2981 RMK AO2 P0000 T00280028 TSNO PASC 191253Z 25006KT 10SM BKN007 OVC020 03/03 A2977 RMK AO1 SLP082 T00280028 PASD 191256Z AUTO 36013KT 10SM CLR 07/03 A3026 RMK AO2 SLP248 T00720033 YWCA 191300Z AUTO 22006KT //// // ////// 10/M02 Q1022 RMK PASH 191304Z AUTO VRB04KT 10SM BKN029 OVC038 04/01 A2997 RMK AO2 PASI 191253Z 00000KT 10SM OVC110 09/07 A2970 RMK AO2 SLP058 T00890072 YWBL 191300Z AUTO 36005KT 9999 // NCD 07/06 Q1021 RMK OLBA 191300Z 29005KT 250V320 6000 SCT026 29/22 Q1011 NOSIG PATA 191252Z AUTO 28005KT 7SM -RA OVC007 08/07 A2987 RMK AO2 SLP117 P0001 T00780072 TSNO PARS 191256Z AUTO 20003KT 10SM OVC022 03/02 A3009 RMK AO2 RAB18E40 SLP195 P0000 T00330022 $ PASK 191256Z AUTO 27008KT 10SM CLR 03/02 A2990 RMK AO2 SLP122 T00330022 $ PASL 191256Z AUTO 00000KT 10SM 03/M01 A3014 RMK AO2 SLP204 T00331006 $ PATC 191255Z AUTO 06012KT 10SM OVC060 02/M01 A2992 RMK AO2 SLP135 T00161015 $ PASM 191256Z AUTO 17010G15KT 8SM -RA OVC003 05/04 A3003 RMK AO2 SLP185 P0004 T00500044 PASN 191253Z AUTO 25011KT 10SM FEW018 06/04 A3023 RMK AO2 SLP238 T00610039 TSNO $ PATE 191256Z AUTO 08010KT OVC050 02/M01 A2992 RMK AO2 SLP139 T00171011 PWINO FZRANO $ PASO 191316Z AUTO 00000KT 10SM OVC015 10/09 A2991 RMK AO2 T01000094 TSNO YWBR 191300Z AUTO 00000KT //// // ////// 17/M04 Q1018 PATG 191256Z AUTO 00000KT 10SM CLR 03/M01 A3021 RMK AO2 SLP326 T00331011 PARY 191256Z AUTO 27007G14KT 10SM FEW024 SCT047 04/01 A2994 RMK AO2 SLP167 T00390006 MSV 191300Z AUTO 00000KT 9999 // NCD 05/M02 Q1020 RMK PATK 191253Z AUTO 00000KT 10SM OVC014 09/08 A2986 RMK AO2 SLP114 T00940083 TSNO PASV 191255Z AUTO 34011KT 10SM FEW010 SCT031 02/00 A3004 RMK AO2 SLP187 T00170002 MUI 191300Z AUTO 11005KT 9999 // NCD 10/M02 Q1020 RMK PATO 191253Z AUTO 29005KT 10SM OVC014 08/07 A2986 RMK AO2 SLP110 T00830072 TSNO PASX 191256Z AUTO 08003KT 10SM CLR 01/01 A2990 RMK AO2 SLP134 T00110011 FZRANO $ UHHH 191300Z VRB01MPS 9999 SCT040CB 11/11 Q1001 R23L/290045 NOSIG RMK QFE745/0993 PASY 191258Z AUTO 00000KT 7SM CLR 03/02 A3024 RMK AO2 SLP244 T00280022 $ PATQ 191305Z AUTO 33014KT 10SM SCT010 BKN015 OVC020 02/01 A2988 RMK AO2 FZRANO TSNO PAVA 191256Z AUTO 22022G27KT 10SM OVC011 08/07 A2997 RMK AO2 PK WND 22027/1256 RAB27E47 SLP235 P0001 T00830072 NSTU 191150Z 00000KT 7SM -SHRA SCT016 BKN040 OVC100 25/25 A2987 RMK SLP115 60026 70089 8/82/ T02530253 10262 20253 57005 PAVC 191256Z AUTO 00000KT 10SM CLR 03/01 A3029 RMK AO2 SLP262 T00280006 PAVD 191306Z 00000KT 4SM -RA OVC001 03/03 A2981 RMK AO2 P0000 PAUN 191256Z AUTO 19014G19KT 10SM FEW015 BKN028 OVC037 06/02 A3001 RMK AO2 RAB05E23 SLP168 P0000 T00560022 DIKO 191100Z 30004KT 9999 BKN013 30/24 Q1015 NOSIG UIAA 191300Z 30003MPS 9999 NSC 08/04 Q1009 R29/CLRD70 NOSIG RMK QFE698/0931 UGSB 191300Z 28004KT 250V330 CAVOK 26/22 Q1013 R13/CLRD70 NOSIG PAUT 191315Z AUTO 00000KT 10SM CLR 04/02 A3027 RMK AO2 T00430024 PAVL 191253Z AUTO 33012KT 10SM CLR 02/M01 A2994 RMK AO2 SLP139 T00171006 TSNO PNO $ PAWD 191253Z AUTO 35013KT 10SM CLR 09/06 A2984 RMK AO2 SLP104 T00890056 TSNO PAWG 191256Z AUTO 00000KT 10SM -RA OVC008 09/09 A2973 RMK AO2 SLP069 P0001 T00890089 TSNO PAWI 191253Z AUTO 34012KT 10SM OVC038 03/M01 A2990 RMK AO2 SNB1153E35 SLP126 P0000 T00281006 TSNO UIBB 191300Z AUTO 02002MPS 350V060 9999 // ///041/// 08/08 Q1007 RMK QFE713/0951 UGTB 191300Z 17007KT 9999 SCT050CB 30/07 Q1017 R13R/CLRD70 NOSIG PAWM 191256Z AUTO 02004KT 10SM BKN033 OVC044 01/M01 A2997 RMK AO2 SLP152 T00111006 FZRANO PNO $ DIMN 191100Z 22002KT 9999 BKN013 27/23 Q1017 NOSIG YWHA 191300Z AUTO 31005KT 9999 // NCD 07/04 Q1022 PAYA 191253Z AUTO 00000KT 10SM OVC075 08/08 A2971 RMK AO2 SLP060 T00830078 TSNO PAWS 191311Z AUTO 00000KT 6SM BR OVC008 07/06 A2989 RMK AO2 ZLXY 191300Z 00000MPS 8000 NSC 21/20 Q1015 NOSIG DIOD 191100Z 31004KT 9999 BKN013 30/24 Q1017 NOSIG UHMA 190800Z 36006MPS 9999 SCT030 BKN080 03/00 Q1014 RMK QFE757/1009 YWGT 191300Z AUTO 15001KT 9999 // NCD 04/02 Q1021 YVRD 191300Z AUTO 00000KT //// // ////// 20/M01 Q1013 UHMD 190600Z 01009MPS 4000 -RASN VV004 01/M01 Q1010 RMK QBB140 MT OBSC QFE757/1009 PAZK 191314Z AUTO 23009KT 1 1/4SM BR OVC002 04/04 A2981 RMK AO2 UHMM 191300Z 08003MPS 9999 OVC029 07/06 Q1014 RMK QFE745 YWIS 191300Z AUTO 00000KT //// // ////// 19/15 Q1018 RMK OMAA 191300Z 33015KT CAVOK 35/24 Q1003 NOSIG OMAD 191300Z 34011KT CAVOK 36/25 Q1004 NOSIG ZMUB 191300Z 16004MPS CAVOK 15/M03 Q1012 NOSIG RMK QFE652.4 29 OMAL 191300Z 32010KT CAVOK 42/07 Q1005 NOSIG YWLG 191300Z AUTO 16002KT 9999 // NCD 08/M06 Q1020 RMK TQPF 182200Z 07012KT 9999 FEW018 28/24 Q1012 YWLM 191300Z AUTO 22007KT 9999 // NCD 13/04 Q1019 DITB 191100Z 20006KT 9999 FEW004 BKN013 26/23 Q1015 NOSIG UHPP 191300Z 12006MPS 9999 BKN030CB 10/08 Q1016 R34L/290155 NOSIG RMK QFE758/1011 EBBE 191255Z 36005KT 9999 FEW032 15/09 Q1019 BLU BLU DISP 191100Z 20008KT 9999 BKN013 26/23 Q1015 NOSIG OMDB 191300Z 34010KT 300V010 CAVOK 35/24 Q1004 NOSIG DISS 191100Z 20002KT 9999 BKN015 27/23 Q1017 NOSIG EBBL 191303Z 34006KT 9999 SCT025 16/10 Q1019 BLU BLU EBAW 191250Z 35006KT 320V050 9999 SCT035 17/08 Q1019 NOSIG UIII 191300Z 16007MPS 9999 SCT033CB 16/03 Q1002 R12/CLRD60 NOSIG RMK QFE710/0946 EBCI 191250Z 31005KT 260V350 9999 SCT026 15/08 Q1019 NOSIG EBBR 191250Z 33006KT 9999 SCT037 16/08 Q1019 NOSIG CTCK 191300Z AUTO 14003KT 20/18 RMK AO1 SLP179 T01970175 51005 VAAH 191300Z 31003KT 5000 HZ FEW080 33/26 Q1002 BECMG 4000 YWOL 191300Z AUTO 28006KT 220V310 9999 // NCD 09/01 Q1020 RMK VABB 191310Z 29020G30KT 0400 R27/0600 +SHRA SCT008 SCT015 FEW030CB OVC080 25/25 Q1002 TEMPO 0200 +SHRA KA08 191315Z AUTO 00000KT 10SM CLR 23/23 A3000 RMK AO2 T02340229 OMDW 191300Z 34015KT 6000 NSC 36/24 Q1005 NOSIG EBCV 191255Z AUTO 30006KT 9999 FEW057/// 16/08 Q1020 BLU UHSS 191300Z 23002MPS 9999 FEW040CB 12/10 Q0997 R01/CLRD70 NOSIG RMK QFE746/0995 OMFJ 191300Z 08005KT 040V110 8000 FEW040 35/21 Q1005 A2968 VAAU 191200Z VRB03KT 4000 HZ FEW020 SCT025 FEWCB030 28/24 Q1005 NOSIG EBDT 191255Z 31005KT 9999 FEW025 SCT035 16/10 Q1019 BLU BLU TEMPO WHT VABO 191300Z 27005KT 5000 HZ SCT020 BKN080 32/25 Q1001 NOSIG VABP 191300Z 28006KT 5000 HZ SCT020 31/21 Q1004 NOSIG VABV 191300Z 29002KT 4000 HZ FEW020 SCT080 FEW0200 32/27 Q1001 EBFN 191255Z 32009KT 9999 FEW020 SCT200 16/11 Q1020 BLU BLU TEMPO WHT KA39 191315Z AUTO 11005KT 10SM CLR 21/11 A2991 RMK AO2 EBFS 191255Z 32007KT 9999 FEW020 SCT024 14/09 Q1019 WHT BLU TEMPO WHT DIYO 191300Z 00000KT 9999 BKN013 30/23 Q1013 NOSIG YWUD 191300Z AUTO 36004KT //// // ////// 06/03 Q1021 YWTN 191300Z AUTO 04006KT //// // ////// 20/M03 Q1017 RMK UHWW 191300Z 32006MPS 9999 SCT040CB 16/12 Q1005 R25L/190065 NOSIG RMK QFE752 TRPG 181500Z 10019KT 2000 SHRA FEW004 BKN013 26/24 Q1012 VAID 191200Z 00000KT 5000 HZ FEW020 SCT100 32/20 Q1004 EBLB 191311Z AUTO VRB02KT 9999 SCT010/// BKN052/// 11/09 Q1018 GRN EBLG 191250Z 35008KT 9999 SCT015 13/10 Q1019 NOSIG YWWL 191300Z AUTO 27004KT //// // ////// 04/M01 Q1022 RMK VAJB 191200Z 36002KT 5000 HZ SCT025 BKN100 28/24 Q1003 VAJJ 191200Z 31026G39KT 280V360 1000 +RA SCT010 SCT015 FEW030CB OVC080 28/28 Q1001 TEMPO 0800 HVY RA UKBB 191300Z 35003MPS 240V050 CAVOK 21/04 Q1018 R88/CLRD// NOSIG YWYM 191300Z AUTO 09002KT //// // ////// 22/04 Q1013 RMK CTNK 191300Z AUTO 17/15 RMK AO1 SLP191 T01680154 53012 UKDD 191300Z 03005MPS 320V050 CAVOK 27/05 Q1016 R08/090070 NOSIG UKDE 191300Z 02005MPS 340V060 CAVOK 28/07 Q1015 R02/CLRD70 NOSIG YWYY 191300Z AUTO 31006KT 9999 // NCD 05/03 Q1019 RMK TTCP 191300Z 17015KT 9000 -RAFEW012 OVC050 26/24 Q1014 NOSIG UIUU 191300Z 28002MPS 240V310 9999 NSC 12/03 Q1007 R26/CLRD60 NOSIG RMK QFE711/0948 EBOS 191250Z 30008KT 270V330 9999 FEW020TCU 16/10 Q1020 NOSIG UKDR 191300Z 05005MPS 360V090 CAVOK 26/02 Q1016 R36/09//70 NOSIG OMRK 191300Z 34009KT 9999 FEW040 39/13 Q1004 A2967 CTRA 192200Z AUTO 30005KT 22/08 RMK AO1 SLP082 T02150079 56002 VANP 191300Z 30004KT 3000 HZ SCT015 FEW030CB BKN100 27/24 Q1004 TEMPO 1500M IN TSRA OMSJ 191300Z 32009KT CAVOK 36/22 Q1004 EDAC 191250Z 31002KT 9999 SCT041 BKN075 16/06 Q1016 EDAH 191250Z 22009KT 9999 SCT040 17/08 Q1015 UKHH 191300Z 36004MPS 310V050 CAVOK 23/02 Q1018 R25/0///66 NOSIG VAPR 190430Z 29010KT 4000 HZ SCT015 SCT020 BKN080 28/26 Q1006 PFCL 191256Z AUTO 29004KT CLR 04/01 A3018 RMK AO2 SLP223 T00440006 PWINO $ YYNG 191300Z AUTO 18001KT //// // ////// M00/M02 Q1021 RMK ULAA 191300Z 07008G13MPS 040V120 9999 BKN026CB 07/03 Q1009 R08/290060 NOSIG RMK QFE756/1008 VARK 191100Z 29010KT 6000 FEW080 32/24 Q1003 EDDB 191250Z 27007KT 9999 SCT041 SCT082 16/08 Q1015 NOSIG EDDC 191250Z VRB01KT 9999 SCT040 BKN320 16/06 Q1016 NOSIG EDDE 191250Z 29006KT 260V360 9999 FEW027 15/07 Q1017 NOSIG EDDF 191250Z 22003KT 150V270 9999 -SHRA FEW017 SCT027CB BKN080 15/09 Q1017 NOSIG EDDG 191250Z 26005KT 9999 BKN027 14/09 Q1018 NOSIG EDDH 191250Z 29008KT 9999 FEW031 BKN250 15/10 Q1015 NOSIG KC07 191312Z AUTO 22008G24KT 160V260 10SM CLR 06/M07 A3006 RMK AO2 KAAA 191315Z AUTO 00000KT 1/4SM FG OVC001 19/19 A2995 RMK AO2 T01920192 PFEL 191256Z AUTO 00000KT 10SM OVC040 04/M02 A2999 RMK AO2 SLP155 T00391022 KC09 191315Z AUTO 00000KT 3SM BR CLR 18/17 A2995 RMK AO2 T01770173 EDDK 191250Z 29009KT 250V310 9999 SCT013 BKN070 14/11 Q1018 NOSIG EDDL 191250Z 30009KT 270V330 9999 SCT019 BKN025 15/10 Q1018 NOSIG EDDM 191250Z 33003KT 280V030 9999 SCT025 SCT080 OVC130 13/07 Q1017 NOSIG EDDN 191250Z 28005KT 9999 FEW027TCU SCT066 BKN280 13/08 Q1017 NOSIG KAAF 191253Z AUTO 34003KT 10SM CLR 25/25 A3000 RMK AO2 SLP159 T02500250 VCBI 191210Z 23010KT 200V260 9999 SCT016 29/24 Q1010 NOSIG EDDP 191250Z 28005KT 230V300 9999 FEW035 BKN080 15/09 Q1016 NOSIG UKKK 191300Z 04002MPS 340V130 CAVOK 20/06 Q1018 R08/CLRD70 NOSIG VASU 190700Z 32002KT 5000 HZ SCT020 SCT025 BKN080 30/27 Q1005 EDDR 191250Z 26010KT 9999 FEW015TCU SCT040 14/08 Q1018 TEMPO SHRA VAUD 191300Z 00000KT 6000 NSC 31/19 Q1005 NOSIG UKKM 191300Z 14002MPS 080V200 CAVOK 20/04 Q1018 R15/CLRD70 NOSIG EDDS 191250Z 33008KT 9999 FEW006 FEW015CB SCT053 13/08 Q1017 NOSIG EDDT 191250Z 24007KT 150V300 9999 SCT038 BKN080 17/08 Q1016 NOSIG ZPPP 191300Z 20004MPS 9999 FEW023 20/16 Q1021 NOSIG EDDV 191250Z 29005KT 260V330 9999 FEW028 BKN250 15/09 Q1017 NOSIG KABE 191251Z 03009KT 10SM OVC012 21/18 A3004 RMK AO2 SLP171 T02110178 EDDW 191250Z 25006KT 210V300 9999 SCT018 BKN300 15/10 Q1017 NOSIG KAAO 191254Z AUTO 16009KT 10SM CLR 21/19 A2983 RMK AO2 SLP089 T02060194 UKLI 191300Z 11007MPS 080V140 9999 FEW023CB BKN046 14/09 Q1015 R10/090070 NOSIG EDFH 191250Z 25013KT 9999 VCSH SCT019CB 13/08 Q1018 KABI 191252Z 20012KT 10SM CLR 24/21 A2993 RMK AO2 SLP106 T02390211 UKLL 191300Z 09006MPS 060V130 CAVOK 16/08 Q1015 R13/CLRD// NOSIG KAAT 191255Z AUTO 00000KT 10SM FEW047 BKN065 02/00 A2999 RMK AO2 SLP148 T00220000 TSNO $ KACB 191313Z AUTO 00000KT 10SM 15/11 A3006 RMK AO2 T01490106 KC29 191315Z AUTO 07004KT 10SM CLR 16/14 A2999 RMK AO1 T01600142 UKLN 191300Z 13005MPS 080V160 3200 -SHRA BKN008 BKN033CB 13/12 Q1016 R15/09//70 TEMPO 12005MPS 2100 -SHRA BKN007 BKN020CB EDFM 191250Z 10004KT 050V140 9999 VCSH FEW020TCU 15/10 Q1018 UKLR 191300Z 14002MPS 110V180 9999 SCT030 BKN100 17/06 Q1017 R11/090070 NOSIG KC35 191315Z AUTO 08004KT 10SM CLR 15/14 A2998 RMK AO2 T01450140 KABQ 191252Z 25004KT 10SM FEW200 15/M03 A3008 RMK AO2 SLP108 T01501033 KABR 191253Z AUTO 15013KT 7SM OVC016 19/18 A2968 RMK AO2 SLP047 T01940183 UKLU 191300Z VRB02MPS 9999 SCT043 OVC100 19/11 Q1011 R10/090070 NOSIG KACJ 191255Z AUTO 00000KT 10SM BKN048 BKN070 22/22 A3004 RMK AO2 LTG DSNT N KACK 191314Z 05012KT 1 1/2SM BR OVC002 18/18 A3003 RMK AO2 T01830183 KADC 191314Z AUTO 13008KT 1/2SM FG OVC001 13/13 A2985 RMK AO2 KADF 191318Z AUTO 00000KT 2 1/2SM BR SCT002 21/21 A2998 RMK AO2 KABY 191253Z 00000KT 5SM BR CLR 23/22 A3002 RMK AO2 SLP164 T02330222 KADG 191253Z AUTO 06005KT 7SM OVC005 18/17 A3000 RMK AO2 LTG DSNT SE-SW SLP157 T01830167 KACP 191255Z AUTO 00000KT M1/4SM FG OVC002 23/23 A2999 RMK AO2 T02320225 KACQ 191313Z AUTO 12008KT 1 3/4SM BR OVC003 15/14 A2992 RMK AO2 KADH 191315Z AUTO 18006KT 10SM CLR 22/22 A2991 RMK AO2 LTG DSNT N AND NE EDHI 191250Z 28006KT 220V310 9999 SCT029 17/10 Q1015 EDGS 191250Z 27008KT 9999 VCSH SCT013 BKN057 11/08 Q1017 KACT 191251Z 16009KT 8SM BKN010 OVC020 25/23 A2994 RMK AO2 CIG 007V013 SLP129 T02500233 EDHK 191250Z 24010KT 220V280 9999 VCSH FEW018 BKN068 13/10 Q1015 RERA EDHL 191250Z 25006KT 220V320 9999 SCT030 16/10 Q1015 KACV 191253Z AUTO 18005KT 10SM FEW010 SCT014 OVC019 13/13 A3004 RMK AO2 RAB18E43 SLP177 P0001 T01330133 KADM 191135Z AUTO 15003KT 10SM CLR 22/22 A2989 RMK AO2 T02230217 UKOH 191300Z 06008MPS 020V090 CAVOK 29/06 Q1013 R03/CLRD// NOSIG KAEG 191247Z 25006KT 10SM SKC 09/M04 A3010 KACY 191254Z 03012KT 7SM -RA BKN012 OVC019 22/21 A2992 RMK AO2 RAB18 SLP132 P0006 T02170206 KAEJ 191315Z AUTO 14004KT 10SM CLR 03/M05 A3000 RMK AO2 T00261047 KADS 191253Z 16008KT 10SM OVC008 24/22 A2993 DNAA 191300Z 24005KT 9999 BKN013 32/22 Q1013 NOSIG EDJA 191250Z 15004KT 120V190 9999 SCT036 BKN059 BKN110 10/07 Q1017 UKON 191300Z 06006MPS 030V110 CAVOK 28/04 Q1014 NOSIG KADU 191315Z AUTO 15005KT 5SM BR SCT060 19/17 A2987 RMK AO2 KAEL 191315Z AUTO 14008KT M1/4SM FG OVC002 18/17 A2992 RMK AO2 KC62 191315Z AUTO 09006KT 10SM SCT004 SCT070 BKN120 18/18 A2997 RMK AO2 T01850185 UKOO 191300Z 08006MPS CAVOK 27/06 Q1013 R34/090060 NOSIG KADW 191258Z AUTO 01009KT 10SM BKN013 21/19 A2998 RMK AO2 SLP157 T02120186 CWAE 191300Z 00000KT 15SM OVC020 03/02 A2969 RMK SC8 WND ESTD SLP064 KAFF 191258Z AUTO 05007KT 10SM CLR 09/M05 A2985 RMK AO2 SLP038 T00911047 CWAF 191300Z AUTO 36001KT 07/07 RMK AO1 T00650072 KAFJ 191315Z AUTO 00000KT 7SM CLR 17/16 A3006 RMK AO1 CWBA 191300Z AUTO 36003KT 14/13 RMK AO1 T01420130 CWAJ 191300Z AUTO RMK AO1 KAFK 191315Z AUTO 15007KT 2SM BR OVC003 19/19 A2984 RMK AO2 LTG DSNT SE T01920192 KAGC 191253Z 12005KT 6SM BR CLR 18/16 A3005 RMK AO2 SLP172 T01830161 TTPP 191300Z 11005KT -RA FEW005 SCT035 25/25 Q1014 NOSIG KAFN 191310Z AUTO 00000KT 10SM OVC005 18/17 A3017 RMK AO2 CIG 003V008 T01780172 CWBE 191300Z AUTO 06009KT 15/12 RMK AO1 SLP202 T01520120 58005 KAEX 191308Z 00000KT 1/2SM FG VV002 24/24 A2998 RMK AO2 T02390239 KAFO 191315Z AUTO 32004KT 10SM -RA BKN015 OVC020 02/01 A2988 RMK AO2 TSNO KAFP 191305Z AUTO 34005KT 10SM CLR 21/18 A3003 RMK AO2 T02110184 KC75 191315Z AUTO 00000KT 3/4SM BR OVC003 17/17 A2995 RMK AO2 T01680168 CWAQ 191200Z AUTO 35004KT 10/09 RMK AO1 3PAST HR 6013 SLP972 P0001 T00950087 50003 PFKT 191256Z AUTO 06015KT 10SM OVC060 03/M03 A2994 RMK AO2 SLP139 T00331028 CWCA 191300Z 20004KT 15SM OVC070 09/05 A3019 RMK AS8 SLP225 CWBK 191300Z AUTO 12005KT 17/16 RMK AO1 SLP253 T01730163 58003 PFKW 191256Z AUTO 19008KT 10SM FEW027 BKN036 OVC045 03/01 A3014 RMK AO2 SLP207 T00330011 CWAV 191300Z AUTO 23002KT M03/M04 RMK AO1 SLP031 T10311036 57004 KAFW 191313Z 16008KT 10SM FEW007 FEW011 SCT200 BKN300 24/23 A2991 RMK AO2 T02440233 KC83 191315Z AUTO 22006KT 10SM BKN044 14/09 A2998 RMK AO2 CWCF 191300Z AUTO 09007KT 06/04 RMK AO1 SLP117 T00580037 55004 CWBO 191300Z AUTO 30007KT 04/02 RMK AO1 SLP009 T00350017 55002 CWCI 191200Z AUTO 08011KT 14/11 RMK AO1 SLP185 T01360112 55003 KAGS 191253Z 00000KT 5SM BR BKN095 22/21 A3001 RMK AO2 SLP159 T02170206 KAIA 191253Z AUTO 16007KT 10SM CLR 12/11 A2965 RMK AO2 SLP014 T01220111 CWDA 191200Z AUTO 15006KT 09/08 RMK AO1 SLP258 T00850080 56010 CWCJ 191300Z AUTO 05004KT 09/09 RMK AO1 SLP191 T00940094 50002 CWBS 191300Z AUTO 04006KT 17/17 RMK AO1 T01680167 EDMA 191250Z 32003KT 280V010 9999 FEW020 SCT057 12/07 Q1017 KAIB 191315Z AUTO 19007KT 10SM CLR 15/M07 A3001 RMK AO2 CWBT 191300Z AUTO 09004KT RMK AO1 55004 KAID 191245Z 00000KT 2 1/2BR SCT035 BKN110 20/20 A2997 CWDC 191300Z AUTO 06005KT 06/03 RMK AO1 SLP107 T00560030 51002 CWBU 191300Z AUTO 07008KT 09/08 RMK AO1 3PAST HR 5002 SLP046 P0001 T00910080 50003 CWBV 191300Z AUTO 15018KT 19/ RMK AO1 PK WND 15020/1256 SLP249 T0190 58003 KAHN 191251Z 07005KT 7SM CLR 21/20 A3003 RMK AO2 SLP165 T02110200 EDLN 191250Z 29010KT 250V320 6000 SCT012 BKN028 13/11 Q1018 CWCO 191300Z AUTO 06001KT 19/18 RMK AO1 SLP169 T01850181 51004 KAIG 191315Z AUTO 11008KT 10SM OVC005 14/13 A3004 RMK AO2 T01360132 CWBY 191300Z AUTO 16/14 RMK AO1 SLP214 T01580142 58004 EDLP 191250Z 29003KT 240V020 9999 VCSH FEW020 SCT075 12/09 Q1017 KAHQ 191315Z AUTO 13008KT 2 1/2SM BR OVC003 20/19 A2980 RMK AO2 T01950191 KD07 191256Z AUTO 15013KT 17/11 A2950 RMK AO1 SLP978 T01720111 CWBZ 191300Z AUTO 07002KT 20/20 RMK AO1 SLP186 T02020198 51010 UMBB 191300Z 28002MPS 7000 FEW030 BKN200 18/08 Q1018 R29/CLRD// NOSIG OOMS 191250Z 06007KT 9000 FEW025 33/27 Q1004 NOSIG CWDJ 191300Z AUTO 11013KT 13/08 RMK AO1 PK WND 12018/1209 SLP984 T01260080 58016 KAIK 191315Z AUTO 00000KT 10SM OVC095 22/20 A3007 RMK AO2 KBAB 191258Z AUTO 00000KT 10SM CLR 12/09 A2995 RMK AO2 SLP145 T01240088 $ CWDK 191300Z AUTO 00000KT M02/M03 RMK AO1 SLP039 T10211029 58003 CWCT 191300Z AUTO 27011KT 05/04 RMK AO1 PK WND 25017/1226 SLP991 T00490041 58008 CWEB 191300Z AUTO 35006KT 08/08 RMK AO1 SLP063 T00820079 53008 KBAC 191315Z AUTO 14012KT 1/4SM FG OVC002 16/16 A2972 RMK AO2 KBAD 191308Z AUTO 22005KT 9SM OVC005 24/24 A2997 RMK AO2 SLP150 CWDM 191300Z AUTO 16005KT 13/12 RMK AO1 SLP238 T01300115 58013 EDLV 191250Z 31004KT 260V010 9999 BKN013 13/10 Q1019 PFNO 191256Z AUTO 27010KT 10SM CLR 02/01 A2989 RMK AO2 SLP121 T00220006 FZRANO CWEE 191200Z AUTO RMK AO1 53008 EDLW 191250Z 32005KT 260V020 9999 SCT028 14/09 Q1018 KBAF 191253Z 01008KT 10SM OVC013 19/17 A3011 RMK AO2 SLP195 T01940172 KAIO 191315Z AUTO 17007KT 8SM SCT009 BKN060 BKN075 20/19 A2986 RMK AO2 CWEF 191200Z AUTO 18015G20KT 17/15 RMK AO1 PK WND 18020/1156 SLP261 T01670153 51006 CWDO 191300Z AUTO 20010KT 11/08 RMK AO1 SLP277 T01120080 57005 EDMO 191250Z VRB02KT 9999 BKN019 11/07 Q1017 KAJG 191315Z AUTO 20005KT 3SM +TSRA BKN004 BKN010 OVC029 20/20 A2999 RMK AO2 LTG DSNT ALQS T02030197 CWDQ 191300Z AUTO 18004KT 17/16 RMK AO1 SLP197 T01720161 51006 CWEH 191300Z AUTO 26008KT 05/03 RMK AO1 SLP994 T00500028 56011 EEEI 191250Z 36003KT 9999 FEW029 BKN047 11/09 Q1009 NOSIG KBAK 191245Z 24010KT 3/4SM -RATS OVC011 20/19 A3001 RMK -RATSB42 KAIT 191313Z AUTO 14007KT 3SM BR OVC002 13/12 A2990 RMK AO2 KBBB 191313Z AUTO 17010KT 1 1/2SM BR OVC002 18/17 A2983 RMK AO2 CWDT 191200Z AUTO 30002KT 15/15 RMK AO1 SLP190 T01540151 55002 CWEK 191300Z AUTO 18011KT 11/10 RMK AO1 SLP061 T01120097 58004 KAJL 191315Z AUTO M1/4SM +SN OVC002 A2979 RMK AO2 CWEL 191300Z AUTO 12013KT 11/09 RMK AO1 PK WND 13018/1224 SLP051 T01100088 53006 KBAM 191315Z AUTO 16003KT 10SM CLR 07/00 A2991 RMK AO1 NWWW 191300Z AUTO 00000KT 9999 BKN049 17/13 Q1019 NOSIG CWDV 191300Z AUTO 16003KT 12/10 RMK AO1 SLP170 T01170095 53002 KBAN 191252Z AUTO 00000KT 10SM CLR 11/M08 A2997 RMK AO2 SLP070 T01061078 $ KAJO 191256Z AUTO 00000KT 10SM BKN023 OVC028 19/15 A2992 RMK AO2 SLP138 T01890150 ULLI 191300Z 27006MPS 9999 BKN018 10/08 Q1007 R28L/190055 R28R/290050 NOSIG CWFF 191300Z AUTO 13009KT 12/10 RMK AO1 3PAST HR 8002 PK WND 16020/1200 SLP021 P0001 T01230098 50003 KD25 191315Z AUTO 15004KT 10SM OVC050 13/13 A3003 RMK AO2 T01300128 KBBG 191245Z 14004KT 3SM BR FEW040 19/19 A2998 CWEP 191300Z AUTO 17004KT 18/16 RMK AO1 SLP260 T01770155 50002 KAKH 191254Z AUTO 00000KT 9SM CLR 23/20 A3005 RMK AO2 SLP170 T02280200 KAIZ 191312Z AUTO 15005KT 4SM BR OVC002 18/18 A2996 RMK AO2 LTG DSNT NW CWDZ 191300Z AUTO 29003KT 04/02 RMK AO1 T00400023 CWEQ 191300Z AUTO 04008KT 08/08 RMK AO1 SLP065 T00840082 58009 KAJR 191255Z AUTO 07007KT 7SM CLR 22/17 A3007 RMK AO2 T02170170 CWER 191300Z AUTO 13001KT RMK AO1 KBCB 191320Z AUTO 00000KT M1/4SM FG OVC002 17/17 A3013 RMK AO2 LTG DSNT NW T01690169 CWFJ 191300Z AUTO 15005KT 01/M03 RMK AO1 T00051028 KALB 191312Z 34004KT 9SM FEW002 SCT004 SCT050 19/16 A3011 RMK AO2 VIS LWR NW-NE T01890161 $ CWGB 191300Z AUTO 03009KT 11/08 RMK AO1 SLP054 T01080082 53009 CWEU 191300Z 26006KT 1 1/2SM -SN SCT011 BKN080 OVC110 M07/M09 A3027 RMK SN2SC2AC3AS1 SLP252 CWGD 191300Z AUTO 07005KT 18/17 RMK AO1 SLP165 T01800169 51002 KBCE 191253Z AUTO 14005KT 10SM CLR 07/00 A3004 RMK AO2 SLP075 T00670000 CWEW 191300Z AUTO 03002KT 17/ RMK AO1 SLP199 T0165 51008 KAKO 191253Z AUTO 24011KT 10SM CLR 16/M01 A2971 RMK AO2 SLP009 T01611011 KBAX 191315Z AUTO 03005KT 10SM SCT033 17/16 A3005 RMK AO2 T01700157 KBBP 191315Z AUTO 32003KT 10SM CLR 23/21 A3002 RMK AO2 EDNY 191250Z 28004KT 9999 SHRA SCT014 OVC042 10/07 Q1018 EDOP 191250Z 26008KT 230V290 9999 FEW025 15/10 Q1015 KBAZ 191317Z 16006KT 3SM BR FEW009 SCT014 SCT025 26/24 A2994 RMK AO2 T02560244 KAJZ 191315Z AUTO 10SM CLR 11/M02 A2993 RMK AO2 T01081019 KAKQ 191254Z AUTO 35007KT 10SM OVC012 21/19 A2994 RMK AO2 SLP138 T02110194 CWFQ 191300Z AUTO 15006KT 20/16 RMK AO1 SLP195 T02030160 51002 CWEZ 191300Z AUTO 10007KT 11/09 RMK AO1 SLP050 T01050090 53007 KALI 191305Z AUTO 15005KT 2SM BR BKN018 BKN026 25/24 A2992 RMK AO2 T02500244 KAKR 191254Z AUTO VRB04KT 9SM BKN090 22/17 A3001 RMK AO2 SLP155 T02170172 KAMA 191253Z 21012KT 10SM CLR 18/16 A2990 RMK AO2 SLP074 T01830156 ULMM 191300Z 08006MPS 9999 BKN025CB 07/00 Q1023 R13/190065 NOSIG RMK QFE761 KALK 191256Z AUTO 27006KT 10SM CLR 18/14 A3012 RMK AO2 SLP108 T01780139 $ KBCK 191315Z AUTO 00000KT 10SM OVC031 15/15 A2998 RMK AO2 T01520146 CWGL 191300Z AUTO 02005KT 18/17 RMK AO1 SLP174 T01830173 50004 KALM 191315Z AUTO 17004KT 10SM CLR 20/10 A3005 RMK AO2 CWGM 191300Z AUTO 25007KT 05/M03 RMK AO1 PK WND 24017/1201 T00491028 KBDE 191253Z AUTO 13008KT 10SM OVC003 12/12 A2988 RMK AO2 SLP125 T01170117 KBBW 191253Z AUTO 12005KT 10SM CLR 16/15 A2970 RMK AO2 SLP041 T01560150 KALN 191250Z 00000KT 1/4SM FG OVC001 18/18 A2996 KALO 191254Z 09004KT M1/4SM R12/0800V1400FT FG VV002 14/14 A2993 RMK AO2 SLP135 T01390139 DNGO 191300Z 25010KT 9999 BKN014 32/23 Q1013 KAMG 191253Z AUTO 00000KT 10SM CLR 24/20 A3001 RMK AO2 SLP158 T02440200 KBDG 191315Z AUTO 05005KT 10SM 09/M06 A3008 RMK AO1 T00881060 KBDH 191315Z AUTO 13007KT 1/2SM FG OVC001 17/17 A2986 RMK AO2 NZAA 191300Z AUTO 34002KT 9999 NCD 09/08 Q1011 NOSIG OOSA 191250Z 20014KT 9999 FEW025 BKN080 28/24 Q1009 NOSIG CWHI 191200Z AUTO 29011KT 05/03 RMK AO1 T00490031 50004 CWGR 191300Z AUTO 21007KT 17/16 RMK AO1 SLP253 T01670159 51005 ZSAM 191300Z 07002MPS 050V120 CAVOK 27/22 Q1012 NOSIG KALS 191252Z AUTO 18006KT 10SM CLR 06/M05 A3007 RMK AO2 SLP116 T00611050 $ KBEA 191315Z AUTO 00000KT 1 1/2SM BR SCT011 BKN018 OVC023 23/23 A2995 RMK AO2 T02320232 KBCT 191253Z 01005KT 10SM CLR M/M A2993 KANB 191253Z AUTO 05003KT 10SM CLR 20/18 A3003 RMK AO2 SLP161 T02000183 KD50 191315Z AUTO 13008G16KT 10SM SCT100 12/09 A2946 RMK AO2 PWINO CWGT 191300Z AUTO 29004KT 11/07 RMK AO1 SLP059 T01080068 53009 KBDL 191251Z 03010KT 10SM OVC013 20/17 A3010 RMK AO2 SLP191 T02000167 KBEC 191315Z AUTO 13009KT 10SM CLR 21/18 A2983 RMK AO2 T02050181 CWHL 191300Z AUTO 13008KT 09/08 RMK AO1 SLP067 T00930083 57003 KAND 191256Z AUTO 06006KT 10SM SCT080 22/19 A3004 RMK AO2 SLP164 T02220189 KBED 191303Z 03007KT 10SM OVC004 18/16 A3012 RMK AO2 T01780161 CWID 191300Z AUTO 00000KT 01/00 RMK AO1 SLP080 T00110000 53007 EDQM 191250Z 25007KT 200V290 9999 FEW025 SCT073 12/05 Q1016 KALW 191253Z 19006KT 8SM RA OVC047 11/07 A2975 RMK AO2 RAB1154 SLP074 T01060072 PNO $ KANE 191315Z 11007KT 10SM SCT010 17/16 A2991 KBDN 191315Z AUTO 21007KT 10SM -RA FEW034 FEW041 FEW080 05/03 A2986 RMK AO2 KAMN 191313Z AUTO 31006KT 10SM SCT018 OVC024 14/12 A3004 RMK AO2 T01400124 CWHN 191300Z AUTO 05009KT 020V080 9SM BKN075 08/05 A2949 RMK SLP001 CWGW 191300Z AUTO 35002KT 02/02 RMK AO1 SLP068 T00210015 53002 KALX 191315Z AUTO 00000KT 10SM CLR 22/20 A3002 RMK AO2 LTG DSNT N T02230200 CWGX 191300Z AUTO 23003KT 01/01 RMK AO1 SLP158 T00140009 53007 CWHO 191300Z AUTO 21008KT 10/07 RMK AO1 SLP185 T01020067 58014 KD55 191315Z AUTO 12014G21KT 2SM BR OVC002 14/14 A2971 RMK AO2 PFSH 191256Z AUTO 13005KT 8SM BKN040 03/02 A3000 RMK AO2 SLP159 T00330017 CWHP 191200Z AUTO 21011KT 14/ RMK AO1 SLP236 T0138 53003 CWIG 191300Z AUTO 11001KT RMK AO1 CWGY 191300Z AUTO 23009KT 05/03 RMK AO1 SLP999 T00470028 51005 KBEH 191253Z AUTO 05003KT 3SM BR FEW007 SCT090 BKN110 19/18 A2995 RMK AO2 RAE45 SLP141 P0002 T01940183 CWGZ 191300Z 00000KT 30SM FEW085 M06/M12 A3021 RMK AC1 SLP235 ULPB 191300Z 01004MPS 6000 -RA SCT003 OVC005 10/09 Q1002 R01/29//60 NOSIG RMK QBB090 OBST OBSC QFE747/0997 CWHQ 191300Z AUTO 09002KT 15/15 RMK AO1 T01540152 KBDR 191252Z 03016G22KT 10SM FEW013 21/18 A3003 RMK AO2 SLP168 T02110178 KD57 191315Z AUTO 15016G21KT 10SM CLR 16/12 A2947 RMK AO2 CWII 191300Z AUTO 11006KT 13/12 RMK AO1 T01300116 KANJ 191255Z AUTO 08004KT 10SM FEW110 14/09 A3009 RMK AO2 SLP190 T01390089 CWIJ 191300Z AUTO 09012KT 05/04 RMK AO1 SLP167 T00530036 53008 KANK 191315Z AUTO 23013G20KT 10SM CLR 15/M08 A3005 RMK AO1 T01461085 KD60 191315Z AUTO 11007KT 10SM CLR 14/12 A2944 RMK AO2 OPKC 191155Z 24008KT 6000 NSC 34/19 Q1002 NOSIG CWIK 191300Z AUTO 11014KT 12/10 RMK AO1 PK WND 10022/1239 SLP007 T01170095 58025 CWJB 191300Z AUTO 05002KT 16/14 RMK AO1 T01570135 CWHT 191300Z AUTO 07001KT 04/03 RMK AO1 SLP082 T00430031 53012 UKWW 191300Z 04003MPS 9999 BKN030CB OVC100 18/10 Q1018 R13/0///65 NOSIG EDSB 191250Z VRB03KT 9999 FEW016 SCT028 BKN060 14/10 Q1018 KBDU 191316Z AUTO 25003KT 10SM CLR 11/01 A2973 RMK AO2 ULOO 191300Z 22005MPS 3100 -RA BR OVC010 12/10 Q1011 R19/090070 NOSIG RMK QFE754 CWJC 191300Z AUTO 13007KT 04/04 RMK AO1 SLP150 T00410035 53005 KBFD 191253Z AUTO 14007KT 10SM BKN012 17/15 A3012 RMK AO2 SLP187 T01720150 UMGG 191300Z 24004MPS 9999 FEW036 BKN200 19/07 Q1019 R28/CLRD// NOSIG CWHV 191300Z AUTO 14005KT 18/15 RMK AO1 SLP216 T01750152 51005 CWJD 191300Z AUTO 13005KT 12/10 RMK AO1 SLP105 T01210095 55000 KAMW 191253Z AUTO 11005KT 1/4SM FG VV002 17/17 A2990 RMK AO2 SLP119 T01720172 NZAP 191300Z 09003KT 20KM NCD 02/01 Q1011 RMK AUTO VATSIM USE ONLY KBFF 191253Z AUTO 11006KT 10SM CLR 12/10 A2965 RMK AO2 SLP009 T01220100 $ CXAF 191200Z AUTO 35003KT 05/03 RMK AO1 T00530031 CXAG 191200Z AUTO 21001KT 07/06 RMK AO1 6PAST HR M P0002 T00670055 50006 CWIP 191300Z AUTO 10002KT 12/ RMK AO1 T0116 KAOH 191308Z AUTO 25006KT 3SM -RA BR BKN026 OVC033 20/19 A2999 RMK AO2 LTG DSNT N AND NW RAB03 P0003 T02000189 OPLA 191125Z 14003KT 5000 HZ SCT040 SCT100 34/21 Q1003 A29.64 CWJH 191300Z AUTO 07002KT 03/03 RMK AO1 SLP112 T00340030 55002 KBFI 191253Z 16008KT 10SM -RA SCT018 BKN022 OVC050 11/10 A2970 RMK AO2 RAB17 SLP056 P0001 T01060100 $ PHBK 191256Z AUTO 07004KT 10SM CLR 23/17 A2997 RMK AO2 SLP151 T02280167 CWJI 191300Z AUTO 21004KT 10/08 RMK AO1 0PAST HR 5010 SLP989 P0004 T01030075 50009 KAPA 191253Z 20015KT 10SM FEW080 BKN220 17/M06 A2978 RMK AO2 SLP014 T01721061 CXBA 191200Z AUTO 26006KT 06/06 RMK AO1 8PAST HR M P0003 T00620060 50024 CXAJ 191200Z AUTO 01008KT 05/03 RMK AO1 T00540028 CWIS 191300Z AUTO 21005KT 15/15 RMK AO1 5PAST HR 1003 SLP218 P0002 T01470147 50005 EEKA 191250Z 00000KT 9999 VCSH SCT019CB 13/08 Q1008 CXAK 191200Z AUTO 27014KT 05/04 RMK AO1 3PAST HR M PK WND 26020/1139 P0013 T00520044 50039 KBFL 191254Z 32007KT 10SM CLR 17/12 A2996 RMK AO2 SLP138 T01720117 KAPC 191254Z 00000KT 10SM CLR 09/07 A3000 RMK AO2 SLP151 T00890072 KBGD 191251Z AUTO 00000KT 10SM CLR 21/16 A2985 RMK AO2 SLP066 T02110161 KBFM 191253Z 27004KT 10SM FEW015 SCT050 26/25 A3002 RMK AO2 SLP164 T02610250 CWKD 191200Z AUTO 30002KT 12/12 RMK AO1 2PAST HR 6001 SLP194 P0005 T01180115 50034 KBGE 191315Z AUTO 00000KT 7SM CLR 25/24 A3001 RMK AO2 KANW 191315Z AUTO 16009KT 7SM CLR 16/16 A2967 RMK AO2 T01610158 KD73 191315Z AUTO 36003KT 10SM CLR 21/19 A3005 RMK AO2 T02090186 CWIW 191300Z AUTO 13005KT 12/09 RMK AO1 SLP996 T01230093 58011 EEKE 191150Z 21004KT 150V230 9999 SCT011 BKN048TCU 13/10 Q1008 KAOO 191253Z AUTO 04003KT 6SM BR OVC023 19/17 A3009 RMK AO2 SLP182 T01890172 KAPF 191253Z 03006KT 10SM CLR 26/23 A2994 RMK AO2 SLP137 T02610228 KBGF 191315Z AUTO 13003KT 10SM CLR 22/18 A3003 RMK CWIX 191200Z AUTO 13004KT 14/14 RMK AO1 SLP179 T01350137 50002 CWJO 191200Z AUTO 07001KT 14/13 RMK AO1 SLP199 T01440129 52006 NZCH 191300Z AUTO 23002KT 9999 OVC009/// 09/08 Q1012 NOSIG KAPG 191258Z 04007KT 9SM OVC015 22/20 A2998 RMK AO2A SLP155 T02220195 $ NZCI 191300Z 26004KT 20KM NCD 05/04 Q1011 RMK AUTO NZNR VATSIM USE ONLY CWKG 191300Z AUTO 11004KT 18/17 RMK AO1 SLP235 T01790169 56002 CWIZ 191300Z AUTO 16008KT 21/16 RMK AO1 T02090155 CWKH 191300Z AUTO 08/06 RMK AO1 SLP041 T00760055 53008 CXBI 191300Z AUTO 03002KT 18/18 RMK AO1 7PAST HR 1011 SLP183 P0003 T01750177 50007 CWJR 191300Z AUTO 08003KT 05/04 RMK AO1 SLP077 T00480044 55000 CXCA 191300Z AUTO 17004KT 13/12 RMK AO1 SLP177 T01300118 53003 KBHB 191256Z AUTO 00000KT 4SM -RA BR OVC003 17/16 A3021 RMK AO2 RAB41 SLP233 T01670161 PNO $ NZCM 191155Z 04003KT 9999 FEW180 M30/M38 A2910 RMK PK WND 04026/0717 SLP861 CXAT 191200Z AUTO 06006KT M04/M08 RMK AO1 SLP211 T10421078 51016 CWJT 191200Z AUTO 00000KT 13/13 RMK AO1 SLP187 T01310131 53005 CWLB 191200Z AUTO 05007KT 09/05 RMK AO1 SLP978 T00900048 57015 CXBK 191300Z AUTO 11007KT 12/09 RMK AO1 SLP977 T01180088 58015 KBHC 191315Z AUTO 00000KT 10SM CLR 23/20 A3001 RMK AO2 CWLC 191300Z AUTO 14011KT 10/ RMK AO1 T0098 EDTL 191220Z 24003KT 9999 SCT050 13/09 Q1019 KBGM 191253Z 11006KT 10SM FEW006 16/16 A3011 RMK AO2 SLP191 T01610156 CXCD 191200Z AUTO 26002KT 05/04 RMK AO1 T00510035 CWJV 191300Z AUTO 10007KT 03/01 RMK AO1 SLP059 T00340007 51006 CWKM 191300Z AUTO 26013G18KT 01/ A2979 RMK SLP092 KBFW 191304Z AUTO 05003KT 10SM OVC029 14/14 A2996 RMK AO2 KAPN 191304Z AUTO 03004KT 10SM SCT013 16/15 A3010 RMK AO2 T01560150 DNKN 191300Z 00000KT 9999 BKN014 FEW020CB 32/24 Q1012 NOSIG CWJW 191300Z AUTO 18003KT M03/M03 RMK AO1 SLP060 T10301031 50000 CWLE 191300Z AUTO 29011KT 10/07 RMK AO1 PK WND 26017/1220 SLP979 T00990072 55004 VCRI 191210Z 27009KT 250V310 9999 FEW017 FEW028 31/21 Q1009 NOSIG CWJX 191300Z AUTO 25006KT 05/03 RMK AO1 2PAST HR 1006 SLP993 P0001 T00490034 50002 CWKO 191300Z AUTO 33003KT 10/08 RMK AO1 7PAST HR 6017 SLP984 P0003 T00980075 50007 CXBO 191300Z AUTO 08004KT RMK AO1 UMII 191300Z 24007G12MPS 9999 BKN033 14/08 Q1016 R23/290050 NOSIG UNAA 191300Z 26003MPS 220V300 CAVOK 12/07 Q1010 R20/090065 NOSIG RMK QFE735 CWKP 191300Z AUTO 12011KT 02/ A2995 RMK SLP171 CXCH 191300Z AUTO 19/16 RMK AO1 T01880158 KBGR 191253Z 07003KT 4SM BR OVC006 18/17 A3021 RMK AO2 SLP229 VIS S 4 T01830167 CXBR 191200Z AUTO 32004KT 01/M03 RMK AO1 T00071028 CWLI 191300Z AUTO 14011KT ////SM //// NCD 04/04 A2978 KARA 191253Z 00000KT 8SM FEW022 25/23 A3000 RMK AO2 SLP156 T02500228 $ KAPS 191315Z AUTO 00000KT 5SM BR SCT040 SCT046 27/25 A3001 RMK AO2 T02670251 KBHK 191251Z AUTO 27012KT 10SM SCT110 13/06 A2950 RMK AO2 SLP978 T01330061 KARB 191253Z 04005KT 10SM OVC007 18/17 A3000 RMK AO2 SLP156 T01830167 CXDB 191200Z AUTO 27009KT M01/M04 RMK AO1 T10141036 CXCK 191300Z AUTO 00000KT 05/04 RMK AO1 SLP082 T00510036 53015 NZDN 191300Z 04007KT 44KM NCD 08/05 Q1010 RMK SWAMPY 04025KT AUTO VATSIM USE ONL KBHM 191253Z 00000KT 9SM FEW012 FEW250 24/21 A3003 RMK AO2 SLP161 T02390206 KBID 191256Z AUTO 03018G24KT 4SM BR OVC004 19/18 A3001 RMK AO2 RAB10E55 SLP167 P0000 T01890183 CWLM 191300Z AUTO 04004KT 10/09 RMK AO1 SLP050 T00970093 53008 KBIE 191315Z AUTO 15008KT 7SM CLR 20/19 A2981 RMK AO2 T02000187 CXBW 191200Z AUTO 29007KT 05/02 RMK AO1 T00490016 CWME 191200Z AUTO 11001KT 07/06 RMK AO1 SLP078 T00740055 53006 CXDE 191300Z AUTO 07005KT 03/02 RMK AO1 SLP126 T00330022 51005 KBIF 191258Z 17003KT 9SM FEW120 24/12 A3002 RMK AO2A SLPNO $ CWKW 191300Z AUTO ///// A2989 EDVE 191250Z VRB03KT CAVOK 14/14 Q1016 KAQO 191255Z AUTO 00000KT 9SM CLR 22/20 A2998 RMK AO2 CWKX 191300Z AUTO 00000KT 05/04 RMK AO1 SLP073 T00500044 51002 KD95 191314Z AUTO 04003KT 10SM BKN020 OVC025 17/15 A3003 RMK AO2 T01720145 KAQP 191315Z AUTO 13011G17KT 2 1/2SM BR OVC004 19/17 A2979 RMK AO2 KAPY 191315Z AUTO 14005KT 5SM HZ CLR 26/22 A2991 RMK AO2 T02660230 OPNH 191200Z 18004KT 5000 HZ NSC 41/19 Q1000 NOSIG CXCP 191300Z AUTO 25007KT M01/M01 RMK AO1 T10081008 CWLP 191300Z AUTO 30010KT 10/ RMK AO1 SLP067 T0099 51006 EDTY 191250Z 30007KT 270V330 9999 FEW016 OVC069 12/09 Q1017 KBIH 191256Z AUTO VRB04KT 10SM CLR 10/01 A2985 RMK AO2 SLP066 T01000006 UNBB 191300Z 27005MPS 9999 SCT030CB 09/07 Q1014 R24/290151 NOSIG RMK QFE738 KAQR 191315Z AUTO 15003KT 4SM BR BKN002 21/21 A2992 RMK AO2 LTG DSNT N CXDI 191300Z AUTO 06001KT 20/18 RMK AO1 SLP161 T01960182 50004 OPMT 191255Z 18004KT 4000 HZ NSC 37/16 Q1001 NOSIG KBIJ 191315Z AUTO 00000KT 10SM SCT044 25/22 A3002 RMK AO2 CXCS 191200Z AUTO 29014KT 06/05 RMK AO1 PK WND 29018/1154 T00560046 CWMJ 191300Z AUTO 33001KT 19/18 RMK AO1 SLP185 T01870180 51010 CWLS 191300Z AUTO 08004KT 17/16 RMK AO1 SLP178 T01720163 52004 CXEA 191300Z AUTO 07003KT 12/10 RMK AO1 SLP141 T01190095 56001 EDVK 191250Z 26005KT 230V290 9999 SCT029 BKN070 14/09 Q1017 CXDK 191300Z AUTO 00000KT M01/M01 RMK AO1 SLP098 T10081013 53007 KBIL 191253Z 29014G21KT 10SM OVC046 08/05 A2964 RMK AO2 RAE51 SLP020 P0000 T00830050 KBJC 191159Z AUTO 17004KT 10SM CLR 14/M01 A2976 RMK AO2 KE11 191315Z AUTO 24006KT 10SM CLR 22/12 A2997 RMK AO2 T02210120 CWNC 191300Z AUTO 09004KT 21/18 RMK AO1 SLP165 T02120175 51008 CXEC 191300Z AUTO 30009KT 06/05 RMK AO1 8PAST HR 8006 SLP977 P0003 T00620053 50008 KASD 191253Z AUTO 00000KT 10SM CLR 24/23 A3000 RMK AO2 SLP159 T02440228 KCAD 191315Z AUTO 08005KT 10SM CLR 14/10 A3005 RMK AO2 T01430103 KAQV 191256Z AUTO 00000KT 1/4SM FG VV002 24/23 A2998 RMK AO2 SLP148 T02390233 KARM 191315Z AUTO 00000KT 7SM CLR 25/25 A2997 RMK AO2 T02540246 CWND 191822Z M01/M01 RMK 3002 T10131012 DNMM 191300Z 27008KT 9999 BKN012 30/24 Q1013 NOSIG CWMM 191300Z AUTO 01002KT 10/09 RMK AO1 2PAST HR 1004 SLP058 P0001 T01000092 50002 KAQW 191252Z AUTO 00000KT 10SM OVC020 17/15 A3013 RMK AO2 SLP201 T01670150 KASE 191253Z VRB03KT 10SM CLR 11/M07 A2998 RMK AO2 SLP039 T01111067 KCAE 191256Z 14003KT 9SM BKN095 23/19 A3002 RMK AO2 SLP162 T02330189 CWNE 191300Z AUTO 19007KT 18/15 RMK AO1 SLP240 T01780149 50000 KASG 191248Z 00000KT 10SM SCT150 19/19 A2997 KCAG 191253Z AUTO 23013G19KT 10SM CLR 16/M07 A2982 RMK AO2 SLP021 T01611067 CXEG 191300Z AUTO 05/05 RMK AO1 8PAST HR M P0007 T00450045 50018 CXDP 191200Z AUTO 30006KT 05/05 RMK AO1 4PAST HR M PK WND 33019/1123 P0013 T00530047 50039 CWLY 191300Z AUTO 00000KT 9SM FEW150 05/03 A2974 RMK SLP075 KASH 191256Z 00000KT 7SM OVC006 18/18 A3016 RMK AO2 SLP221 T01780178 KE16 191315Z AUTO 00000KT 10SM OVC022 13/09 A3004 RMK AO2 PFWS 191256Z AUTO 34007KT 10SM CLR 04/01 A3016 RMK AO2 SLP221 T00390011 VEAT 191230Z 09003KT 2500 -TSRA FEW008 SCT016 FEW030CB OVC090 26/25 Q1002 NOSIG UMKK 191300Z 25007MPS 220V300 9999 SCT024CB 16/09 Q1015 R24/CLRD60 NOSIG RMK QFE760/1013 CWNH 191300Z AUTO 18002KT 15/13 RMK AO1 SLP206 T01470133 50001 CWMQ 190500Z AUTO 20014G19KT 16/04 RMK AO1 PK WND 20019/0458 SLP994 T01630041 55009 ZSHC 191300Z 01004MPS 340V040 3500 -RA HZ SCT033 27/22 Q1012 NOSIG KARR 191252Z 04004KT 5SM BR OVC075 18/17 A2996 RMK AO2 SLP141 T01780172 KBJI 191314Z AUTO 13007KT 5SM BR OVC003 13/13 A2986 RMK AO2 T01300130 VECC 191300Z 10004KT 2800 -RA SCT015 FEW030CB BKN090 26/25 Q1001 NOSIG KBIS 191252Z AUTO 14018G24KT 10SM FEW100 FEW120 17/14 A2954 RMK AO2 SLP999 T01720139 KASJ 191305Z AUTO 34006KT 10SM 21/19 A2994 RMK AO2 T02060190 KBJJ 191256Z AUTO 00000KT 6SM BR OVC075 19/18 A3002 RMK AO2 SLP161 T01890178 KCAK 191251Z 15006KT 8SM FEW100 SCT250 21/17 A3002 RMK AO2 SLP159 T02110167 KBKB 191311Z AUTO 00000KT 1 1/4SM BR OVC002 25/25 A2997 RMK AO2 T02500250 KART 191256Z AUTO VRB04KT 10SM CLR 21/18 A3007 RMK AO2 SLP180 T02110183 CWNK 191300Z AUTO 12010KT 13/12 RMK AO1 T01270122 CWMT 191300Z AUTO 08005KT 04/03 RMK AO1 SLP103 T00380033 51005 CWOB 191300Z AUTO 15007KT ////SM //// NCD 04/M10 A2994 VEBN 191300Z 06004KT 5000 BR FEW020 30/27 Q1000 NOSIG KASL 191315Z AUTO 3SM BKN002 OVC006 23/22 A3000 RMK AO1 T02250215 CWNL 191200Z AUTO 09003KT 16/14 RMK AO1 SLP190 T01580138 53006 CWOC 191200Z AUTO 09003KT 14/14 RMK AO1 SLP232 T01390137 58002 KARV 191250Z AUTO 15005KT 10SM OVC050 14/12 A3003 RMK AO2 T01380120 KBIV 191253Z AUTO 10006KT 5SM BR OVC005 17/16 A2998 RMK AO2 SLP151 T01720156 KBKD 191315Z AUTO 19010KT 10SM CLR 25/21 A2991 RMK AO2 T02520208 KBKE 191253Z AUTO 06004KT 10SM SCT055 SCT070 BKN095 04/02 A2979 RMK AO2 SLP091 T00390022 CWOD 191300Z AUTO 32003KT 16/16 RMK AO1 7PAST HR 3007 SLP168 P0007 T01570155 50017 CWNM 191300Z AUTO 14002KT 05/03 RMK AO1 SOG 00 1005 SLP063 T00460026 ZSFZ 191300Z 02002MPS 9999 FEW016 26/23 Q1012 NOSIG KCBE 191306Z AUTO 00000KT 10SM BKN016 OVC034 20/18 A3010 RMK AO1 KARW 191315Z AUTO 31005KT 10SM CLR 25/20 A3001 RMK AO2 KASN 191315Z AUTO 10SM CLR A3003 RMK AO2 LTG DSNT N CWOE 191300Z AUTO 29013KT 03/02 RMK AO1 SLP018 T00250019 50002 CXDW 191300Z AUTO 12011KT 13/13 RMK AO1 SLP073 T01330133 58015 KCBF 191315Z AUTO 15012KT 2 1/2SM BR OVC004 19/19 A2984 RMK AO2 KBIX 191256Z AUTO 00000KT 10SM FEW085 FEW120 26/25 A3000 RMK AO2 SLP162 T02630245 CHINO RWY03 $ KCAO 191255Z AUTO 25013KT 10SM CLR 13/01 A2990 RMK AO2 SLP073 T01330011 KBKF 191258Z 18010KT 10SM FEW110 BKN220 17/M05 A2977 RMK AO2A SLP006 T01681055 KCBG 191255Z AUTO 13003KT 10SM OVC009 16/14 A2992 RMK AO2 CWNP 191300Z AUTO 04002KT 03/02 RMK AO1 SLP061 T00320021 53006 VEBS 191300Z 20004KT 4000 HZ SCT018 FEW030CB BKN100 28/27 Q1001 NOSIG CWMZ 191200Z AUTO 04009KT 17/16 RMK AO1 SLP176 T01720161 53004 CWNQ 192300Z AUTO 04002KT 19/17 RMK AO1 SLP186 T01940173 55002 KCAR 191254Z AUTO 18010KT 10SM OVC012 17/15 A3020 RMK AO2 SLP229 T01720150 KCCA 191315Z AUTO 00000KT 1 3/4SM BR OVC003 19/19 A2998 RMK AO2 KAST 191255Z AUTO 24008KT 10SM FEW032 OVC070 12/09 A2973 RMK AO2 LTG DSNT S RAE07 SLP066 P0004 T01220094 KCBK 191255Z AUTO 19008KT 4SM BR BKN007 17/17 A2973 RMK AO2 CXET 191300Z AUTO 34002KT 17/16 RMK AO1 SLP176 T01650164 53004 KATL 191252Z 34004KT 10SM FEW200 SCT250 22/18 A3004 RMK AO2 SLP163 T02220178 EFET 191250Z AUTO 06006KT 350V100 9999 OVC019 06/02 Q1021 KBKL 191253Z 16010KT 10SM FEW002 BKN070 22/16 A2999 RMK AO2 SLP151 T02220161 $ CWPC 191300Z AUTO 18009KT 21/18 RMK AO1 SLP170 T02110177 51005 KCAV 191315Z AUTO 13007KT 1/2SM FG OVC003 18/18 A2990 RMK AO2 PWINO KCBM 191256Z AUTO 00000KT 10SM CLR 23/23 A2998 RMK AO2 SLP153 T02290229 TSNO $ CXFM 191200Z AUTO 25005KT 01/M01 RMK AO1 T00121006 CWPD 191300Z AUTO 19003KT 15/15 RMK AO1 SLP183 T01470147 50002 UMMG 191300Z 25004G07MPS 9999 BKN033 BKN200 17/07 Q1016 R17/CLRD// NOSIG KBKN 191315Z AUTO 12007KT 10SM CLR 23/22 A2986 RMK AO2 LTG DSNT SE KASW 191315Z AUTO 00000KT 10SM OVC030 18/18 A2995 RMK AO2 VEDG 190630Z 04005KT 3000 HZ BKN015 BKN080 29/28 Q1003 NOSIG CWPE 191300Z AUTO 05007KT 16/16 RMK AO1 SLP235 T01630163 53003 KBLF 191252Z AUTO 00000KT 10SM CLR 17/16 A3011 RMK AO2 SLP168 T01720156 KASX 191253Z AUTO 00000KT 10SM OVC046 14/12 A2998 RMK AO2 SLP155 T01440117 CWPF 191315Z AUTO 35004KT 11/09 RMK AO1 T01090088 KAUG 191318Z AUTO 06004KT 10SM OVC005 17/16 A3020 RMK AO2 CIG 004V008 T01720156 KATP 191315Z AUTO 13009KT 10SM FEW024 28/23 A3000 RMK A01 KBLH 191252Z AUTO 12006KT 10SM CLR 22/15 A2977 RMK AO2 SLP075 T02220150 KAUH 191315Z AUTO 14007KT 5SM BR CLR 17/17 A2976 RMK AO2 T01700170 PHHI 191317Z AUTO 00000KT 10SM SCT028 BKN037 22/20 A2998 RMK AO2 DZB08E17 SLP142 NZGS 191300Z 34003KT 20KM SCT048 BKN055 07/06 Q1010 RMK AUTO VATSIM USE ONLY CWNZ 191300Z AUTO 24002KT 11/08 RMK AO1 SLP201 T01100084 50001 CXGH 191300Z AUTO 15013KT 14/12 RMK AO1 PK WND 16020/1218 T01420121 KBLI 191253Z AUTO 04005KT 6SM -RA BR FEW014 OVC022 10/09 A2969 RMK AO2 SLP060 P0015 T01000094 OPPS 191300Z 05004KT 4000 HZ SKC 32/17 Q1003 NZHK 191300Z 08008KT 20KM FEW065 08/05 Q1011 RMK AUTO VATSIM USE ONLY ULWC 191300Z 26003G08MPS 9999 BKN015CB 14/12 Q1002 R21/290257 TEMPO 2000 SHRA BKN005 BKN010CB RMK QFE741/0988 CXFR 191200Z AUTO 32005KT 05/05 RMK AO1 T00510049 50013 KATS 191315Z AUTO 24009KT 10SM CLR 22/09 A2996 RMK AO2 KCDA 191315Z AUTO 00000KT 10SM BKN027 17/15 A3020 RMK AO2 T01700152 KBKS 191315Z AUTO 11003KT 3SM M39/ A2992 RMK AO1 SKY OBSCURED T1388 KE38 191315Z AUTO 19006KT 10SM CLR 21/11 A3013 RMK AO2 LTG DSNT S T02100111 UMMM 191300Z /////MPS //// BKN031 BKN200 15/08 Q1017 RMK QFE743 CXHA 191300Z AUTO 05004KT 19/18 RMK AO1 SLP145 T01860179 58002 KATT 191251Z AUTO VRB04KT 7SM BKN009 OVC014 26/24 A2997 RMK AO2 CIG 007V011 SLP133 T02560239 EFHA 191250Z AUTO 35007KT 9999 BKN021 OVC046 08/03 Q1009 PFYU 191256Z AUTO VRB04KT 10SM SCT060 BKN075 08/06 A2975 RMK AO2 RAB33E50 SLP098 P0000 T00780061 KBKT 191315Z AUTO 35010G14KT 10SM OVC011 21/21 A3000 RMK AO1 T02050205 UNEE 191300Z 27006MPS 8000 -SHRA OVC010CB 09/09 Q1010 R23/290255 NOSIG RMK QFE735 CWPK 191300Z AUTO 34002KT 15/15 RMK AO1 4PAST HR 3012 SLP193 P0002 T01530148 50004 KBMC 191255Z AUTO 34012KT 7SM OVC044 09/05 A2989 RMK AO1 T00850047 KCDC 191253Z AUTO 20021G27KT 10SM CLR 16/02 A2989 RMK AO2 PK WND 19029/1229 SLP053 T01610022 KAVC 191315Z AUTO 34008KT 10SM OVC011 20/19 A3006 RMK AO2 T02000190 NZHN 191300Z 08002KT 1600 BCFG NCD 06/06 Q1011 RMK AUTO VATSIM USE ONLY KCDD 191313Z AUTO 00000KT 10SM SCT015 BKN028 OVC045 12/12 A2995 RMK AO2 KBKV 191253Z 34003KT 10SM MIFG CLR 24/22 A3000 RMK AO2 SLP157 T02440222 $ KAUM 191315Z AUTO 00000KT 7SM SCT012 16/14 A2993 RMK AO2 KBLM 191256Z AUTO 01012G18KT 10SM BKN012 OVC018 22/19 A2999 RMK AO2 SLP157 T02170194 CXHD 191200Z AUTO 29005KT 06/05 RMK AO1 0PAST HR M P0012 T00590054 50041 KBKW 191251Z AUTO 17004KT 10SM CLR 18/16 A3009 RMK AO2 SLP165 T01830161 TSNO KATW 191245Z 04005KT 10SM BKN060 14/14 A3000 KAUN 191315Z AUTO 07003KT 10SM CLR 10/10 A2998 RMK AO1 EDXW 191250Z 30012KT 9999 VCSH SCT027TCU 15/11 Q1015 KBKX 191256Z AUTO 15014KT OVC003 18/17 A2979 RMK AO2 SLP096 T01780172 RVRNO $ KCCO 191315Z AUTO 02003KT 10SM CLR 23/20 A3004 RMK AO2 T02300197 DNPO 191000Z 33005KT 9999 BKN010 FEW020CB 28/25 Q1014 NOSIG CWPO 191300Z AUTO 12014G20KT 13/12 RMK AO1 PK WND 13020/1252 SLP067 T01310120 58015 CXHF 191300Z AUTO 17/17 RMK AO1 T01720171 KBMG 191253Z 14003KT 9SM -RA SCT110 20/18 A2997 RMK AO2 LTG DSNT E AND SE TSE24 SLP141 P0004 T02000183 KATY 191253Z AUTO 15013G16KT 3SM BR OVC004 18/18 A2976 RMK AO2 SLP071 T01780178 CWOY 191300Z AUTO 11011KT 13/08 RMK AO1 SLP009 T01250075 58011 UMMS 191300Z 23004MPS 200V270 9999 SCT035 15/08 Q1017 R31/CLRD// NOSIG KCDH 191315Z AUTO 00000KT 6SM BR CLR 23/21 A2997 RMK AO2 NZHS 191300Z 26004KT 20KM NCD 05/04 Q1011 RMK AUTO NZNR VATSIM USE ONLY CWQH 191300Z AUTO 15006KT 20/16 RMK AO1 T02000157 KCCR 191253Z AUTO 20005KT 10SM CLR 15/09 A3000 RMK AO2 SLP146 T01500094 KBMI 191256Z 00000KT 2 1/2SM R20/3500VP6000FT BR OVC003 19/19 A2997 RMK AO2 SLP161 T01940189 KCDI 191305Z AUTO 00000KT 10SM OVC110 19/17 A3002 RMK AO2 LTG DSNT W T01910169 NZHT 191300Z 05007KT 50KM NCD 05/03 Q1008 RMK AUTO NZQN VATSIM USE ONLY CWPR 191300Z AUTO 00000KT 03/02 RMK AO1 SLP067 T00260021 52003 KCDJ 191252Z AUTO 13004KT 18/18 A2991 RMK AO1 SLP120 T01830183 KBNA 191253Z 17005KT 8SM SCT095TCU BKN130 BKN250 22/19 A2999 RMK AO2 SLP149 TCU W T02170194 KAUS 191253Z 17006KT 6SM BR BKN005 OVC029 26/24 A2994 RMK AO2 SLP129 T02560244 CWPS 191200Z AUTO 13008KT 21/18 RMK AO1 SLP158 T02140181 53004 CWRA 191300Z AUTO 16003KT 14/12 RMK AO1 SLP315 T01410117 51004 KAVK 191315Z AUTO 15011KT 10SM CLR 21/19 A2980 RMK AO2 CWQK 191300Z AUTO 01006KT 11/09 RMK AO1 SLP052 T01070091 53010 CXIB 191300Z AUTO 11001KT 18/16 RMK AO1 SLP271 T01790162 51004 KBML 191252Z AUTO 00000KT 10SM FEW034 16/13 A3020 RMK AO2 SLP226 T01560133 KBLU 191252Z AUTO VRB03KT 10SM BKN006 06/06 A3004 RMK AO2 CIG 004V009 SLP136 T00610061 TSNO EFHK 191250Z 34005KT 9999 FEW017 BKN024 BKN057 10/05 Q1008 NOSIG KAVL 191254Z 00000KT 10SM CLR 16/14 A3012 RMK AO2 SLP181 T01560144 KCCU 191316Z AUTO 25013G32KT 160V270 10SM CLR 07/M21 A3017 RMK AO2 KCEC 191256Z AUTO 17009KT 10SM SCT028 BKN050 OVC070 14/13 A3003 RMK AO2 SLP169 T01390128 KBLV 191255Z 00000KT 1SM BR FEW003 20/18 A2998 RMK AO2A LGT DSNT E SLP148 WND DATA ESTMD T01970184 EEPU 191250Z 20007KT 140V240 9999 FEW016 BKN027 14/10 Q1008 OPRN 191155Z 191200Z 23006KT 6000 NSC 35/18 Q1005.4/29.69 CXHM 191300Z AUTO 06001KT 20/20 RMK AO1 SLP162 T02030201 53008 PGRO 190950Z 07009KT 7SM FEW013 28/23 A2986 RMK WIND DATA ESTIMATED LAST KAUW 191254Z AUTO 10005KT 10SM FEW060 OVC085 13/12 A3001 RMK AO2 SLP166 T01330117 KCDN 191315Z AUTO 00000KT 10SM CLR 22/19 A3004 RMK AO2 KCEF 191258Z 04006KT 10SM OVC013 19/16 A3010 RMK AO2A SLP198 T01940159 PHJH 190346Z 06013G24KT 15SM FEW035 SCT045 27/18 A2998 RMK LAST CWQO 191300Z AUTO 20004KT 08/07 RMK AO1 T00760068 CWRF 191300Z AUTO 02016KT M03/ A3004 RMK SLP203 CWPX 191300Z AUTO ///// ////SM //// OVC006 M02/M02 A3010 KCCY 191315Z AUTO 14005KT M1/4SM FG OVC002 15/15 A2994 RMK AO2 KAVP 191254Z 06004KT 8SM OVC010 19/17 A3008 RMK AO2 SLP180 T01940172 KAWG 191315Z AUTO 11006KT M1/4SM FG OVC002 17/17 A2995 RMK AO2 CWQP 191300Z AUTO 16015KT 21/19 RMK AO1 PK WND 16018/1206 SLP176 T02080186 53008 KBMQ 191253Z AUTO VRB04KT 7SM CLR 23/22 A2998 RMK AO2 SLP133 T02330222 KAVQ 191315Z AUTO 07005KT 10SM CLR 21/12 A2992 RMK AO2 T02060118 CWPZ 191300Z AUTO 00000KT M02/M02 RMK AO1 SLP069 T10191022 51002 CWRH 191300Z AUTO ///// M00/ A2992 RMK SLP163 KCDR 191253Z AUTO 22008KT 10SM CLR 17/08 A2959 RMK AO2 SLP999 T01720083 CXHR 191200Z AUTO 29010KT 03/03 RMK AO1 T00310026 50013 CWQR 191300Z AUTO 08010KT 10/ RMK AO1 T0101 KCDS 191253Z AUTO 16010KT 10SM CLR 20/17 A2985 RMK AO2 SLP084 T02000167 OPSK 191300Z 00000KT 5000 HZ NSC 38/26 QNH 1001 NOSIG KAXA 191315Z AUTO 12009KT M1/4SM FG OVC002 17/17 A2989 RMK AO2 CWQS 191300Z AUTO 11005KT 10/08 RMK AO1 SLP072 T00980081 58005 CWRJ 191300Z AUTO 29005KT 10/07 RMK AO1 SLP972 T00960070 56004 EGAA 191250Z 19008KT 9999 FEW016 SCT037 16/11 Q1019 CWSA 191300Z AUTO 12010KT 9SM BKN060 19/17 A3031 RMK TS/LTNG TEMPO UNAVBL SLP265 CYAB 191300Z 00000KT 30SM FEW016 FEW025 M04/M08 A3016 RMK SC1SC1 SLP218 CWRK 191300Z AUTO 00000KT 17/17 RMK AO1 SLP187 T01670167 52007 KBNL 191315Z AUTO 00000KT 10SM FEW095 24/20 A3003 RMK AO2 ORBD 191155Z 17007KT 6000 HZ FEW150 BKN200 44/05 A2972 RMK WND DATA ALSTG ESTMD EGAC 191250Z 20008KT 170V230 9999 FEW021 SCT026 BKN034 16/10 Q1019 UMOO 191300Z 27005MPS 9999 BKN036 16/08 Q1016 R31/CLRD// NOSIG KAWM 191253Z AUTO 18004KT 10SM CLR 22/22 A2995 RMK AO2 SLP138 T02220222 PGSN 191254Z 08014KT 10SM FEW020 BKN110 29/26 A2987 RMK AO2 SLP136 T02890256 $ KCFD 191315Z AUTO 18003KT 10SM OVC007 25/25 A2998 RMK AO2 T02500250 CWSD 191300Z AUTO 18008KT 18/16 RMK AO1 SLP249 T01750162 50001 CWQV 191300Z AUTO 09009KT 13/11 RMK AO1 T01300114 CWRM 191300Z AUTO 26009KT 03/02 RMK AO1 SLP021 T00270017 58007 KCDW 191306Z 04007G14KT 10SM OVC016 22/19 A3003 RMK AO2 T02170194 KCFE 191314Z AUTO 11004KT 3SM BR OVC003 16/15 A2991 RMK AO2 T01570146 CWRN 191300Z AUTO 12010KT 18/17 RMK AO1 SLP268 T01790167 53002 EGAE 191250Z 22011KT 190V250 9999 SCT022 18/12 Q1017 KAVX 191303Z AUTO 19004KT 10SM SCT012 16/14 A2993 RMK AO2 T01560144 KBNO 191253Z AUTO 22007KT 10SM BKN040 OVC100 05/01 A2988 RMK AO2 SLP110 T00500006 TSNO KAWO 191256Z AUTO 13010KT 10SM RA BKN017 BKN023 OVC050 09/08 A2970 RMK AO2 SLP063 P0005 T00940083 CWSF 191300Z AUTO 31004KT 16/13 RMK AO1 SLP207 T01610129 58002 CWRO 191300Z AUTO 23005KT 07/06 RMK AO1 SLP067 T00650057 56005 NZKI 191300Z 22001KT 9000 BKN028 07/06 Q1013 RMK AUTO NZWB VATSIM USE ONLY CWSG 191300Z AUTO 11003KT 16/15 RMK AO1 SLP204 T01580154 57004 ORBI 191300Z 11004KT 080V140 9999 FEW030 45/07 Q1005 NOSIG PHJR 191253Z AUTO 05005KT 10SM SCT065 24/19 A2998 RMK AO2 SLP158 T02440189 TSNO KAXH 191315Z AUTO 00000KT 3SM BR CLR 25/24 A2996 RMK AO2 T02450242 CYAH 191300Z AUTO 23010G16KT 9SM OVC055 11/06 A3003 RMK SLP182 PGUA 191311Z AUTO 08013KT 10SM SCT019 SCT033 27/25 A2987 RMK AO2 SLP105 RVRNO VISNO RWY24L CHINO RWY24L $ KBOI 191253Z 29005KT 10SM BKN050 OVC070 09/04 A2986 RMK AO2 RAE45 SLP106 P0002 T00890044 NZKK 191300Z 24005KT 210V280 11KM NCD 10/10 Q1012 RMK AUTO VATSIM USE ONLY OPST 191300Z 23004KT 4000 FU NSC 32/24 Q1003 NOSIG RH63 CXKA 191300Z AUTO 19002KT 11/08 RMK AO1 SLP195 T01110084 53005 KBOK 191256Z AUTO 17003KT 8SM OVC003 13/13 A3002 RMK AO2 RAE11 SLP181 P0001 T01330128 CYBB 191300Z 02009KT 10SM OVC012 M01/M02 A3012 RMK ST8 SLP201 CWSK 191300Z AUTO 00000KT 08/07 RMK AO1 SLP056 T00780074 52009 CWRT 191300Z AUTO 13002KT M02/M02 RMK AO1 T10231023 EGBB 191250Z 22005KT 160V270 9999 FEW032 15/07 Q1022 KCEU 191254Z AUTO 04004KT 10SM FEW050 BKN060 22/19 A3006 RMK AO2 SLP168 T02170189 KBPC 191315Z AUTO 20009KT 10SM CLR 20/16 A2984 RMK AO2 KCGC 191315Z AUTO 00000KT 10SM SCT003 A3001 RMK AO2 CWRU 191200Z AUTO 02013KT 10/08 RMK AO1 SLP052 T00950081 53008 CWSL 191300Z AUTO 18003KT 02/01 RMK AO1 SLP067 T00220007 53007 CYBC 191300Z AUTO 08006KT 9SM BKN003 OVC013 12/12 A3013 RMK SLP206 CYBD 191300Z 00000KT 6SM BR FEW006 OVC026 06/06 A2976 RMK SF1ST8 SF TR SLP081 VDPP 191300Z 25005KT 9999 SCT017 FEW017CB BKN050 29/24 Q1007 CB N/W CYAM 191300Z 08007KT 15SM FEW064 SCT110 BKN210 15/11 A3009 RMK SC1AC3CI2 SC TR CONTRAILS SLP194 EFIV 191050Z AUTO 05011KT 9999 OVC023 06/02 Q1022 KCGE 191305Z AUTO 01010G19KT 10SM BKN016 OVC020 22/20 A2993 RMK A01 KCEW 191253Z AUTO 00000KT 8SM CLR 26/24 A3002 RMK AO2 SLP162 T02560239 KAXN 191253Z AUTO 13009KT 1/2SM FG VV002 15/15 A2986 RMK AO2 SLP114 T01500150 PHKO 191253Z AUTO 07004KT 10SM CLR 24/19 A2992 RMK AO2 SLP131 T02390189 TSNO KBNW 191315Z AUTO 12008KT M1/4SM FG OVC002 17/17 A2989 RMK AO2 KCGF 191245Z 15008KT 10SM FEW100 SCT120 BKN200 21/18 A3001 CXKE 191300Z AUTO 20003KT 20/19 RMK AO1 SLP183 T01970187 51010 EFKE 191253Z 04008KT 010V070 9999 OVC026 09/06 Q1015 CWRX 191300Z AUTO 33012KT ////SM //// ////// 01/00 A2996 EFJO 191250Z AUTO 36008KT 320V060 9999 OVC011 08/07 Q1006 KCEY 191215Z AUTO 00000KT 1 1/2SM SCT070 OVC090 20/20 A2997 RMK AO1 KBPG 191315Z AUTO 17009G14KT 10SM CLR 24/18 A2997 RMK AO2 T02410178 CWTG 191300Z AUTO 04006KT 12/12 RMK AO1 SLP206 T01230122 50000 CWSP 191300Z AUTO 00000KT 10/09 RMK AO1 SLP052 T00990091 53011 CWRY 191300Z AUTO 31006KT M00/M02 RMK AO1 SLP039 T10011017 53007 CYBG 191300Z 17003KT 3SM SHRA BR SCT004 OVC045 14/13 A3011 RMK SF3SC5 VIS VRB 2-4 SLP200 ZSNB 191300Z 17003MPS 8000 NSC 26/22 Q1012 NOSIG KCEZ 191253Z AUTO 08005KT 10SM CLR 04/M02 A3005 RMK AO2 SLP121 T00441022 PHLI 191253Z AUTO 07011KT 10SM FEW026 FEW031 SCT070 27/21 A3001 RMK AO2 SLP158 T02670211 TSNO VEGT 191230Z 00000KT 5000 BR SCT018 BKN100 29/27 Q1003 NOSIG CWRZ 191300Z AUTO 25006KT 14/13 RMK AO1 SLP226 T01360134 50000 KBPI 191253Z AUTO 34018G24KT 10SM -RA FEW018 OVC028 04/03 A2981 RMK AO2 WSHFT 1222 RAB01 SLP027 P0006 T00390028 KCGI 191253Z 00000KT 5SM BR CLR 19/19 A2995 RMK AO2 SLP140 T01940189 CXKI 191300Z AUTO 11/10 RMK AO1 SLP214 T01130095 53004 CWSR 191300Z AUTO 12011G16KT 10/08 RMK AO1 SLP974 T01010077 56015 KCHA 191253Z 00000KT 9SM SCT250 20/17 A3004 RMK AO2 SLP165 T02000172 EFKI 191250Z AUTO 04010KT 010V090 9999 BKN021 BKN078 08/04 Q1011 KBOS 191304Z 04010KT 1SM R04R/P6000FT BR OVC004 17/17 A3013 RMK AO2 SFC VIS 5 T01720172 KCFS 191315Z AUTO 03003KT 10SM SCT040 16/14 A3003 RMK AO2 T01640139 KAXS 191315Z AUTO 14008KT 7SM CLR 21/19 A2987 RMK AO2 T02120187 NZMC 191300Z 06004KT 030V090 19KM OVC011 08/07 Q1013 RMK AUTO NZTU VATSIM USE ON CYAS 191300Z 25006KT 10SM -SHRA OVC004 04/03 A2985 RMK ST8 SLP119 EGBJ 191250Z 04002KT 9999 FEW030 17/09 Q1022 CWSS 191300Z AUTO 06003KT 17/17 RMK AO1 9PAST HR 3002 SLP235 P0004 T01710166 50009 KBPK 191253Z AUTO 16003KT 8SM FEW002 19/19 A2996 RMK AO2 SLP137 T01940194 KE80 191315Z AUTO 00000KT 10SM CLR 11/M03 A3007 RMK AO2 T01101030 CXLB 191300Z AUTO 07009KT 18/18 RMK AO1 SLP233 T01800179 57003 CWST 191300Z AUTO 24001KT 14/12 RMK AO1 SLP204 T01380122 50003 CYCB 191300Z 07013KT 15SM BKN007 M01/M03 A3018 RMK SC7 SLP225 CYAT 191300Z AUTO /////KT 9SM FEW180 07/04 A3007 RMK WND MISG TS/LTNG TEMPO UNAVBL SLP185 CYBK 191300Z 22004KT 20SM FEW019 BKN190 02/02 A2999 RMK SC1AC4 SLP160 EFKK 191250Z AUTO 03008KT 350V060 9999 BKN026 OVC032 08/03 Q1012 PGUM 191254Z 09010KT 6SM -RA BR SCT026 SCT030 BKN039 28/26 A2987 RMK AO2 RAB51 SLP105 P0000 T02830261 $ CYBL 191300Z 00000KT 15SM -RA SCT010 BKN040 OVC080 08/08 A2971 RMK SC3SC4AC1 SLP064 KCHD 191247Z 06006KT 10SM CLR 19/08 A2987 CXLC 191300Z AUTO 03007KT 07/05 RMK AO1 SLP113 T00660048 51005 KCFV 191252Z AUTO 18007KT 10SM CLR 21/19 A2989 RMK AO2 SLP116 T02060189 EGCC 191250Z AUTO 24005KT 190V280 9999 NCD 15/09 Q1021 KAXV 191312Z AUTO 00000KT 7SM BKN014 OVC020 20/20 A2999 RMK AO2 LTG DSNT N NE AND SW NZMF 191300Z 05007KT 50KM NCD 05/03 Q1008 RMK AUTO NZQN VATSIM USE ONLY CYCD 191300Z VRB02KT 10SM MIFG FEW004 SCT015 BKN025 BKN075 BKN090 09/09 A2969 RMK SF1SC2SC2AC1AC1 SLP057 VEGY 191300Z 13004KT 4000 BR SCT018 FEW030CB BKN100 27/24 Q1002 CXKM 191200Z AUTO 26009KT 06/05 RMK AO1 3PAST HR M P0025 T00580053 50073 KAZE 191315Z AUTO 00000KT 10SM CLR 25/16 A3000 RMK AO2 T02520164 CWSW 191300Z VRB03KT 15SM FEW010 BKN045 02/01 A2972 RMK SF2SC5 SLP089 CYAW 191300Z 13005KT 2 1/2SM BR OVC003 19/18 A3027 RMK ST8 DA453FT SLP250 CWTN 191300Z AUTO 25002KT 15/14 RMK AO1 SLP209 T01480141 53001 CYBN 191303Z AUTO 34002KT 3SM -RA VV010 18/18 A3006 EETN 191320Z 32005KT 290V360 9999 -SHRA FEW020CB BKN024 11/07 Q1009 TEMPO 5000 SHRA KAXX 191315Z AUTO 14003KT 10SM CLR 08/M07 A3017 RMK AO2 T00841071 ZSNJ 191300Z 18002MPS 150V210 5000 BR NSC 22/21 Q1012 NOSIG CYCG 191300Z 13004KT 15SM BKN045 BKN090 OVC200 06/03 A2970 RMK SC7AC1CI1 AC TR SLP066 TVSA 191300Z 21020KT 9999 FEW010CB BKN014 BKN032 27/26 Q1011 TEMPO SHRA CB NE CYAY 191300Z AUTO 16002KT 9SM -RA BKN065 OVC083 09/06 A3028 RMK SLP258 EFJY 191250Z 35009KT 9999 SCT013 OVC017 07/04 Q1009 CYAZ 191300Z 00000KT 15SM FEW015 SCT025TCU BKN059 09/08 A2970 RMK CF1TCU2SC2 SLP058 CYBQ 191300Z AUTO 07004KT 0SM FG VV002 03/03 A2994 RMK SLP156 CYBR 191300Z 07015KT 1/8SM FG VV001 11/11 A2965 RMK FG8 PRESFR SLP050 DENSITY ALT 1500FT KCGS 191306Z AUTO 36005KT 10SM BKN015 22/19 A2999 RMK AO1 T02160185 PHMK 191254Z AUTO 03007KT 10SM FEW070 23/21 A2998 RMK AO2 SLP154 T02330211 TSNO KAYS 191315Z AUTO 00000KT 10SM CLR 24/19 A3002 RMK AO2 T02390192 CYDA 191300Z VRB02KT 20SM SCT120 03/01 A2974 RMK AC4 CLIMAT 12.3/2.9/0.0 SLP087 EFKS 191250Z AUTO 03010KT 340V090 9999 OVC011 06/04 Q1015 EFMA 191250Z AUTO 36008KT 9999 -RA FEW010 OVC039 09/08 Q1010 KBPT 191300Z 00000KT 6SM BR FEW025 25/24 A2996 RMK AO2 T02500244 KBQK 191315Z AUTO 27004KT 10SM SCT050 BKN090 23/20 A3002 RMK AO2 KF00 191315Z AUTO 18008KT 3 1/2SM BR OVC004 23/22 A2994 RMK AO2 KCHK 191315Z AUTO 16009KT 10SM CLR 23/21 A2985 RMK AO2 LTG DSNT NE T02290214 VEIM 191300Z 000004KT 5000 RA FEW010 SCT018 OVC090 24/23 Q1009 NOSIG CWTT 191300Z AUTO 19001KT 19/15 RMK AO1 T01910152 CXKT 191300Z AUTO 06002KT 17/16 RMK AO1 SLP240 T01740162 56003 CYCK 191319Z AUTO 35004KT 3SM -RA BR OVC002 18/18 A3000 RMK SLP159 DENSITY ALT 1100FT CYDB 191300Z 30006KT 25SM FEW045 SCT100 BKN250 00/M02 A2974 RMK SC1AC2CI2 CLIMAT 13.5/-4.5/0.2 MM SLP100 ZSOF 191300Z 15002MPS 8000 NSC 23/22 Q1012 NOSIG EFKT 191250Z AUTO 03008KT 9999 OVC020 07/03 Q1020 KCIC 191235Z AUTO 00000KT 10SM CLR 14/03 A2998 RMK AO1 CYDC 191300Z 00000KT 10SM OVC013 03/02 A2971 RMK SC8 SLP072 CXLL 191300Z AUTO 00000KT 06/05 RMK AO1 SLP086 T00560049 53005 CWTU 191300Z AUTO ///// A3006 CYBU 191300Z AUTO 04008KT 9SM -RA FEW047 OVC075 09/09 A2964 RMK SLP049 EETU 191250Z 22008KT 9999 -SHRA SCT021 FEW027CB BKN038 13/08 Q1009 EFKU 191250Z 35009KT 9000 -RA BKN009 OVC030 08/07 Q1008 KCID 191252Z 11005KT M1/4SM FG VV001 17/17 A2994 RMK AO2 SLP137 T01670167 KBRD 191314Z AUTO 13005KT 1 1/4SM BR OVC003 14/13 A2990 RMK AO2 T01390133 CYBV 191300Z 10008KT 15SM FEW045 FEW100 BKN220 06/04 A2986 RMK SC1AC1CS3 SLP121 CXMD 191300Z AUTO 13008KT 14/13 RMK AO1 SLP070 T01370134 57015 CWVD 191300Z AUTO 04010KT 03/ A2993 RMK SLP173 CYBW 191300Z AUTO 24003KT 9SM CLR M05/M05 A2956 RMK SLP045 PHNG 190957Z 04006KT 5SM -SHRA BKN060 OVC075 26/22 A3001 RMK RAB17E32 SLP156 P0000 T02560217 403110256 KCHO 191253Z 02003KT 10SM CLR 22/18 A3003 RMK AO2 SLP162 T02170183 KAZO 191253Z 06004KT 1 1/2SM -RA BR FEW004 SCT013 BKN095 19/17 A2997 RMK AO2 SLP147 P0015 T01890172 EGCN 191250Z 21005KT 140V260 9999 FEW033 17/07 Q1021 CYCO 191300Z 07013KT 1SM -DZ BR VV002 05/05 A3005 RMK FG8 SLP180 CYBX 191300Z 00000KT 8SM -RA OVC030 10/08 A3028 RMK SC8 SLP256 CYDF 191300Z VRB02KT 15SM OVC021 09/08 A3033 RMK ST8 SLP274 CWVF 191315Z AUTO 08006KT 10/ RMK AO1 T0095 KBQP 191315Z AUTO 00000KT 7SM CLR 23/23 A3000 RMK AO2 T02310227 KF05 191315Z AUTO 16005KT 10SM CLR 23/18 A2986 RMK AO1 T02250182 CYCP 191300Z 00000KT 1SM BR BKN015 BKN080 03/03 A2970 RMK FG5ST1AC1 VIS W-N 15 SLP075 CXMG 191200Z AUTO 02005KT 05/04 RMK AO1 T00450037 CWTY 191300Z AUTO 05004KT 17/15 RMK AO1 SLP195 T01680153 51006 CWUP 191300Z AUTO ///// 02/ A2994 RMK SLP164 EFLP 191250Z AUTO 29007KT 240V340 9999 OVC017 09/05 Q1007 CYCQ 191300Z 24003KT 210V300 10SM FEW055 SCT075 BKN220 BKN240 M00/M01 A2962 RMK SC1AC2CI2CI1 FROIN /R0.6/AFT 00Z SLP052 CWVH 191300Z AUTO 17014KT 07/ A2976 RMK SLP092 CWVI 191300Z AUTO 29010KT 07/06 RMK AO1 9PAST HR 8013 SLP951 P0011 T00650058 50029 CXMI 191300Z AUTO 12006KT 18/17 RMK AO1 T01830173 ZSPD 191300Z 13003MPS 7000 NSC 25/23 Q1012 NOSIG EFMI 191250Z AUTO 31005KT 230V020 9999 OVC013 08/05 Q1008 KCHS 191256Z 00000KT 10SM CLR 24/21 A3000 RMK AO2 SLP158 T02390211 KDAA 191258Z AUTO 35005KT 10SM OVC016 22/18 A2999 RMK AO2 SLP158 T02170183 CWWA 191300Z AUTO 00000KT 09/07 RMK AO1 2PAST HR 3007 SLP056 P0001 T00880072 50002 CWUS 191300Z AUTO 29005KT 06/01 RMK AO1 SLP054 T00600005 51004 KDAB 191253Z 00000KT 8SM FEW025 FEW090 26/23 A2999 RMK AO2 SLP153 T02560228 PHNL 191253Z 04008KT 10SM FEW050 FEW065 SCT080 26/19 A2996 RMK AO2 SLP146 T02610194 CYCS 191300Z 35009KT 15SM BKN021 06/04 A2998 RMK SC7 SLP155 CWWB 191300Z AUTO 02004KT 20/18 RMK AO1 SLP170 T02000181 51010 KBRL 191253Z AUTO 11003KT M1/4SM FG VV001 18/18 A2994 RMK AO2 SLP133 T01830183 EGEC 191250Z 20007KT 9999 SCT022 BKN030 15/11 Q1018 CYDL 191312Z AUTO VRB02KT 6SM BR OVC002 05/05 A2967 RMK SLP059 CXMM 191300Z AUTO 06004KT 08/02 RMK AO1 SLP023 T00750020 56007 EGDM 191250Z 29007KT 9999 SCT030 SCT250 17/10 Q1022 BLU NOSIG CYED 191300Z AUTO 29004KT 4SM RA OVC005 OVC029 OVC047 06/06 A2943 RMK PCPN 0.5MM PAST HR SLP979 KCIN 191315Z AUTO 13007KT 1 3/4SM BR OVC003 18/18 A2986 RMK AO2 NZNP 191300Z 17011KT 20KM SCT060 BKN070 OVC100 11/08 Q1011 RMK AUTO VATSIM USE O CWVN 191300Z AUTO 29004KT 07/05 RMK AO1 SLP996 T00650054 55002 CWWE 191300Z AUTO 07005KT 18/18 RMK AO1 SLP231 T01800180 56003 CYDN 191303Z AUTO 11011KT 1SM BR OVC003 11/10 A2971 RMK SLP067 CWUW 191319Z AUTO 19016KT ////SM //// BKN003 OVC049 M01/M02 A2991 KBRO 191253Z 17003KT 10SM CLR 26/26 A2992 RMK AO2 SLP131 T02610261 PHOG 191254Z AUTO 05010KT 10SM CLR 24/17 A2994 RMK AO2 SLP145 T02440172 TSNO KBQX 191315Z AUTO 16012KT 6SM HZ CLR 28/25 A2997 RMK A01 NZOH 191300Z 06003KT 48KM BKN055 09/07 Q1011 RMK AUTO NZPM VATSIM USE ONLY CXMO 191200Z AUTO 27006KT 04/04 RMK AO1 T00410036 50027 VDSR 191300Z 23001KT 9000 NSC 30/25 Q1007 CWWF 191300Z AUTO 13012G19KT 13/08 RMK AO1 PRESFR PK WND 14022/1224 SLP972 T01300075 58026 CWUX 191300Z AUTO 00000KT 13/13 RMK AO1 SLP191 T01320128 53004 CYCX 191300Z 11002KT 3SM -SHRA BR SCT003 OVC020 17/16 A3024 RMK SF4SC4 DA333FT SLP242 KDAG 191250Z AUTO 23020G29KT 10SM CLR 21/10 A2983 RMK AO2 PK WND 23029/1250 SLP074 T02110100 NZNR 191300Z 26004KT 20KM NCD 05/04 Q1011 RMK AUTO VATSIM USE ONLY CYDP 191300Z VRB02KT 15SM OVC028 06/05 A3003 RMK SC8 SLP170 CWVP 191300Z AUTO 35004KT 04/M01 RMK AO1 SLP997 T00421006 55006 CYEG 191313Z 28011KT 10SM RA BKN006 OVC010 04/03 A2946 RMK SF6SC2 SLP991 CYCY 191316Z AUTO 31009KT 2 1/2SM -SN SCT012 BKN017 OVC035 01/M00 A3002 RMK SLP168 ORER 191300Z 29006KT 9000 SCT040 40/03 Q1011 NOSIG VEJS 191200Z 09004KT 3000 HZ SCT015 SCT025 FEW030CB BKN100 28/25 Q1000 NZNS 191300Z 23003KT 20KM BKN018 10/09 Q1012 RMK AUTO VATSIM USE ONLY CWVQ 191300Z AUTO 03001KT 20/20 RMK AO1 SLP190 T02030199 51009 CYDQ 191300Z AUTO 00000KT 9SM OVC130 01/01 A2960 RMK SLP048 KF17 191315Z AUTO 18003KT 10SM OVC010 26/25 A2999 RMK AO2 T02630253 KCIR 191315Z AUTO 00000KT 21/21 A2996 RMK AO2 LTG DSNT E T02110211 PWINO UNKL 191300Z 29001MPS 8000 SCT033CB 08/08 Q1008 R29/190060 NOSIG RMK QFE731 ZSQD 191300Z 05003MPS 010V090 CAVOK 25/09 Q1012 NOSIG KBTA 191315Z AUTO 15009KT 2 1/2SM BR OVC004 20/19 A2982 RMK AO2 T02000192 PGWT 190953Z 06008KT 7SM FEW015 FEW120 28/25 A2984 RMK LAST EGDR 191250Z 21010KT 9999 FEW014 SCT250 16/12 Q1023 BLU TEMPO SCT020 WHT CWXA 191300Z AUTO 26007KT 02/M03 RMK AO1 PK WND 27018/1212 SLP021 T00161033 56005 KCKB 191253Z 00000KT 8SM BR CLR 18/16 A3005 RMK AO2 SLP164 T01830161 NZNV 191300Z 35005KT 8000 SCT220 06/06 Q1008 RMK AUTO VATSIM USE ONLY CWWK 191300Z AUTO 05002KT 10/09 RMK AO1 6PAST HR 3004 SLP057 P0010 T01020093 50026 CWVT 191300Z AUTO 11009G15KT 09/05 RMK AO1 SLP043 T00870047 56007 CYFB 191300Z 15003KT 30SM FEW003 BKN190 03/01 A2998 RMK ST1CI7 ST TR SLP155 CYEK 191300Z 05005KT 15SM BKN041 06/05 A3000 RMK SC7 SLP160 KCKC 191255Z AUTO 10005KT 10SM BKN003 OVC035 11/09 A3002 RMK AO2 TSNO KDAL 191300Z 18009KT 7SM BKN010 BKN250 25/22 A2992 RMK AO2 T02500222 $ KCIU 191256Z AUTO 09008KT 10SM BKN120 14/12 A3010 RMK AO2 SLP218 T01440117 VEKO 191200Z 05006KT 6000 SCT100 33/25 Q1001 CWXC 191300Z AUTO 17004KT 16/15 RMK AO1 SLP183 T01560147 52007 CWWL 191300Z AUTO 06001KT 10/ RMK AO1 SLP072 T0102 58002 CWVU 191200Z AUTO 08006KT 17/16 RMK AO1 SLP240 T01670160 57001 CYFC 191319Z AUTO 10004KT 1 1/4SM -RA BR BKN005 BKN013 OVC020 17/17 A3024 RMK SLP241 CXNM 191300Z AUTO 21004KT RMK AO1 KDAN 191253Z AUTO 36004KT 10SM CLR 21/19 A3003 RMK AO2 SLP160 T02060194 CYEN 191315Z 08014KT 15SM -RA OVC060 12/09 A2945 RMK SC8 PRESFR SLP978 DENSITY ALT 2600FT PHNY 191256Z AUTO 35005KT 10SM CLR 21/18 A3002 RMK AO2 SLP143 T02060178 KCKF 191315Z AUTO 00000KT 10SM SCT055 SCT065 25/22 A3002 RMK AO2 T02520217 EGEO 191250Z 30003KT 240V340 9999 FEW032 15/08 Q1018 EGDX 191250Z 26009KT 9999 FEW023 SCT050 17/12 Q1022 BLU EGFF 191250Z AUTO 24009KT 210V280 9999 FEW031 17/11 Q1022 CXMY 191300Z AUTO 18/17 RMK AO1 T01840173 CXNP 191200Z AUTO 14004KT 18/16 RMK AO1 SLP249 T01790161 50002 EGDY 191250Z 25005KT 9999 FEW045 17/09 Q1022 BLU NOSIG KCKI 191315Z AUTO 00000KT 10SM CLR 22/20 A3002 RMK AO2 KCJR 191315Z AUTO 35008KT 10SM OVC012 21/19 A3003 RMK AO2 T02050189 CWXI 191300Z AUTO 00000KT 12/10 RMK AO1 3PAST HR 6007 SLP248 P0001 T01240101 50003 KDCA 191252Z 35010KT 10SM OVC015 22/19 A3000 RMK AO2 SLP157 OCNL BINOVC T02220194 CYER 191300Z AUTO 29009G16KT 9SM OVC011 05/04 A2999 RMK TS/LTNG TEMPO UNAVBL SLP160 CWWS 191300Z AUTO 12007G15KT 10/07 RMK AO1 PK WND 11017/1203 SLP111 T00990067 55002 NZPM 191300Z 06003KT 48KM BKN055 09/07 Q1011 RMK AUTO VATSIM USE ONLY CYET 191300Z AUTO 27006KT 9SM OVC070 04/03 A2956 RMK SLP037 KBTL 191313Z 06007KT 2 1/2SM -RA BR BKN003 BKN100 OVC120 17/17 A2999 RMK AO2 T01720172 PNO $ CWWU 191300Z 23008KT 15SM FEW044 BKN090 BKN220 16/09 A3045 RMK CF2AC3CI1 SLP314 CXOL 191200Z AUTO 28009KT 02/01 RMK AO1 T00170009 CXPC 191300Z AUTO 17/16 RMK AO1 SLP173 T01710155 50003 CWXL 191300Z AUTO 28007KT 03/02 RMK AO1 T00310016 KCKM 191315Z AUTO 18004KT 8SM 23/23 A2998 RMK A01 KBTM 191253Z AUTO 00000KT 10SM CLR 02/01 A2973 RMK AO2 SLP059 T00170011 VELP 190830Z 03004KT 5000 BR SCT015 SCT025 BKN100 30/26 Q1001 NOSIG CYEV 191300Z 10007KT 15SM SKC 07/04 A2977 RMK SLP085 EGGD 191250Z AUTO 23006KT 200V260 9999 FEW029 SCT035 BKN041 16/09 Q1022 KCLE 191251Z 16004KT 10SM SCT075 BKN095 OVC120 23/17 A3001 RMK AO2 SLP158 T02330172 KDAW 191307Z AUTO 03005KT 3SM BR OVC002 17/16 A3016 RMK AO2 T01670156 KCKN 191314Z AUTO 13011KT 5SM BR OVC006 14/14 A2977 RMK AO2 KDBN 191315Z AUTO 00000KT 10SM CLR 22/20 A3004 RMK AO2 NZPP 191300Z 18012KT 9999 FEW015 OVC055 11/09 Q1012 NOSIG RMK KAUKAU 17023KT AUT CYGE 191300Z 00000KT 1SM BR BKN035 BKN100 03/02 A2969 RMK FG3SC2AC2 VIS S 3 SLP070 KBUF 191254Z 16005KT 10SM FEW035 FEW070 BKN110 BKN250 21/18 A3004 RMK AO2 SLP169 T02110178 CYFO 191300Z 11006KT 080V160 15SM SCT065 OVC130 11/07 A2979 RMK SC4AC4 SLP097 CWWX 191200Z AUTO 10016KT 17/14 RMK AO1 PK WND 11020/1149 SLP181 T01700138 53004 VELR 191200Z 09002KT 6000 FEW020 FEW025CB SCT100 33/29 Q1003 KBTP 191256Z AUTO 08004KT 7SM CLR 18/17 A3006 RMK AO2 SLP181 T01780167 KCKP 191315Z AUTO 15006KT 4SM BR OVC006 19/19 A2984 RMK AO2 T01910191 KDAY 191256Z 16005KT 9SM R06L/5500VP6000FT SCT050 OVC140 21/18 A3000 RMK AO2 SLP151 T02060183 KDBQ 191253Z 15003KT M1/4SM R36/0800V1000FT FG VV002 14/14 A2997 RMK AO2 SLP146 T01440144 CYGH 191300Z 07005KT 20SM SKC 04/03 A2979 RMK 18.6/4.2/0.0 SLP093 CWWZ 191300Z AUTO 18002KT 20/19 RMK AO1 SLP167 T01990189 51007 KBTR 191253Z 00000KT 7SM FEW017 26/23 A3000 RMK AO2 SLP156 T02560233 KCLI 191315Z AUTO 00000KT 10SM OVC055 14/13 A3001 RMK AO2 CYFR 182200Z 14005KT 100V160 15SM FEW060 FEW300 17/04 A2970 RMK CU1CS1 CS TR /0/ LAST STFD OBS/NEXT191400Z SLP065 DENSITY ALT 1100FT CWXR 191300Z AUTO 12011KT 03/ A3005 RMK SLP184 KCMA 191255Z AUTO 00000KT 10SM OVC016 19/16 A2991 RMK AO2 SLP137 T01890156 NZRC 191300Z 35005KT 8000 SCT220 06/06 Q1008 RMK AUTO NZNV VATSIM USE ONLY CYHA 191300Z CCA 11011KT 10SM -RA VCFG OVC031 03/02 A2986 RMK NS8 SLP114 CWZA 191300Z AUTO 05008KT 09/07 RMK AO1 SLP057 T00850073 52005 CWYJ 191300Z AUTO 01002KT 10/10 RMK AO1 SLP050 T01010097 53009 CYFS 191300Z 29003KT 15SM FEW060 BKN085 05/05 A2978 RMK SC2AC4 SLP094 KCLK 191315Z AUTO 16011KT 10SM CLR 21/17 A2986 RMK AO2 CYGK 191300Z 17008KT 15SM FEW010 SCT120 SCT240 21/19 A3007 RMK CF1AC2CI1 CI TR SLP184 DENSITY ALT 900FT CYFT 191300Z 21008KT 15SM BKN100 11/07 A3010 RMK AC7 SLP196 CWYK 191300Z AUTO 20016KT 05/ A2993 RMK SLP167 VEMN 191030Z 04003KT 6000 SCT020 FEW025CB SCT100 35/27 Q1002 TEMPO 1500 TSRA KDDC 191252Z AUTO 15010KT 6SM BR CLR 18/17 A2977 RMK AO2 SLP055 T01830167 KCLL 191253Z 18008KT 6SM BR OVC004 26/24 A2996 RMK AO2 SLP141 T02560244 NZQN 191300Z 05007KT 50KM NCD 05/03 Q1008 RMK AUTO VATSIM USE ONLY EGHC 191250Z 23008KT 9999 FEW010 15/12 Q1023 CWYL 191300Z AUTO 25011KT 00/00 RMK AO1 PK WND 25017/1247 SLP048 T00000000 58002 CXPL 191200Z AUTO 29011KT 06/05 RMK AO1 PK WND 29017/1143 T00550046 50011 CYGL 191300Z 24010KT 15SM FEW012 SCT060 BKN090 08/05 A3004 RMK CF1SC3AC2 SLP182 KCKV 191252Z AUTO 21003KT 7SM FEW044 FEW065 SCT085 22/20 A2997 RMK AO2 LTG DSNT NE SLP143 T02220200 EFOU 191250Z AUTO 05007KT 9999 -RA FEW029/// SCT060/// OVC077/// 09/07 Q1013 KCLM 191318Z AUTO 24004KT 10SM -RA SCT005 BKN031 OVC060 08/08 A2970 RMK AO2 P0000 T00830078 KBTV 191254Z 15005KT 10SM FEW120 SCT250 22/16 A3011 RMK AO2 SLP196 FG BNK DSNT E T02170161 KDCM 191315Z AUTO 00000KT 7SM CLR 21/19 A3006 RMK AO2 KCMD 191315Z AUTO 00000KT 10SM CLR 22/20 A3004 RMK AO2 T02210199 CWYM 191300Z AUTO 03009KT 03/ A2993 RMK SLP175 CYHD 191300Z AUTO 12006KT 9SM OVC006 12/11 A2994 RMK SLP148 KBVE 191313Z AUTO 20005KT 8SM FEW001 SCT019 28/24 A3002 RMK AO2 T02830244 EGHE 191250Z 20009KT 9999 FEW018 16/13 Q1023 CYHE 191314Z AUTO 10007KT 9SM FEW050 OVC075 08/07 A2971 RMK SLP063 KF44 191315Z AUTO 20005KT 7SM OVC005 23/23 A2995 RMK AO2 CXOX 191300Z AUTO 11012G18KT 10/07 RMK AO1 PK WND 11018/1254 SLP055 T00950067 56003 EFPO 191250Z AUTO 02003KT 290V090 9999 OVC025/// 08/02 Q1010 CXOY 191200Z AUTO 31008KT 05/03 RMK AO1 T00460034 50040 CWZG 191300Z AUTO 23005KT M01/M02 RMK AO1 SLP052 T10121018 56003 CYGP 191300Z VRB02KT 15SM FEW025 FEW220 17/15 A3019 RMK CU1CI2 CU TR SLP225 EGGP 191250Z VRB02KT 9999 SCT020 16/11 Q1021 KCMH 191251Z 14003KT 9SM BKN055 OVC090 22/19 A2999 RMK AO2 SLP150 T02220189 KDDH 191254Z AUTO 00000KT 10SM CLR 21/16 A3012 RMK AO2 SLP196 T02060161 KF46 191315Z AUTO 20012G23KT 10SM OVC008 24/23 A2994 RMK AO2 T02430232 KCKZ 191315Z AUTO 01008KT 10SM OVC009 20/20 A3003 RMK AO2 KBVI 191147Z 00000KT 4SM BR CLR 17/17 A3005 CYGQ 191300Z 15004KT 15SM FEW030 OVC051 10/10 A3007 RMK SC1SC7 SLP195 KBUR 191253Z 17005KT 10SM OVC019 19/14 A2991 RMK AO2 SLP118 T01890139 KCMI 191253Z 00000KT 2 1/2SM BR OVC003 20/19 A2995 RMK AO2 SLP138 T02000194 EGHH 191250Z 20010KT 9999 SCT033 15/10 Q1022 CYGR 191300Z 21009KT 10SM -DZ OVC005 17/16 A3029 RMK SF8 SLP257 CYHI 190700Z 10011G18KT 15SM -SN FEW013 BKN015 01/M01 A3014 RMK SF1SC7 SF TR CIG RAG SLP209 EGHI 191250Z 29005KT 250V340 9999 FEW025 SCT032 15/06 Q1022 KCLS 191315Z AUTO 18009KT 10SM BKN065 OVC080 11/10 A2973 RMK AO2 KCLT 191252Z 01006KT 10SM FEW090 FEW250 22/20 A3005 RMK AO2 SLP169 T02170200 $ KCNB 191315Z AUTO 10009KT 3SM BR OVC005 19/18 A2981 RMK AO2 T01900183 CYGT 191300Z 32010KT 15SM FEW020 SCT080 00/M02 A2997 RMK SC2AC2 SLP153 CXRB 191300Z AUTO 04012KT M09/M12 RMK AO1 SLP261 T10891118 51012 KBUU 191255Z AUTO 34003KT 10SM CLR 16/16 A2997 RMK AO2 T01580158 CYHK 191300Z 07021G26KT 15SM OVC011 M00/M02 A3012 RMK SC8 CIG RAGGED SLP206 KDCU 191253Z AUTO 00000KT 7SM CLR 21/21 A3001 RMK AO2 SLP155 T02110211 KCNC 191315Z AUTO 13009KT M1/4SM FG OVC002 18/18 A2990 RMK AO2 KDEC 191313Z 22003KT 1/4SM FG VV002 19/19 A2996 RMK AO2 T01940194 CWZL 191200Z AUTO 28007KT 09/07 RMK AO1 SLP081 T00910069 58001 KBWD 191255Z AUTO 16004KT 9SM CLR 23/22 A2994 RMK AO2 NZRO 191300Z 13001KT 49KM NCD 05/04 Q1011 RMK AUTO VATSIM USE ONLY CYHM 191306Z 05007KT 1 3/4SM BR OVC004 19/19 A3004 RMK FG1SF7 SLP174 DENSITY ALT 1300FT CYGV 191300Z AUTO 11004KT 9SM OVC007 14/14 A3018 RMK SLP222 KCLW 191315Z AUTO 36003KT 10SM CLR 25/22 A2999 RMK AO2 PHSF 191256Z AUTO 13004KT 10SM CLR 10/09 A3029 RMK AO2 SLP143 WND DATA ESTMD T01040093 $ KBVN 191315Z AUTO 13008KT 3/4SM BR OVC002 18/17 A2975 RMK AO2 T01750173 CWZN 191200Z AUTO 14010KT 13/12 RMK AO1 SLP293 T01340115 53003 CYGW 191319Z AUTO 22013G21KT 9SM -RA SCT017 OVC027 09/06 A2994 RMK SLP139 EGGW 191250Z AUTO VRB02KT 9999 BKN024 OVC029 13/08 Q1022 KBVO 191253Z AUTO 14004KT 10SM FEW100 21/18 A2989 RMK AO2 LTG DSNT S AND SW SLP113 T02060183 CWZO 191300Z AUTO 01003KT RMK AO1 CYGX 191300Z 23002KT 15SM FEW009 FEW120 FEW230 01/01 A2998 RMK ST1AC1CI1 ST TR AC TR CI TR SLP164 ZSSS 191300Z 11002MPS 060V170 CAVOK 27/20 Q1012 NOSIG KBWG 191253Z AUTO 00000KT 7SM OVC100 21/21 A2998 RMK AO2 LTG DSNT W-N SLP148 T02110206 KBUY 191254Z AUTO 35005KT 10SM CLR 22/19 A3003 RMK AO2 SLP163 T02170189 KDCY 191315Z AUTO 15004KT 5SM VCTS BR OVC004 20/19 A2997 RMK AO2 LTG DSNT S THRU W T02020192 CWYY 191300Z AUTO 11001KT 07/03 RMK AO1 SOG 00 2008 SLP055 T00660031 KDEH 191315Z AUTO 14006KT 8SM OVC004 15/14 A2995 RMK AO2 EGHQ 191250Z 26011KT 9999 FEW025 15/11 Q1023 UNNT 191300Z 30005MPS CAVOK 10/06 Q1013 R25/150065 R34/150065 NOSIG RMK QFE750/1000 CWZQ 191240Z AUTO 22005KT 17/16 RMK AO1 T01690162 CXRH 191300Z AUTO 15004KT 12/ RMK AO1 T0118 KCMR 191315Z AUTO 16006KT 10SM CLR 11/M03 A3010 RMK AO2 KBWI 191254Z 02006KT 10SM BKN016 BKN028 BKN160 22/19 A2998 RMK AO2 SLP151 T02220194 KCNI 191255Z AUTO 00000KT 7SM CLR 18/18 A3007 RMK AO2 KBXA 191315Z AUTO 00000KT 5SM CLR 25/23 A3003 RMK AO2 T02490230 KBVS 191315Z AUTO 10004KT 10SM OVC017 11/09 A2970 RMK A01 EGJA 191250Z 32007KT 9999 FEW018 16/11 Q1023 CWZS 191300Z AUTO 14004KT 15/14 RMK AO1 SLP217 T01530136 53001 EFSA 191250Z AUTO 32007KT 270V360 4400 BR OVC008 09/08 Q1005 KCNK 191255Z AUTO 13007KT 10SM CLR 19/19 A2978 RMK AO2 SLP074 T01940189 CYIK 191300Z 06004KT 020V080 15SM FEW012 BKN050 07/05 A2978 RMK CF1SC7 CF TR SLP087 EGJB 191250Z 27012KT 9999 FEW019 16/11 Q1023 KBVU 191315Z AUTO 21016KT 10SM 24/01 A2979 RMK AO2 CXSC 191200Z AUTO 24012KT 05/04 RMK AO1 T00460035 UNOO 191300Z 30005MPS 9999 SCT033CB 11/03 Q1020 R25/CLRD60 NOSIG RMK QFE757 CXRL 191200Z AUTO 09007KT 08/05 RMK AO1 T00830053 CYHU 191300Z AUTO 18008KT 9SM SCT120 21/17 A3010 RMK SLP193 DENSITY ALT 500FT KCNM 191253Z AUTO 00000KT 10SM CLR 18/13 A2996 RMK AO2 SLP089 T01830128 KCOD 191256Z AUTO 29005KT 10SM FEW065 07/05 A2965 RMK AO2 SLP015 T00670050 CWZV 191200Z AUTO 31003KT 11/09 RMK AO1 SLP077 T01060093 58002 KDEN 191253Z 20012KT 10SM BKN220 17/M06 A2974 RMK AO2 SLP993 T01721061 KCOE 191256Z AUTO 00000KT 10SM -RA OVC023 07/06 A2972 RMK AO2 SLP082 P0002 T00720061 NZTG 191300Z 22005KT 48KM NCD 08/06 Q1011 RMK AUTO VATSIM USE ONLY NZSP 191150Z 10008KT 2400 IC BR SCT010 BKN030 M57/ A2803 RMK CLN AIR 10007KT ALL WNDS GRID CXSE 191300Z AUTO 21001KT M09/M10 RMK AO1 SLP281 T10901099 51007 CWZW 191300Z AUTO 04002KT 06/04 RMK AO1 T00580035 53007 CYIN 191300Z AUTO 00000KT 9SM CLR M07/M08 A2968 RMK SLP083 KCNO 191311Z AUTO 27004KT 7SM OVC029 19/14 A2993 RMK AO2 T01940144 KCMX 191253Z AUTO 10006KT 10SM OVC049 13/11 A3004 RMK AO2 SLP174 T01330111 KBVX 191305Z AUTO 00000KT 6SM HZ FEW002 A2997 RMK AO2 FZRANO $ KCOF 191255Z 02006KT 3SM -SHRA SCT010 BKN020 OVC030 25/24 A2997 RMK SLPNO AO2A WND DATA ESTMD ALSTG ESTMD $ CYJF 182200Z 04013G19KT 15SM FEW130 SCT230 17/05 A2965 RMK AC1CI2 18.3/9.4/0/0 LAST OB/NEXT 191400UTC SLP046 DENSITY ALT 1500FT CYIO 191300Z AUTO 08003KT 9SM BKN046 00/M05 A3008 RMK SLP194 KBWP 191250Z AUTO 14011KT 1 1/2SM OVC002 16/15 A2978 RMK AO1 EFRO 191250Z AUTO 06016KT 9999 BKN019 BKN024 08/04 Q1017 KBVY 191315Z 03009KT 1/4SM FG VV002 17/17 A3013 RMK AO2 T01720167 KCMY 191315Z AUTO 10003KT 10SM SCT070 14/13 A2998 RMK AO2 P0001 T01430129 CYHY 191300Z 10006KT 040V110 15SM FEW070 SCT100 BKN230 05/03 A2973 RMK AC2AC2CI2 SLP078 ZUCK 191300Z 36003MPS 330V030 3000 -RA BR SCT006 SCT009 OVC033 20/20 Q1013 NOSIG KDEQ 190753Z AUTO 00000KT 2SM BR CLR 19/19 A2991 RMK AO2 VIS 1 1/4V4 SLP123 T01940194 TSNO CXSH 191300Z AUTO 03003KT 15/14 RMK AO1 SLP176 T01490135 51007 CYHZ 191300Z 14009KT 1/4SM R14/2800FT/N FG VV001 18/18 A3025 RMK FG8 SLP247 DENSITY ALT 600FT CWZZ 191300Z AUTO 21014KT ////SM //// SCT033 BKN060 05/02 A2991 KDFI 191253Z AUTO 00000KT 1 1/4SM VCTS +RA BR FEW005 BKN039 OVC085 19/18 A2998 RMK AO2 LTG DSNT ALQDS RAB20 TSB11E53 SLP149 P0027 T01940183 EFSI 191250Z AUTO 36007KT 320V060 9999 OVC024 07/02 Q1011 EGKA 191250Z VRB03KT 9999 SCT024 15/08 Q1022 CYKA 191300Z 00000KT 40SM FEW086 FEW230 03/00 A2972 RMK AC1CI2 AC TR SLP075 EGJJ 191250Z 29011KT 260V320 9999 SCT020TCU 17/12 Q1023 KDET 191253Z 03006KT 10SM SCT007 OVC042 19/17 A3000 RMK AO2 SLP157 T01890167 KBXK 191315Z AUTO 00000KT 10SM 18/M01 A2986 RMK AO1 KF70 191315Z AUTO 16004KT 10SM OVC013 16/13 A2994 RMK AO1 EGKB 191250Z 30004KT 250V010 9999 SCT030 14/09 Q1022 KCPC 191300Z AUTO 35003KT 10SM CLR 22/19 A2998 RMK AO2 T02150191 KCNU 191252Z AUTO 13007KT 10SM CLR 20/18 A2989 RMK AO2 SLP113 T02000178 EHAK 191255Z AUTO 32020KT 9999 FEW024/// 14/08 Q1017 CXSL 191200Z AUTO 08004KT 07/04 RMK AO1 T00670039 KCOM 191315Z AUTO 18007KT 10SM CLR 24/21 A2995 RMK AO2 T02420206 CYKD 191300Z 15006KT 15SM SKC 06/05 A2975 RMK 0.0 SLP075 KCNW 191250Z 16005KT 5SM BR OVC005 24/23 A2994 CXTD 191300Z AUTO 14009KT 21/19 RMK AO1 SLP268 T02080188 56002 KCON 191305Z AUTO 06004KT 10SM OVC010 19/17 A3016 RMK AO2 CIG 007V014 T01890167 KDEW 191253Z AUTO 16005KT 5SM -RA BR SCT016 BKN027 OVC033 07/06 A2971 RMK AO2 SLP063 P0004 T00670061 $ PHTO 191253Z AUTO 24007KT 10SM OVC065 21/19 A2998 RMK AO2 RAE15 SLP150 P0000 T02110194 TSNO KBWW 191315Z AUTO 27009KT 10SM FEW120 13/07 A2938 RMK AO2 EHAM 191255Z 32005KT 290V360 9999 FEW025CB 16/11 Q1018 TEMPO -SHRA CYKF 191300Z AUTO 06004KT 7SM OVC130 19/18 A3004 RMK SLP172 DENSITY ALT 1600FT CZBF 191300Z 22004KT 10SM FEW006 BKN010 17/16 A3021 RMK SF1SC6 SLP233 KCNY 191253Z AUTO 19010G19KT 10SM CLR 20/M04 A2979 RMK AO2 SLP029 T02001039 KBYG 191253Z AUTO 16006KT 10SM FEW070 FEW095 BKN120 12/05 A2958 RMK AO2 RAB33E45 SLP971 P0000 T01170050 KBYH 191259Z 21006KT 10SM SKC 23/20 A2996 CYKG 191300Z 14008KT 3/4SM -DZ BR OVC003 02/02 A2983 RMK ST8 CIG VRB 2-4 SLP113 CXSP 191200Z AUTO 04004KT 08/06 RMK AO1 T00770064 KCOQ 191314Z AUTO 12003KT 7SM BKN004 BKN007 OVC015 14/13 A2994 RMK AO2 CXTH 191200Z AUTO 22008KT 07/06 RMK AO1 8PAST HR M P0003 T00650055 50008 VEPT 191230Z 00000KT 2500 HZ SCT018 FEW030CB BKN100 28/26 Q1000 NOSIG KBYI 191253Z AUTO 25012KT 10SM OVC110 07/03 A2986 RMK AO2 SLP088 T00720028 CXSR 191300Z AUTO 29007KT 03/02 RMK AO1 SLP036 T00300021 51001 KCOS 191254Z VRB06KT 10SM FEW200 BKN250 17/M06 A2986 RMK AO2 SLP027 T01721056 VERC 191300Z 03002KT 4000 HZ SCT015 FEW030CB BKN100 26/25 Q1005 NOSIG NZTU 191300Z 06004KT 030V090 19KM OVC011 08/07 Q1013 RMK AUTO VATSIM USE ONLY CYLA 191300Z 24005KT 15SM FEW044 BKN057 BKN080 07/06 A2986 RMK SC2SC4AC1 SLP117 CYKJ 191300Z AUTO 09006KT 7SM CLR 03/02 A2978 RMK SLP107 KCQB 191250Z AUTO 09003KT 10SM VCTS CLR 22/21 A2988 RMK AO2 LTG DSNT NE T02170207 KCOT 191253Z AUTO 12005KT 6SM HZ CLR 26/23 A2991 RMK AO2 SLP119 T02560228 KCPK 191315Z AUTO 33010KT 4SM BR BKN008 BKN013 OVC050 21/20 A2988 RMK AO2 T02100199 CYJT 191300Z 07004KT 12SM -SHRA OVC010 13/13 A3033 RMK SF8 SLP272 EGKK 191250Z 32005KT 270V350 9999 SCT032 14/07 Q1022 KCOU 191254Z 14004KT M1/4SM FG VV002 18/18 A2995 RMK AO2 SLP137 T01780178 KCQC 191253Z AUTO 25013KT 10SM CLR 09/M05 A3013 RMK AO2 SLP122 T00941050 EHBK 191255Z AUTO VRB04KT 9999 FEW022 14/09 Q1019 NOSIG KBYL 191315Z AUTO 15003KT 10SM CLR 19/19 A3003 RMK AO1 CYKL 191300Z AUTO 25005KT 9SM SCT035 OVC047 10/07 A3005 RMK SLP195 EGLC 191250Z AUTO VRB03KT 9999 BKN022 OVC032 15/08 Q1022 CYLD 191300Z 20003KT 15SM SCT096 BKN130 12/10 A3013 RMK AC3AC2 SLP217 KDFW 191315Z 18012KT 9SM BKN010 BKN190 BKN300 25/23 A2991 RMK AO2 T02500233 CXTN 191300Z AUTO 16016KT 03/01 RMK AO1 PK WND 16020/1211 SLP170 T00300014 52006 KCQF 191315Z AUTO 26003KT 10SM SCT011 SCT019 BKN028 26/25 A3001 RMK AO2 CYKO 191300Z 11008KT 2SM -DZRA OVC004 07/07 A2972 RMK DZ1ST7 SLP067 EGLF 191250Z 31004KT 290V360 9999 SCT033 13/08 Q1022 CXTO 191300Z AUTO 22/18 RMK AO1 SLP170 T02180181 53007 CXTP 191300Z AUTO 19005KT 12/10 RMK AO1 SLP294 T01230101 58004 CYKP 191300Z AUTO VRB02KT 9SM OVC090 06/05 A3008 RMK SLP190 OSDI 191300Z 23006KT CAVOK 35/02 Q1010 EFTP 191250Z AUTO VRB03KT 9999 SCT023 BKN031 BKN085 07/03 Q1010 CYKQ 191300Z 20003KT 15SM FEW240 09/07 A3010 RMK CI2 SLP195 CYLH 191300Z AUTO 00000KT 9SM FEW040 05/04 A3006 RMK SLP193 KCPR 191253Z 29011KT 10SM CLR 11/05 A2970 RMK AO2 SLP005 T01060050 NZWB 191300Z 22001KT 9000 BKN028 07/06 Q1013 RMK AUTO VATSIM USE ONLY KCPS 191313Z 00000KT 2SM BR BKN002 21/19 A2996 RMK AO2 T02060194 KBYS 191255Z AUTO 19011G16KT 10SM CLR 21/05 A2983 RMK AO2 SLP064 WND DATA ESTMD T02070048 CYLJ 191300Z 08011KT 15SM BKN090 OVC120 10/07 A2947 RMK AC6AC2 SLP992 DENSITY ALT 1900FT CYMA 191300Z 00000KT 20SM FEW080 OVC120 06/04 A2973 RMK AC2AS6 SLP085 EFVA 191250Z AUTO 04011KT 9999 SCT029/// BKN033/// 09/02 Q1012 KCPT 191315Z AUTO 17010G18KT 5SM BR OVC006 24/24 A2995 RMK AO2 CYLK 190000Z 06005KT 25SM FEW080 SCT120 15/06 A2977 RMK AC2AC2 16.8/6.7/0 LAST STFD OBS/NEXT 191400Z SLP091 DENSITY ALT 1000FT CZDB 191200Z AUTO 08004KT 17/16 RMK AO1 SLP251 T01690163 58001 ORMM 191300Z 31010KT CAVOK 45/05 Q1005 NOSIG KCPU 191255Z AUTO 00000KT 10SM CLR 10/07 A2999 RMK AO2 T00950072 CYLL 191300Z 18010KT 10SM -RA BKN043 OVC065 09/08 A2943 RMK SC6SC2 PRESRR SLP980 DENSITY ALT 2600FT EGMC 191250Z 35004KT 300V050 9999 FEW015 BKN021 13/09 Q1022 EGLL 191250Z AUTO 27006KT 9999 SCT037 BKN045 15/08 Q1022 EFTU 191250Z AUTO 04005KT 9999 -RA OVC018/// 09/06 Q1009 KCQM 191316Z AUTO 13004KT 10SM OVC007 13/12 A2994 RMK AO2 VERP 190800Z 28007KT 6000 SCT020 BKN100 30/26 Q1003 NO SIG CXTV 191200Z AUTO 18007KT 06/04 RMK AO1 SLP077 T00580036 52003 KCPW 191314Z AUTO 22021G31KT 10SM CLR 00/M09 A3031 RMK AO2 EGMD 191250Z 27005KT 200V350 9999 SCT027 16/10 Q1021 KCRE 191253Z 36006KT 10SM CLR 23/20 A2997 RMK AO1 SLP151 T02280200 KDGW 191253Z AUTO 30010KT 10SM CLR 12/03 A2968 RMK AO2 SLP996 T01220033 KDHN 191253Z 28004KT 6SM BR BKN049 24/23 A3004 RMK AO2 SLP168 T02390233 KBZN 191256Z 26009KT 7SM -RA BKN030 BKN037 OVC048 06/03 A2971 RMK AO2 SLP059 P0000 T00560028 $ KCRG 191253Z 32003KT 8SM CLR 24/22 A3000 RMK AO2 SLP157 T02390222 $ KBYY 191315Z AUTO 00000KT 10SM SCT017 26/26 A2996 RMK AO2 T02560256 CYKY 191300Z 28004KT 15SM SCT050 OVC150 07/05 A2948 RMK SC3AC5 SLP990 DENSITY ALT 2400FT CZCP 191300Z AUTO 11016KT ////SM //// BKN002 01/01 A2993 ORNI 191300Z 04005KT 8000 NSC 43/07 Q1006 NOSIG CYKZ 191310Z 02005KT 10SM SCT005 BKN110 BKN140 20/19 A3005 RMK SF4AC3AC1 AC TR SLP175 DENSITY ALT 1300FT CYMH 191300Z AUTO 00000KT 9SM OVC065 09/08 A3027 RMK SLP251 NZWK 191300Z 21004KT 170V240 14KM NCD 05/04 Q1011 RMK AUTO VATSIM USE ONLY CZCR 191300Z AUTO 08003KT 14/14 RMK AO1 SLP233 T01410136 53002 KDIJ 191256Z AUTO 18013KT 10SM -RA FEW025 SCT055 OVC090 03/01 A2981 RMK AO2 RAE02B23 SLP077 P0000 T00280011 CYMJ 190522Z 13010KT 12SM OVC110 15/06 A2957 RMK AC8 LAST OBS/NEXT 191500 UTC SLP018 CYNA 191300Z AUTO 17007KT 1/2SM FG VV002 15/15 A3020 RMK SLP228 KDHT 191253Z AUTO 17006KT 6SM BR CLR 12/11 A2989 RMK AO2 SLP076 T01170106 KCQT 191247Z AUTO 00000KT 10SM OVC026 21/16 A2990 RMK AO2 SLP123 T02060156 KDIK 191256Z AUTO 18010KT 10SM CLR 15/10 A2944 RMK AO2 SLP957 T01500100 CYLT 191300Z 24008KT 15SM FEW120 FEW150 M11/M15 A3020 RMK AC1AC1 SLP231 CXWB 191100Z AUTO 05001KT 03/03 RMK AO1 SLP154 T00330026 52009 EFUT 191250Z 34007KT 310V020 9999 BKN020 09/05 Q1007 CYNC 191300Z 26005KT 220V310 15SM SCT076 BKN110 10/05 A3006 RMK AC3AC4 SLP183 CYLU 191300Z 14007KT 15SM VCSH SCT010 OVC017 10/08 A2992 RMK ST3SC5 SLP138 EGNC 191250Z 27006KT 240V310 9999 SCT023 14/10 Q1019 NZWN 191300Z AUTO 18012KT 9999 FEW015/// OVC055/// 11/09 Q1012 NOSIG EHDL 191255Z AUTO VRB03KT 9999 BKN016 BKN023 15/11 Q1018 WHT TXKF 191255Z 24014KT 9000 3600S -SHRA FEW007CB SCT026 BKN065 BKN120 24/22 Q1015 RMK CB 40KM S MOV NE CYND 191300Z 05004KT 8SM SCT006 BKN140 19/18 A3008 RMK ST3AC2 SLP187 DENSITY ALT 600FT CYMM 191300Z AUTO 06005KT 9SM BKN085 OVC110 07/03 A2958 RMK SLP030 KCQW 191315Z AUTO 35004KT 10SM CLR 22/19 A3003 RMK AO2 NZWP 191300Z 34002KT 9999 NCD 09/08 Q1011 NOSIG RMK AUTO NZAA VATSIM USE ONLY CXVN 191300Z AUTO 32003KT 21/20 RMK AO1 SLP158 T02080195 51007 CYNE 191300Z AUTO 10005KT 9SM CLR 03/02 A2990 RMK SLP136 CYLW 191300Z AUTO VRB02KT 9SM FEW120 BKN170 OVC190 01/M00 A2969 RMK SLP062 KCQX 191302Z AUTO 05007G16KT 1/2SM -RA FG VV002 19/19 A3007 RMK AO2 P0001 T01890189 CYMO 191300Z AUTO 24004KT 9SM OVC100 09/08 A3009 RMK SLP191 KCSG 191251Z 00000KT 7SM CLR 23/20 A3001 RMK AO2 SLP159 T02280200 KCRP 191251Z 13004KT 6SM BR FEW016 FEW030 FEW250 25/25 A2993 RMK AO2 SLP134 TCU DSNT E SE S T02500250 NZWR 191300Z 31002KT 20KM FEW023 SCT030 BKN035 10/08 Q1012 RMK AUTO VATSIM USE O KCRQ 191253Z 15006KT 10SM OVC026 19/15 A2990 RMK AO2 SLP123 T01940150 NZWS 191300Z 08008KT 20KM FEW065 08/05 Q1011 RMK AUTO NZHK VATSIM USE ONLY EGNH 191250Z 21009KT 9999 FEW017 15/12 Q1021 EHEH 191255Z AUTO VRB06KT 9999 FEW240 16/10 Q1019 BLU 34005KT 9999 FEW020 KCRS 191253Z AUTO 17008KT 5SM BR OVC007 24/23 A2996 RMK AO2 SLP141 T02390233 KEBA 191315Z AUTO 00000KT 10SM OVC080 23/22 A3006 RMK AO2 T02310219 NZWU 191300Z 20007KT 19KM FEW010 BKN020 11/09 Q1011 RMK AUTO VATSIM USE ONLY CYOA 191300Z 09010KT 15SM OVC004 06/06 A2991 RMK ST8 CZFA 191300Z 00000KT 30SM SCT075 BKN090 BKN110 03/02 A2975 RMK AC4AC2AC1 AC TR CLIMAT 14.3/1.8/0.0 SLP099 EGNJ 191250Z 26006KT 200V290 9999 SCT025 15/08 Q1021 KCTB 191256Z AUTO 29008KT 10SM CLR 01/M01 A2961 RMK AO2 SLP037 T00111006 KDKB 191315Z AUTO 00000KT 5SM BR SCT002 BKN009 OVC085 18/17 A2998 RMK AO2 LTG DSNT SE T01770173 CYMT 191300Z AUTO VRB02KT 9SM SCT210 11/10 A3013 RMK SLP215 CYOC 191300Z VRB02KT 35SM SCT042 BKN100 04/03 A2972 RMK SC4AC2 CLIMAT 14.1/3.5/0.0 MM SLP076 CYMU 191300Z 21022KT 4SM -DZ BR SCT007 BKN015 OVC030 08/07 A2985 RMK SF3ST3SC2 VSBY SW-NW 9 SLP112 CZEL 191300Z AUTO 05005KT 18/17 RMK AO1 SLP175 T01840171 50004 KCSM 191253Z AUTO 18016KT 10SM CLR 21/18 A2986 RMK AO2 SLP090 T02060178 CXWM 191200Z AUTO 26008KT M01/M02 RMK AO1 T10061024 CYOD 191300Z 08013KT 15SM BKN080 OVC120 10/05 A2947 RMK AC7AC1 SLP989 EGNM 191250Z 27009KT 240V350 9999 FEW030 14/09 Q1020 CYNM 191300Z AUTO 30002KT 9SM BKN085 BKN120 09/09 A3014 RMK SLP217 KCRW 191308Z 00000KT 4SM BR SCT002 SCT150 18/18 A3003 RMK AO2 DNS VLY FG T01830178 KEAN 191315Z AUTO 12007KT 10SM CLR 16/M03 A2967 RMK AO2 T01601031 EHDV 191255Z AUTO 31014KT 9999 FEW016/// SCT032/// BKN042/// 14/09 Q//// EHFD 191255Z AUTO 31017KT 9999 FEW018/// SCT022/// BKN040/// 14/09 Q1017 KCRX 182225Z AUTO 00000KT 10SM CLR 31/21 A2996 RMK AO2 CXVW 192300Z AUTO 26010KT 09/08 RMK AO1 1PAST HR M PK WND 25018/2234 P0004 T00920081 50011 CXWN 191300Z AUTO 09004KT 14/12 RMK AO1 SLP087 T01380119 56010 EGNO 191250Z 25009KT 9999 SCT018 15/11 Q1021 CYMX 191300Z 03003KT 350V100 1/2SM R06/2400FT/N R11/2600V5000FT/N FG VV002 17/17 A3010 RMK FG8 VIS VRB 3/8-5/8 SLP196 DENSITY ALT 400FT KEBG 191315Z AUTO 00000KT 4SM BR CLR 27/25 A2992 RMK AO2 T02660250 KCSQ 191315Z AUTO 14010KT 1 1/4SM BR OVC003 17/ A2990 RMK AO2 UNTT 191300Z 27003MPS 9999 SCT011 BKN019CB 09/08 Q1010 R21/290050 NOSIG RMK QFE742 KEAR 191256Z AUTO 12006KT 4SM BR CLR 16/16 A2973 RMK AO2 SLP054 T01610156 EGNR 191250Z 11004KT 050V180 9999 FEW020 17/10 Q1021 KCTJ 191255Z AUTO 00000KT 10SM CLR 21/18 A3008 RMK AO2 LTG DSNT NE T02050182 CYPA 191300Z 10010G15KT 10SM -RA FEW011 OVC071 11/09 A2957 RMK SC1AC7 SLP023 DENSITY ALT 1700FT CYOJ 191300Z 00000KT 15SM FEW120 SCT260 M00/M01 A2965 RMK AC1CI3 FROIN SLP056 EGPA 191250Z 30008KT 9999 FEW020 SCT036 14/09 Q1017 KCUB 191253Z AUTO 00000KT 10SM CLR 23/19 A3003 RMK AO2 SLP168 T02330189 KDKK 191253Z AUTO 00000KT 10SM CLR 21/18 A3004 RMK AO2 SLP168 T02110183 EGNS 191250Z 21008KT 9999 FEW015 16/10 Q1020 NOSIG KEAT 191255Z AUTO 00000KT 10SM BKN070 OVC090 09/06 A2968 RMK AO2 SLP051 T00890056 EGPB 191250Z 31013KT 9999 FEW012 SCT025 13/09 Q1015 EGNT 191250Z 27009KT 9999 SCT025 15/08 Q1019 KEAU 191316Z 12006KT 10SM FEW006 BKN029 OVC043 14/13 A2997 RMK AO2 T01440128 CYPC 191300Z 13014KT 15SM SCT030 BKN070 07/03 A2995 RMK SC4AC2 10.0/5.2/0 SLP143 ZUGY 191300Z 10003MPS 060V130 7000 -TSRA FEW011 BKN023 FEW033CB OVC036 22/21 Q1015 BECMG TL1430 NSW KCSV 191253Z AUTO 00000KT 10SM CLR 20/17 A3007 RMK AO2 SLP164 T02000172 EGPC 191250Z 34005KT 9999 FEW025 14/09 Q1017 CZFM 191300Z 16004KT 10SM MIFG SKC 01/00 A2976 RMK 14.2/0.7/0.0 SLP080 CZEV 191300Z AUTO 11006KT 07/04 RMK AO1 SLP085 T00730042 51005 EGOM 191250Z AUTO 27012KT 9999 FEW016/// 12/08 Q1019 CYPD 191300Z AUTO 13012KT 9SM BKN005 OVC049 17/17 A3031 RMK SLP267 EGNV 191250Z 21007KT 160V250 9999 FEW040 15/08 Q1020 EGPD 191250Z AUTO VRB03KT 9999 SCT035 15/07 Q1018 NOSIG CZFN 182300Z 08005KT 20SM SCT110 15/05 A2978 RMK AC4 16.7/4.5/0.0/ LAST STFD OBS/NEXT 191500Z SLP090 DENSITY ALT 600FT CYPE 191316Z 02005KT 1SM BR OVC002 05/04 A2958 RMK ST8 SLP033 KDLF 191256Z 13007KT 10SM SCT220 25/22 A2992 RMK AO2A SLP118 T02490220 EGPE 191250Z 27006KT 230V300 9999 FEW035 16/08 Q1018 CYOO 191314Z AUTO 35003KT 9SM FEW046 SCT160 22/18 A3004 RMK SLP172 DENSITY ALT 1100FT EGPF 191250Z AUTO 23010KT 200V270 9999 BKN032 BKN039 15/08 Q1019 EGNX 191250Z 23007KT 200V300 9999 FEW025 14/07 Q1022 KECG 191316Z 30009KT 10SM FEW017 BKN028 OVC046 22/21 A2987 RMK AO2 RAE05 P0000 T02170211 CYPG 191300Z 11011KT 3/8SM -DZ FG VV001 13/13 A2975 RMK FG8 SLP079 EGOP 191250Z 23014KT 9999 FEW020 SCT250 16/12 Q1022 BLU EHGG 191255Z AUTO 28009KT 230V310 9999 SHRA +DZ SCT019 SCT026 BKN029 14/11 Q1017 RERAUPRA TEMPO 6000 SHRA SCT020CB BKN025 KDLH 191255Z 12005KT 6SM BR OVC004 13/13 A2995 RMK AO2 SLP147 T01330133 KCUH 191315Z AUTO 12004KT 10SM TS BKN085 BKN120 23/21 A2988 RMK AO2 LTG DSNT N THRU SE T02260206 CXYH 191200Z AUTO 05/02 RMK AO1 SLP077 T00540020 53005 EGPH 191250Z 26008KT 230V300 9999 FEW034 16/08 Q1019 CYPH 191317Z AUTO 22013G19KT 1 3/4SM -RA BR OVC004 07/07 A2965 RMK SLP044 KDKR 191315Z AUTO 19006KT 3SM BR OVC002 24/24 A3000 RMK AO2 EGPI 191250Z 16008KT 9999 FEW014 SCT020 BKN048 14/12 Q1018 KEBS 191255Z AUTO 13007KT 1/4SM FG OVC003 17/17 A2988 RMK AO2 KDMA 191258Z AUTO 15004KT 10SM CLR 22/13 A2996 RMK AO2 SLP101 T02170133 $ EGQA 191250Z 18007KT 9999 FEW025 15/// Q1018 BLU CZFS 191300Z AUTO 29004KT 05/05 RMK AO1 SLP094 T00520047 52007 EGOS 191250Z 23004KT 9999 FEW030 SCT280 16/08 Q1021 BLU NOSIG CYQA 191316Z AUTO 00000KT 3SM -RA BR BKN004 OVC028 18/18 A3007 RMK SLP184 DENSITY ALT 1300FT KCVB 191255Z AUTO 14004KT 7SM OVC011 26/24 A2996 RMK AO2 T02560235 EHFS 191255Z AUTO 34007KT 310V020 9999 FEW029/// SCT034/// 17/09 Q1019 KCVC 191136Z AUTO 00000KT 7SM CLR 18/17 A3001 RMK AO2 CYQB 191300Z 10004KT 060V130 10SM BKN033 BKN100 15/14 A3015 RMK SC6AC1 SLP211 KDLL 191250Z AUTO 07004KT 10SM BKN080 15/13 A2998 RMK AO2 T01450125 EGPK 191250Z 27008KT 9999 FEW022 SCT030 16/10 Q1019 KEDC 191315Z AUTO 00000KT 3SM BR OVC006 25/25 A2997 RMK AO2 KCUL 191315Z AUTO 13003KT 3SM VCTS BR BKN003 OVC017 21/21 A2996 RMK AO2 LTG DSNT N THRU S T02080208 CYPL 191300Z 11008KT 15SM FEW045 BKN085 BKN200 05/03 A3001 RMK SC2AC4CI1 SLP179 CXZC 191300Z AUTO 23001KT 09/07 RMK AO1 SLP189 T00880069 50010 EGPL 191250Z 17013KT 9999 FEW016 SCT020 16/11 Q1016 EGOV 191250Z 20014KT 9999 FEW017 SCT045 BKN250 17/11 Q1021 BLU NOSIG CYQD 191300Z 11013KT 15SM FEW040 BKN070 OVC200 10/08 A2978 RMK SC2AC5CS1 SLP093 VGEG 191300Z 15007KT 3500 RAIN BKN008 FEW028CB OVC080 26/23 Q1003 NOSIG EGPM 191250Z 30012KT 9999 FEW015 13/08 Q1015 KEDE 191305Z AUTO 33011KT 10SM SCT015 BKN031 BKN039 23/20 A2990 RMK AO2 T02300201 KDLN 191253Z AUTO 19007KT SCT080 SCT110 03/01 A2972 RMK AO2 SLP056 T00280006 $ EGOW 191250Z 24007KT 9999 FEW024 17/09 Q1021 BLU EGPN 191250Z 24006KT 9999 FEW010 16/11 Q1018 CYOW 191300Z 15005KT 15SM FEW130 FEW200 SCT250 20/18 A3008 RMK AC1CI1CI2 AC TR SLP187 DENSITY ALT 900FT KDKX 191315Z AUTO 00000KT 8SM CLR 19/19 A3004 RMK A01 CYPO 191300Z AUTO 28006KT 250V320 9SM OVC009 05/03 A3000 RMK TS/LTNG TEMPO UNAVBL SLP163 KCVG 191252Z 20005KT 8SM -RA FEW043 BKN100 OVC120 21/20 A2999 RMK AO2 RAB45 SLP146 P0000 T02110200 EGPO 191250Z 17013KT 9999 FEW015 SCT049 15/11 Q1016 CYQF 191300Z 28009KT 15SM FEW020 SCT100 BKN210 04/02 A2952 RMK SC2AC1CI4 SLP015 KECP 191253Z 00000KT 8SM CLR 25/23 A2999 RMK AO2 SLP167 T02500233 KCTY 191315Z AUTO 00000KT 10SM CLR 25/21 A3006 RMK AO2 T02450214 KDLP 191315Z AUTO 22005KT 10SM BKN023 BKN030 BKN038 31/24 A3002 RMK A01 CYQG 191300Z 04008KT 5SM BR OVC004 19/19 A2999 RMK NS8 SLP157 DENSITY ALT 1200FT CYOY 191300Z 00000KT 10SM FEW001 SCT017 OVC030 16/14 A3015 RMK SF1SC3SC5 DA714FT SUN DIMLY VISBL FST STFD OBS SLP213 KCTZ 191305Z AUTO 36004KT 10SM BKN011 21/20 A2999 RMK AO2 T02110195 KDMH 191254Z AUTO 23/19 A2999 RMK AO1 SLP154 T02280194 CYQH 191300Z 07003KT 15SM SCT066 OVC095 09/01 A2972 RMK AC4AC4 SLP082 DENSITY ALT 2300FT CYPQ 191300Z AUTO 00000KT 7SM FEW075 SCT110 BKN160 18/18 A3005 RMK SLP178 DENSITY ALT 900FT EHFZ 191255Z AUTO 30012KT 9999 FEW022 15/08 Q1018 CYPR 191300Z AUTO 15003KT 9SM SCT015 BKN130 OVC150 08/08 A2973 RMK SLP069 CYQI 191300Z 11006KT 3SM BR OVC003 19/18 A3019 RMK FG1ST7 SLP225 DENSITY ALT 300FT KDLS 191253Z AUTO 00000KT 10SM FEW048 FEW120 10/07 A2976 RMK AO2 SLP078 T01000072 KDNA 191315Z AUTO 00000KT 10SM FEW110 19/13 A3006 RMK AO2 KEDJ 191315Z AUTO 17006KT 10SM BKN035 OVC046 20/17 A3000 RMK AO1 EHGR 191255Z AUTO VRB04KT 9999 FEW031 SCT036 BKN045 17/09 Q1018 BLU 35005KT 9999 FEW025 KCWA 191245Z 08007KT 10SM BKN050 OVC085 13/12 A3002 KECS 191315Z AUTO 12011G15KT 10SM CLR 15/03 A2961 RMK AO2 CYRA 190000Z 03009KT 15SM FEW070 14/05 A2980 RMK AC2 14.8/6.0/0/0 LAST STFD OBS/NEXT 191400 UTC SLP102 DENSITY ALT 1000FT KCUT 191253Z AUTO 22007KT 10SM CLR 15/02 A2967 RMK AO2 SLP984 T01500022 EGQK 191250Z AUTO 29003KT 9999 NCD 15/08 Q1017 CYRB 191300Z 04018KT 15SM FEW240 M11/M14 A3030 RMK CI1 CI TR SLP270 CYQK 191300Z 14008KT 4SM BR OVC002 12/12 A2989 RMK SF8 VIS W 8 SLP129 DENSITY ALT 1400FT KCWC 191315Z AUTO 18010G15KT 10SM CLR 25/22 A2990 RMK AO2 T02450218 CYQL 191300Z 24005KT 25SM FEW050 FEW270 M01/M02 A2960 RMK SC1CI1 SLP040 EGPU 191250Z 18013KT 260V030 9999 FEW033 BKN044 14/11 Q1017 KEED 191256Z AUTO 25009KT 10SM CLR 26/11 A2977 RMK AO2 SLP047 T02610106 EGQL 191250Z 27009KT 9999 SCT031 15/08 Q1018 BLU CYQM 191300Z 14007KT 15SM SCT009 BKN026 OVC080 19/17 A3025 RMK SF4SC3AC1 SLP247 DENSITY ALT 400FT KDMN 191253Z AUTO 00000KT 10SM CLR 13/06 A3007 RMK AO2 SLP116 T01330061 KCVN 191256Z AUTO 25011KT 10SM CLR 14/11 A2998 RMK AO2 SLP118 T01390111 KEDN 191315Z AUTO 00000KT 5SM HZ CLR A3002 RMK AO2 LTG DSNT S EGQM 191250Z AUTO 10006KT 9999 FEW047/// 14/09 Q1019 CYPW 191300Z 30005KT 1 1/4SM -RA BR FEW003 SCT020 BKN026 OVC049 09/08 A2971 RMK SF2SC2SC3SC1 VIS W 3 SLP064 KDMO 191253Z AUTO 18005KT 8SM SCT048 19/19 A2994 RMK AO2 LTG DSNT SE AND S SLP131 T01940194 KCWF 191255Z 00000KT 3SM BR SKC 23/23 A2998 CYPX 191300Z AUTO 13011KT 9SM -RA BKN037 BKN048 08/07 A2970 RMK SLP061 CYPY 191300Z AUTO 10008KT 9SM CLR 08/05 A2972 RMK SLP073 KDLZ 191313Z AUTO 00000KT 10SM OVC080 20/18 A3000 RMK AO2 CYQQ 191300Z 32002KT 20SM -SHRA FEW012 FEW020 OVC045 09/08 A2972 RMK SF1SC2SC6 SLP064 KCWI 191315Z AUTO 00000KT 3SM BR OVC005 16/16 A2996 RMK AO2 CYQR 191300Z 11016KT 15SM -RA SCT043 OVC081 13/09 A2949 RMK SC3AC5 SLP992 DENSITY ALT 2600FT KCVS 191258Z AUTO 25011KT 10SM CLR 16/12 A2999 RMK AO2 SLP102 T01610121 $ CYRJ 191309Z 00000KT 2SM -SHRA BR BKN010 OVC056 17/17 A3006 RMK FG6SF1SC1 CVCTV CLD EMBD SLP184 DENSITY ALT 900FT EGQS 191250Z 29008KT 9999 FEW036 14/06 Q1018 BLU NOSIG EHJA 191255Z AUTO 29014KT 9999 FEW017/// 14/09 Q1019 OTBD 191300Z 02008KT 7000 NSC 36/24 Q1004 NOSIG CYQT 191300Z 03003KT 20SM FEW013 BKN038 OVC050 14/13 A3002 RMK SC2SC5SC1 SLP172 KDNL 191253Z AUTO 00000KT 10SM BKN090 24/19 A3002 RMK AO2 SLP161 T02390194 CYSB 191300Z 05007KT 6SM BR BKN003 BKN170 13/12 A3012 RMK SF5AC2 SLP206 KEDU 191315Z AUTO 36003KT 10SM CLR 13/07 A2998 RMK AO1 CYRL 191300Z 10007KT 15SM FEW020 BKN220 09/08 A2991 RMK SC2CI5 SLP142 EGSC 191250Z VRB02KT 9999 FEW019 SCT030 15/09 Q1021 CYQU 191300Z 22007KT 20SM -SHRA BKN045 OVC090 04/03 A2962 RMK SC6AC2 CVCTV CLD EMBD SLP053 CYSC 191300Z AUTO 13007KT 9SM CLR 20/16 A3015 RMK SLP212 DENSITY ALT 1200FT KEFD 191250Z 00000KT 10SM FEW050 FEW200 28/26 A2998 CXZV 191300Z AUTO 09004KT 12/12 RMK AO1 2PAST HR 5000 SLP215 P0001 T01180115 50002 CYQV 191300Z AUTO 11013G22KT 9SM FEW100 12/10 A2959 RMK SLP029 DENSITY ALT 2000FT KDMW 191305Z AUTO 02005KT 3SM BR OVC006 20/19 A3003 RMK AO2 KEEN 191256Z AUTO 04005KT 10SM OVC011 19/17 A3015 RMK AO2 SLP224 T01940167 KDNN 191315Z AUTO 00000KT 10SM CLR 19/18 A3006 RMK AO2 KCVW 191315Z AUTO 18006KT 10SM 28/25 A2997 RMK A01 KCXE 191315Z AUTO 01007KT 10SM OVC010 20/20 A3002 RMK AO1 T01980198 KEDW 191258Z 23013KT 30SM FEW300 17/12 A2987 RMK AO2A SLP096 T01710118 CYQW 191311Z AUTO 12008KT 9SM OVC070 11/08 A2944 RMK SLP979 DENSITY ALT 2200FT KEEO 191253Z AUTO 20008G18KT 10SM CLR 15/M06 A2986 RMK AO2 SLP024 T01501056 KCVX 191314Z AUTO 12005KT 10SM SCT100 15/11 A3009 RMK AO2 T01480113 EHHW 191255Z AUTO 32010KT 9999 ///////// 15/09 Q1017 CYQX 191300Z 19007KT 20SM BKN009 BKN070 OVC100 13/11 A3038 RMK SF6AC1AC1 SLP295 CYSF 191300Z AUTO 11005KT 9SM CLR 03/03 A2985 RMK SLP123 OTBH 191258Z 09010KT 9000 HZ CLR 39/19 A2967 RMK AO2A SLP048 T03930191 $ CZHY 191300Z AUTO 08003KT 06/04 RMK AO1 SLP071 T00590039 53008 CYQY 191300Z 18008KT 15SM FEW009 BKN026 BKN054 18/17 A3033 RMK ST2SC4SC1 SLP274 CYQZ 191300Z AUTO VRB02KT 9SM OVC004 01/01 A2973 RMK SLP085 CYRQ 191315Z AUTO 07004KT 050V130 7SM SCT002 BKN060 OVC120 17/16 A3011 RMK SLP200 EGSH 191250Z VRB02KT 9999 SCT026 16/10 Q1020 KDPA 191252Z 32003KT 4SM BR BKN043 BKN060 18/18 A2995 RMK AO2 SLP140 T01780178 KDNS 191315Z AUTO 17004KT 6SM BR BKN008 BKN060 19/19 A2986 RMK AO2 CYSJ 191300Z 10006KT 9SM OVC006 17/16 A3024 RMK SF8 SLP243 DENSITY ALT 400FT OSKL 191300Z 23010KT CAVOK 39/01 Q1010 KEET 191253Z AUTO 00000KT 5SM BR CLR 23/22 A3001 RMK AO2 SLP155 T02330222 ORSU 191300Z 14004KT 9999 SCT045 SCT070 37/03 Q1014 KEFK 191315Z AUTO 19004KT 10SM CLR 19/16 A3016 RMK AO2 T01860157 CYSK 191308Z 24023G31KT 8SM OVC005 08/07 A2977 RMK SF8 SLP084 CYRT 191300Z 36004KT 15SM FEW010 BKN032 05/05 A2999 RMK SC1SC7 SC TR SLP158 EGTC 191250Z VRB04KT 9999 BKN032 14/09 Q1022 KCWV 191315Z AUTO 00000KT 10SM SCT060 24/22 A3002 RMK AO2 T02360216 KDNV 191315Z AUTO 22004KT 2 1/2SM BR OVC003 20/20 A2993 RMK AO2 T01970197 CZKD 191300Z AUTO 10002KT M01/M01 RMK AO1 SLP146 T10071010 51005 CYSM 191300Z 06004KT 020V100 8SM FEW250 07/05 A2976 RMK CI1 CI TR SLP085 CYRV 191313Z AUTO 00000KT 8SM OVC002 04/03 A2970 RMK SLP067 EHKD 191309Z AUTO 30009KT 270V330 9999 FEW027 16/11 Q1018 BLU 31008KT 9999 SCT025 KEGE 191256Z 24015G21KT 10SM CLR 17/M07 A2992 RMK AO2 PK WND 24032/1205 SLP065 T01671067 $ CYSN 191300Z 18002KT 3SM BR SCT077 BKN180 OVC200 20/20 A3002 RMK FG2AC2CC2CI2 SLP167 DENSITY ALT 900FT CYTE 191300Z 09019KT 15SM OVC008 02/01 A2985 RMK ST8 SLP115 EGTE 191250Z 26005KT 210V290 9999 FEW040 18/08 Q1022 KCXO 191253Z 00000KT M1/4SM FG BKN002 OVC110 24/24 A2997 RMK AO2 SLP145 T02390239 KDPG 191255Z 02011KT 10SM -RA BKN095 14/08 A2979 RMK SLP041 T01360077 FIRST KCXP 191315Z AUTO 29004G14KT 10SM CLR 14/M10 A2996 RMK AO2 CYSP 191300Z 13004KT 15SM FEW160 SCT230 12/10 A3009 RMK AC2CI1 SLP200 CYTH 191300Z 00000KT 2SM R06/2400FT/N BR FEW060 FEW210 00/M00 A2994 RMK SC1CI1 CI TR VIS SE-SW 1/2 SLP151 KEGI 191256Z AUTO 29004KT 10SM CLR 25/24 A3000 RMK AO2 SLP158 T02450240 $ EHJR 191255Z AUTO 30012G14KT //// ///////// 15/10 Q1019 W17/H9 OSLK 191300Z 25008KT 9999 FEW030 SCT100 28/23 Q1009 KEHA 191308Z AUTO 20011KT 17/13 RMK AO1 /PK WND 17 000 T01670134 CYUA 191300Z AUTO 29009KT ////SM //// BKN003 01/01 A2975 EGSS 191250Z AUTO 35005KT 310V030 9999 SCT016 SCT022 BKN027 13/09 Q1022 KEFT 191315Z AUTO 04003KT 10SM CLR 16/15 A2997 RMK AO2 EGTK 191250Z VRB02KT 9999 SCT030 15/07 Q1022 CYUB 191300Z 13009KT 15SM SKC 06/04 A2977 RMK SLP083 KDPL 191305Z AUTO 34006KT 10SM OVC011 21/19 A2998 RMK AO2 KCXU 191315Z AUTO 00000KT 10SM CLR 24/22 A3001 RMK AO1 T02350217 EGUB 191250Z 24002KT 9999 FEW035 BKN300 15/07 Q1022 BLU NOSIG KEHC 191315Z AUTO 16008KT 10SM CLR 32/27 A2998 RMK A01 CYTL 191305Z AUTO 28003KT 9SM BKN012 04/ A3005 RMK TD MISG SLP188 KDOV 191303Z 36015KT 10SM BKN013 BKN150 22/20 A2992 RMK AO2A SLP135 $ KCXW 191315Z AUTO 00000KT 6SM BR 22/21 A2994 RMK A01 KCXY 191256Z 00000KT 10SM OVC020 21/17 A3004 RMK AO2 SLP171 T02110172 CYSY 191300Z 13022KT 15SM FEW005 BKN022 03/02 A3000 RMK ST1SC6 SLP168 VGHS 191300Z 17008KT 3500 HZ BKN009 FEW025CB BKN090 28/26 Q1003 TEMPO TSRA KDQH 191315Z AUTO 00000KT 10SM CLR 23/20 A3003 RMK AO2 CYTR 191300Z 14002KT 7SM FEW005 FEW110 BKN220 21/19 A3004 RMK SF1AC2CI3 SLP174 KCYS 191253Z 26006KT 10SM CLR 11/M01 A2978 RMK AO2 SLP012 T01061011 KDRA 191255Z AUTO 23010KT 10SM CLR 21/01 A2980 RMK AO2 SLP047 T02060006 CYTS 191300Z VRB02KT 15SM FEW080 SCT100 BKN250 10/09 A3012 RMK AC2AC2CI2 SLP211 EGVA 191256Z AUTO 00000KT 9999 FEW200 15/07 A3017 RMK AO2 SLP220 T01530073 $ EHMA 191255Z AUTO 25004KT 220V280 9999 FEW025 SCT048 15/11 Q1017 REDZ EICK 191300Z 19010KT 9999 SCT007 BKN015 14/13 Q1019 NOSIG KCZL 191315Z AUTO 00000KT 10SM CLR 20/19 A3004 RMK AO2 T02000188 CYVC 191300Z 10013G18KT 8SM -SHRA SCT020 OVC080 09/07 A2967 RMK SC4AC4 FU SLP059 CYUL 191300Z 13005KT 110V190 15SM FEW090 SCT120 BKN240 21/18 A3009 RMK AC1AC2CI2 SLP191 DENSITY ALT 700FT EGUL 191257Z AUTO 00000KT 9999 BKN027 15/12 A3014 RMK AO2 BKN V FEW SLP210 $ KEGV 191255Z AUTO 13005KT 10SM SCT038 BKN050 13/12 A3004 RMK AO2 T01330117 EHKV 191255Z AUTO VRB06KT 9999 NSC 15/09 Q1019 KEHO 191305Z AUTO 00000KT 10SM CLR 21/19 A3007 RMK AO2 T02050186 EGUN 191306Z AUTO 29004KT 9999 SCT025 SCT040 16/12 A3015 RMK AO2 SLP213 $ EHMG 191255Z AUTO 30012KT 9999 FEW023 15/10 Q1018 CYTZ 191300Z AUTO 08004KT 9SM BKN009 BKN045 21/19 A3003 RMK SLP171 DENSITY ALT 900FT KEHR 191310Z AUTO 09005KT 3SM TSRA BR FEW033 BKN046 OVC070 20/19 A2997 RMK AO2 LTG DSNT E AND SW AND W TSE03B04 P0007 KDRI 191315Z AUTO 00000KT 1/4SM FG OVC002 23/23 A3001 RMK AO2 T02330225 CZMJ 191300Z AUTO 12007KT 11/08 RMK AO1 SLP988 T01140084 55011 CYUS 191300Z AUTO 07016G22KT ////SM //// OVC012 M01/M03 A3011 CYWA 191300Z AUTO 29004KT 270V330 9SM BKN008 OVC018 OVC021 18/17 A3008 RMK SLP188 KEIK 191316Z AUTO 00000KT 10SM CLR 13/M02 A2978 RMK AO2 T01281021 KCZT 191315Z AUTO 14005KT 10SM CLR 26/22 A2990 RMK AO2 CYUT 191300Z 35016KT 25SM FEW005 OVC025 02/01 A3000 RMK ST1SC8 ST TR SLP161 EIDL 191300Z 19017KT 9999 FEW029 17/10 Q1016 EGWC 191250Z 23006KT 9999 BKN030 16/09 Q1021 BLU CYVL 191319Z AUTO VRB02KT 9SM BKN008 05/04 A2987 RMK SLP130 KDRM 191314Z AUTO 07003KT 10SM CLR 16/14 A3010 RMK AO2 T01640143 CYVM 191300Z 07006KT 15SM FEW010 FEW080 FEW110 BKN250 04/01 A2999 RMK ST1AC1AC1CS5 ST TR SLP158 EGUW 191250Z 30006KT 9999 SCT024 SCT250 15/09 Q1021 WHT BECMG SCT028 BLU CYWE 191300Z AUTO 06008KT 9SM OVC075 07/06 A2986 RMK SLP129 EHLW 191255Z AUTO 33008KT 300V010 9999 FEW034/// BKN038/// BKN057/// 16/11 Q1017 BLU 32009KT 9999 SCT022 KDRO 191253Z AUTO 01004KT CLR 02/M02 A3011 RMK AO2 SLP148 T00171017 EGVN 191250Z 26002KT 9999 SCT034 BKN250 15/06 Q1022 NOSIG KFAF 191258Z 33009KT 10SM SCT015 23/20 A2988 RMK AO2A SLP121 T02310195 $ CYVO 191308Z 05003KT 010V080 6SM BCFG FEW003 BKN130 BKN260 11/11 A3014 RMK SF2AC3CI2 VIS N 1 1/2 SLP218 CYUX 191300Z 36014KT 15SM BKN022 02/M01 A2997 RMK SC7 SLP150 EGVO 191250Z 27004KT 9999 BKN038 BKN250 14/07 Q1022 BLU NOSIG KEHY 191315Z AUTO 23029G39KT 10SM CLR 15/M08 A2974 RMK AO2 EGVP 191250Z 28006KT 9999 SCT042 BKN250 16/07 Q1022 BLU NOSIG CYWG 191300Z 12010KT 10SM -DZ OVC007 14/13 A2979 RMK SF8 -DZ INTMT PRESFR SLP091 DENSITY ALT 1000FT CYUY 191300Z 00000KT 15SM FEW001 FEW130 SCT150 BKN260 10/10 A3013 RMK SF1AC1AC3CI3 SF TR SLP215 CYVP 191300Z 21005KT 180V250 15SM FEW018 SCT150 SCT200 13/09 A2992 RMK CF2AC1CI1 SLP133 KCZZ 191252Z AUTO 07004KT 09/09 A2994 RMK AO1 SLP114 T00940094 CYWH 191300Z 30003KT 290V040 15SM FEW005 SCT015 BKN045 BKN120 11/10 A2968 RMK ST1SC2SC3AC1 SLP051 CYVQ 191300Z 10006KT 30SM FEW180 06/05 A2979 RMK AC1 AC TR SLP092 KEIR 191315Z AUTO 18005KT 10SM SCT018 28/24 A3002 RMK A01 CYVR 191300Z 04006KT 6SM -RA BR FEW007 OVC020 10/09 A2969 RMK SF1SC7 SLP056 KDTA 191315Z AUTO 20014G20KT 10SM CLR 15/02 A2980 RMK AO1 CYWJ 191300Z 08004KT 20SM FEW004 SCT070 05/02 A2985 RMK ST1AC2 11.5/2.9/0 SLP120 KDRT 191253Z AUTO 11006KT 10SM CLR 26/22 A2991 RMK AO2 SLP109 T02560222 CZMT 191300Z 15003KT 15SM FEW030 04/03 A2974 RMK SC2 SLP071 CYVT 191300Z 11009KT 12SM FU SCT030 BKN100 OVC220 09/05 A2959 RMK SC4AC2CI2 FU SLP033 CYWK 191300Z 22006KT 12SM OVC005 10/09 A3009 RMK SF8 SLP208 CZMU 191200Z AUTO 27009KT 06/05 RMK AO1 2PAST HR M P0009 T00570051 50022 CYXC 191300Z VRB02KT 20SM FEW006 FEW040 FEW100 FEW200 M00/M01 A2968 RMK SF1SC1AC1CI1 SF TR AC TR SLP073 CYWL 191300Z 15002KT 1/2SM FZFG VV002 M02/M02 A2969 RMK FG8 SLP080 KDSM 191254Z 13007KT 1/4SM R31/1400V1800FT FG VV002 17/17 A2989 RMK AO2 SFC VIS 1/2 SLP118 T01720167 KFAM 191256Z AUTO 00000KT 9SM SCT002 18/18 A2998 RMK AO2 SLP145 T01830183 EGXC 191250Z 24004KT 9999 SCT032 16/07 Q1021 BLU NOSIG CYVV 191300Z 06007KT 15SM BKN025 BKN100 BKN300 18/18 A3006 RMK SC6AC1CI1 CI TR SLP183 DENSITY ALT 1100FT CYXE 191300Z 12014G19KT 15SM -RA OVC055 12/10 A2948 RMK SC8 SLP990 DENSITY ALT 2300FT EIDW 191300Z 22005KT 160V320 9999 FEW025 SCT050 18/11 Q1019 NOSIG EGXE 191250Z 26007KT 9999 FEW040 16/06 Q1020 BLU NOSIG KFBG 191256Z AUTO 34007KT 10SM CLR 22/19 A2998 RMK AO2 SLP153 T02160186 $ CYXH 191300Z 22007KT 15SM FEW018 SCT100 OVC220 05/03 A2955 RMK SC1AC2CI5 SLP013 KFAR 191253Z 14007KT 1 1/4SM BR OVC004 17/16 A2976 RMK AO2 SLP076 T01670161 KDUA 191315Z AUTO 17008KT 5SM BR 22/21 A2993 RMK AO2 KELA 191315Z AUTO 00000KT 3SM BR SCT002 BKN016 BKN024 26/26 A2996 RMK AO2 T02560256 CYXJ 191300Z VRB02KT 35SM FEW040 SCT074 BKN100 05/04 A2961 RMK SC2AC1AC3 SLP049 KFAT 191253Z 31012KT 10SM FEW150 15/09 A2995 RMK AO2 SLP138 T01500094 KDUB 191315Z AUTO 32008KT 7SM -RA BKN014 OVC020 02/00 A2975 RMK AO2 CYYB 191300Z 05007KT 10SM FEW005 FEW140 BKN280 13/12 A3012 RMK SF1AC1CI5 SLP206 KFBL 191314Z AUTO 13005KT 10SM SCT050 17/16 A2992 RMK AO2 KDTL 191313Z AUTO 14010G17KT 3/4SM BR OVC001 13/13 A2983 RMK AO2 KDUC 191315Z AUTO 10SM CLR 23/22 A2990 RMK AO2 T02340220 KEKM 191250Z 06009KT 7SM OVC006 19/18 A2994 RMK AO2 CZOL 191200Z AUTO 32006KT 06/05 RMK AO1 T00630053 CZPC 191300Z AUTO VRB02KT 9SM CLR 02/M01 A2961 RMK SLP042 CYXL 191300Z 13004KT 15SM BKN004 OVC011 11/10 A2996 RMK SF6SC2 SLP158 CYYC 191300Z 22006KT 30SM FEW050 FEW085 FEW220 02/M01 A2956 RMK SC1AC1CI2 SC TR AC TR SLP033 EGWU 191250Z 32004KT 9999 FEW028 BKN042 14/07 Q1022 NOSIG KELD 191253Z AUTO 19003KT 10SM CLR 23/22 A2998 RMK AO2 SLP148 T02280217 KDSV 191309Z AUTO 15008KT 10SM BKN015 19/16 A3010 RMK AO2 T01890156 EGYD 191250Z 26005KT 9999 FEW030 15/07 Q1021 BLU NOSIG CYYD 191300Z 15003KT 130V200 20SM BKN011 OVC015 04/04 A2968 RMK SC5SC3 SLP063 KEKN 191318Z AUTO 00000KT 2SM BR OVC002 14/14 A3011 RMK AO2 T01440139 TSNO KDTN 191253Z 24006KT 10SM OVC005 24/23 A2997 RMK AO2 SLP147 T02440233 CYXN 182200Z 06008KT 6SM BR OVC007 07/05 A2993 RMK ST8 SLP138 EGYE 191050Z 23004KT 9999 SCT018 ///// Q1021 WHT CYYE 191300Z 32006KT 20SM SCT100 BKN150 OVC200 07/05 A2969 RMK AC4AC2CI2 SLP066 KDTO 191253Z 16009KT 10SM CLR 23/23 A2990 RMK AO2 SLP117 T02330233 KEKO 191256Z AUTO 19005KT 10SM BKN055 BKN090 09/01 A2990 RMK AO2 SLP088 T00940011 TSNO OTHH 191300Z 05009KT 360V080 6000 NSC 36/21 Q1004 NOSIG CYYF 191300Z 35005KT 15SM SCT100 BKN220 05/00 A2968 RMK AC4CI2 SLP056 KFAY 191253Z 34008KT 10SM FEW014 22/19 A2998 RMK AO2 SLP147 T02170194 KDUG 191256Z AUTO 00000KT 10SM SCT100 18/11 A3008 RMK AO2 SLP117 T01780111 CYWY 182200Z VRB04KT 15SM FEW035 FEW120 SCT220 17/02 A2977 RMK CU1AC1CI1 17.0/3.7/0/0 LAST OB/NXT 191400Z SLP088 DENSITY ALT 1100FT CYXP 191300Z 10003KT 15SM FEW160 SCT250 03/M00 A2999 RMK AC1CI4 AC TR SLP158 EGXP 191250Z 25008KT 9999 SCT030 15/08 Q1020 BLU CYYG 191315Z 15005KT 3SM -DZ BR SCT006 OVC010 18/16 A3028 RMK SF4SC4 SLP255 KDUH 191314Z AUTO 09003KT 5SM BR OVC003 20/18 A2998 RMK AO2 T01980183 KEKQ 191256Z AUTO 27008KT 260V020 9SM CLR 21/19 A3003 RMK AO2 SLP182 T02060189 EHPG 191255Z AUTO 33010KT 260V010 9999 FEW023 BKN047 16/10 Q1019 KFCH 191315Z AUTO 32009KT 10SM CLR 15/09 A2996 RMK A01 CYXQ 182200Z 09007KT 050V130 30SM FEW050 SCT100 14/03 A2957 RMK CU2AC1 TCU EMBD/ACSL/CLIMAT 14.8/-0.6/0.0/LAST STFD OBS/NXT 191600Z SLP035 DENSITY ALT 3000FT EGYH 191250Z 27007KT 9999 SCT035 15/09 Q1021 BLU CYYH 191300Z 05014KT 15SM FEW015 BKN020 BKN210 M01/M04 A3017 RMK SC1SC6CI1 CI TR CIG RAG SLP221 KFBR 191315Z AUTO 28015G20KT 10SM SCT033 SCT047 BKN080 08/07 A2984 RMK AO2 T00800072 CYXR 191315Z AUTO 00000KT 9SM BKN004 10/10 A3014 RMK SLP213 KDUJ 191253Z AUTO 11006KT 5SM BR CLR 17/16 A3009 RMK AO2 SLP180 T01720156 KDTS 191253Z AUTO 32004KT 10SM CLR 28/24 A3000 RMK AO2 SLP158 T02830239 KEKS 191315Z AUTO 16006KT 10SM BKN032 OVC037 04/02 A2977 RMK AO2 EGXS 191250Z AUTO 02005KT 9999 // FEW031/// BKN039/// 13/10 Q1020 CYXS 191309Z AUTO 18005KT 5/8SM BKN001 M02/ A2969 RMK ICG TD MISG SLP080 CYYJ 191300Z 29005KT 12SM FEW007 BKN016 BKN028 BKN064 10/10 A2968 RMK SF1SC5SC2SC1 SF TR SC TR SLP053 KELK 191315Z AUTO 17011KT 10SM CLR 20/18 A2984 RMK AO2 T01990179 EGXT 191250Z 19005KT 9999 SCT030 SCT100 15/08 Q1021 BLU CYXT 191300Z 17004KT 8SM -RA BKN003 BKN030 07/06 A2972 RMK SF5SC2 SLP071 EGXU 191250Z 23007KT 9999 FEW030 16/07 Q1020 BLU NOSIG CYXU 191300Z 08007KT 3SM BR SCT089 BKN130 OVC280 19/19 A3002 RMK AC3AC3CI2 VIS NE-SE 21/2 SLP165 DENSITY ALT 1600FT CYYL 191300Z AUTO 07004KT 9SM CLR 02/02 A2989 RMK SLP138 KELM 191253Z 00000KT 1/4SM FG VV002 16/16 A3009 RMK AO2 SLP186 T01610161 RVRNO KFCM 191253Z 10006KT 10SM BKN048 16/14 A2990 RMK AO2 SLP125 T01560144 EGYM 191250Z AUTO 29008KT 9999 SCT030/// BKN039/// 15/08 Q//// KDTW 191253Z 06007KT 10SM FEW012 BKN090 OVC200 20/17 A3000 RMK AO2 SLP156 T02000172 KELN 191253Z AUTO 00000KT 10SM SCT055 BKN070 OVC110 07/06 A2969 RMK AO2 RAB07E42 SLP054 P0000 T00720056 EGXV 191250Z AUTO 27006KT 9999 FEW032/// 15/07 Q1020 CYYN 191300Z AUTO 25008KT 9SM SCT130 08/06 A2948 RMK SLP987 DENSITY ALT 2900FT CYZE 191300Z AUTO 04003KT 9SM CLR 15/14 A3010 RMK SLP196 KEKX 191315Z AUTO 30004KT 5SM -VCTSRA SCT014 BKN047 OVC110 20/20 A3002 RMK AO2 LTG DSNT SW THRU N P0002 T01950195 KELO 191313Z AUTO 14004KT 10SM OVC008 13/12 A2996 RMK AO2 EGXW 191250Z 26004KT 9999 FEW030 15/08 Q1021 BLU NOSIG EHQE 191255Z AUTO 32011KT 9999 FEW022 15/09 Q1019 CYZF 191300Z 07004KT 15SM FEW070 FEW220 07/05 A2981 RMK AC2CI1 CI TR SLP105 CYXX 191300Z 04003KT 350V060 4SM -SHRA SCT004 BKN035TCU OVC045 10/09 A2970 RMK SF3TCU3SC2 SLP058 KELP 191251Z VRB03KT 10SM FEW110 FEW250 24/12 A3002 RMK AO2 SLP087 T02390122 $ KEKY 191256Z AUTO 13003KT 10SM CLR 23/21 A3002 RMK AO2 SLP174 T02330211 CYZG 191300Z 16015KT 15SM VCFG FEW008 OVC032 05/04 A2977 RMK ST1SC7 SLP097 CYXY 191300Z VRB02KT 15SM SCT050 BKN120 04/03 A2970 RMK SC4AC2 SLP082 EGYP 191250Z 11005KT 9999 FEW018 BKN250 05/00 Q1014 BLU NOSIG CYXZ 191300Z 03004KT 15SM BKN059 BKN089 11/09 A3011 RMK SC5AS2 SLP207 EGXZ 191250Z 20004KT CAVOK 16/07 Q1020 BLU CYZH 191300Z AUTO 29015G20KT 9SM FEW046 SCT075 BKN093 08/05 A2949 RMK SLP998 CYYQ 191300Z 18003KT 15SM BKN015 03/03 A2998 RMK SC6 SLP157 CYYR 191300Z 19006KT 15SM FEW003 BKN034 OVC110 10/08 A3015 RMK SF1SC5AC3 SLP213 KFCS 191258Z AUTO 22007KT 9SM CLR 15/M05 A2983 RMK AO2 SLP053 T01491053 $ KEMK 181515Z AUTO 16006KT 9SM SCT019 SCT024 SCT032 30/24 A3003 RMK A01 CZPS 191200Z AUTO 30013KT 04/03 RMK AO1 PK WND 30018/1159 T00440029 50011 KFDK 191248Z 01005KT 5SM SCT010 BKN020 22/22 A3006 BR KDVK 191255Z AUTO 21004KT 10SM SCT065 21/18 A3002 RMK AO2 CYYT 191300Z 24008KT 200V260 15SM FEW020 FEW120 BKN220 15/10 A3045 RMK CU1AC1CI4 SLP316 KDVL 191256Z AUTO 12015KT 1 1/2SM BR OVC002 15/15 A2968 RMK AO2 SLP064 T01500150 CYYU 191300Z 22002KT 15SM SCT057 BKN077 BKN140 11/09 A3012 RMK SC4AC1AC2 SLP209 KEND 191256Z 13010KT 10SM SCT120 21/21 A2983 RMK AO2A SLP092 T02110206 $ KEMM 191315Z AUTO 29014G23KT 7SM -RA 03/02 A2984 RMK AO2 KDVN 191252Z AUTO 10004KT 1 3/4SM BR OVC004 16/16 A2997 RMK AO2 SLP143 T01610156 EHRD 191255Z AUTO 32006KT 270V010 9999 FEW035 18/09 Q1018 TEMPO 7000 -SHRA FEW020CB CYYW 191300Z AUTO 16002KT 9SM BKN010 OVC036 11/09 A3003 RMK SLP171 KDUX 191315Z AUTO 22010KT 10SM CLR 17/14 A2987 RMK AO2 T01700138 KDVO 191315Z AUTO 34006KT 10SM CLR 12/08 A3001 RMK AO2 KDVP 191314Z AUTO 13007KT 3SM BR OVC003 18/17 A2985 RMK AO2 T01780170 KELY 191253Z AUTO 28007KT 10SM CLR 10/01 A2992 RMK AO2 SLP044 T01000011 KEMP 191253Z AUTO 16010KT 10SM SCT065 BKN080 20/18 A2986 RMK AO2 SLP103 T02000178 CYZP 191300Z AUTO 26005KT 9SM CLR 07/06 A2974 RMK SLP073 CYYY 191300Z 18010KT 15SM OVC020 19/16 A3013 RMK SC8 SLP204 DENSITY ALT 500FT KDWH 191253Z 00000KT 6SM BR CLR 24/23 A2996 RMK AO2 SLP144 T02390233 KELZ 191256Z AUTO 16003KT 9SM OVC007 17/15 A3014 RMK AO2 CIG 005V010 SLP197 T01720150 CYYZ 191300Z 36006KT 6SM BR SCT007 BKN053 OVC120 21/19 A3004 RMK SC3SC4AC1 SLP172 DENSITY ALT 1300FT KFDR 191253Z AUTO 13004KT 10SM 21/20 A2984 RMK AO2 SLP087 T02110200 $ KFFA 191300Z AUTO 35012G28KT 310V030 2SM RA BKN007 BKN012 OVC021 20/20 A2982 RMK AO2 T02020196 CYZR 191316Z AUTO 07003KT 5SM -RA BR BKN004 OVC044 19/18 A3002 RMK SLP165 DENSITY ALT 1000FT KEMT 190245Z 23006KT 10SM CLR 21/16 A2992 EHSA 191255Z AUTO 33012G14KT 9999 ///////// 16/11 Q1019 W17/H11 CYZS 191300Z 33007KT 310V060 15SM FEW170 BKN210 02/M01 A2989 RMK AC1CI6 AC TR SLP128 KDVT 191253Z 10005KT 10SM CLR 19/01 A2987 RMK AO2 SLP091 T01940011 KFFC 191253Z AUTO 00000KT 6SM BR CLR 19/19 A3004 RMK AO2 SLP168 T01940189 CYZT 191300Z 20004KT 15SM SCT040 BKN080 BKN110 09/07 A2972 RMK SC4AC2AC1 SLP067 KENL 191315Z AUTO 00000KT 4SM BR CLR 22/22 A2996 RMK AO2 LTG DSNT E AND SE T02150215 CYZU 191300Z 31013G19KT 3SM -RA OVC008 03/02 A2954 RMK SC8 SLP025 EHSC 191255Z AUTO 33008G10KT 9999 ///////// 16/10 Q1019 W18/H9 KEMV 191315Z AUTO 32012G15KT 270V340 10SM OVC013 21/18 A2998 RMK AO2 KEOD 191258Z AUTO 22006KT 9SM FEW047 SCT060 22/20 A2997 RMK AO2 LTG DSNT NE SLP147 T02170203 CYZV 191300Z 09007KT 1 1/2SM -DZ BR OVC003 12/11 A3016 RMK FG2ST6 SLP216 KEOE 191315Z AUTO 00000KT 10SM SCT090 21/19 A3007 RMK AO2 KFDW 191315Z AUTO 00000KT 10SM SCT095 22/18 A3004 RMK AO1 CYZW 191300Z 05003KT 10SM BKN057 06/04 A2968 RMK SC5 CLIMAT 9.0/6.1/0.8 MM SLP072 CYZX 191300Z 06006KT 12SM SCT012 OVC020 19/17 A3024 RMK SC4SC4 WNDY HILL UNAVBL SLP241 KFDY 191305Z AUTO 13006KT 6SM -RA OVC039 21/18 A2996 RMK AO2 P0001 T02110183 TSNO KFEP 191315Z AUTO 00000KT 7SM OVC005 16/16 A2999 RMK AO2 LTG DSNT SE T01560155 CYZY 191300Z AUTO 14004KT 9SM OVC016 02/02 A2966 RMK SLP066 KDYA 191315Z AUTO 00000KT 10SM 23/23 A3000 RMK AO2 T02330231 CZSJ 191300Z AUTO 07003KT 9SM CLR 04/04 A2996 RMK SLP162 KDYB 191315Z AUTO 00000KT 10SM CLR 22/20 A3002 RMK AO1 KEOK 191315Z AUTO 00000KT 1SM BR OVC003 19/19 A2994 RMK AO2 KFET 191315Z AUTO 13008KT 4SM BR OVC006 20/19 A2981 RMK AO2 T01960191 CZTB 191300Z AUTO 05001KT 14/13 RMK AO1 SLP170 T01400129 53001 KFFL 191315Z AUTO 14004KT M1/4SM FG OVC002 19/19 A2993 RMK AO2 PWINO KDWU 191315Z 00000KT 10SM OVC100 21/19 A3002 RMK AO2 LTG DSNT SE AND S SLP300 PWINO FZRANO RVRNO KFFM 191314Z AUTO 14013KT 3SM BR OVC003 16/16 A2980 RMK AO2 KENV 191256Z AUTO 31005KT 10SM CLR 13/02 A2984 RMK AO2 SLP075 T01280022 CZSM 191300Z AUTO 06003KT 07/04 RMK AO1 SLP083 T00670035 53002 KENW 191311Z 01003KT 10SM SCT008 BKN110 19/17 A2996 RMK AO2 T01890172 KFEW 191258Z AUTO 21003KT 10SM CLR 09/M02 A2979 RMK AO2 SLP028 T00891017 $ KDWX 191315Z AUTO 20017G24KT 10SM BKN090 16/M06 A2983 RMK AO2 T01601061 KFFO 191258Z 00000KT 6SM BR BKN046 OVC060 21/20 A2998 RMK AO2A SLP151 T02070199 VHHH 191300Z 12010KT 080V170 9999 FEW022 30/24 Q1010 NOSIG PLCH 191300Z 12008KT 9999 SCT019 26/24 Q1009 CZSP 191200Z AUTO 17005KT 17/16 RMK AO1 SLP263 T01740159 51004 KEPH 191253Z AUTO 00000KT 10SM SCT070 BKN100 06/01 A2968 RMK AO2 SLP050 T00610011 ZUUU 191300Z VRB02MPS CAVOK 25/21 Q1014 NOSIG KDXR 191253Z 05009KT 10SM OVC012 21/18 A3008 RMK AO2 SLP182 T02060178 KEQA 191315Z AUTO 17007KT 10SM CLR 22/19 A2985 RMK AO2 KFFT 191253Z AUTO 00000KT 6SM BR SCT055 BKN070 22/19 A2998 RMK AO2 RAE37 SLP145 P0008 T02170194 KDZB 191315Z AUTO 00000KT 7SM SCT012 23/22 A2996 RMK AO2 T02340217 KFHB 191315Z AUTO 10SM CLR 25/21 A3000 RMK AO1 CZST 191300Z 00000KT 12SM SCT018 BKN030 OVC045 08/08 A2972 RMK SC3SC3SC2 SLP064 KDYL 191254Z AUTO 01009KT 10SM OVC010 21/19 A3001 RMK AO2 SLP157 T02110194 FABL 191300Z 23005KT 150V300 CAVOK 28/M03 Q1021 NOSIG FABM 190854Z 28006KT 9999 SCT015 21/10 Q1027 KFGN 191314Z AUTO 15010KT 10SM SCT008 OVC020 13/11 A2985 RMK AO2 EIKN 191300Z 18014KT 150V220 9999 BKN014 BKN041 15/11 Q1017 NOSIG KDXX 191314Z AUTO 13010KT 2 1/2SM BR OVC005 20/20 A2979 RMK AO2 KFFX 191312Z AUTO 10007KT 10SM BKN120 16/10 A3001 RMK AO2 T01550103 KFFZ 191251Z 07003KT 50SM SKC 23/05 A2988 PKMJ 182351Z 36011KT 15SM FEW015 SCT050 BKN120 OVC300 28/25 A2985 RMK LAST KDYR 191256Z AUTO 21003KT 10SM CLR 22/21 A2997 RMK AO2 SLP160 T02170211 KDYS 191258Z 18009KT 10SM CLR 25/21 A2991 RMK AO2A SLP080 T02490206 $ KDYT 191313Z AUTO 06006KT 10SM BKN014 BKN020 OVC050 16/14 A2995 RMK AO2 VIAG 190830Z 07005KT 6000 SCT030 SCT250 36/24 Q1003 NOSIG CZUM 191300Z AUTO 21005KT 180V250 9SM OVC007 10/09 A3009 RMK SLP206 EIME 191300Z 22013KT 9999 FEW025 SCT035 17/10 Q1019 KFGX 191255Z AUTO 00000KT 10SM SCT060 SCT110 19/18 A3002 RMK AO2 T01940182 KFIG 191304Z AUTO 00000KT 6SM BR FEW003 OVC024 18/17 A3010 RMK AO2 T01780172 EIKY 191300Z 18010KT 140V210 9999 SCT024 BKN031 16/13 Q1018 PKMR 191254Z 08011KT 15SM FEW015 SCT050 OVC300 29/25 A2982 RMK SLP102 T02860247 KERI 191251Z 16009KT 10SM CLR 21/17 A3002 RMK AO2 SLP163 T02060172 KFHR 191253Z AUTO 13005KT 10SM BKN008 OVC014 11/10 A2969 RMK AO2 SLP053 T01060100 FACT 191300Z 17018KT 9999 FEW020 20/11 Q1021 NOSIG EHVK 191305Z AUTO VRB03KT 9999 FEW014 BKN016 BKN020 15/12 Q1018 WHT 33003KT 9999 SCT014 BECMG SCT020 KESC 191256Z AUTO 06004KT 10SM OVC065 16/13 A3005 RMK AO2 SLP196 T01610133 KFHU 191258Z AUTO 36003KT 10SM CLR 17/14 A3011 RMK AO2 SLP125 T01730139 CZVL 191300Z AUTO 28012G19KT 7SM -RA OVC007 05/04 A2943 RMK SLP979 KGAD 191317Z AUTO 00000KT 3SM BR OVC002 20/20 A3004 RMK AO2 EHVL 191255Z AUTO 32010KT //// // OVC190 16/11 Q1018 RE// FACV 190837Z 25007KT CAVOK 23/M04 Q1022 KFIN 191250Z 00000KT 7SM SKC 23/- A2999 KESF 191253Z AUTO 00000KT M1/4SM FG VV001 23/23 A2999 RMK AO2 SLP155 T02280228 KGAF 191315Z AUTO 12012G17KT 1 1/4SM BR OVC002 14/14 A2976 RMK AO2 PWINO VIAR 191300Z 00000KT 6000 FEW035 31/24 Q1003 NOSIG KEQY 191253Z AUTO 36005KT 7SM CLR 21/19 A3004 RMK AO2 SLP175 T02110194 KGAG 191253Z AUTO 17015KT 10SM CLR 21/17 A2981 RMK AO2 SLP072 T02060167 KI16 191315Z AUTO 1/2SM FG OVC002 17/16 A3013 RMK AO2 T01650161 KGAI 191256Z AUTO VRB03KT 10SM OVC013 20/19 A3003 RMK AO2 SLP192 T02000189 KFKA 191315Z AUTO 14006KT 7SM BKN046 15/13 A2995 RMK AO2 T01470133 KETB 191250Z AUTO 00000KT 10SM 13/13 A2999 RMK AO2 KFIT 191252Z AUTO 04008KT 010V070 10SM OVC006 19/17 A3015 RMK AO2 CIG 004V009 SLP211 T01890172 KI19 191312Z AUTO 20004KT 10SM SCT050 BKN065 BKN085 21/18 A3001 RMK AO2 LTG DSNT SW T02060176 FAEL 191303Z 21016G27KT CAVOK 19/13 Q1023 KGBD 191256Z AUTO 16014G19KT 10SM CLR 21/17 A2977 RMK AO2 SLP064 T02060172 KERV 191315Z AUTO 16007KT 7SM OVC012 23/22 A2998 RMK AO2 T02330220 VICG 191230Z 28006KT 6000 SKC 31/19 Q1003 NOSIG KESN 191245Z 02011G19KT 10SM SCT013 23/19 A2997 KI23 191312Z AUTO 17003KT 10SM CLR 22/18 A3000 RMK AO1 EINN 191300Z 15012KT 9999 -RA FEW024 BKN040 16/12 Q1018 TEMPO 5000 BKN012 KGAO 191315Z AUTO 00000KT 10SM BKN023 BKN028 26/24 A3001 RMK AO2 T02640240 FAEO 191045Z 29005KT 9999 SCT030 22/06 Q1026 VIBR 191130Z 14006KT 8000 FEW030 30/14 Q1008 EHWO 191300Z AUTO 28004KT 250V330 9999 FEW031 BKN043 BKN050 15/12 Q1019 BLU 29005KT 9999 SCT032 KERY 191315Z AUTO 00000KT 1SM BR BKN120 12/11 A3008 RMK AO2 T01230113 KGBG 191315Z AUTO 00000KT M1/4SM FG OVC003 18/18 A2996 RMK AO2 LTG DSNT SE P0001 T01840184 FADY 190750Z 31003KT CAVOK 22/M02 Q1024 KETH 191316Z AUTO 13012G17KT 2 1/2SM BR OVC005 18/16 A2978 RMK AO2 VIDD 191300Z 32003KT 3000 HZ FEW040 SCT100 33/21 Q1002 NOSIG KEST 191252Z AUTO 15009KT 1/4SM FG VV002 17/17 A2987 RMK AO2 SLP111 T01720172 KGBK 191315Z AUTO 00000KT 10SM CLR 28/24 A3000 RMK A01 KGCC 191253Z AUTO 24009KT 10SM SCT090 OVC120 11/07 A2961 RMK AO2 SLP994 T01110067 $ KFKL 191315Z 12007KT 8SM FEW003 17/17 A3009 RMK AO2 SLP301 PWINO FZRANO TSNO RVRNO KFLD 191253Z AUTO 00000KT 10SM CLR 14/12 A3000 RMK AO2 SLP159 T01440122 KGCD 191315Z AUTO 20016KT 10SM SCT042 BKN050 07/02 A2982 RMK AO2 P0001 T00720022 KETN 191315Z AUTO 17006KT 10SM CLR 23/21 A2993 RMK AO2 T02310213 KFKN 191315Z AUTO 33010G15KT 10SM BKN015 BKN019 OVC029 22/19 A2993 RMK AO2 T02190189 KEUF 191258Z AUTO 00000KT 7SM CLR 24/23 A3000 RMK AO2 SLP154 T02440228 KEUG 191254Z 20010KT 9SM -RA SCT028 BKN055 11/10 A2989 RMK AO2 RAB43 SLP121 P0000 T01110100 KI35 191315Z AUTO 00000KT 2SM OVC002 15/15 A3008 RMK AO1 KFLG 191257Z 25009KT 10SM CLR 10/M04 A3012 RMK AO2 SLP117 T01001039 FAGG 191300Z VRB02KT 9999 FEW030 BKN048 17/10 Q1024 KFKR 191315Z AUTO 00000KT 1 3/4SM BR SCT004 OVC015 22/21 A2997 RMK AO2 LTG DSNT S T02180212 KFKS 191315Z AUTO 10006KT 10SM SCT110 16/11 A3004 RMK AO2 T01560106 KEVB 191251Z 04007KT 10SM SCT024 28/22 A2999 KGCK 191254Z 15008KT 10SM CLR 17/16 A2976 RMK AO2 SLP049 T01670156 $ KGDB 191310Z AUTO 11009KT 4SM BR OVC004 19/19 A2984 RMK AO2 T01910185 KFLL 191253Z 31004KT 10SM FEW015 FEW055 27/26 A2991 RMK AO2 RAE04 SLP129 P0000 T02720256 KEUL 191256Z AUTO 00000KT 10SM BKN080 OVC100 09/04 A2985 RMK AO2 RAE29 SLP105 P0000 T00940044 VIDN 191300Z 02004KT 2000 BR FEW020 FEW025TCU SCT030 29/25 Q1004 KGCM 191315Z AUTO 24004KT 10SM VCTS SCT019 BKN080 20/18 A2996 RMK AO2 LTG DSNT SW AND W VIDP 191300Z 33008KT 4500 HZ FEW100 34/22 Q1003 NOSIG KFME 191306Z AUTO 02005KT 10SM BKN014 21/18 A3001 RMK AO1 KGCN 191254Z 19006KT 10SM CLR 09/M03 A3008 RMK AO2 SLP107 T00941033 KFLO 191253Z 01006KT 10SM CLR 22/19 A3001 RMK AO2 SLP160 T02170194 KFLP 191256Z AUTO 00000KT M1/4SM FG OVC001 18/18 A2997 RMK AO2 RAE41 SLP142 P0000 T01780178 KFMH 191315Z AUTO 03013G18KT 1/4SM FG OVC002 19/19 A3007 RMK AO2 FZRANO KGDJ 191255Z AUTO 13010KT 7SM BKN004 24/22 A2992 RMK AO2 T02390222 CZZJ 191300Z AUTO 26004KT 04/03 RMK AO1 SLP039 T00350028 58002 KEWB 191253Z 02009G14KT 4SM -RA BR OVC003 18/18 A3006 RMK AO2 SLP179 P0003 T01830178 KFNB 191253Z AUTO 14005KT 3SM BR CLR 19/18 A2984 RMK AO2 SLP098 T01890183 KGED 191254Z AUTO 02015G24KT 10SM -RA BKN015 OVC033 23/19 A2991 RMK AO2 RAB52 SLP127 P0000 T02280194 KEVM 191314Z AUTO 12003KT 10SM OVC005 14/14 A2995 RMK AO2 T01420135 KFMM 191315Z AUTO 00000KT 10SM CLR 11/01 A2970 RMK AO2 T01130006 KFMN 191253Z 02004KT 10SM CLR 05/M03 A3004 RMK AO2 SLP136 T00501028 KGEG 191253Z 20009KT 9SM -RA SCT011 BKN015 OVC029 07/07 A2970 RMK AO2 RAB30 SLP058 P0001 T00720067 KFLY 191315Z AUTO 24006KT 10SM CLR 14/M07 A2990 RMK AO2 T01431070 KGDP 191251Z AUTO 25010KT 10SM CLR 20/08 A3014 RMK AO2 SLP121 T02000083 KFOA 191315Z AUTO 15003KT 1/2SM VCTS FG OVC001 21/21 A2999 RMK AO2 LTG DSNT E AND SE T02140210 KGFA 191258Z AUTO 25010KT 10SM BKN075 07/01 A2965 RMK AO2 SLP048 T00710014 $ FAHS 191300Z AUTO 35005KT //// // ////// 28/12 Q1019 KEWK 191256Z AUTO 15007KT 10SM CLR 19/18 A2984 RMK AO2 SLP090 T01940183 FAJB 191300Z AUTO 01002KT //// // ////// 25/07 Q1024 KFNL 191156Z AUTO VRB03KT 10SM CLR 09/04 A2973 RMK AO2 SLP014 T00940044 10139 20078 57006 KEVU 191255Z AUTO 15006KT 1 1/2SM BR OVC002 20/20 A2987 RMK AO2 LTG DSNT S KEVV 191313Z 00000KT 4SM VCTS -RA BR SCT010 BKN049 BKN080 21/19 A2998 RMK AO2 LTG DSNT S AND SW P0000 T02060194 KFOD 191304Z AUTO 12008KT 1/2SM FG OVC003 18/17 A2989 RMK AO2 RVRNO KGDV 191256Z AUTO 30012KT 10SM -RA BKN090 12/10 A2947 RMK AO2 SLP971 P0000 T01220100 $ DRRM 191300Z 24008KT 9999 SCT015 35/25 Q1012 VIGG 190930Z 17004KT 8000 FEW030 33/20 Q1008 KEVW 191253Z AUTO 28010KT 8SM FEW012 BKN020 OVC050 07/07 A2984 RMK AO1 RAE29 CIG 015V026 SLP030 T00720067 KFOE 191253Z 13004KT 6SM BR SCT055 19/19 A2987 RMK AO2 SLP107 T01940189 KEWN 191254Z 32009G16KT 10SM SCT015 22/19 A2993 RMK AO2 SLP135 T02220194 KI63 191315Z AUTO 04003KT M1/4SM FG OVC002 19/19 A2995 RMK AO2 LTG DSNT E AND W T01850185 DRRN 191300Z 27006KT 230V330 CAVOK 37/22 Q1010 NOSIG KFMY 191253Z 04006KT 10SM SCT080 26/24 A2995 RMK AO2 SLP142 T02610239 $ EISG 191300Z 16008KT 130V190 9999 BKN023 BKN027 OVC055 16/12 Q1016 EKAH 191250Z AUTO 26007KT 9999NDV -SHRA BKN052/// 14/12 Q1012 KEWR 191251Z 04015G22KT 10SM BKN015 BKN130 BKN260 22/19 A3000 RMK AO2 SLP160 T02220189 KI67 191315Z AUTO 00000KT 7SM SCT060 BKN070 BKN120 20/18 A2998 RMK AO1 KI68 191315Z AUTO 17003KT 10SM BKN050 BKN060 OVC110 20/18 A3000 RMK AO2 KFNT 191253Z 06007KT 10SM OVC022 16/13 A3002 RMK AO2 SLP165 T01610133 $ KFOK 191253Z 03020G26KT 9SM -RA BKN012 OVC044 20/17 A3001 RMK AO2 PK WND 04026/1233 RAB46 SLP162 P0000 T02000172 KGFK 191253Z 13012KT 1SM R35L/6000VP6000FT BR OVC003 15/15 A2974 RMK AO2 SFC VIS 1 1/4 SLP073 T01500150 KI69 191314Z AUTO 00000KT 10SM BKN050 OVC060 21/18 A3001 RMK AO2 T02080176 KGEU 191247Z 36003KT 10SM FEW200 21/03 A2987 RMK FIRST DRRT 191200Z 20002KT CAVOK 37/20 Q1011 KGFL 191253Z AUTO 00000KT 10SM CLR 18/16 A3011 RMK AO2 SLP197 T01830161 KGEV 191310Z AUTO 00000KT M1/4SM FG OVC002 14/14 A3014 RMK AO2 T01380136 KGGE 191315Z AUTO 34003KT 10SM CLR 21/21 A3001 RMK AO2 KEYE 191309Z AUTO 17005KT 4SM -RA BR BKN006 OVC110 21/19 A2997 RMK AO2 CIG 004V009 P0000 T02060194 VIGR 191230Z VRB02KT SCT025 SCT250 32/29 Q1002 NOSIG KGEY 191053Z AUTO 15006KT 10SM FEW060 BKN080 OVC095 12/10 A2958 RMK AO2 RAB40E50 SLP987 P0000 T01170100 $ KGGG 191253Z 21004KT 10SM OVC005 24/24 A2996 RMK AO2 SLP138 T02390239 KI75 191315Z AUTO 14006KT 1/2SM FG OVC002 18/18 A2991 RMK AO2 T01800175 KGEZ 191314Z AUTO 20008KT 4SM -RA BR FEW012 BKN070 OVC095 21/19 A2999 RMK AO2 LTG DSNT SE-SW P0004 T02110189 KGGI 191315Z AUTO 11005KT 4SM BR OVC008 18/17 A2993 RMK AO2 T01760172 EKBI 191250Z 29015KT 9999 -SHRA SCT020CB BKN030 13/11 Q1013 FALA 191300Z 36008KT 340V040 9999 FEW045 25/08 Q1024 NOSIG KFPK 191314Z AUTO 02004KT 3SM -RA OVC005 16/14 A3000 RMK AO2 P0002 T01570140 KGHB 191315Z AUTO VRB04KT 10SM CLR 29/24 A3001 RMK A01 KFOT 191315Z AUTO 13003KT 7SM FEW021 OVC065 12/12 A3006 RMK AO1 KFQD 191305Z AUTO 27003KT 10SM OVC043 22/19 A3009 RMK AO2 T02150186 FAKM 191300Z 20002KT CAVOK 29/M04 Q1020 KEXX 191300Z AUTO 00000KT 10SM SCT011 20/19 A3005 RMK AO2 T02010192 FALE 191300Z 17019KT 9999 FEW014 24/15 Q1018 NOSIG FAKN 191300Z 06011KT 9999 FEW020 26/10 Q1021 NOSIG KEZF 191315Z AUTO 34005KT 10SM OVC014 21/19 A3000 RMK AO2 T02100192 KGGP 191315Z AUTO 00000KT 7SM SCT018 OVC023 19/19 A2996 RMK AO2 KGHG 191315Z AUTO VRB03G13KT 1/2SM BR OVC001 18/18 A3010 RMK AO2 KFOZ 191312Z AUTO 16004KT 10SM OVC004 13/12 A2991 RMK AO2 WAAA 191300Z 13004KT 090V170 8000 FEW020 25/13 Q1010 NOSIG EKCH 191249Z 23011KT 9999 -SHRA FEW026TCU BKN074 15/10 Q1013 TEMPO SCT025CB KFPR 191253Z 04003KT 10SM BKN037 BKN080 OVC110 25/24 A2996 RMK AO2 SLP144 T02500244 PKWA 191300Z AUTO 03007KT 10SM SCT017 28/24 A2987 RMK AO2 T02800240 KGIC 191315Z AUTO 25012G16KT 3SM SCT015 BKN024 OVC030 05/05 A2977 RMK AO1 P0004 KEZM 191255Z AUTO 00000KT 10SM BKN060 22/22 A3004 RMK AO2 T02150215 FALM 191200Z 12005KT 9000 FEW030 25/// Q1023 KEYW 191253Z AUTO VRB03KT 10SM CLR 29/24 A2993 RMK AO2 SLP136 T02940244 KGGW 191253Z AUTO 28008KT 10SM -RA OVC075 09/08 A2950 RMK AO2 SLP987 P0002 T00940078 KGIF 191253Z AUTO 01005KT 10SM BKN080 26/23 A2999 RMK AO2 SLP153 T02610228 PNO $ KFRG 191253Z 04013G19KT 10SM OVC013 21/18 A3000 RMK AO2 RAE20 SLP158 P0001 T02060183 URKA 191300Z 27004MPS 240V300 CAVOK 29/22 Q1012 R22/010070 NOSIG RMK QFE754/1006 KFRH 191315Z AUTO 00000KT 5SM BKN003 BKN024 BKN050 18/ A3000 RMK AO1 WABB 191300Z 00000KT 9999 FEW018 27/25 Q1008 KFRI 191255Z 19005KT 10SM FEW030 SCT070 21/17 A2983 RMK SLP088 WND DATA ESTMD ALSTG/SLP ESTMD KEZS 191315Z AUTO 05006KT 10SM BKN005 OVC060 16/14 A3001 RMK AO2 T01600143 EKEB 191250Z AUTO 29014KT 9999NDV SCT026/// BKN130/// 15/10 Q1014 VIJO 190930Z 14005KT 8000 FEW030 37/17 Q1004 NOSIG KFRM 191312Z AUTO 15010KT 1 1/4SM BR OVC002 17/17 A2988 RMK AO2 TSNO $ KFSD 191256Z 15010KT 1/2SM -DZ FG OVC002 19/19 A2979 RMK AO2 SLP081 P0000 T01890189 RVRNO FAMM 191300Z 31004KT 9999 FEW040 28/07 Q1022 NOSIG KGHW 191314Z AUTO 13008KT 1/4SM FG OVC001 16/16 A2986 RMK AO2 KFSE 191315Z AUTO 14008KT 4SM BR OVC004 13/12 A2981 RMK AO2 KHAE 191255Z AUTO 00000KT 1/4SM -RA OVC002 18/17 A2995 RMK AO2 P0001 LTG DSNT SE VIJP 191300Z 00000KT 5000 HZ FEW035 33/13 Q1004 NOSIG FALW 191300Z AUTO 19007KT //// // ////// 24/05 Q1018 KHAF 191315Z AUTO 35007KT 10SM CLR 15/ A3001 RMK AO2 PMDY 191256Z AUTO 34007KT 10SM -RA BKN007 BKN037 OVC110 24/23 A2984 RMK AO2 CIG 005V017 SLP104 P0004 T02440233 EIWF 191300Z 21013KT 9999 SCT009 SCT034 16/13 Q1020 URKK 191300Z 09004MPS CAVOK 34/13 Q1012 R23L/CLRD70 NOSIG RMK QFE756 KHAI 191315Z AUTO 07006KT 4SM -RA OVC004 19/19 A2996 RMK AO2 T01930190 KFRR 191315Z AUTO 00000KT 5SM BKN008 OVC015 19/18 A3005 RMK AO1 KFSI 191258Z AUTO 17009KT 10SM CLR 22/22 A2986 RMK AO2 SLP104 T02210221 $ VIJU 191230Z VRB02KT 6000 FEW030 33/21 Q1003 NOSIG USCC 191300Z 17003MPS 9999 FEW040CB 21/11 Q1016 R09/000060 NOSIG RMK QFE741 VILD 191000Z 36007KT 5000 HZ NSC 34/21 Q1004 FAOB 191300Z AUTO 23009KT //// // ////// 18/12 Q1024 VIKO 190900Z 36001KT 6000 FEW030 36/17 Q1004 NOSIG KFSM 191253Z 08004KT 10SM CLR 21/20 A2992 RMK AO2 SLP128 T02060200 KHBE 191315Z AUTO 10004KT 3SM +TSRA SCT019 BKN024 OVC030 19/18 A2999 RMK AO2 LTG DSNT E AND SW VILH 190930Z 25003KT 8000 FEW070 23/M14 Q1022 NOSIG RMK AC KHAO 191253Z AUTO 00000KT 7SM -RA FEW050 FEW070 BKN110 21/20 A2999 RMK AO2 RAB49 SLP152 P0000 T02060200 KFSO 191315Z AUTO 18004KT 10SM CLR 22/17 A3011 RMK AO2 T02220165 KHBG 191253Z AUTO 00000KT 10SM CLR 23/22 A3001 RMK AO2 SLP159 T02330222 KFTG 191259Z AUTO 19013KT 10SM CLR 18/M06 A2976 RMK AO2 VILK 191300Z 00000KT 4500 HZ FEW020 SCT100 33/26 Q1002 NOSIG KHBI 191310Z AUTO 34003KT 7SM CLR 20/19 A3005 RMK AO2 T01960187 KGKJ 191253Z AUTO VRB04KT 10SM CLR 19/18 A3006 RMK AO2 SLP171 T01890178 WADD 191300Z 12006KT 9999 FEW017 26/22 Q1013 NOSIG USCM 191300Z 25007MPS 9999 NSC 24/07 Q1021 R18/090065 TEMPO 24011MPS RMK QFE728 KFST 191253Z AUTO 17008KT 10SM CLR 22/17 A2997 RMK AO2 SLP104 T02170172 KGJT 191253Z 14013KT 10SM CLR 17/M04 A2984 RMK AO2 SLP039 T01671044 KFTK 191258Z 29008KT 2SM RA BR VCTS BKN018 OVC028 20/20 A3000 RMK AO2A CIG 018V026 SLP156 P0005 T01980198 KGLD 191253Z AUTO 19010KT 4SM BR CLR 16/15 A2971 RMK AO2 SLP028 T01560150 KHCD 191314Z AUTO 11006KT 1/4SM FG OVC001 17/17 A2989 RMK AO2 T01670168 URMG 191300Z 10003MPS 030V170 CAVOK 34/12 Q1012 R08/000070 NOSIG RMK QFE744/0993 KGLE 191315Z AUTO 17008KT 10SM CLR 24/22 A2993 RMK AO2 T02350222 KFSW 191315Z AUTO 16003KT M1/4SM FG OVC001 18/18 A2995 RMK AO2 KFTN 191315Z AUTO 15010KT 10SM CLR 27/23 A2991 RMK A01 FAPE 191300Z 23020KT 9999 FEW014 19/14 Q1023 NOSIG KGLH 191253Z 19004KT 10SM CLR 23/22 A2998 RMK AO2 SLP156 T02280217 KHBR 191253Z AUTO 18013KT 7SM CLR 22/19 A2986 RMK AO2 SLP094 T02170194 URML 191300Z 11004MPS 9999 NSC 26/19 Q1012 R14/01//70 NOSIG RMK QFE759/1012 WADL 191300Z 17004KT 130V200 7000 SCT016 25/21 Q1013 NOSIG FAOR 191300Z VRB05KT 9999 SCT049 24/08 Q1025 NOSIG DRZA 191300Z VRB04KT CAVOK 40/05 Q1011 URMM 191300Z VRB01MPS 9999 NSC 35/07 Q1013 R30/090070 NOSIG RMK QFE731/0975 KGKT 191315Z AUTO 00000KT 10SM CLR 18/16 A3005 RMK URMN 191300Z 06002MPS 9999 FEW/// 32/12 Q1013 R24/010070 NOSIG RMK QFE723 FBFT 191300Z 10006KT 060V170 CAVOK 30/12 Q1019 KFUL 191253Z AUTO 00000KT 10SM OVC032 21/16 A2990 RMK AO2 SLP123 T02060156 KHDC 191315Z AUTO 00000KT 4SM HZ CLR 26/23 A3001 RMK AO2 KHBV 191133Z AUTO 00000KT 5SM BR CLR 25/23 A2992 RMK AO2 URMO 191300Z 01002MPS 9999 NSC 32/09 Q1014 R09/010070 NOSIG RMK QFE717/0956 ZWSH 191300Z VRB07MPS 9999 FEW040 21/04 Q1019 NOSIG KFTW 191308Z 15007KT 10SM BKN009 25/24 A2991 RMK AO2 CIG 008V011 T02500239 KFVE 191307Z AUTO 16008KT 10SM BKN007 OVC019 16/14 A3018 RMK AO2 CIG 004V009 T01560139 KHDE 191315Z AUTO 14009KT 5SM BR CLR 18/17 A2971 RMK AO2 T01800166 FAPN 191300Z AUTO 04003KT //// // ////// 30/04 Q1020 KHCO 191313Z AUTO 11009KT 4SM BR SCT008 OVC012 14/14 A2976 RMK AO2 KFTY 191253Z 00000KT 9SM CLR 21/19 A3003 RMK AO2 SLP162 T02060194 KGKY 191253Z 16009KT 10SM OVC007 24/23 A2992 RMK AO2 SLP122 T02440233 FAPP 191300Z 09005KT 9999 SCT045 26/10 Q1021 NOSIG URMT 191300Z 34006MPS CAVOK 31/08 Q1014 R25/010070 NOSIG RMK QFE722 KGLR 191253Z AUTO 06003KT 10SM CLR 13/10 A3008 RMK AO2 SLP190 T01280100 FAPR 191258Z 34002KT 9999 SCT040 25/03 Q1024 KGLS 191252Z 20006KT 10SM FEW017 28/26 A2996 RMK AO2 SLP146 T02830256 KFWA 191254Z 14004KT 2 1/2SM BR FEW010 FEW042 BKN110 BKN200 20/19 A2997 RMK AO2 RAE48 SLP144 P0002 T02000189 $ KGNA 191256Z AUTO 05005KT 15/13 A3000 RMK AO1 SLP157 T01500133 KGMJ 191315Z AUTO 00000KT 10SM SCT090 21/19 A2994 RMK AO2 LTG DSNT W KFWB 191255Z AUTO 08003KT 2 1/2SM BR SCT002 18/18 A2998 RMK AO2 KFWC 191315Z AUTO 00000KT 3SM BR SCT004 OVC013 21/21 A2995 RMK AO1 LTG DSNT NE THRU S T02130213 KGNC 191315Z AUTO 23004KT 10SM CLR 20/15 A2999 RMK AO2 T02020147 KHDN 191256Z AUTO 20005KT 10SM CLR 12/M05 A2986 RMK AO2 SLP040 T01171050 KGLW 191315Z AUTO 00000KT 10SM VCTS CLR 21/20 A3000 RMK AO2 LTG DSNT W AND NW T02060201 KHDO 191251Z AUTO 15007KT 7SM OVC012 26/23 A2995 RMK AO2 SLP124 T02560233 KHEF 191256Z AUTO 35010KT 10SM OVC013 21/18 A3002 RMK AO2 SLP174 T02110183 PNO $ KGLY 191315Z AUTO 07006KT 2 1/2SM BR FEW004 SCT065 19/19 A2993 RMK AO2 LTG DSNT N AND E ZYCC 191300Z 26003MPS 9999 SCT030 13/09 Q1009 NOSIG KHEI 191253Z AUTO 19009KT 10SM BKN120 18/07 A2948 RMK AO2 SLP969 T01830067 DRZR 191300Z 28004KT 9999 FEW040 35/22 Q1012 FASB 190636Z 05002KT CAVOK 19/M02 Q1022 KGMU 191253Z 01005KT 10SM SCT050 OVC070 22/17 A3007 RMK AO2 SLP171 T02170172 KHFD 191253Z 02010KT 10SM OVC012 20/17 A3008 RMK AO2 SLP185 T02000172 KFWN 191253Z AUTO 03007KT 10SM OVC011 20/18 A3007 RMK AO2 RAB42E51 SLP179 P0000 T02000183 KFXE 191253Z 34004KT 10SM FEW030 SCT060 27/24 A2992 RMK AO2 SLP135 T02670239 KHFF 191256Z AUTO 33005KT 10SM CLR 21/19 A3001 RMK AO2 SLP176 T02110193 $ KFVX 191315Z AUTO 01006KT 10SM OVC011 21/21 A3001 RMK AO2 LTG DSNT NW T02120212 KHEQ 191315Z AUTO 19008KT 7SM CLR 13/11 A2967 RMK AO2 KGNR 191256Z AUTO 13005KT 14/14 A3020 RMK AO1 SLP230 T01440144 KHFJ 191250Z AUTO 12004KT 10SM BKN080 18/18 A2995 RMK AO2 LTG DSNT N E AND W FASI 191300Z AUTO 01002KT //// // ////// 22/08 Q1028 KFWS 191256Z 16007KT 5SM BR BKN008 24/22 A2994 DTKA 191300Z 30012KT 270V330 9999 BKN020 24/14 Q1019 NOSIG EKKA 191250Z AUTO 26009KT 9999NDV -RA BKN008/// 13/12 Q1012 TEMPO 4000 RA SCT008 BKN030 KGOK 191253Z AUTO 17007KT 10SM CLR 23/21 A2985 RMK AO2 LTG DSNT NE SLP099 T02280206 KGNT 191315Z AUTO 18004KT 10SM CLR 09/M04 A3015 RMK AO2 T00891042 FCBB 191300Z 17003KT 9999 FEW016 BKN020 OVC026 29/20 Q1013 NOSIG KGPC 191315Z AUTO 19004KT 2SM BR OVC003 19/19 A2997 RMK AO2 KGNV 191253Z 00000KT 10SM CLR 23/21 A3004 RMK AO2 SLP170 T02280211 $ KGON 191256Z 03014KT 10SM BKN013 21/18 A3003 RMK AO2 RAB21E53 SLP168 P0000 T02060183 KFYE 191315Z AUTO 19003KT 10SM CLR 23/22 A2997 RMK A01 FBKE 191300Z VRB07KT CAVOK 35/03 Q1016 USHH 191300Z 28001MPS CAVOK 08/04 Q1018 R06/010060 NOSIG RMK QFE760 KFYG 191315Z AUTO 00000KT M1/4SM FG OVC001 18/18 A2994 RMK AO2 KGOP 191315Z AUTO 00000KT 4SM BR FEW005 23/23 A2996 RMK AO2 KHEY 191258Z AUTO 00000KT 10SM CLR 23/23 A3000 RMK AO2 LTG DSNT N SLP158 T02340227 $ KHEZ 191256Z AUTO 23003KT 5SM BR OVC003 24/23 A3002 RMK AO2 SLP165 T02390233 KFWZ 191315Z AUTO 22014G22KT 3/4SM -RA OVC003 04/03 A2971 RMK AO2 VIS 1/2V4 KGPH 191315Z AUTO 14006KT 5SM VCTS BR BKN002 BKN043 19/19 A2990 RMK AO2 LTG DSNT E AND SE VIPT 190800Z 09002KT 5000 HZ SCT020 32/25 Q1005 KGPI 191255Z AUTO 30003KT 10SM BKN038 OVC050 05/05 A2971 RMK AO2 RAE21 SLP069 P0000 T00500050 KFYJ 191315Z AUTO 32005KT 10SM BKN017 OVC024 22/19 A2995 RMK AO1 KFYM 191305Z AUTO 16004KT 7SM CLR 22/20 A3001 RMK A01 KGOV 191315Z AUTO 00000KT 10SM SCT008 11/08 A3008 RMK AO2 T01050084 KGPM 191250Z 17008G14KT 10SM OVC007 30/17 A2993 WAHQ 191300Z 24006KT 7000 NSC 26/21 Q1012 NOSIG KHHF 191315Z AUTO 29003KT 10SM CLR 20/18 A2984 RMK AO2 T02020180 KFXY 191315Z AUTO 13006KT M1/4SM FG OVC003 17/17 A2992 RMK AO2 KHFY 191315Z AUTO 21007KT 7SM SCT016 SCT050 BKN110 22/21 A3000 RMK AO2 T02160207 KFZG 191315Z AUTO 00000KT 10SM CLR 25/22 A3003 RMK AO2 T02450221 KHHG 191315Z AUTO 00000KT 3SM BR OVC004 20/19 A2996 RMK AO2 LTG DSNT NE AND S T01950187 WAHS 191300Z 25002KT 7000 FEW015 28/20 Q1011 NOSIG UTAA 191300Z 04005KT 9999 NSC 33/M00 Q1016 NOSIG KHGR 191253Z 33009KT 4SM BR OVC019 20/18 A3005 RMK AO2 SLP181 T02000183 KHIB 191307Z AUTO 14006KT 2 1/2SM BR OVC003 12/12 A2993 RMK AO2 T01220122 KGPT 191253Z 28004KT 10SM FEW085 BKN120 27/25 A3000 RMK AO2 SLP158 T02670250 KGRB 191303Z 04005KT 10SM FEW009 16/16 A3001 RMK AO2 T01560156 DTMB 191300Z 33016KT 9999 FEW026 28/16 Q1015 KFYV 191253Z 00000KT 9SM CLR 16/16 A2996 RMK AO2 SLP136 T01610161 KGRD 191256Z AUTO 05005KT 7SM BKN070 OVC085 21/20 A3006 RMK AO2 SLP172 T02060200 KHIE 191252Z AUTO 00000KT 8SM FEW002 OVC028 15/14 A3018 RMK AO2 RAE00 SLP220 P0000 T01500139 KGRF 191313Z 15009KT 10SM BKN055 10/10 A2971 RMK AO2A RAE13 SLP065 KHIF 191258Z AUTO 35012KT 10SM -RA BKN020 OVC055 08/06 A2985 RMK AO2 CIG 018 RWY32 SLP066 P0005 T00760059 URRR 191300Z 36002MPS 9999 NSC 33/12 Q1013 R04/CLRD70 TEMPO 3000 FU RMK QFE753/1004 FAUP 191300Z 17002KT CAVOK 31/M06 Q1018 NOSIG WAJJ 190730Z 11004KT 9000 FEW014 30/23 Q1007 NOSIG KGPZ 191256Z AUTO 15004KT 3/4SM BR OVC003 13/12 A2994 RMK AO2 SLP143 T01280122 KHHR 191253Z 00000KT 10SM OVC027 21/16 A2991 RMK AO2 SLP128 T02060156 KGRI 191253Z 15008KT 6SM BR CLR 17/17 A2975 RMK AO2 SLP069 T01720172 UTAK 191300Z 30010KT CAVOK 32/07 Q1016 NOSIG KHII 191255Z AUTO 13012KT 10SM FEW050 FEW055 27/06 A2977 RMK AO2 VISM 190600Z 27004KT 5000 HZ FEW020 SCT040 26/18 Q1016 UTAM 191300Z 36012KT CAVOK 33/M03 Q1014 NOSIG ZWWW 191300Z VRB01MPS CAVOK 24/03 Q1015 NOSIG KGSB 191258Z 32007KT 10SM BKN015 21/21 A2996 RMK AO2A SLP148 T02090209 $ KGRK 191258Z 16007KT 4SM HZ CLR 23/22 A2994 RMK AO2A SLPNO $ KIAB 191258Z AUTO 18008KT 10SM CLR 21/18 A2983 RMK AO2 SLP092 T02070177 FAWB 191300Z AUTO 04004KT //// // ////// 28/06 Q1021 FAUT 191300Z 14011KT CAVOK 23/08 Q1022 KIAD 191252Z 33010KT 10SM OVC013 21/19 A3002 RMK AO2 SLP163 T02060189 KHHV 191315Z AUTO 14008KT 10SM CLR 29/24 A2997 RMK A01 KGRN 191315Z AUTO 00000KT 10SM CLR 16/13 A2962 RMK AO2 T01610129 KHHW 191315Z AUTO 16004KT 1 1/2SM BR OVC003 23/22 A2994 RMK AO2 T02290219 FBMN 191000Z 07006KT CAVOK 31/09 Q1019 KHIO 191253Z 17006KT 10SM -RA FEW045 BKN055 OVC070 11/09 A2978 RMK AO2 RAE1158B35 SLP085 P0003 T01060094 VISR 191230Z VRB02KT 6000 FEW025 27/06 Q1013 NOSIG KFZY 191254Z AUTO VRB04KT 10SM CLR 21/18 A3008 RMK AO2 SLP186 T02060178 KIAG 191253Z 17004KT 8SM BKN075 BKN110 22/18 A3003 RMK AO2 SLP165 T02170178 URSS 191300Z 26002MPS 9999 NSC 28/17 Q1011 R02/090070 R06/090070 NOSIG RMK R06/28003G06MPS QFE757 ZYHB 191300Z 25003MPS 7000 NSC 14/13 Q1006 NOSIG KGSH 191253Z AUTO 12004KT 10SM BKN005 BKN100 OVC120 19/18 A2994 RMK AO2 RAE53 CIG 005V021 SLP136 P0001 T01940178 KIAH 191253Z 00000KT 7SM MIFG FEW010 FEW120 FEW250 24/24 A2996 RMK AO2 SLP143 T02440239 KHJH 191315Z AUTO 15007KT 7SM CLR 20/19 A2978 RMK AO2 T02000187 UTAT 191300Z 02010KT CAVOK 32/06 Q1017 NOSIG DTNH 191300Z AUTO 35016KT CAVOK 29/12 Q1015 KGRR 191253Z 07006KT 10SM OVC007 17/13 A3000 RMK AO2 SLP159 T01670128 KHKA 191253Z AUTO 20003KT 10SM CLR 22/22 A2996 RMK AO2 SLP143 T02220217 UTAV 191300Z 04008KT CAVOK 31/03 Q1014 NOSIG KGTB 191256Z AUTO 15010KT 10SM CLR 20/16 A3009 RMK AO2 SLP188 T01980162 CHINO RWY03 $ FAWK 181700Z AUTO 05003KT //// // ////// 29/12 Q1024 EKOD 191250Z 26014KT 9999 FEW025 SCT095 BKN120 16/11 Q1013 FAVV 191300Z AUTO /////KT //// // ////// 27/05 Q1022 KHJO 191253Z AUTO 33009G18KT 10SM CLR 16/09 A2995 RMK AO2 SLP141 T01560094 KGTF 191253Z 23008KT 10SM BKN060 05/01 A2964 RMK AO2 SLP041 T00500006 KGSO 191254Z 01005KT 10SM FEW015 21/19 A3004 RMK AO2 SLP162 T02110194 KGSP 191253Z 05005KT 10SM SCT040 OVC060 21/18 A3006 RMK AO2 SLP168 T02060178 KGRY 191315Z AUTO 15006KT 10SM SCT023 SCT031 28/24 A3001 RMK A01 WALL 191300Z 20004KT 9000 SCT018 28/23 Q1010 NOSIG UTDD 191300Z 28005MPS 9999 NSC 27/05 Q1014 R09/CLRD// NOSIG RMK QFE692/0923 KHLB 191315Z AUTO 00000KT 2 1/2SM BR SCT043 SCT070 OVC090 20/20 A3000 RMK A01 KHLC 191253Z AUTO 00000KT 6SM BR CLR 19/18 A2973 RMK AO2 SLP046 T01940178 KGUC 191256Z AUTO 00000KT 10SM CLR M02/M03 A3010 RMK AO2 SLP151 T10171033 FZRANO KIBM 191315Z AUTO 24006KT 10SM CLR 11/07 A2971 RMK AO2 T01080072 KHLG 191253Z 10005KT 9SM CLR 19/17 A3003 RMK AO2 SLP166 T01890167 URWA 191300Z 13008MPS CAVOK 31/10 Q1016 R09/010070 NOSIG RMK QFE764/1019 KGTR 191245Z 00000KT 5SM HZ FEW065 FEW110 23/22 A2995 UTDK 191300Z 18002MPS 9999 NSC 28/06 Q1014 R01/09//70 RMK QFE703/0937 UTDL 191300Z 24004MPS 9999 FEW230 27/05 Q1015 88CLRD70 NOSIG RMK QFE723/0965 KHKS 191253Z 13003KT 9SM CLR 23/23 A3000 RMK AO2 SLP149 T02280228 KIDA 191253Z 22020G29KT 10SM OVC016 06/04 A2979 RMK AO2 PK WND 21030/1202 SLP075 T00560039 WAMM 191300Z VRB02KT 9999 FEW022 25/22 Q1011 NOSIG KICL 191315Z AUTO 17004KT 4SM BR OVC004 20/20 A2989 RMK AO2 PWINO KGTU 191256Z 16008KT 9SM OVC012 26/23 A2997 RMK AO2 SLP140 T02560233 KGUL 191315Z AUTO 17008KT 10SM CLR 29/24 A2999 RMK A01 KHME 191250Z 00000KT CAVOK 30/M06 Q1018 KHLN 191253Z 26006KT 10SM CLR 07/01 A2969 RMK AO2 SLP064 T00720011 $ KGVE 191315Z AUTO 04008KT 10SM OVC011 21/19 A3002 RMK AO1 T02060188 URWI 191300Z 14002MPS CAVOK 32/12 Q1012 R09/010065 TEMPO 14005G10MPS KHKY 191253Z 27003KT 10SM CLR 19/18 A3007 RMK AO2 SLP163 T01890183 $ KGUP 191253Z AUTO 21003KT 10SM CLR 05/M05 A3012 RMK AO2 SLP089 T00501050 UTDT 191300Z 15002MPS 9999 NSC 28/10 Q1011 35////// RMK QFE719/0959 KICR 191253Z AUTO 16016KT 10SM CLR 19/16 A2962 RMK AO2 SLP018 T01890156 KIDI 191315Z AUTO 10004KT 10SM CLR 19/17 A3010 RMK A01 KHLR 191258Z AUTO 16007KT 9SM SCT015 22/22 A2992 RMK AO2 SLP121 T02220217 $ KGUS 191255Z 20003KT 2SM BR OVC006 20/20 A2995 RMK AO2A SLP138 T02040204 KICT 191253Z 15008KT 10SM FEW075 FEW150 SCT220 21/19 A2982 RMK AO2 SLP085 CB TOPS DSNT SE-S MOV E T02060189 KHNB 191256Z AUTO RMK AO2 LTG DSNT ALQDS SLPNO PWINO FZRANO $ KGWB 191315Z AUTO 08005KT 10SM SCT120 18/17 A2998 RMK AO2 USNN 191300Z 30004MPS 3000 -DZ OVC003 07/07 Q1014 R21/19//60 NOSIG RMK QBB110 QFE756 KGVL 191253Z AUTO 07006KT 10SM CLR 22/17 A3007 RMK AO2 SLP167 T02170172 UTFF 191300Z 31002KT 9999 NSC 27/08 Q1015 R18/CLRD70 KHND 191256Z 18011KT 10SM CLR 22/02 A2979 RMK AO2 SLP061 T02220022 $ KHMN 191258Z AUTO 15009KT 10SM CLR 20/11 A3004 RMK AO2 SLP101 T02020108 $ KHLX 191315Z AUTO 00000KT 5SM BR OVC001 16/13 A3011 RMK AO2 LTG DSNT NW T01550134 KGUY 191253Z AUTO 21009KT 10SM CLR 17/16 A2979 RMK AO2 SLP047 T01720161 KHMP 191315Z AUTO 00000KT 10SM CLR 22/20 A3005 RMK AO2 T02150198 KIDP 191315Z AUTO 15007KT 10SM CLR 21/19 A2989 RMK AO2 LTG DSNT S T02060189 WBGB 191300Z 10003KT 9999 -RA FEW015CB SCT016 OVC140 25/25 Q1010 KIFA 191315Z AUTO 12006KT M1/4SM DZ OVC002 17/17 A2993 RMK AO2 T01740174 KGXA 191255Z AUTO 26012KT 10SM CLR 17/08 A2990 RMK AO2 SLP069 WND DATA ESTMD T01650077 KGVT 191255Z AUTO 19007KT 10SM OVC011 26/23 A2995 RMK AO2 KHOB 191250Z 22009KT 10SM FEW100 18/16 A3000 UTFN 191300Z 00000KT 9999 NSC 27/09 Q1014 R28/CLRD70 NOSIG URWW 191300Z 14006MPS CAVOK 32/05 Q1014 R24/010070 NOSIG EKRK 191250Z AUTO 28007KT 9999NDV -SHRA FEW023/// BKN055/// BKN090/// 14/10 Q1013 EKSB 191253Z 26010KT 9999 FEW020TCU BKN060 15/11 Q1014 WAOO 191300Z 20002KT 9999 FEW018 26/22 Q1010 WBGG 191300Z 00000KT 9999 FEW020 BKN150 26/25 Q1010 NOSIG KIEN 191252Z AUTO 19016G25KT 10SM CLR 18/13 A2958 RMK AO2 PK WND 18026/1230 SLP988 T01830128 $ KHOE 191315Z AUTO 00000KT 10SM CLR 24/19 A3002 RMK AO2 EKRN 191250Z AUTO 25014KT 9999NDV NCD 15/10 Q1014 KGWO 191253Z AUTO 00000KT 8SM CLR 22/22 A2998 RMK AO2 SLP150 T02220217 KGXF 191258Z AUTO 02003KT 10SM CLR 20/01 A2982 RMK AO2 SLP086 T02040011 KHMZ 191255Z AUTO 00000KT 7SM SCT031 18/16 A3007 RMK AO2 LTG DSNT W T01820164 KGWR 191315Z AUTO 13009G16KT 4SM BR OVC004 18/18 A2971 RMK A01 KHNR 191315Z AUTO 16009KT 6SM BR OVC006 19/19 A2988 RMK AO2 KIER 191315Z AUTO 21003KT 3/4SM BR OVC002 23/23 A2999 RMK AO2 T02260226 DTTA 191300Z 30018KT 270V330 9999 SCT026TCU 27/11 Q1016 NOSIG KGYB 191315Z AUTO 19004KT 4SM BR SCT005 24/23 A2997 RMK AO2 T02400230 FBSK 191300Z 08005KT 360V130 CAVOK 28/09 Q1020 NOSIG DTTB 191100Z /////KT 9999 SCT016TCU Q//// WAPP 191300Z 36004KT 330V050 6000 -RA BKN016 23/22 Q1012 NOSIG USPP 191300Z 13003MPS CAVOK 18/14 Q1010 R21/090060 TEMPO VRB15MPS 2000 TSRA SQ BKN011CB RMK QFE747 DTTD 191300Z 08010KT 040V150 8000 SCT023 30/16 Q1015 KGWW 191305Z AUTO 33005KT 10SM OVC013 20/19 A2998 RMK AO2 T02020194 KHON 191255Z AUTO 15011G21KT 6SM BR OVC010 19/18 A2970 RMK AO2 SLP051 T01940183 $ EKSN 190850Z 24005KT 9999 SCT026 BKN090 14/12 Q1009 WBGR 191300Z 26006KT 200V300 9999 FEW016 BKN300 29/25 Q1010 DTTF 191300Z VRB05KT 9999 FEW026 32/09 Q1013 NOSIG KHOP 191258Z AUTO 21006KT 10SM CLR 22/21 A2996 RMK AO2 TSE1159 SLP143 T02200205 KIFP 191315Z AUTO 23003KT 10SM CLR 23/08 A2975 RMK AO2 KGYH 191247Z 00000KT 10SM SCT048 BKN075 21/18 A3006 WBGS 191300Z VRB02KT 9999 SCT018 BKN150 26/24 Q1011 FBSP 191300Z 09006KT CAVOK 28/17 Q1020 DTTG 191300Z 06013KT 020V100 CAVOK 30/12 Q1015 NOSIG EKSP 191250Z 28016KT 9999 FEW026TCU FEW032 BKN140 17/09 Q1014 NOSIG KHNZ 191305Z AUTO 01007KT 10SM BKN009 19/17 A3002 RMK AO2 T01850166 KGYI 191315Z AUTO 15007KT 10SM SCT004 23/22 A2994 RMK AO2 T02270217 DTTJ 191300Z 03015KT 9999 FEW026 29/15 Q1014 NOSIG KHOT 191253Z AUTO 00000KT 8SM CLR 22/21 A2997 RMK AO2 SLP142 T02220211 DTTK 191300Z 35008KT 290V050 9999 SCT023 29/11 Q1015 KHOU 191253Z 18005KT 10SM FEW012 SCT200 SCT300 27/24 A2995 RMK AO2 SLP147 T02670244 KGYL 191316Z AUTO 11005KT 1/2SM FG OVC001 17/17 A2989 RMK AO2 T01660167 DTTL 191300Z 31011G21KT 260V010 9999 SCT020 26/18 Q1016 KIGM 191251Z AUTO 18013KT 10SM CLR 21/08 A2988 RMK AO2 SLP050 T02110078 WBGY 191300Z VRB01KT 9999 SCT022 SCT150 BKN300 25/24 Q1010 KHPN 191256Z 03010KT 10SM SCT030 21/18 A3003 RMK AO2 SLP164 T02110178 WAQQ 191300Z 00000KT 8000 FEW015 28/24 Q1010 DTTN 191300Z 3?012KT 9999 SCT020 25/11 Q1018 KGXY 191256Z AUTO 27004KT 10SM CLR 08/05 A2972 RMK AO2 SLP041 T00780050 KHQG 191315Z AUTO 22009KT 7SM CLR 18/16 A2979 RMK AO2 T01750155 KGZH 191253Z AUTO 00000KT 10SM CLR 23/22 A3001 RMK AO2 SLP160 T02330222 KIGQ 191315Z AUTO 00000KT 2 1/2SM BR OVC009 19/19 A2996 RMK AO2 LTG DSNT S T01880188 KGYR 191247Z VRB03KT 10SM SKC 19/06 A2986 RMK FIRST KHQI 191315Z AUTO 10SM FEW018 M40/ A2997 RMK A01 DTTR 191200Z 03014KT CAVOK 34/16 Q1014 KK88 191315Z AUTO 00000KT 10SM CLR 20/19 A2990 RMK AO1 T02000188 KIIB 191315Z AUTO 12004KT M1/4SM FG OVC001 16/16 A2994 RMK AO2 T01580156 KGZL 191315Z AUTO 00000KT 10SM CLR 21/20 A2992 RMK AO2 KHQM 191253Z AUTO 08005KT 9SM FEW029 BKN060 BKN075 11/11 A2970 RMK AO2 SLP059 T01110106 KGZN 191300Z AUTO 17009KT 10SM CLR 23/21 A2994 RMK AO2 EKVD 191250Z 27016KT 9999 FEW024 BKN120 16/09 Q1013 KIGX 191256Z AUTO VRB05KT 10SM FEW010 21/18 A3002 RMK AO2 SLP160 T02110183 WARR 191300Z 13007KT 8000 FEW020 27/22 Q1011 NOSIG USRR 191300Z 32004MPS 7000 SCT017CB SCT039 06/04 Q1016 R25/220060 NOSIG RMK QFE757 DTTX 191300Z 34013KT 300V020 9999 SCT030 31/11 Q1014 NOSIG KGYY 191245Z 00000KT 2SM BR BKN006 OVC011 20/20 A2995 EKVG 191250Z 14006KT 9999 FEW005 SCT018 12/10 Q1016 DTTZ 191300Z 04006KT 340V090 CAVOK 33/09 Q1014 NOSIG KHRI 191253Z AUTO 23007KT 10SM -RA OVC060 11/07 A2975 RMK AO2 SLP071 P0002 T01110072 KHSA 191255Z 00000KT 5SM CLR 24/24 A3001 KHRJ 191300Z AUTO 00000KT 10SM SCT010 21/20 A3000 RMK AO2 T02140199 UUBC 191300Z 25007MPS 220V280 9999 OVC045 14/07 Q1016 R31/CLRD60 NOSIG RMK QFE745/0994 KGZS 191315Z AUTO 00000KT 2SM BR BKN002 20/20 A3001 RMK A01 EKVJ 191250Z 29014KT 260V320 9999 -SHRA BKN015 13/12 Q1013 KHSB 191315Z AUTO 19004KT 5SM BR BKN004 OVC015 21/21 A2998 RMK AO2 LTG DSNT NE THRU S T02140214 KHQU 191255Z AUTO 00000KT 7SM CLR 20/19 A3007 RMK AO2 T02000191 KHRL 191252Z 14004KT 4SM BR CLR 26/26 A2991 RMK AO2 SLP127 T02560256 KJAC 191256Z 19016G22KT 10SM OVC017 03/02 A2979 RMK AO2 SLP066 P0005 T00280017 KIJD 191310Z AUTO 02010KT 10SM OVC009 19/18 A3008 RMK AO2 CIG 008V014 T01940178 KHSD 191320Z AUTO 19017KT 10SM CLR 25/22 A2984 RMK A01 KHSE 191251Z AUTO 34009G20KT 300V070 6SM -RA BR OVC016 22/21 A2982 RMK AO2 RAB00E13B39 SLP098 P0000 T02220211 TSNO KHRO 191253Z AUTO 13003KT 1/4SM FG VV001 19/19 A2998 RMK AO2 SLP139 T01890189 PNO KHSG 191255Z AUTO 20015G23KT 10SM BKN100 10/07 A2962 RMK AO2 T01000065 ELLX 191250Z 27008KT 240V310 9999 SCT022CB BKN060 13/09 Q1018 TEMPO 4000 SHRA SCT020CB USSS 191300Z 09004MPS CAVOK 14/10 Q1015 R08L/210060 NOSIG RMK QFE741/0989 KHQZ 191250Z 15007KT 7SM OVC008 24/22 A2994 WBKK 191300Z 12003KT 090V150 9999 FEW009 FEW017CB SCT140 BKN270 27/25 Q1010 NOSIG KHSI 191253Z AUTO 15006KT 6SM BR CLR 18/17 A2976 RMK AO2 SLP064 T01780167 WBKL 191300Z VRB01KT 9999 FEW012 FEW013CB BKN290 27/24 Q1010 KL18 191315Z AUTO 00000KT 10SM OVC024 17/14 A2992 RMK AO2 KHRT 191256Z AUTO 00000KT 10SM CLR 26/25 M RMK AO2 SLPNO T02570246 $ UUBP 191300Z 25005MPS 9999 SCT033 17/07 Q1017 R34/CLRD70 NOSIG RMK QFE745/0993 KJAN 191254Z 00000KT 10SM CLR 23/22 A2999 RMK AO2 SLP153 T02280217 KHRX 191255Z AUTO 23010G16KT 10SM CLR 19/16 A2993 RMK AO2 T01860159 USTR 191300Z 22002MPS 9999 -SHRA BKN030CB 09/06 Q1020 R30/290060 NOSIG RMK QFE755/1007 KHSP 191315Z AUTO 00000KT 1/4SM FG OVC002 14/14 A3017 RMK AO2 T01400140 KIKG 191315Z AUTO 12004KT 2SM BR SCT014 BKN020 BKN026 26/26 A2993 RMK AO2 T02560256 WBKS 191300Z 33004KT 290V350 5000 -TSRA FEW013 FEW015CB SCT030 BKN260 26/25 Q1010 KJAQ 191315Z AUTO 00000KT 10SM CLR 09/08 A2998 RMK AO1 T00930081 KHTH 191315Z AUTO 00000KT 10SM CLR 15/M02 A2989 RMK A01 WATT 191300Z 14007KT 8000 FEW020 25/20 Q1013 NOSIG WBKT 191300Z 00000KT 9999 FEW014 SCT140 BKN270 26/25 Q1010 KJAS 191315Z AUTO 00000KT 2 1/2SM BR 24/24 A3000 RMK AO2 T02440243 KJCA 191315Z AUTO 09003KT 10SM CLR 21/18 A3004 RMK AO2 KHUA 191258Z AUTO 00000KT 10SM CLR 21/21 A3000 RMK AO2 SLP154 T02070205 UUDD 191300Z 25007G12MPS 9999 BKN035 13/06 Q1014 R88/010095 NOSIG KIKK 191315Z AUTO 00000KT 2 1/2SM BR OVC100 18/18 A2996 RMK AO2 T01810178 KHST 191258Z AUTO 29004KT 10SM CLR 27/26 A2992 RMK AO2 SLP135 UUBW 191300Z 24005G10MPS 9999 BKN047 14/07 Q1014 R30/010060 NOSIG WBKW 191300Z 00000KT 9999 FEW017 BKN300 26/25 Q1010 KHTL 191253Z AUTO 05004KT 10SM CLR 11/10 A3007 RMK AO2 SLP186 T01110100 KJAU 191315Z AUTO 00000KT 4SM BR SCT002 18/18 A3009 RMK A01 KHSV 191253Z 11003KT 7SM SCT250 22/21 A3001 RMK AO2 SLP154 T02170211 KHUF 191317Z 17004KT 5SM BR BKN003 20/19 A2996 RMK AO2 T02000194 KJAX 191256Z 00000KT 10SM FEW090 SCT250 23/22 A3000 RMK AO2 SLP160 T02330222 KHTO 191315Z AUTO 04011G19KT 10SM -RA OVC008 19/18 A3001 RMK AO2 T01900180 KIJX 191255Z AUTO 00000KT 1/4SM FG OVC001 18/18 A2995 RMK AO2 LTG DSNT SE T01800180 KILG 191304Z 02011KT 10SM OVC015 22/20 A2999 RMK AO2 T02220200 $ KL35 191315Z AUTO 25005KT 10SM CLR 10/M01 A3008 RMK AO2 KJBR 191311Z AUTO 00000KT 10SM SCT007 22/22 A2995 RMK AO2 T02220222 $ UUDL 191300Z 22008G13MPS 9999 OVC027 14/09 Q1007 R23/010060 NOSIG RMK QFE747 KHTS 191251Z 00000KT 6SM BR BKN100 18/17 A3002 RMK AO2 SLP157 T01830172 KIKT 191315Z AUTO 00000KT 10SM CLR 31/23 A3003 RMK A01 UUEE 191300Z 23008MPS 9999 BKN024 12/08 Q1013 R24L/CLRD62 R24R/CLRD62 TEMPO 23012G17MPS KHUL 191253Z AUTO VRB04KT 8SM OVC005 17/17 A3021 RMK AO2 SLP230 T01670167 KHUM 191250Z 00000KT 7SM SKC 24/24 A3001 KILM 191253Z AUTO 33010KT 10SM CLR 22/19 A2996 RMK AO2 SLP145 T02220194 KIKV 191315Z AUTO 14005KT 1/4SM FG OVC002 17/17 A2990 RMK AO2 KJDD 191315Z AUTO 16007KT 150V210 10SM OVC008 24/23 A2995 RMK AO2 KHVE 191315Z AUTO 23012G20KT 10SM CLR 20/00 A2985 RMK AO2 KIKW 191313Z AUTO 00000KT 10SM SCT028 14/14 A3005 RMK AO2 T01410135 KILN 191254Z AUTO 18006KT 10SM FEW050 SCT070 22/18 A2999 RMK AO2 SLP149 T02170178 FCPP 191300Z 20006KT 9999 SCT013 BKN023 27/22 Q1013 NOSIG KHUT 191252Z 15008KT 10SM CLR 21/19 A2980 RMK AO2 SLP072 T02060189 KJCT 191251Z AUTO 18003KT 7SM CLR 24/21 A2996 RMK AO2 SLP106 T02390211 UTNN 191300Z 34010KT CAVOK 31/05 Q1018 R33/CLRD60 NOSIG EKYT 191250Z AUTO 24007KT 9999NDV -RA FEW007/// SCT038/// BKN055/// BKN070/// 14/13 Q1010 KIML 191253Z AUTO 18009KT 10SM CLR 17/16 A2968 RMK AO2 SLP025 T01720156 KIND 191254Z 18009KT 7SM -RA BKN008 BKN060 OVC120 20/19 A2997 RMK AO2 LTG DSNT SE RAB40 SLP142 OCNL LTGICCC DSNT NE CB DSNT NE MOV NE P0001 T02000194 KHWD 191254Z AUTO 00000KT 10SM CLR 13/09 A3001 RMK AO2 SLP171 T01280089 KIMM 191315Z AUTO 03004KT 10SM CLR 26/24 A2996 RMK AO2 KJDN 191248Z AUTO 26005KT 10/08 A2955 RMK AO1 SLP002 T01000083 KHVN 191253Z 02014G21KT 10SM SCT013 BKN070 BKN250 21/17 A3003 RMK AO2 SLP169 T02060172 KINF 191315Z AUTO 00000KT 5SM BR CLR 23/23 A3001 RMK AO2 KJEF 191253Z 12003KT M1/4SM FG VV002 18/17 A2994 RMK AO2 SLP126 T01780172 ZYTL 191300Z VRB01MPS CAVOK 21/08 Q1012 NOSIG KHVR 191253Z AUTO 24010KT 10SM CLR 08/04 A2957 RMK AO2 SLP012 T00780039 TSNO UTNU 191300Z 36004KT 7000 NSC 31/08 Q1017 R31/CLRD70 NOSIG KIMS 191313Z AUTO 28005KT 2 1/2SM SCT032 SCT038 OVC047 20/19 A3004 RMK AO1 KINJ 191315Z AUTO 16010KT 10SM OVC012 25/23 A2994 RMK AO2 T02520230 KHVS 191315Z AUTO 36004KT 7SM CLR 22/18 A3003 RMK AO2 KIMT 191254Z AUTO 10SM OVC007 A3004 RMK AO2 SLPNO PNO $ KINK 191311Z AUTO 14006KT 10SM FEW002 21/16 A2995 RMK AO2 T02110161 KIOB 191315Z AUTO 00000KT 10SM CLR 21/18 A3003 RMK AO2 KINL 191255Z AUTO 13005KT 10SM OVC006 12/11 A2992 RMK AO2 SLP136 T01220111 KHXD 191250Z 00000KT 10SM SKC 25/22 A3001 KHWO 191253Z 32004KT 10SM CLR 28/24 A2993 RMK AO2 SLP136 T02830244 KJER 191253Z AUTO 17005KT 10SM CLR 05/04 A2987 RMK AO2 SLP101 T00500044 KHYA 191315Z 03008KT 1 3/4SM BR OVC003 20/19 A3005 RMK AO2 RAE05 P0001 T02000194 KINS 191258Z AUTO 36007KT 8SM CLR 18/M01 A2979 RMK AO2 SLP044 T01781010 $ KJFK 191251Z 02014G23KT 10SM BKN015 BKN140 22/18 A3001 RMK AO2 SLP160 CIG 014V017 VCSH NE-E T02170183 KINT 191254Z 04005KT 10SM CLR 21/18 A3006 RMK AO2 SLP169 T02060183 ZYTX 191300Z VRB02MPS CAVOK 14/08 Q1011 NOSIG ENAL 191250Z 05007KT 9999 FEW016 SCT040 15/11 Q1011 KHWV 191256Z AUTO 02011G17KT 10SM OVC012 22/19 A3000 RMK AO2 SLP158 T02170189 KINW 191256Z AUTO 15004KT 10SM CLR 09/M06 A3004 RMK AO2 SLP119 T00891056 ENAN 191250Z 15012KT CAVOK 11/04 Q1019 KHWY 191315Z AUTO 36008KT 10SM OVC014 22/17 A3001 RMK AO2 T02160171 KJGG 191315Z AUTO 35009G14KT 320V020 10SM CLR 23/21 A2993 RMK AO1 KHYI 191310Z 16007KT 3SM SCT002 24/24 A2996 RMK AO2 KIPJ 191310Z AUTO 00000KT 10SM CLR 21/19 A3007 RMK AO2 T02100188 FDLB 191300Z AUTO 07008KT //// // ////// 30/14 Q1019 KIPL 191253Z AUTO 25008KT 10SM CLR 23/06 A2976 RMK AO2 SLP079 T02330056 ENAT 191250Z 17005KT 130V230 9999 FEW025 BKN036 09/01 Q1024 RMK WIND 700FT 17013KT ENBL 191250Z 18003KT 9999 VCSH FEW015 SCT025 BKN035 12/09 Q1011 KHZD 191315Z AUTO 00000KT 10SM CLR 23/22 A2997 RMK A01 KIOW 191252Z AUTO 14003KT M1/4SM FG VV001 18/17 A2996 RMK AO2 SLP144 T01780172 KHZE 191315Z AUTO 15010G25KT 10SM CLR 17/15 A2949 RMK AO2 ENBN 191250Z 07007KT 030V090 CAVOK 13/03 Q1016 KJFX 191315Z AUTO 00000KT 10SM CLR 23/22 A3001 RMK AO2 PWINO ENBO 191250Z 08014KT CAVOK 12/02 Q1017 NOSIG UTSA 191300Z 02010KT 9999 NSC 29/M01 Q1015 R07/CLRD70 NOSIG KJFZ 191315Z AUTO 00000KT 10SM CLR 19/16 A3011 RMK AO2 T01900155 UTSB 191300Z 33006KT CAVOK 30/03 Q1014 R01/CLRD70 NOSIG WBSB 191300Z 23002KT 9000 FEW015 FEW016CB SCT140 BKN280 28/24 Q1010 NOSIG KHYR 191253Z AUTO VRB04KT 10SM OVC050 14/12 A2998 RMK AO2 SLP154 T01440117 ENBR 191250Z VRB02KT 9999 SCT015 BKN038 13/10 Q1011 NOSIG RMK WIND 1200FT VRB02KT KHYS 191256Z AUTO 17012KT 10SM CLR 21/17 A2974 RMK AO2 SLP056 T02060172 ENBS 191050Z 13011KT 9999 VCSH SCT018 BKN029 06/03 Q1025 KIPT 191254Z 10003KT 10SM SCT017 OVC024 20/18 A3007 RMK AO2 SLP178 T02000178 KHZL 191315Z AUTO 05003KT 10SM 18/17 A3011 RMK AO2 ENBV 191050Z 11013KT 9999 FEW019 SCT039 09/03 Q1025 KJHN 191315Z AUTO 21010KT 10SM CLR 15/12 A2975 RMK AO2 T01510118 KHYW 191315Z AUTO 35003KT 5SM BR CLR 22/20 A3000 RMK AO2 ENCN 191250Z VRB02KT 9999 -DZ FEW022 BKN040 13/11 Q1012 KHYX 191314Z AUTO 02004KT 10SM OVC022 15/14 A3004 RMK AO2 KM04 191315Z AUTO 00000KT 10SM CLR 23/22 A2997 RMK A01 UTSK 191300Z 32006KT CAVOK 30/02 Q1013 R16/CLRD70 KHZR 191315Z AUTO 00000KT 3SM BR BKN015 24/24 A3001 RMK AO2 T02400236 KM08 191315Z AUTO 00000KT 9SM CLR 22/22 A2998 RMK A01 KIRK 191255Z AUTO 12004KT 1/4SM FG VV002 18/18 A2994 RMK AO2 SLP137 T01780178 KJHW 191256Z AUTO 17008KT 4SM BR OVC004 17/16 A3009 RMK AO2 SLP189 T01670161 KHZX 191311Z AUTO 15004KT 1 1/4SM OVC002 13/13 A2992 RMK AO2 KHZY 191253Z AUTO 14006KT 9SM CLR 19/18 A3004 RMK AO2 SLP168 T01890183 UTSS 191300Z 08012KT 9999 NSC 26/02 Q1016 R09/CLRD70 NOSIG UTST 191300Z 28004KT CAVOK 29/05 Q1012 R88/CLRD70 NOSIG VLLB 191300Z 00000KT CAVOK 28/24 Q1008 NOSIG ENDR 191250Z AUTO 08017KT 14/09 Q1014 KIRS 191314Z AUTO 09006KT 5SM BR OVC003 19/18 A2995 RMK AO2 T01850182 KJKA 191315Z AUTO 25005KT 10SM CLR 27/26 A3001 RMK AO2 T02650257 FDMS 191300Z 01007KT CAVOK 28/14 Q1018 NOSIG KM19 191312Z AUTO 21004KT 1/4SM -RA FG OVC003 21/21 A2996 RMK AO2 RAB07 P0000 ENFB 191250Z AUTO 33009KT 9999NDV BKN011/// BKN042/// 12/10 Q1012 W///S3 KM21 191315Z AUTO 00000KT 10SM BKN044 BKN050 BKN065 20/20 A2998 RMK AO2 T01950195 KISM 191256Z 01004KT 10SM FEW027 BKN075 27/23 A2999 RMK AO2 SLP157 T02670233 ENDU 191250Z 11009KT 080V150 9999 FEW040 11/01 Q1020 TEMPO 12015G25KT RMK WIND 1100FT 09006KT WIND 2200FT 11015KT FDMV 191200Z AUTO 03008KT //// // ////// 31/17 Q1024 KISN 191252Z AUTO 00000KT 10SM FEW110 15/09 A2942 RMK AO2 SLP957 T01500094 KISO 191256Z 33010KT 10SM OVC013 21/19 A2997 RMK AO2 FEFF 191300Z 22005KT 9999 FEW016 27/22 Q1011 NOSIG KM25 191355Z AUTO 18005KT 7SM CLR 22/21 A2998 RMK AO2 PWINO KISP 191256Z 04017G24KT 10SM -RA SCT009 OVC012 21/19 A3000 RMK AO2 RAB52 SLP157 P0000 T02110189 LBBG 191300Z 11015KT 9999 FEW021 26/19 Q1010 NOSIG KISQ 191315Z AUTO 07004KT 10SM OVC090 15/11 A3006 RMK AO2 T01450109 KITH 191256Z VRB03KT 10SM CLR 19/16 A3011 RMK AO2 SLP191 T01890161 UTTT 191300Z 29004KT CAVOK 29/02 Q1015 R26R/CLRD70 NOSIG KJKJ 191314Z AUTO 13009G16KT 5SM BR OVC005 16/16 A2977 RMK AO2 KM30 191315Z AUTO 00000KT 7SM VCTS SCT065 SCT120 21/21 A2998 RMK AO2 LTG DSNT NE E AND W T02120206 VLLN 191200Z 18002KT 7000 SCT040 FEW100 26/26 Q1010 NOSIG KJKL 191253Z AUTO 00000KT 10SM BKN090 19/16 A3004 RMK AO2 SLP160 T01940161 ENGC 191250Z 35010KT 9999 FEW010 BKN040 12/10 Q1012 W11/S3 ENFL 191250Z 24005KT 9999 FEW010 SCT040 BKN100 14/10 Q1011 ENEV 191250Z 11010KT 080V160 CAVOK 11/01 Q1019 RMK WIND 1400FT 10018KT KISW 191254Z AUTO 09006KT 10SM OVC045 16/13 A3001 RMK AO2 SLP163 T01560128 KM33 191315Z AUTO 00000KT 9SM CLR 21/20 A3001 RMK A01 KITR 191253Z AUTO 26008KT 10SM CLR 08/07 A2974 RMK AO2 SLP038 T00780067 FEFT 191000Z 14006KT 9999 BKN020 25/22 Q1013 UUMO 191300Z 26007MPS 9999 BKN033 13/07 Q1015 R26/090060 NOSIG RMK QFE746/0995 ENGM 191250Z 10004KT 060V140 9999 FEW040 SCT049 BKN097 12/05 Q1012 NOSIG KJLN 191253Z 16004KT 9SM BKN085 20/19 A2993 RMK AO2 SLP127 T02000194 ENHD 191250Z 32005KT 290V350 9999 SCT009 BKN082 14/12 Q1011 ENHE 191250Z 13015KT 9999 FEW020 13/10 Q1015 W///S3 ENHF 191250Z 12009KT 080V150 9999 FEW034 09/01 Q1023 RMK WIND 1254FT 15024KT FDPP 191300Z AUTO 06012KT //// // ////// 23/10 Q1024 UUOB 191300Z 34003MPS CAVOK 21/06 Q1018 R29/090060 NOSIG KIWA 191247Z 09006KT 20SM SKC 18/05 A2988 ENHK 191250Z 14011KT CAVOK 10702 Q1023 KIWD 191256Z AUTO 10007KT 10SM OVC036 14/11 A3001 RMK AO2 SLP164 T01390111